ENHM 221020Z 10015KT 9999 FEW010 SCT020 BKN040 15/14 Q1016 W14/S3 KIWI 220953Z AUTO 00000KT 9SM CLR 17/16 A2982 RMK AO2 SLP097 T01720156 KJMR 221013Z AUTO 00000KT 4SM BR SCT001 16/16 A2983 RMK AO2 KIXA 221015Z AUTO 22005KT 10SM CLR 23/22 A2993 RMK AO2 KJMS 220956Z AUTO 21003KT 10SM CLR 17/16 A2983 RMK AO2 SLP094 T01720156 KIXD 220953Z AUTO 20014KT 10SM CLR 28/22 A2985 RMK AO2 SLP091 T02780222 ENHV 212050Z 27005KT 9999 OVC017 10/08 Q1022 KM63 220958Z AUTO 18005KT 8SM BKN120 21/17 A3008 RMK AO2 SLP113 WND DATA ESTMD T02130172 PPIZ 220956Z AUTO 27012KT 10SM -RA FEW007 OVC037 08/06 A2977 RMK AO2 SLP085 P0002 T00780061 TSNO KIYA 221011Z AUTO 33007KT 10SM -RA SCT055 SCT070 OVC090 22/22 A2999 RMK AO2 LTG DSNT S THRU W FDSK 221000Z 04005KT 9999 FEW035 26/04 Q1017 NOSIG ENKB 221020Z VRB03KT 3000 BR SCT001 BKN002 16/13 Q1019 RMK WIND 745FT 34010KT KJNX 221020Z AUTO 00000KT 10SM CLR 25/24 A2996 RMK AO2 KM75 221015Z AUTO 25005KT 10SM FEW050 12/07 A3005 RMK A01 VLPS 221000Z 18002KT 9999 FEW020 SCT050 30/24 Q1007 NOSIG KIZA 221015Z AUTO 00000KT 1/4SM FG OVC001 11/10 A2992 RMK AO2 ENLA 221020Z AUTO 10020KT 9999NDV SCT012/// BKN014/// 15/13 Q1013 W///S3 KJOT 221015Z AUTO 24008KT 10SM RA SCT004 OVC110 22/22 A2987 RMK AO2 LTG DSNT E P0003 T02230221 FDST 221000Z AUTO 03001KT //// // ////// 24/03 Q1018 ENLE 220950Z 07023KT 9999 FEW015 15/13 Q1013 W15/S4 KJQF 221015Z AUTO 20003KT 10SM CLR 25/21 A3001 RMK AO2 LBGO 221000Z AUTO 07004KT 030V130 9999 NCD 31/19 Q1015 NOSIG KIZG 220954Z AUTO 00000KT 7SM CLR 16/16 A2984 RMK AO2 SLP104 T01560156 ENKR 221020Z 06007KT 9999 BKN013 11/08 Q1025 RMK WIND 731FT 07008KT KJRB 221015Z 00000KT 10SM CLR 27/19 A2988 RMK AO2 SLP299 PWINO FZRANO RVRNO ENLK 221020Z 25006KT CAVOK 19/11 Q1021 KN03 221015Z AUTO 00000KT 10SM CLR 16/16 A2994 RMK AO2 ENMH 220850Z 34006KT 9999 FEW012 SCT030 11/09 Q1025 VLSK 221000Z 22002KT 5000 BR SCT020 BKN100 30/26 Q1007 NOSIG KLAA 220953Z AUTO 20006KT 10SM CLR 19/14 A3002 RMK AO2 SLP105 T01890139 FDUS 221000Z AUTO 30005KT //// // ////// 25/M06 Q1019 ENNA 221020Z AUTO 36006KT 9999 OVC048/// 15/09 Q1025 RMK WIND 1800FT 14005KT ENML 221020Z 24008KT 9999 FEW010 20/14 Q1018 ENNE 221020Z 12014KT CAVOK 13/12 Q1019 W///S3 KLAF 220954Z AUTO 12004KT 10SM FEW070 SCT085 BKN110 22/22 A2984 RMK AO2 LTG DSNT SE SLP100 T02220217 KLBB 220953Z 23003KT 10SM FEW120 SCT200 23/17 A3003 RMK AO2 SLP107 T02330167 ENOA 221020Z 10011KT 6000 SCT006 BKN020 14/14 Q1018 W///S3 ENMS 220950Z 16005KT CAVOK 21/07 Q1019 RMK WIND 412FT VRB04KT KJSL 221000Z AUTO VRB06G12KT 10SM FEW021 29/25 A2998 RMK A01 KLAL 220954Z 00000KT 10SM SKC 24/24 A3005 KJTC 221015Z AUTO 00000KT 10SM BKN044 OVC060 17/16 A3028 RMK AO2 KLAM 221015Z AUTO 00000KT 10SM CLR 19/10 A3026 RMK AO2 T01900098 ENNM 211920Z 08008KT CAVOK 21/12 Q1014 KLAN 220953Z 20009KT 10SM SCT050 BKN090 23/18 A2984 RMK AO2 SLP096 T02330183 KLBE 220955Z AUTO 19006KT 7SM OVC015 23/23 A2997 RMK AO2 KLBF 220953Z AUTO 33012KT 10SM CLR 28/12 A2993 RMK AO2 SLP095 T02780117 KJSO 221015Z AUTO 18005KT 10SM CLR 24/23 A2999 RMK AO2 T02430237 ENNO 211650Z 36001KT 9999 BKN030 OVC043 16/13 Q1018 KLAR 220953Z AUTO 19003KT 10SM CLR 11/09 A3029 RMK AO2 SLP152 T01060089 LATI 221020Z 33003KT 230V030 CAVOK 36/13 Q1015 NOSIG VMMC 221000Z 12007KT 9999 FEW028 30/26 Q1007 NOSIG KLAS 220956Z 22005KT 10SM FEW150 32/09 A2987 RMK AO2 SLP081 T03170089 KJST 220954Z AUTO 24005KT 4SM BR OVC006 21/21 A3001 RMK AO2 CIG 003V009 SLP143 T02110206 KLBL 220956Z AUTO 25005KT 10SM CLR 22/14 A2997 RMK AO2 SLP107 T02220139 ENOL 221020Z 33010KT 9999 3000W VCFG FEW005 SCT030 18/13 Q1019 TEMPO 1200 PRFG KJSV 221015Z AUTO 00000KT 10SM CLR 23/20 A2992 RMK AO2 KLAW 220953Z AUTO 00000KT 10SM FEW110 24/21 A2992 RMK AO2 SLP115 T02390211 KLAX 220953Z 00000KT 10SM FEW007 BKN014 19/17 A2991 RMK AO2 SLP124 T01940172 KLBO 221015Z AUTO 23007KT 10SM CLR 26/21 A2995 RMK AO2 PWINO KLCG 221015Z AUTO 06009KT 10SM OVC008 25/25 A2984 RMK AO2 T02460245 KLCH 221003Z AUTO 00000KT 10SM SCT032 26/26 A2997 RMK AO2 LTG DSNT E-SW T02610256 KLCI 220956Z AUTO 00000KT 10SM CLR 17/16 A2986 RMK AO2 SLP120 T01720161 PNO $ KN38 221015Z AUTO 22004KT M1/4SM FG BKN001 BKN050 17/16 A2998 RMK AO2 ENQA 221020Z AUTO 20003KT 160V220 9999NDV -DZ OVC062/// 16/14 Q1019 W13/S4 KLBT 220954Z AUTO 23004KT 10SM CLR 24/24 A2998 RMK AO2 SLP151 T02390239 $ KLCK 221015Z AUTO 15003KT 10SM SCT037 BKN050 BKN055 22/22 A2989 RMK AO2 LTG DSNT W THRU NE T02200220 ENQC 221020Z AUTO 03009KT 9999NDV BKN075/// 15/14 Q1018 W///S4 ENOV 221020Z VRB02KT 9999 SCT012 18/14 Q1018 RMK WIND 2175FT VRB03KT KLBX 220953Z AUTO 00000KT 10SM CLR 24/24 A2995 RMK AO2 SLP143 T02440239 KLCQ 221015Z AUTO 00000KT 10SM CLR 21/21 A3004 RMK AO2 LTG DSNT S VLVT 221000Z 24006KT 9999 BKN016 BKN200 28/25 Q1006 NOSIG KLDJ 221015Z AUTO 00000KT 10SM CLR 25/19 A2988 RMK AO2 T02500188 KKLS 220956Z AUTO 00000KT 10SM CLR 16/13 A3017 RMK AO2 SLP222 T01560133 ENRA 221020Z 12007KT CAVOK 21/03 Q1020 KLEB 220953Z 00000KT 8SM CLR 14/13 A2986 RMK AO2 SLP103 T01440133 KJVL 221010Z AUTO 22013G18KT 10SM SCT030 20/20 A2977 RMK AO2 KLDM 221015Z AUTO 10007KT 10SM SCT085 SCT120 19/18 A2979 RMK AO2 T01910177 KLEE 220953Z AUTO 19006KT 10SM CLR 26/24 A3004 RMK AO2 SLP171 T02560244 KJWG 221015Z AUTO 19006KT 10SM CLR 27/21 A2994 RMK AO2 T02650207 ENQR 221020Z AUTO 06011KT 9999NDV BKN008/// OVC050/// 15/12 Q1018 W///S3 KN60 220952Z AUTO 00000KT 13/11 A2991 RMK AO1 SLP119 T01330106 UUWW 221000Z VRB01MPS CAVOK 18/12 Q1015 R24/000070 NOSIG ENSB 220950Z 27006KT 9999 FEW008 SCT012 BKN015 08/05 Q1020 RMK WIND 1400FT 29005KT ENRM 211850Z 07005KT CAVOK 21/10 Q1014 ENSD 221020Z 07004KT 9999 FEW050 19/13 Q1017 RMK WIND 1138FT VRB02KT KJVW 221015Z AUTO 00000KT 4SM BR CLR 22/22 A2998 RMK AO2 KJWN 221015Z AUTO 00000KT 6SM BR BKN048 24/24 A2995 RMK A01 LCEN 220950Z 10005KT 9999 FEW025 35/16 Q1008 NOSIG ENSE 221020Z AUTO 06015KT 9999NDV SCT006/// BKN034/// 13/12 Q1019 W///S3 ENRO 221020Z AUTO 12004KT 060V220 9999NDV NCD 20/10 Q1019 ENSF 221020Z AUTO 06016KT 9999NDV SCT007/// BKN045/// 17/12 Q1018 W///S3 ENSG 220950Z VRB04KT CAVOK 19/10 Q1019 RMK WIND 3806FT 09009KT ENSH 220950Z 15002KT CAVOK 17/11 Q1021 KJXI 221015Z AUTO 19003KT 10SM CLR 25/23 A2995 RMK AO2 T02460227 KLFI 220958Z AUTO 23007KT 10SM CLR 26/23 A2989 RMK AO2 SLP128 T02550232 KLGA 220951Z 07003KT 10SM FEW100 BKN250 26/21 A2986 RMK AO2 SLP111 T02610211 ENRS 211550Z 04009KT CAVOK 14/09 Q1019 KLGB 221014Z AUTO 00000KT 8SM OVC009 21/18 A2990 RMK AO2 T02060178 TSNO KLFK 220953Z AUTO 00000KT 8SM CLR 24/23 A2996 RMK AO2 SLP140 T02390233 ENSK 220950Z 07010KT CAVOK 14/11 Q1022 KLGC 221015Z AUTO 00000KT 7SM CLR 22/22 A3002 RMK AO2 T02220220 EPBC 221000Z 01002KT 9999 SCT030 24/17 Q1016= ENTC 221020Z 02008KT 9999 FEW010 SCT015 OVC020 11/08 Q1023 NOSIG RMK WIND 2600FT 15007KT ENSL 221020Z 12006KT 9999 BKN040 14/12 Q1015 W15/S3 KLGD 221015Z AUTO 00000KT 10SM CLR 09/M01 A3017 RMK AO1 LBPD 221000Z AUTO 29003KT 180V350 9999 NCD 31/14 Q1017 NOSIG KLEW 220956Z AUTO 35003KT 10SM CLR 16/14 A2983 RMK AO2 SLP111 T01610144 KJXN 220956Z AUTO 18008KT 10SM FEW120 22/21 A2985 RMK AO2 RAE43 SLP099 P0003 T02220206 KLGF 211900Z AUTO 36005 10 CLR 39/14 2985 KLEX 220954Z 20006KT 6SM HZ CLR 25/22 A2995 RMK AO2 SLP130 T02500217 ENSO 211650Z 34003KT 9999 FEW006 SCT010 BKN030 15/14 Q1015 KJYG 221015Z AUTO 12005KT 7SM BKN004 21/20 A2976 RMK AO2 KJWY 221015Z AUTO 00000KT 10SM CLR 24/22 A2995 RMK AO2 T02380223 ENRY 221020Z 27010KT 9999 FEW040 SCT090 21/09 Q1020 ENSR 211650Z 02002KT 9999 FEW020 BKN030 12/09 Q1022 WIND 1119FT 27005KT ENSS 211950Z 06003KT CAVOK 09/07 Q1022 RMK WIND 500FT 06006KT KLFT 221026Z 23011G18KT 1 3/4SM +RA BR BKN024 BKN036 OVC044 24/22 A3000 RMK AO2 RAB21 P0015 T02390217 KLHB 221015Z AUTO 13003KT 10SM CLR 25/25 A2996 RMK AO2 T02450245 ENST 221020Z 01006KT 330V030 CAVOK 20/09 Q1019 RMK WIND 300FT 34008KT KJYL 221015Z AUTO 00000KT 7SM CLR 22/22 A3003 RMK AO2 T02240224 KJYM 221015Z AUTO 17004KT 10SM -RA SCT044 SCT050 BKN080 21/20 A2988 RMK AO2 P0001 EPCE 221000Z 09009KT 9999 BKN031 20/13 Q1018 RMK 199 065 6/6 = KJYO 221015Z AUTO 00000KT 10SM CLR 25/22 A2992 RMK AO2 ENTO 221020Z 19004KT 100V260 9999 SCT040 BKN110 20/11 Q1020 ENUG 221020Z AUTO 08006KT 050V110 9999NDV FEW022/// 09/07 Q1024 W10/S3 KJZI 221015Z AUTO 00000KT 10SM CLR 26/24 A3001 RMK AO2 KJYR 221015Z AUTO 00000KT 10SM CLR 22/20 A2983 RMK AO2 EPDA 221000Z 08010KT 040V110 9999 SCT035 21/14 Q1017 RMK 212 063 3/3 = ENVA 221020Z 30003KT 240V320 9999 FEW032 20/12 Q1019 NOSIG RMK WIND 670FT 02004KT FGBT 221000Z 17013KT 9999 SCT010 28/22 Q1015 KLGU 220951Z AUTO 08003KT 10SM CLR 16/08 A3011 RMK AO2 SLP140 T01560078 KLIC 220955Z AUTO 00000KT 10SM CLR 17/14 A3013 RMK AO2 SLP113 T01720144 KLHM 221015Z AUTO 00000KT 10SM CLR 17/10 A2986 RMK AO1 ENVD 220950Z 10012KT 9999 BKN020 12/08 Q1026 EPDE 221000Z VRB02KT 9999 SCT020 BKN030 22/17 Q1016 RMK 223 072 6/4= KJZP 221015Z AUTO 00000KT 10SM CLR 23/23 A3007 RMK AO2 T02280226 KLHQ 221000Z AUTO 11004KT 10SM SCT032 BKN040 OVC050 21/21 A2991 RMK AO2 T02110211 EPBY 221000Z 04006KT 360V060 9999 FEW024 SCT027 21/16 Q1017 UWKD 221000Z 31006G11MPS 9999 BKN043 22/12 Q1012 R29/CLRD70 NOSIG RMK QFE748/0997 VOBG 221000Z 24015KT 9999 SCT012 30/19 Q1009 KMAE 220953Z AUTO 00000KT 10SM CLR 20/13 A2987 RMK AO2 SLP110 T02000128 KLHW 220958Z AUTO 00000KT 10SM CLR 22/21 A3000 RMK AO2 SLP162 T02230210 $ KLHX 220953Z AUTO 22007KT 10SM CLR 20/14 A3009 RMK AO2 SLP115 T02000139 KMAF 220953Z AUTO 16005KT 10SM CLR 26/14 A3000 RMK AO2 SLP104 T02560139 KLJF 221012Z AUTO 00000KT 10SM CLR 21/21 A2980 RMK AO2 LBSF 221000Z VRB03KT CAVOK 30/12 Q1018 NOSIG DXNG 220900Z VRB04KT 9999 -TSRA BKN004 FEW016CB 20/19 Q1019 BECMG BKN006 FEW016CB KLHZ 221005Z AUTO 00000KT 10SM CLR 23/22 A2997 RMK AO2 VOCB 221000Z 18014KT 8000 SCT015 SCT080 31/22 Q1008 NOSIG KMAI 220953Z AUTO 00000KT 10SM CLR 23/22 A3001 RMK AO2 SLP159 T02330222 $ ENVR 220550Z 36009KT CAVOK 13/11 Q1021 VOBL 221000Z 27015KT 240V300 9999 SCT012 SCT018 30/18 Q1010 NOSIG VOBM 221000Z 27015KT 7000 SCT008 SCT015 BKN080 25/21 Q1010 KLIT 220953Z 00000KT 7SM CLR 26/25 A2993 RMK AO2 SLP134 T02560250 KO22 221015Z AUTO 00000KT 10SM OVC060 15/10 A2997 RMK AO1 KMAN 221015Z AUTO 29007KT 10SM 19/04 A3006 RMK A01 KMAO 221015Z AUTO 21006KT 7SM OVC004 23/23 A3000 RMK AO2 VOCI 221000Z 29011KT 6000 SCT015 SCT020 31/23 Q1007 NOSIG KMBG 220952Z AUTO 34007KT 10SM 19/18 A2987 RMK AO2 SLP101 T01890178 $ VNKT 221020Z 28007KT 240V320 9999 FEW015 FEW025TCU SCT030 27/22 Q1008 NOSIG VOCL 221000Z 32009KT 8000 FEW015 SCT018 BKN090 30/23 Q1007 NOSIG KMCB 220953Z AUTO 00000KT 5SM BR CLR 22/22 A3000 RMK AO2 SLP151 T02220217 TSNO KMBL 220956Z AUTO 06004KT 10SM OVC047 20/18 A2980 RMK AO2 SLP104 T02000183 KMCC 221015Z AUTO 15006KT 10SM CLR 19/10 A2987 RMK AO2 KMCD 221013Z AUTO 11003KT 10SM SCT065 SCT080 OVC110 19/17 A2987 RMK AO2 T01900166 KMAW 221035Z AUTO 19004KT 7SM CLR 26/23 A2993 RMK AO2 KMCE 220953Z AUTO 00000KT 10SM CLR 18/12 A2985 RMK AO2 SLP106 T01830117 ENWV 221020Z AUTO 09026KT 9999NDV NCD 16/16 Q1012 W///S3 EPGD 221000Z 04011KT 9999 FEW026 19/12 Q1018 VOBZ 221000Z 29008G15KT 6000 FEW020 FEW030CB OVC080 35/25 Q1001 NOSIG KMBO 221015Z AUTO 00000KT 10SM CLR 22/21 A2999 RMK AO2 PWINO KMCF 221015Z AUTO 14004KT 10SM VCTS CLR 26/26 A3003 RMK AO2 TSE15 SLP172 $ KLKR 221035Z AUTO 21003KT 9SM CLR 23/23 A2999 RMK AO2 KMCI 220953Z 21016G22KT 10SM CLR 28/22 A2982 RMK AO2 SLP083 T02780222 KMCJ 221015Z AUTO 00000KT 10SM CLR 27/24 A2993 RMK AO1 KMBS 220953Z AUTO 09008KT 3SM -RA BR OVC060 22/21 A2987 RMK AO2 SLP110 P0014 T02170211 KLLJ 220955Z AUTO 16004KT 10SM CLR 13/02 A3022 RMK AO2 SLP166 T01330017 LCLK 221000Z 19013KT 9999 FEW025 31/21 Q1009 NOSIG KMCK 220953Z AUTO 33006KT 10SM CLR 24/13 A2989 RMK AO2 SLP087 T02440133 KLKU 221015Z AUTO 00000KT 5SM BR CLR 21/19 A2991 RMK AO2 KLKV 220956Z AUTO 34011KT 10SM CLR 16/04 A3022 RMK AO2 SLP188 T01560039 PNO $ KMDD 221015Z AUTO 13004KT 10SM CLR 27/14 A3001 RMK AO2 T02650140 KMCN 220953Z AUTO 00000KT 9SM CLR 23/21 A3001 RMK AO2 SLP156 T02280211 $ KMCO 220953Z 00000KT 9SM SCT200 23/23 A3005 RMK AO2 SLP175 T02280228 KMDH 220952Z AUTO 21007KT 9SM CLR 26/24 A2990 RMK AO2 SLP119 T02610244 KLLQ 220953Z AUTO 00000KT 10SM CLR 24/23 A2995 RMK AO2 SLP138 T02440233 KLNA 221015Z AUTO 00000KT 24/24 A3007 RMK AO2 SKY OBSCURED T02370237 PWINO KMDJ 221015Z AUTO 24007KT 10SM 29/25 A3000 RMK A01 KMEB 220952Z AUTO 22004KT 8SM FEW065 24/24 A2999 RMK AO2 SLP151 T02440244 TSNO KLNC 221015Z AUTO 00000KT 10SM CLR 24/22 A2994 RMK AO2 T02430221 KLND 220953Z AUTO VRB04KT 10SM CLR 17/M02 A3020 RMK AO2 SLP150 T01721017 KMCW 220953Z AUTO 11004KT 10SM OVC003 22/21 A2981 RMK AO2 SLP083 T02170206 KMCX 221035Z AUTO 17006KT 10SM BKN120 22/21 A2981 RMK AO2 T02200212 KLMO 221013Z AUTO 00000KT 7SM CLR 17/15 A3013 RMK AO2 T01660147 KMDQ 221015Z AUTO 00000KT 7SM CLR 23/22 A3000 RMK AO2 KMEH 220956Z AUTO 00000KT 10SM CLR 04/01 A3021 RMK AO2 SLP218 T00440006 KMEI 220958Z AUTO 00000KT 10SM CLR 23/22 A3000 RMK AO2 SLP153 T02280222 KMDS 221015Z AUTO 29004KT 10SM CLR 18/18 A2984 RMK AO2 KKY8 221015Z AUTO 21004KT 7SM CLR 25/25 A2991 RMK AO1 KLMT 220953Z AUTO 00000KT 10SM CLR 12/09 A3019 RMK AO2 SLP184 T01170089 KLNK 220954Z AUTO 27007KT 10SM CLR 27/20 A2978 RMK AO2 SLP068 T02670200 KMDT 220956Z 33005KT 7SM SCT250 24/23 A2989 RMK AO2 SLP120 T02390228 KLNL 221015Z AUTO 00000KT 10SM BKN014 OVC021 18/17 A2985 RMK AO2 T01800171 LDDU 221000Z 16013KT 130V190 CAVOK 29/16 Q1016 NOSIG KMFD 221022Z 25003KT 7SM VCTS SCT050 BKN060 OVC080 23/22 A2993 RMK AO2 LTG DSNT SW-NW T02280222 KMEM 220954Z 00000KT 10SM CLR 27/24 A2995 RMK AO2 SLP136 T02670244 KMDW 221020Z 23012KT 6SM -RA BR FEW090 BKN110CB OVC140 23/21 A2981 RMK AO2 WSHFT 0942 TSE19 P0006 T02280206 $ KMFE 220953Z AUTO 15009KT 10SM CLR 27/24 A2992 RMK AO2 SLP129 T02720244 ENZV 221020Z 12009KT 9999 FEW025 BKN040 18/11 Q1017 NOSIG KLNN 221015Z AUTO 13003KT 10SM SCT090 BKN120 22/18 A2988 RMK AO1 T02220176 LBWN 221000Z 14007KT 110V170 CAVOK 31/10 Q1015 NOSIG KLNP 221015Z AUTO 21004KT 10SM CLR 21/21 A3011 RMK AO2 KMDZ 221015Z AUTO 20003KT 1/2SM FG OVC003 19/19 A2983 RMK AO2 T01890187 KMFI 220954Z AUTO 17005KT 3/4SM BR OVC001 19/18 A2980 RMK AO2 SLP086 T01940183 TSNO KMER 221015Z AUTO 31004KT 10SM CLR A2985 RMK AO1 KLNR 221014Z AUTO 09004KT 2 1/2SM BR OVC002 21/19 A2979 RMK AO2 T02060194 EPIR 221000Z 35004KT 9999 SCT027 23/16 Q1016 RMK 225 066 4/4 = KLNS 220953Z 30003KT 3SM BR CLR 23/22 A2990 RMK AO2 SLP119 T02280222 KO69 221015Z AUTO 00000KT 8SM FEW018 BKN024 OVC031 11/10 A2992 RMK A01 DXSK 220900Z 00000KT 8000 TS BKN010 FEW020CB 25/24 Q//// KLOL 220953Z AUTO 00000KT 10SM CLR 17/M07 A3006 RMK AO2 SLP134 T01721067 TSNO KMGC 221015Z AUTO 19006KT 10SM -RA SCT110 21/21 A2980 RMK AO2 KLPC 221019Z AUTO 24004KT 10SM OVC004 13/12 A2993 RMK AO2 VOGO 221000Z 25012KT 6000 FEW012 SCT016 FEW022TCU BKN080 30/24 Q1006 NOSIG KLOM 221015Z AUTO 00000KT 10SM CLR 21/21 A2990 RMK AO1 KMEV 221015Z AUTO 10SM CLR 09/03 A3015 RMK AO2 KMGE 220958Z AUTO 23003KT 10SM CLR 24/22 A3000 RMK AO2 SLP147 T02360215 $ KMGG 221013Z AUTO 21004KT 10SM CLR 21/20 A2980 RMK AO2 T02100196 LCPH 221000Z 23008KT 210V270 9999 FEW020 32/23 Q1009 KMEZ 221015Z AUTO 24003KT 10SM CLR 26/25 A2997 RMK AO2 KLOR 220958Z AUTO 00000KT 10SM CLR 21/21 A3001 RMK AO2 SLP143 T02130208 KMFR 220953Z AUTO 00000KT 10SM CLR 17/07 A3011 RMK AO2 SLP186 T01720072 KMGJ 220954Z AUTO 00000KT 8SM CLR 17/16 A2989 RMK AO2 SLP120 T01720161 TSNO KLOT 221015Z AUTO 24009KT 10SM RA OVC110 22/20 A2986 RMK AO2 LTG DSNT W T02150201 KLOU 220953Z AUTO 21005KT 7SM CLR 27/25 A2992 RMK AO2 SLP125 T02720250 EPLB 221000Z 32007KT 280V350 9999 FEW025 BKN030 23/18 Q1016 EPKK 221000Z 09008KT 040V130 9999 FEW040 26/15 Q1016 KMGM 220953Z AUTO 00000KT 6SM BR CLR 23/21 A3001 RMK AO2 SLP158 T02280206 KMFV 221015Z AUTO 24005KT 10SM CLR 26/24 A2988 RMK AO2 T02640242 KMHE 220953Z AUTO 25004KT 10SM CLR 20/19 A2984 RMK AO2 SLP095 T02000194 KMGN 221016Z AUTO 00000KT 10SM BKN110 18/17 A2986 RMK AO2 T01900179 FHAW 220850Z 13013KT 9999 SCT024 BKN050 25/18 Q1018 WHT VOHS 221000Z 24006KT 6000 SCT015 SCT025 31/23 Q1006 NOSIG KLOZ 220953Z AUTO 00000KT 6SM BR CLR 23/21 A3000 RMK AO2 SLP143 T02280211 KO86 221010Z AUTO 28005KT 10SM CLR 17/07 A3007 RMK AO1 KLPR 220953Z AUTO 17003KT 10SM FEW110 22/18 A2990 RMK AO2 SLP119 T02220183 KMGR 221015Z AUTO 00000KT 7SM CLR 22/21 A3004 RMK AO2 KMIA 220953Z 00000KT 10SM FEW025 FEW130 SCT180 SCT250 26/23 A3005 RMK AO2 SLP176 T02560233 LCRA 220950Z 22010KT 9999 FEW030 30/22 Q1009 NOSIG EPKS 221000Z 08008KT 9999 SCT020 BKN070 23/17 Q1016 RMK 228 071 6/4= KMHK 220952Z AUTO 22010KT 10SM CLR 29/19 A2980 RMK AO2 SLP077 T02890194 KLQK 221015Z AUTO 00000KT 7SM CLR 21/21 A3000 RMK AO2 T02130211 KMIB 220956Z AUTO 27008KT 10SM CLR 14/11 A2987 RMK AO2 SLP114 T01370114 $ EPMB 221000Z 08006KT 9999 SCT035 BKN050 21/13 Q1018 RMK 209 061 6/4= EPLK 221000Z 01004KT 9999 SCT020 24/17 Q1016 RMK 238 065 3/3= KMHL 221015Z AUTO 21008KT 10SM CLR 28/22 A2985 RMK AO2 KMIC 220953Z AUTO 02003KT 10SM CLR 21/17 A2979 RMK AO2 SLP081 T02060172 EPKT 221000Z 07006KT 020V120 9999 FEW043 26/14 Q1016 KLRD 220956Z AUTO 14009KT 10SM CLR 27/22 RMK AO2 SLPNO T02670217 $ EPLL 221000Z VRB02KT 9999 SCT023 23/17 Q1016 KMGW 221003Z AUTO 00000KT 8SM BKN021 21/20 A2997 RMK AO2 T02110200 KMIE 221014Z 24005KT 10SM -RA BKN110 23/21 A2988 RMK AO2 LTG DSNT S AND W P0001 T02330211 VOHY 221000Z 27006KT 6000 SCT015 SCT025 32/23 Q1006 NOSIG KLRF 220958Z AUTO 00000KT 10SM CLR 25/25 A2992 RMK AO2 SLP131 T02470246 KMGY 221016Z AUTO 32014G20KT 9SM TS FEW009 SCT030 BKN040 24/23 A2993 RMK AO2 LTG DSNT W-NE TSB10 PRESRR T02440228 KMHR 220945Z 16003KT 10SM SKC 17/11 A2986 EPMI 221000Z 14002KT 9999 BKN025 22/15 Q1017 RMK 217 065 5/5 = KMHS 220956Z AUTO VRB05KT 10SM CLR 19/03 A3014 RMK AO2 SLP185 T01890028 KP08 221015Z AUTO RMK AO2 PNO PWINO TSNO LEAB 221000Z VRB03KT CAVOK 27/04 Q1017 NOSIG KMHT 220953Z 34003KT 10SM FEW150 BKN200 22/14 A2983 RMK AO2 SLP111 T02220139 KMHV 221000Z AUTO 31005KT 10SM CLR 24/00 A2995 RMK A01 EPMM 221000Z VRB02KT 9999 BKN025 BKN050 23/18 Q1017 RMK 230 073 7/6 = KLSE 220953Z AUTO 17003KT 10SM OVC009 23/21 A2977 RMK AO2 SLP071 T02280211 KLSF 220958Z AUTO 00000KT 10SM CLR 22/22 A3000 RMK AO2 PRESRR SLP162 T02230223 KLRO 221015Z AUTO 00000KT 9SM CLR 24/24 A3001 RMK AO2 LEAG 221000Z AUTO VRB05KT CAVOK 24/15 Q1014 EPMO 221000Z 10004KT 050V160 9999 BKN022 22/17 Q1016 EPLY 221000Z 08004KT 9999 SCT020 22/17 Q1017 RMK 219 075 4/4= LEBA 221000Z 00000KT CAVOK 26/14 Q1015 KMIS 221020Z AUTO 24008KT 10SM FEW025 FEW030 29/24 A3001 RMK A01 LEBB 221000Z VRB01KT CAVOK 23/15 Q1016 NOSIG KNAK 220954Z AUTO 00000KT 8SM BKN055 26/26 A2985 RMK AO2 SLP110 T02610261 LEAL 221000Z 09006KT 030V140 9999 FEW020 28/21 Q1014 NOSIG KMKC 220954Z 22012KT 10SM CLR 30/23 A2981 RMK AO2 SLP083 T03000228 KNBC 220956Z AUTO 22003KT 10SM CLR 24/24 A3001 RMK AO2 SLP162 T02440244 KLRU 221015Z AUTO 00000KT 10SM BKN120 21/19 A3011 RMK AO2 T02050192 LEAM 221000Z 21008KT 180V250 CAVOK 25/20 Q1014 KMIV 220954Z AUTO 00000KT 7SM FEW065 SCT110 24/24 A2986 RMK AO2 RAB34E48 SLP108 P0001 T02390239 KMKE 221001Z 30005KT 9SM OVC006 21/20 A2977 RMK AO2 T02060200 KMIW 221015Z AUTO 16011KT 10SM VCTS FEW050 FEW065 BKN080 23/22 A2979 RMK AO2 LTG DSNT S AND SW T02280217 LEAO 211800Z 26012KT 230V290 CAVOK 31/01 Q1012 KNBG 220355Z 09004KT 6SM BR FEW030 BKN150 OVC200 26/26 A3000 RMK SLP159 LAST T02610261 LEBG 221000Z 20008KT 160V250 CAVOK 21/07 Q1018 KLRY 221015Z AUTO 22005KT 10SM CLR 27/22 A2988 RMK AO2 KMKG 220955Z 12005KT 10SM OVC018 22/20 A2980 RMK AO2 RAB26E48 SLP087 P0000 T02170200 $ KMJQ 221015Z AUTO 00000KT 5SM BR BKN004 21/21 A2980 RMK AO2 LEAS 221019Z 30006KT 260V350 8000 SCT003 BKN010 16/15 Q1017 TEMPO SCT010 KLUA 221015Z AUTO 00000KT 1/4SM FG OVC002 20/20 A2996 RMK AO2 KNCA 220956Z AUTO 23006KT 10SM CLR 24/24 A2998 RMK AO2 SLP153 T02440244 KP28 220956Z AUTO 12005KT 26/18 A2989 RMK AO1 SLP098 T02610183 KMKJ 221015Z AUTO 00000KT 2SM BR CLR 20/18 A3010 RMK AO2 T01960176 VOMD 220900Z 20004KT 8000 SCT020 SCT100 39/19 Q1004 NOSIG KMLB 220953Z AUTO 18005KT 10SM CLR 24/23 A3004 RMK AO2 SLP173 T02390233 EPOK 221000Z 08007KT 9999 FEW019 SCT/// 19/14 Q1018 RMK 188 076 3/1 = LEBL 221000Z 12010KT 100V170 9999 SCT040 27/21 Q1015 NOSIG KMKL 220953Z AUTO 18003KT 8SM CLR 24/24 A2995 RMK AO2 SLP136 T02440239 KMLC 220953Z AUTO 20004KT 10SM SCT070 BKN110 26/22 A2993 RMK AO2 SLP123 T02560217 KLUD 221015Z AUTO 18007KT 10SM CLR 27/21 A2994 RMK AO2 T02660210 KLSV 220958Z AUTO 00000KT 10SM SCT170 32/08 A2985 RMK AO2 SLP078 T03170080 $ KMKN 221015Z AUTO 17005KT 10SM CLR 24/20 A2997 RMK AO2 T02430196 KMLE 221015Z AUTO 35004KT 10SM CLR 29/24 A2977 RMK AO2 T02850244 KMLF 220952Z AUTO 18010KT 10SM CLR 21/11 A3011 RMK AO2 SLP114 T02110111 KMKO 220953Z AUTO 16004KT 10SM CLR 23/22 A2992 RMK AO2 SLP122 T02330217 KMJX 220956Z AUTO 22005KT 1 1/4SM BR FEW005 BKN045 23/22 A2989 RMK AO2 SLP125 T02280217 KLUF 220958Z AUTO 06004KT M M CLR 32/19 A2984 RMK AO2 SLP089 T03150193 $ LECH 221000Z AUTO 09007KT 060V140 9999 SCT013/// BKN037/// BKN043/// 25/21 Q1016 LEBR 221000Z AUTO VRB03KT 9999 BKN036 26/12 Q1015 KMLI 221027Z 10012KT 1 3/4SM R09/5500VP6000FT +TSRA BR OVC029 21/19 A2988 RMK AO2 LTG DSNT ALQDS TSE11B21 PRESFR P0098 T02110194 LEDA 211700Z 08007KT 050V120 9999 FEW030 27/17 Q1011 VOML 221000Z 28010KT 6000 FEW012 SCT020 30/25 Q1007 NOSIG KMLJ 221015Z AUTO 00000KT 5SM BR CLR 23/22 A3001 RMK AO2 KLTS 220958Z AUTO 11006KT 10SM CLR 25/18 A2991 RMK AO2 SLP109 T02460178 KMKS 221015Z AUTO 00000KT 7SM CLR 22/22 A3001 RMK AO2 VOND 221000Z 25008KT 6000 SCT025 BKN070 31/22 Q1003 LEBT 221000Z AUTO 10006KT 050V160 9999 // FEW037/// 29/21 Q1015 VOMM 221000Z 13011KT 8000 FEW020 35/24 Q1002 NOSIG KLUK 220953Z AUTO 00000KT 8SM FEW070 23/23 A2989 RMK AO2 SLP116 T02280228 KMKT 220956Z AUTO 17008KT 10SM CLR 21/19 A2979 RMK AO2 SLP084 T02060194 KNBT 220956Z AUTO 22008KT 10SM CLR A2997 RMK AO2 SLP155 PNO $ KLUL 221015Z AUTO 00000KT 7SM CLR 23/23 A3001 RMK AO2 T02250225 KLUM 221015Z AUTO 00000KT 10SM CLR 19/19 A2981 RMK AO2 T01910186 LDLO 221000Z 24007KT CAVOK 30/16 Q1014 LECO 221000Z 33009KT 250V010 9999 SCT018 OVC047 19/12 Q1018 NOSIG DXXX 221000Z 21011KT 8000 SCT012 BKN020 28/25 Q1015 NOSIG KMLP 220953Z AUTO VRB03KT 10SM CLR 12/00 A3028 RMK AO2 SLP165 T01170000 TSNO KMKY 221015Z AUTO 12004KT 10SM CLR 25/23 A3004 RMK AO1 LTG DSNT NW TSE00 EPPO 221000Z 12008KT 9999 FEW026 24/16 Q1016 LEBZ 221000Z 30004KT 260V360 CAVOK 24/10 Q1016 KMMH 221015Z AUTO 35004KT 10SM CLR 13/00 A3030 RMK AO2 T01281005 KMMI 221015Z AUTO 00000KT 6SM 22/21 A3002 RMK EPPR 221000Z 03006KT 9999 SCT027 21/15 Q1018 RMK 207 068 4/4= KLVJ 220953Z AUTO 00000KT 10SM CLR 27/24 A2996 RMK AO2 SLP145 T02670239 $ KMLS 220953Z AUTO 31007KT 10SM CLR 15/M02 A3002 RMK AO2 SLP145 T01501017 KLWA 221016Z AUTO 00000KT 7SM SCT005 BKN050 OVC090 22/21 A2980 RMK AO2 T02150211 KLVK 220953Z AUTO 32003KT 10SM CLR 14/11 A2992 RMK AO2 SLP127 T01390111 KMLT 220953Z AUTO 00000KT 10SM CLR 14/14 A2982 RMK AO2 SLP100 T01390139 TSNO KMMK 220953Z AUTO 00000KT 10SM CLR 19/16 A2986 RMK AO2 SLP110 T01940161 TSNO KLWB 221015Z AUTO 00000KT 10SM CLR 18/17 A3005 RMK AO2 LTG DSNT N T01780169 EPRA 221000Z VRB03KT 9999 BKN020 25/19 Q1016 LEEC 211200Z 20010KT 160V240 CAVOK 26/11 Q1013 KLWC 220952Z AUTO 19010KT 10SM CLR 29/22 A2982 RMK AO2 SLP087 T02890222 TSNO KMLU 220953Z AUTO 20003KT 8SM CLR 25/23 A2997 RMK AO2 SLP146 T02500233 KMML 220956Z AUTO 00000KT 10SM CLR 21/19 A2975 RMK AO2 SLP067 T02110194 KLVL 221015Z AUTO 00000KT 7SM CLR 23/22 A2992 RMK AO1 T02270221 LECV 221000Z 16005KT CAVOK 25/04 Q1018 KLVM 220953Z AUTO 26004KT 10SM CLR 09/00 A3019 RMK AO2 SLP181 T00890000 $ KLWD 220953Z AUTO 21010KT 10SM CLR 27/22 A2977 RMK AO2 SLP068 T02720222 VOMY 220700Z 26009KT 9999 SCT015 SCT080 27/21 Q1013 KLVN 221013Z AUTO 00000KT 10SM SCT008 20/20 A2979 RMK AO2 KP53 220956Z AUTO 20005KT 18/18 A2984 RMK AO1 SLP103 T01780178 KMNE 221015Z AUTO 00000KT 10SM CLR 25/23 A2997 RMK AO2 T02460231 EPPW 221000Z 06004KT 9999 SCT023 23/18 Q1016 RMK 232 072 3/3= KLUX 220955Z AUTO 20004KT 10SM CLR 22/20 A2999 RMK AO2 KMNH 221011Z AUTO 24008KT 10SM CLR 13/11 A3024 RMK AO2 KMNI 221015Z AUTO 28010KT 200V340 10SM CLR 23/23 A3001 RMK AO2 KP58 220951Z AUTO 00000KT 21/19 A2985 RMK AO1 SLP099 T02110194 KLVS 220953Z AUTO 04009KT 10SM CLR 15/09 A3024 RMK AO2 SLP115 T01500089 KP59 220951Z AUTO 17007G16KT 19/08 A2981 RMK AO1 SLP090 T01940083 KMOB 220956Z AUTO 10SM FEW019 BKN032 24/23 A3002 RMK AO2 LTG DSNT E AND SE SLP160 T02440228 KMMT 221028Z AUTO 13003KT 1/4SM R32/1800FT FG CLR 22/22 A3000 RMK AO2 VIS 1/4V1 SLP159 $ KP60 220956Z AUTO 32003KT 03/02 A3038 RMK AO1 SLP214 T00330017 KNEL 221008Z AUTO 00000KT 3SM BR CLR 22/22 A2987 RMK AO2 T02220217 $ KMMU 221015Z AUTO 00000KT 1/4SM FG BKN002 20/20 A2989 RMK AO2 KMMV 220953Z AUTO 00000KT 10SM CLR 16/12 A3015 RMK AO2 SLP209 T01610117 KMOD 220953Z AUTO 30005KT 10SM CLR 22/09 A2985 RMK AO2 SLP109 T02170094 KLWM 220954Z AUTO 00000KT 10SM CLR 21/16 A2985 RMK AO2 RAE02 SLP107 P0000 T02060161 KMNM 220956Z AUTO 23003KT 10SM OVC036 21/16 A2983 RMK AO2 SLP109 T02060161 $ EPSC 221000Z 12005KT 9999 FEW025 23/16 Q1016 KMNN 221020Z AUTO 09004KT 7SM -TSRA FEW009 SCT020 OVC060 22/21 A2991 RMK AO2 LTG DSNT ALQDS P0034 T02170206 KNFE 220956Z AUTO 00000KT 10SM CLR 26/23 A2991 RMK AO2 SLP132 T02610233 KNFG 220955Z AUTO 00000KT 6SM HZ OVC013 15/ A2990 RMK AO2 SLP125 T0150 $ KNDZ 220956Z AUTO 00000KT 9SM FEW038 24/23 A3000 RMK AO2 SLP144 T02440233 $ LEGA 221000Z VRB04KT CAVOK 27/05 Q1017 KP68 220953Z AUTO 21006KT 14/M03 A3019 RMK AO1 SLP128 T01391028 KLWS 220956Z AUTO 00000KT 10SM CLR 16/02 A3011 RMK AO2 SLP188 T01610022 KP69 220952Z AUTO 33003KT 13/08 A3017 RMK AO1 SLP194 T01330083 KLWT 220954Z AUTO 12004KT 10SM CLR 09/01 A3016 RMK AO2 SLP180 T00940006 KLXL 221011Z AUTO 00000KT 10SM CLR 18/17 A2982 RMK AO2 LTG DSNT W AND NW KNFL 220956Z AUTO 29009KT 10SM CLR 22/M02 A3004 RMK AO2 SLP142 T02171017 $ FGSL 221000Z 24006KT 210V270 9999 FEW008 BKN080 26/24 Q1016 NOSIG KLWV 220953Z AUTO 20005KT 5SM BR CLR 25/24 A2987 RMK AO2 SLP110 T02500239 KMNV 221015Z AUTO 00000KT 2SM BR FEW042 SCT048 22/22 A3000 RMK A01 VIS 1 1/4V5 LEGE 221000Z 20007KT 160V230 9999 FEW025 28/15 Q1014 KNEW 220953Z AUTO 07003KT 10SM CLR 28/26 A2999 RMK AO2 LTG DSNT ALQDS SLP148 T02830261 KLXN 221015Z AUTO 32008KT 10SM CLR 24/15 A2990 RMK AO2 T02370154 EPSN 221000Z 09004KT 9999 BKN020 20/15 Q1016 RMK 200 073 7/7 = KMOP 221018Z AUTO 04004KT 7SM -RA SCT007 SCT016 BKN050 21/19 A2985 RMK AO2 KLYH 221015Z 00000KT 10SM R04/1200VP6000FT MIFG CLR 21/21 A2995 RMK AO2 T02060206 KMNZ 221015Z AUTO 19006KT 10SM CLR 25/21 A2998 RMK AO2 T02450205 KMOR 221015Z AUTO 00000KT 10SM SCT041 24/21 A3002 RMK A01 EPRZ 221000Z VRB03KT 9999 SCT028 24/16 Q1017 LDOS 221000Z 08006KT CAVOK 30/20 Q1014 KLXT 220953Z AUTO 22012KT 10SM CLR 28/23 A2985 RMK AO2 SLP094 T02780228 KMQB 221015Z AUTO 06014KT 5SM -VCTSRA SCT004 BKN047 OVC095 23/19 A2990 RMK AO2 LTG DSNT W THRU NE P0002 T02280190 KMOT 220954Z AUTO 23008KT 10SM CLR 16/11 A2988 RMK AO2 SLP109 T01560111 LEHC 221000Z 10006KT 360V170 9999 SCT030 26/17 Q1016 LDPL 221000Z 27010KT 230V310 CAVOK 31/15 Q1014 NOSIG KLXV 220953Z AUTO 08003KT 10SM CLR 08/06 A3048 RMK AO2 SLP158 T00830061 EPTM 221000Z AUTO 35002KT 22/18 Q1017 RMK 217 077 ///= KNFW 220952Z AUTO 18006KT 10SM CLR 27/22 A2992 RMK AO2 SLP115 T02720217 $ KMQE 220956Z AUTO 31009KT 21/14 A2985 RMK AO1 SLP112 T02110139 KMPO 220953Z AUTO 00000KT 9SM CLR 16/16 A2996 RMK AO2 SLP132 T01610161 KMOX 221014Z AUTO 04004KT 10SM CLR 20/19 A2982 RMK AO2 KLXY 221015Z AUTO 19006KT 10SM CLR 24/23 A2994 RMK AO2 T02410225 KNGP 220956Z AUTO 19008KT 10SM CLR 29/26 A2993 RMK AO2 SLP134 T02890256 EPSY 221000Z 07006KT 020V100 9999 BKN040 21/12 Q1017 LEGR 221000Z VRB01KT CAVOK 27/04 Q1016 KMQI 221005Z AUTO 25009KT 10SM CLR 26/23 A2995 RMK AO2 T02580234 KMQJ 221029Z AUTO 06003KT 10SM SCT050 SCT065 SCT090 22/21 A2990 RMK AO1 LEGT 221000Z VRB03KT CAVOK 28/07 Q1016 LEIB 221000Z 10007KT 060V160 9999 FEW017 SCT022 28/21 Q1015 NOSIG KNHK 220952Z AUTO 28007KT 10SM CLR 26/23 A2985 RMK AO2 SLP108 T02560233 KMRB 221018Z AUTO 00000KT 2SM BR CLR 21/19 A2993 RMK AO2 T02060194 TSNO KMRC 221015Z AUTO 00000KT 7SM CLR 23/23 A2996 RMK A01 KNGU 220959Z 22006KT 8SM FEW120 SCT280 26/22 A2991 RMK AO2 SLP129 T02610222 $ KP92 220953Z AUTO 00000KT 24/23 A2996 RMK AO1 SLP145 T02440233 $ KMPV 221021Z AUTO 00000KT 1SM BR VV002 15/15 A2992 RMK AO2 T01500150 KNID 220956Z AUTO 19010KT 10SM CLR 26/04 A2990 RMK AO2 SLP099 T02610044 $ KLYV 221018Z AUTO 16003KT 10SM CLR 20/18 A2978 RMK AO2 KMRF 220956Z AUTO 12004KT 10SM CLR 18/17 A3017 RMK AO2 SLP160 T01830172 KMRH 220958Z AUTO 23009KT 10SM CLR 27/26 A2999 RMK AO2 SLP155 T02720256 TSNO KMPZ 221015Z AUTO 08013G17KT 10SM SCT047 BKN065 OVC110 22/21 A2987 RMK AO2 T02150212 LDRI 221000Z 26005KT 220V290 9999 FEW047 30/15 Q1014 KMQS 221015Z AUTO 00000KT 10SM CLR 24/22 A2992 RMK AO2 KMRJ 221015Z AUTO 20010G14KT 10SM OVC004 21/21 A2981 RMK AO2 LDSB 221000Z 14015KT 9999 FEW050 28/11 Q1017 EPWA 221000Z VRB01KT 9999 BKN026 23/17 Q1016 NOSIG KLZU 220045Z 00000KT 10SM CLR 30/21 A3003 RMK JW VORY 221000Z 26010KT 6000 FEW020 FEW025 BKN200 36/24 Q1002 KMRN 221005Z AUTO 00000KT 3SM BR CLR 21/21 A3004 RMK AO2 T02080208 KNIP 220953Z 24005KT 10SM FEW015 26/23 A3003 RMK AO2 SLP163 T02560228 $ KMQY 220956Z AUTO 16003KT 7SM CLR 23/23 A2998 RMK AO2 SLP022 T02330228 KLZZ 221015Z AUTO 17003KT CLR 25/22 A2996 RMK AO2 T02520220 PWINO VOTK 221000Z 27010G20KT 7000 FEW020 38/20 Q1004 LFBA 221000Z AUTO VRB04KT 9999 FEW031 23/14 Q1015 NOSIG KOAJ 221012Z AUTO 22006KT 8SM FEW004 24/24 A2999 RMK AO2 KOAK 220953Z 01004KT 10SM FEW012 14/12 A2993 RMK AO2 SLP135 T01390122 KMRT 221014Z AUTO 32006KT 10SM SCT007 BKN038 OVC120 23/22 A2991 RMK AO2 T02280216 KNJK 220956Z AUTO 10008KT 10SM CLR 27/19 A2976 RMK AO2 SLP093 T02720189 LFBC 221000Z AUTO 24011KT 220V290 9999 SCT027 BKN034 BKN047 23/16 Q1015 TEMPO SHRA SCT020TCU KMSL 220953Z AUTO 18003KT 10SM CLR 25/23 A2998 RMK AO2 SLP144 T02500228 KMTC 220958Z AUTO 18007KT 10SM FEW048 BKN100 25/22 A2985 RMK AO2 SLP109 T02450217 LFBD 221000Z AUTO 26010KT 9999 FEW001 SCT024 BKN039 22/16 Q1015 NOSIG KNJM 220957Z AUTO 24006KT 10SM CLR 24/24 A2999 RMK AO2 SLP159 T02390239 $ VOTP 221000Z 32012KT 8000 FEW020 SCT025 39/20 Q1002 LFBE 221000Z AUTO 25003KT 210V290 CAVOK 21/15 Q1015 NOSIG KMSN 221026Z AUTO 00000KT 1 1/4SM BR OVC003 19/19 A2980 RMK AO2 T01940194 $ KOBE 221015Z AUTO 00000KT 7SM CLR 22/22 A3006 RMK AO2 KMSO 220953Z AUTO 00000KT 10SM CLR 13/02 A3018 RMK AO2 SLP200 T01280022 VOTR 221000Z 27010G20KT 9999 SCT016 39/20 Q1003 NOSIG LFBG 221000Z AUTO 20011KT 9999 -DZ FEW014/// BKN037/// BKN043/// ///TCU 20/17 Q1014 KMSP 220953Z 27003KT 10SM BKN250 22/18 A2979 RMK AO2 SLP080 T02220183 KMRY 220954Z AUTO 25006KT 10SM OVC007 13/12 A2996 RMK AO2 SLP158 T01330117 LDSP 221000Z 11009KT CAVOK 32/15 Q1014 BECMG 23012KT LFAQ 221000Z AUTO 20011KT 9999 OVC009 17/15 Q1011 TEMPO 4000 SHRA BKN013TCU LFBH 221000Z AUTO 23008KT 190V270 9999 FEW019 BKN062 OVC078 21/16 Q1013 NOSIG KMTH 220953Z AUTO 12004KT 8SM SCT020 29/26 A3003 RMK AO2 SLP168 T02890256 LFBI 221000Z AUTO 21006KT 5000 RA BR BKN009/// BKN018/// BKN024/// 17/16 Q1013 BECMG NSW BKN016 BKN030 LEJR 221030Z VRB03KT CAVOK 28/18 Q1015 KMSS 221019Z AUTO 05003KT 8SM CLR 16/16 A2988 RMK AO2 T01560156 KMTJ 220953Z AUTO 15007KT 10SM CLR 17/14 A3022 RMK AO2 SLP167 T01720144 EPWR 221000Z 12010KT 090V160 CAVOK 28/15 Q1014 VOTV 221000Z 32009KT 6000 FEW015 SCT080 FEW025CB 30/24 Q1006 TEMPO 5000 HZ LFAT 221000Z AUTO 22010KT 190V260 9999 SCT022 SCT029 BKN070 18/13 Q1010 TEMPO 4000 SHRA LELC 221000Z 09004KT 050V130 CAVOK 28/21 Q1014 NOSIG LFBL 221000Z AUTO 19014KT 9999 FEW023 19/14 Q1015 NOSIG KNLC 220956Z AUTO 33005KT 10SM CLR 19/09 A2987 RMK AO2 SLP112 T01940094 LFBM 221000Z AUTO VRB03KT CAVOK 23/16 Q1016 KMTN 220945Z 00000KT 10SM SCT060 SCT200 26/24 A2987 RMK FIRST LFBO 221000Z AUTO 32006KT 280V350 9999 SCT035 OVC041 22/14 Q1015 NOSIG KOCF 220951Z AUTO 18003KT 10SM CLR 23/22 A3004 RMK AO2 SLP173 T02280217 $ KMTO 220953Z AUTO 22006KT 8SM CLR 27/25 A2985 RMK AO2 SLP099 T02670250 LFBP 221000Z AUTO 24003KT 190V290 9999 SCT022 SCT240 22/16 Q1016 NOSIG KMSY 220953Z 00000KT 8SM CLR 27/25 A2998 RMK AO2 LTG DSNT N AND S SLP156 T02670250 $ KMTP 220954Z AUTO 00000KT 22/22 A2987 RMK AO1 SLP113 T02220217 KOCH 221015Z 00000KT 9SM CLR 23/22 A2995 RMK AO1 KMUI 220958Z AUTO 00000KT 10SM CLR 21/19 A2991 RMK AO2 SLP127 T02090194 KNKT 220954Z 22006KT 10SM CLR 25/23 A2999 RMK AO2 SLP150 T02500233 LFCK 221000Z AUTO 26005KT 210V330 9999 FEW022 OVC041 23/17 Q1016 NOSIG LFBT 221000Z AUTO VRB02KT 9999 FEW021 BKN028 BKN150 21/15 Q1017 NOSIG LELL 221000Z 14005KT 080V220 9999 FEW035 29/19 Q1015 LFBU 221000Z AUTO 23007KT 180V260 9999 BKN023 OVC028 20/15 Q1014 NOSIG LEMD 221000Z 24003G15KT CAVOK 27/07 Q1016 NOSIG KMTV 221015Z AUTO 00000KT 3SM BR CLR 21/20 A3000 RMK AO2 T02060201 LELN 221000Z 24007KT 190V340 9999 FEW040 19/09 Q1017 KMVE 221012Z AUTO 36003KT 10SM CLR 20/19 A2980 RMK AO2 LTG DSNT NW KMTW 220956Z AUTO 02004KT 10SM OVC038 20/17 A2981 RMK AO2 SLP107 T02000172 LELO 221000Z 27006KT 230V310 CAVOK 22/11 Q1016 KNKX 220955Z 26003KT 9SM OVC009 22/17 A2991 RMK AO2 SLP122 T02220167 $ KMUO 220958Z AUTO 31009KT 10SM CLR 19/05 A3006 RMK AO2 SLP150 T01900049 $ LEMG 221000Z 14006KT 110V170 CAVOK 25/14 Q1014 NOSIG LFBY 221000Z AUTO 26003KT 220V300 9999 // NSC 22/15 Q1016 LEMH 221000Z 17008KT 120V230 9999 FEW018 BKN025 29/21 Q1016 LFBZ 221000Z AUTO 29006KT 9999 OVC054 22/13 Q1016 NOSIG KMVH 221015Z AUTO 00000KT 10SM CLR 09/M01 A3019 RMK AO2 KOCQ 221015Z AUTO 00000KT 10SM SCT036 19/16 A2980 RMK AO1 T01890161 EPZG 221000Z 04011KT 010V070 CAVOK 25/19 Q1015 LFCR 221000Z AUTO 29005KT 240V350 9999 OVC025 21/15 Q1017 NOSIG KMWA 221015Z AUTO 20006KT 10SM CLR 26/26 A2992 RMK AO2 KMUT 221015Z AUTO 09011G18KT 3SM -RA BKN006 BKN015 OVC038 22/21 A2989 RMK AO2 KOEB 221014Z AUTO 15007KT 10SM CLR 21/21 A2984 RMK AO2 T02080208 KMVL 221015Z AUTO 00000KT 1/4SM FG OVC002 13/13 A2990 RMK AO2 T01330133 KMWC 221015Z AUTO 23004KT 10SM OVC009 18/16 A2978 RMK AO2 KNMM 220956Z AUTO 21003KT 9SM CLR 23/20 A2999 RMK AO2 SLP163 T02280200 $ KMVN 220956Z AUTO 22003KT CLR 25/24 A2988 RMK AO2 SLP113 T02500239 PWINO $ KOCW 221010Z AUTO 23005KT 10SM CLR 25/23 A2997 RMK AO2 T02470230 VOVZ 221000Z 24010KT 6000 FEW018 BKN220 33/27 Q1000 NOSIG LEMO 221000Z 22004KT 170V290 CAVOK 25/14 Q1015 NOSIG KODO 220953Z AUTO 13006KT 10SM 26/16 A3002 RMK AO2 SLP109 T02560156 $ KMWH 220952Z AUTO 08004KT 10SM CLR 18/08 A3008 RMK AO2 SLP180 T01780083 KMWK 221005Z AUTO 00000KT 5SM BR CLR 23/21 A3001 RMK AO2 T02250205 KMWL 220953Z AUTO 15006KT 10SM SCT100 24/21 A2993 RMK AO2 SLP118 T02440206 KMWM 221014Z AUTO 15008KT 7SM CLR 21/20 A2976 RMK AO2 KMWN 220959Z 31027KT 40SM FEW/// FEW050 SCT120 BKN200 08/05 RMK TPS LWR FEW035 HZ DSNT ALQDS PTCHY VLY FG ALQDS KODX 220953Z AUTO 34012KT 10SM CLR 23/20 A2984 RMK AO2 SLP086 T02330200 KMWO 221015Z AUTO 31009G15KT 10SM SCT020 SCT027 BKN042 24/22 A2993 RMK AO2 T02430218 KOFF 220956Z AUTO 30005KT 10SM CLR 27/20 A2975 RMK AO2 SLP066 T02660197 $ KMXF 220958Z AUTO 00000KT 10SM CLR 23/23 A3000 RMK AO2 SLP160 T02260226 KOEO 221015Z AUTO 00000KT 10SM CLR 19/19 A2984 RMK AO2 T01860186 KMVY 220953Z 23004KT 9SM CLR 21/19 A2984 RMK AO2 SLP104 T02060189 KNOG 220956Z AUTO 17006KT 10SM CLR A2994 RMK AO2 SLPNO $ LEPA 221000Z 24010KT 190V270 9999 SCT020 29/23 Q1015 NOSIG LFGA 221000Z AUTO 16006KT 100V200 9999 FEW039/// SCT076/// ///TCU 26/16 Q1014 PTKK 220950Z 00000KT 15SM SCT012 BKN120 OVC280 28/26 A2983 RMK SLP101 T02840261 KNPA 220956Z AUTO 27003KT FEW024 SCT032 26/24 A2999 RMK AO2 SLP156 T02560239 $ KOGA 221015Z AUTO 35009KT 10SM CLR 25/14 A2998 RMK AO2 T02500135 KOGB 220953Z AUTO 15003KT 7SM CLR 22/22 A3000 RMK AO2 SLP157 T02220217 KMWT 220953Z AUTO 00000KT 5SM BR CLR 23/22 A2993 RMK AO2 SLP120 T02330222 KOFK 221022Z AUTO 06009KT 4SM BR OVC003 24/23 A2982 RMK AO2 T02440233 KOGD 220953Z AUTO 00000KT 10SM CLR 22/07 A3007 RMK AO2 SLP113 T02220072 KMYF 220953Z AUTO VRB03KT 8SM OVC010 21/17 A2991 RMK AO2 SLP125 T02110172 KMXO 221015Z AUTO 19009G17KT 9SM FEW031 SCT047 BKN070 21/20 A2983 RMK AO2 KOFP 220954Z AUTO 21003KT 8SM CLR 24/21 A2991 RMK AO2 SLP125 T02390206 $ PTKR 220954Z 26006KT 8SM -SHRA BKN016CB OVC180 27/25 A2978 RMK SHRAB20 CB ALQDS MOV E SLP085 T02720251 LFGJ 221000Z AUTO 19005KT 150V270 9999 FEW033 24/16 Q1015 NOSIG KNQA 221015Z AUTO 00000KT 5SM BR CLR 24/24 A2994 RMK A01 KMYJ 221015Z AUTO 20006KT 7SM CLR 23/20 A2986 RMK AO2 LTG DSNT NE LDZA 221000Z VRB05KT CAVOK 32/15 Q1013 NOSIG KMYL 220951Z AUTO 33005KT 10SM CLR 12/03 A3021 RMK AO2 SLP185 T01170033 LDZD 221000Z 18010KT 110V240 CAVOK 31/14 Q1014 NOSIG KNOW 221015Z AUTO 29006KT 10SM OVC050 13/11 A3015 RMK AO2 T01300108 LEPP 221000Z 28004KT 240V340 9999 SCT032 BKN035 21/11 Q1017 ESCF 221020Z AUTO VRB04KT 9999 NCD 23/10 Q1020 KMYP 221010Z AUTO 07008KT CLR 08/04 A3073 RMK AO2 PWINO KMZH 221013Z AUTO 00000KT 1/2SM FG OVC002 16/15 A2984 RMK AO2 KNOZ 220959Z AUTO 13012KT 10SM CLR 31/17 A2979 RMK AO2 SLP037 T03060172 PWINO $ KMYR 220955Z 00000KT 10SM CLR 25/24 A3001 KNQI 220956Z AUTO 16007KT 10SM CLR 26/26 A2993 RMK AO2 SLP130 T02560256 KOGS 221015Z AUTO 00000KT 5SM BR SCT085 SCT110 17/17 A2987 RMK AO2 T01700165 TSNO GABS 221000Z 24008KT 9999 SCT020 27/24 Q1017 NOSIG KNRB 220952Z AUTO 26004KT 10SM CLR 25/23 A3002 RMK AO2 SLP165 T02500228 KMYV 220953Z AUTO 14003KT 10SM CLR 19/13 A2987 RMK AO2 SLP117 T01940128 ESDF 221020Z 11010KT 9999 FEW040 20/12 Q1020 FJDG 220955Z 14016G22KT 9999 FEW020 SCT080 BKN250 29/25 A2984 RMK SLP102 T02850254 KMYZ 221015Z AUTO 22005KT 10SM CLR 26/19 A2980 RMK AO2 LERI 221000Z 07007KT 350V110 9999 FEW025 29/19 Q1014 NOSIG WIBB 221000Z 00000KT 9999 FEW015 33/21 Q1006 LESA 221000Z 28003KT 210V340 CAVOK 20/09 Q1018 KOJA 221015Z AUTO 19004KT 10SM CLR 26/19 A2993 RMK AO2 KOJC 220953Z AUTO 21008G17KT 10SM CLR 27/23 A2985 RMK AO2 SLP091 T02720228 LGAD 221020Z 33006KT CAVOK 32/15 Q1015 KPAE 220953Z AUTO 12005KT 10SM OVC049 18/13 A3015 RMK AO2 SLP208 T01780128 KNSE 220956Z AUTO 00000KT 6SM BR CLR 22/22 A3000 RMK AO2 SLP144 T02220222 PWINO $ KNQX 221001Z 12006KT 10SM FEW021 28/26 A3003 RMK AO2 T02830261 $ KPAH 220953Z AUTO 23004KT 7SM CLR 26/23 A2991 RMK AO2 SLP123 T02560228 FIMP 221000Z 07011KT 9999 FEW018 26/21 Q1020 KMZZ 221015Z AUTO 00000KT 10SM SCT060 SCT120 21/21 A2988 RMK AO2 KNSI 220957Z AUTO 29010KT 6SM HZ CLR 14/ A2989 RMK AO2 SLP117 T0139 PWINO $ FIMR 221000Z 11015KT 9999 BKN018 26/20 Q1019 LERS 221000Z 15008KT 110V200 9999 FEW022 BKN037 27/21 Q1015 KNRS 220956Z AUTO 12003KT 9SM OVC013 20/17 A2991 RMK AO2 SLP128 T02000167 $ LERT 221000Z 29008KT 250V320 CAVOK 23/17 Q1015 NOSIG LFKB 221000Z 10007KT 070V140 9999 FEW025 29/21 Q1015 NOSIG KOKB 220952Z AUTO 00000KT 9SM OVC014 22/18 A2990 RMK AO2 SLP123 T02170183 LFJL 221000Z AUTO 22006KT 150V270 9999 FEW028/// BKN042/// BKN049/// 23/15 Q1014 TEMPO 4000 SHRA BKN014 SCT040TCU LFKC 221000Z AUTO 34008KT 300V020 CAVOK 28/22 Q1014 NOSIG KOKC 220952Z 19006KT 10SM FEW060 24/20 A2992 RMK AO2 SLP112 T02440200 LGAL 221020Z 01012G26KT CAVOK 32/13 Q1015 RCFN 221000Z VRB02KT 9999 FEW040 BKN120 29/24 Q1010 NOSIG RMK A2985 KPAM 220956Z AUTO 00000KT 10SM -DZ FEW023 FEW043 24/23 A3001 RMK AO2 DZB0856 SLP165 P0000 T02410232 KNTD 220956Z AUTO VRB04KT 7SM CLR 16/14 A2990 RMK AO2 SLP125 T01560139 $ KPAN 221015Z AUTO 00000KT 10SM OVC085 19/17 A3018 RMK AO2 KPAO 212247Z 32015KT 10SM SKC 27/14 A2995 LESO 221000Z VRB02KT 9999 BKN050 24/15 Q1016 LFKF 221000Z AUTO 22010KT 180V260 9999 FEW034 BKN042 30/23 Q1015 NOSIG KPBF 220953Z AUTO 18005KT 7SM CLR 24/24 A2994 RMK AO2 SLP137 T02440239 KPBG 220953Z AUTO 00000KT 10SM SCT100 16/14 A2986 RMK AO2 SLP110 T01610144 KPBH 221015Z AUTO 00000KT 10SM OVC007 18/18 A2982 RMK AO2 T01800180 LFJR 221000Z AUTO 22009KT 9999 SCT023 BKN031 BKN064 19/12 Q1012 NOSIG KPBI 220953Z 00000KT 10SM FEW025 FEW100 SCT200 24/22 A3006 RMK AO2 SLP179 T02440222 $ LFKJ 221000Z 22011KT 9999 FEW013 29/22 Q1015 NOSIG WIDD 221000Z 14010KT 9999 SCT014 30/25 Q1010 LEST 221000Z 34004KT 290V010 9999 FEW009 SCT015 BKN028 16/14 Q1019 NOSIG LFLB 221000Z AUTO 19003KT 110V280 CAVOK 25/16 Q1015 NOSIG KOKK 221024Z AUTO 16004KT 10SM -TSRA FEW049 SCT070 BKN110 22/21 A2985 RMK AO2 LTG DSNT ALQDS TSB08E22B24 P0000 KNUC 212256Z 28010KT 10SM FEW016 22/16 A2994 RMK SLP135 LAST T02170156 LESU 221000Z VRB03KT 9999 FEW060 23/14 Q1017 LETL 221000Z AUTO 00000KT 9999 NCD 27/09 Q1018 LFLC 221000Z AUTO VRB02KT 9999 ///CB 22/14 Q1015 BECMG NSC LGBL 221020Z 07007KT CAVOK 29/19 Q1016 LGAV 221020Z 03019KT CAVOK 31/11 Q1015 NOSIG PTPN 220955Z 16004KT 15SM BKN018TCU BKN130 OVC300 27/25 A2984 RMK TCU E-S KPCD 221015Z AUTO 23006KT 10SM CLR 26/23 A2989 RMK AO2 T02600231 KOKM 221015Z AUTO 22004KT 10SM CLR 25/21 A2991 RMK AO2 T02520212 KOLE 221015Z AUTO 00000KT 10SM CLR 16/16 A2999 RMK AO2 LETO 221000Z 19004KT 130V260 CAVOK 27/06 Q1016 NOSIG KOLF 220953Z AUTO 26004KT 10SM CLR 13/06 A2999 RMK AO2 SLP147 T01330061 KOLG 221015Z AUTO 03004KT 1/4SM OVC002 16/15 A2982 RMK AO1 ESGG 221020Z VRB05KT 360V360 9999 FEW038 20/10 Q1019 KNUI 221009Z AUTO 26008KT 10SM SCT025 26/23 A2986 RMK AO2 T02610233 LFKS 221000Z AUTO 10007KT 060V130 9999 SCT050 29/23 Q1015 KOMA 220952Z 36005KT 10SM SCT007 SCT120 OVC250 27/24 A2976 RMK AO2 SLP064 T02670239 ESGJ 221020Z 14008KT 110V170 CAVOK 20/07 Q1020 WIEE 221000Z 20003KT 140V260 9999 FEW020 30/24 Q1008 LETU 221000Z AUTO 03005KT 350V130 9999 NCD 24/09 Q1016 LEVC 221000Z 13009KT 080V160 9999 FEW020 BKN025 28/22 Q1014 NOSIG LFMC 221000Z AUTO 03004KT 340V130 9999 ////// 31/14 Q1014 LFLL 221000Z 12004KT 090V150 9999 FEW030 BKN120 25/16 Q1014 NOSIG KNTU 220956Z 24007KT 8SM FEW060 SCT250 24/22 A2990 RMK AO2 SLP128 T02440217 KPDC 221015Z AUTO 19003KT 10SM OVC004 21/21 A2977 RMK AO2 T02130206 LEVD 221000Z 22006KT 180V260 CAVOK 21/06 Q1018 LFMD 221000Z AUTO 17008KT 130V200 CAVOK 27/21 Q1014 TEMPO FEW050CB KOLM 220954Z AUTO 19004KT 10SM OVC037 17/13 A3016 RMK AO2 SLP211 T01670128 KPCM 221015Z AUTO 13003KT 10SM CLR 24/24 A3007 RMK AO2 KOKV 221015Z AUTO 00000KT 4SM BR SCT065 20/20 A2994 RMK AO2 LFLN 221000Z AUTO VRB03KT 9999 BKN028 BKN034 BKN110 24/16 Q1015 NOSIG KPBX 220955Z AUTO 16003KT 10SM CLR 23/23 A3000 RMK AO2 T02320232 LFLP 221000Z AUTO VRB02KT CAVOK 24/16 Q1016 BECMG SCT060TCU LFMH 221000Z AUTO VRB04KT CAVOK 25/15 Q1015 NOSIG KOMH 221015Z AUTO 00000KT 10SM CLR 20/20 A2990 RMK AO2 KNUQ 220956Z 04003KT 10SM CLR 15/13 A2994 RMK AO2 SLP140 T01500128 KOKZ 221015Z AUTO 19003KT 7SM CLR A3001 RMK AO2 PTSA 220150Z VRB03KT 10SM BKN013TCU BKN130 OVC300 28/26 A2978 RMK TCU N-E AND S LFMI 221000Z AUTO 20005KT 140V300 CAVOK 30/17 Q1014 NOSIG LFLS 221000Z AUTO 08004KT CAVOK 24/15 Q1016 NOSIG ESGR 221020Z AUTO 16008KT 120V200 9999 NCD 22/07 Q1020 KPEA 221015Z AUTO 09010G16KT 10SM CLR 26/22 A2982 RMK AO2 T02590224 KOLS 220954Z AUTO 15003KT 10SM BKN110 21/20 A3008 RMK AO2 SLP118 T02110200 KONA 221012Z AUTO 00000KT 10SM OVC007 21/20 A2979 RMK AO2 LFMK 221000Z AUTO 29005KT 240V330 9999 OVC038 24/17 Q1014 NOSIG KPDK 220953Z AUTO 00000KT 7SM CLR 24/22 A3000 RMK AO2 SLP137 T02390217 KOMK 220953Z AUTO 33003KT 10SM CLR 13/04 A3008 RMK AO2 SLP180 T01330044 KNY0 221013Z AUTO 29004KT 10SM CLR 17/16 A2990 RMK AO2 LFLU 221000Z AUTO VRB03KT CAVOK 27/18 Q1014 LFML 221000Z AUTO 29004KT 250V310 CAVOK 29/16 Q1014 NOSIG ESIB 221020Z 13005KT 040V190 CAVOK 22/10 Q1019 KOLU 220956Z AUTO 35004KT 10SM CLR 24/21 A2981 RMK AO2 SLP080 T02390211 TSNO KOLV 220050Z 00000KT 10SM FEW250 A2996 KOMN 212250Z 21004KT 7SM SCT120 24/23 A3001 RMK LAST LFLW 221000Z AUTO 29004KT 230V330 9999 BKN028 OVC036 20/14 Q1017 NOSIG LFMN 221000Z 13008KT 9999 FEW018 26/21 Q1015 NOSIG KPCW 221021Z AUTO 21004KT 7SM -RA SCT039 OVC050 24/24 A2986 RMK AO2 $ PTRO 220954Z 21008KT 10SM -SHRA FEW008 BKN015CB BKN110 OVC290 26/25 A2977 RMK CB ALQDS MOV E KNUW 220956Z 00000KT 10SM SCT048 OVC065 14/11 A3018 RMK AO2 SLP219 T01440106 $ LFMO 221000Z AUTO VRB03KT CAVOK 29/16 Q1014 NOSIG LFLX 221000Z AUTO 23016KT 9999 OVC028 20/14 Q1014 TEMPO BKN011 LFLY 221000Z AUTO 16006KT 120V200 CAVOK 25/17 Q1014 NOSIG LFMP 221000Z AUTO 10007KT 050V150 CAVOK 27/17 Q1014 KOLY 221015Z AUTO 18004KT 7SM CLR 25/23 A2988 RMK AO2 T02450233 KOLZ 221015Z AUTO RMK AO2 PNO PWINO KPCZ 221015Z AUTO 12003KT 10SM OVC013 20/19 A2980 RMK AO2 T02000187 LEVS 221000Z VRB03KT CAVOK 29/04 Q1016 LFOA 221000Z AUTO 22010KT 180V240 9999 BKN038 BKN054 BKN130 23/13 Q1014 KOOA 221015Z AUTO 08014G23KT 10SM OVC041 23/21 A2984 RMK AO2 T02340207 LEVT 221000Z 12003KT 060V230 CAVOK 21/11 Q1017 LFOB 221000Z AUTO 24009KT 9999 FEW027 BKN044 BKN050 19/12 Q1011 TEMPO VRB20G35KT 1200 TSRAGS BKN006 BKN030CB LFMT 221000Z AUTO 17006KT 140V200 CAVOK 27/14 Q1014 NOSIG KPDT 220953Z AUTO 14005KT 10SM CLR 16/03 A3011 RMK AO2 SLP182 T01560028 LFOC 221000Z AUTO 22012KT 9999 FEW023 OVC080 20/13 Q1012 LFMU 221000Z AUTO 15009KT 120V190 CAVOK 28/17 Q1014 NOSIG KONL 221015Z AUTO 02005KT 1 1/2SM BR OVC002 24/24 A2990 RMK AO2 T02400240 TSNO LGEL 221020Z 35016G28KT CAVOK 33/08 Q1014 LFMV 221000Z AUTO 21005KT 150V270 CAVOK 30/17 Q1014 NOSIG KONM 221015Z AUTO 00000KT 10SM CLR 20/14 A3012 RMK AO2 T01950143 LFOE 221000Z AUTO 23012KT 200V260 9999 FEW033 SCT160 BKN190 18/09 Q1012 ETAD 221013Z AUTO 18007KT 9999 SCT031 23/15 A2994 RMK AO2 SLP116 TSNO $ LEVX 221000Z 29004KT 210V350 9999 BKN008 BKN014 17/16 Q1019 NOSIG KPDX 220953Z 32004KT 10SM CLR 18/13 A3015 RMK AO2 SLP208 T01780128 KPEO 220953Z AUTO 24003KT 8SM CLR 19/18 A2993 RMK AO2 SLP128 T01940178 KONO 220953Z AUTO 31008KT 10SM CLR 23/M01 A3007 RMK AO2 SLP162 T02281006 TSNO KNXF 220956Z AUTO 8SM OVC015 A2990 RMK AO2 SLPNO $ RCKH 221000Z 30007KT 9000 -RA FEW012TCU FEW015 SCT050 BKN120 30/25 Q1008 NOSIG RMK TCU S A2979 LFMY 221000Z AUTO 22008KT 170V250 CAVOK 29/17 Q1014 KONP 221015Z AUTO 00000KT 10SM CLR 12/12 A3019 RMK AO2 LFOH 221000Z AUTO 20011KT 180V240 9999 FEW020 SCT210 17/11 Q1010 TEMPO VRB20G35KT 1200 TSRAGS BKN004 BKN015CB KPEQ 221015Z AUTO 00000KT 10SM CLR 23/16 A2998 RMK AO2 LTG DSNT S T02270155 LEXJ 221000Z 32008KT 280V360 9999 SCT020 BKN060 22/15 Q1016 LFOJ 221000Z AUTO 21011KT 9999 BKN014 BKN020 BKN076 19/16 Q1012 KPGA 220953Z AUTO 19003KT 10SM CLR 25/13 A3009 RMK AO2 SLP114 T02500133 TSNO LFPB 221000Z AUTO 20009KT 9999 BKN020 BKN028 OVC041 20/16 Q1012 TEMPO BKN018 SCT025TCU LFOK 221000Z AUTO 20012KT 170V230 9999 BKN045 BKN052 23/12 Q1013 NOSIG KONT 220953Z 24005KT 10SM CLR 20/17 A2991 RMK AO2 SLP111 T02000167 KNYC 220951Z AUTO 00000KT 10SM CLR 26/19 A2990 RMK AO2 SLP113 T02560194 KPGD 220953Z AUTO 14004KT 10SM CLR 24/24 A3005 RMK AO2 SLP177 T02440239 WIHH 220200Z 08004KT 4000 HZ FEW025 29/23 Q1013 NOSIG KOPF 220953Z AUTO 00000KT 10SM CLR 24/24 A3005 RMK AO2 SLP177 T02440244 KONX 221015Z AUTO 22006KT 10SM CLR 26/25 A2993 RMK AO2 T02560247 PTTP 220952Z 11003KT 15SM SCT018 OVC300 26/25 A2988 RMK SLP117 T02550246 KPEX 221013Z AUTO 00000KT 10SM CLR 21/19 A2981 RMK AO2 T02060192 VQPR 221000Z 33009KT 8000 FEW015 SCT030 BKN070 25/14 Q1014 NOSIG LFOP 221000Z AUTO 22010KT 200V260 9999 FEW027 19/10 Q1011 TEMPO VRB20G35KT 1200 TSRAGS BKN004 BKN015CB LFPG 221000Z 20011G25KT 170V290 9999 SCT013 BKN025 19/16 Q1012 NOSIG KNYG 220956Z AUTO 31003KT 10SM OVC046 26/23 A2989 RMK AO2 SLP123 T02610228 KNXP 220956Z AUTO 35005KT 10SM CLR 28/04 A2997 RMK AO2 SLP105 T02830039 KONZ 221013Z AUTO 00000KT 10SM -RA BKN070 OVC090 25/23 A2985 RMK AO2 T02460225 KPEZ 221015Z AUTO 00000KT 10SM CLR 25/23 A2996 RMK AO2 T02450228 LFQA 221000Z AUTO 19013KT 160V220 9999 BKN046 BKN054 23/12 Q1012 ETAR 221018Z 20008KT 9999 SCT029 25/17 A2994 RMK AO2A SLP132 LFOT 221000Z AUTO 22009KT 180V250 9999 BKN021 OVC044 19/14 Q1013 NOSIG LFQB 221000Z AUTO 20012KT 160V250 9999 FEW044 25/12 Q1013 KNYL 220957Z AUTO 15007KT 10SM CLR 31/18 A2977 RMK AO2 SLP077 T03060183 KOPL 221015Z AUTO 15003KT 10SM CLR 23/23 A2998 RMK AO2 T02300226 LFOV 221000Z AUTO 22011KT 190V250 9999 FEW026 BKN068 BKN120 17/12 Q1012 LFPM 221000Z AUTO 21010KT 170V230 9999 BKN012 OVC018 19/16 Q1013 KPHD 221015Z AUTO 00000KT 8SM OVC006 23/23 A2993 RMK AO2 CIG 005V009 T02330228 LFPN 221000Z AUTO 22013KT 9999 BKN018 OVC039 19/15 Q1012 NOSIG ESKM 221020Z AUTO 09005KT 050V130 9999 NCD 20/11 Q1019 KOPN 221015Z AUTO 00000KT 5SM BR CLR 22/20 A3003 RMK AO2 LTG DSNT S LFPO 221000Z 21010KT 180V240 9999 SCT016 SCT060 BKN093 19/15 Q1012 NOSIG ESKN 221020Z 26004KT 170V330 CAVOK 23/09 Q1020 KPHF 220954Z 22007KT 10SM CLR 26/23 A2989 RMK AO2 SLP122 T02560233 LFQG 221000Z AUTO 22008KT 170V260 9999 FEW039 BKN098 BKN140 23/14 Q1014 LEZG 221000Z 16002KT 9999 FEW050 25/13 Q1015 WIII 221000Z 05009KT 8000 SCT020 29/24 Q1008 NOSIG LGHI 220950Z 02011KT CAVOK 26/18 Q1011 KPIA 221020Z 03005KT 10SM VCTS BKN060 BKN090 OVC110 24/19 A2988 RMK AO2 LTG DSNT W-NE T02390194 LFPT 221000Z AUTO 23011KT 9999 FEW031 BKN190 BKN250 20/13 Q1011 LFRB 221000Z AUTO 23017KT 9999 FEW037/// BKN064/// BKN094/// ///CB 15/09 Q1008 TEMPO 20020G30KT 2000 TSRA KORB 221013Z AUTO 00000KT 5SM BR CLR 13/12 A2982 RMK AO2 KPIB 221015Z 00000KT 5SM CLR 22/22 A3002 RMK AO2 SLP300 PWINO FZRANO RVRNO GAMB 220900Z 32006KT CAVOK 30/22 Q1014 LEZL 221000Z 00000KT CAVOK 26/14 Q1015 NOSIG LFRC 221000Z AUTO 19012KT 150V210 9999 BKN023/// BKN029/// BKN042/// ///TCU 16/12 Q1009 TEMPO 20015G35KT 3000 TSRA BKN015CB KPHL 220954Z 00000KT 10SM FEW080 SCT150 BKN250 27/22 A2987 RMK AO2 SLP115 T02670217 $ KORC 221015Z AUTO 09005KT 7SM OVC012 23/22 A2982 RMK AO2 LFRD 221000Z AUTO 20010KT CAVOK 16/12 Q1010 TEMPO 22020G40KT 3000 TSRA BKN015CB LFPV 221000Z AUTO 20010KT 160V230 9999 BKN015 BKN026 BKN033 18/15 Q1012 TEMPO 4900 RADZ OVC015 SCT020TCU KORD 220951Z 21018G24KT 6SM RA BR BKN110 OVC140 23/21 A2980 RMK AO2 LTG DSNT W SLP085 OCNL LTGICCC DSNT S-W CB DSNT S-W MOV E P0008 T02280206 KPGV 221010Z AUTO 22006KT 10SM CLR 25/23 A2998 RMK AO2 KORE 220952Z AUTO 00000KT 10SM CLR 17/16 A2988 RMK AO2 SLP114 T01670161 TSNO KPIE 221027Z 00000KT 10SM -TSRA FEW065 FEW080 BKN110 25/23 A3003 RMK AO2 TSE19B21 P0007 T02500233 KPHN 221016Z AUTO 00000KT 10SM OVC100 22/20 A2987 RMK AO2 KORF 220951Z AUTO 23008KT 10SM CLR 26/23 A2990 RMK AO2 SLP126 T02560228 TSNO RCMQ 221000Z 31002KT 9999 FEW010 SCT030 BKN050 29/25 Q1008 NOSIG RMK A2979 LFRG 221000Z AUTO 21010KT 9999 BKN023 BKN028 BKN120 16/11 Q1011 TEMPO 22015G35KT 3000 TSRA BKN020CB KPHP 220955Z AUTO 35009KT 10SM CLR 19/08 A2993 RMK AO2 SLP109 T01890078 KORG 221015Z AUTO 00000KT 7SM SCT031 SCT035 25/24 A2998 RMK AO2 LTG DSNT SE AND S T02450244 GAKY 220900Z 24010KT 9999 SCT030 27/23 Q1014 LFRH 221000Z AUTO 25014KT 9999 BKN024/// BKN040/// BKN068/// ///CB 16/12 Q1011 NOSIG LFQQ 221000Z AUTO 19008KT 160V220 9999 -RA BKN024 OVC031 17/15 Q1011 TEMPO 4000 RA BKN012 KPIH 220953Z AUTO 20006KT 10SM CLR 15/02 A3013 RMK AO2 SLP152 T01500022 KORH 220954Z AUTO 28005KT 10SM CLR 19/13 A2989 RMK AO2 SLP115 T01890133 LFRI 221000Z AUTO 24010KT 200V290 9999 SCT035 SCT043 20/12 Q1013 NOSIG LFRJ 221000Z AUTO 23012KT 210V280 9999 FEW018/// SCT066/// BKN084/// ///TCU 14/11 Q1008 KOSA 221015Z AUTO 00000KT 10SM CLR 25/23 A2995 RMK AO1 T02460230 LFSB 221000Z 31004KT 220V010 9999 FEW040 FEW045TCU BKN270 26/15 Q1015 NOSIG LFRK 221000Z AUTO 21013KT 180V240 9999 SCT030 BKN056 BKN120 17/11 Q1010 TEMPO 21015G35KT 3000 TSRA BKN020CB KOQT 220953Z AUTO 00000KT 6SM BR CLR 24/22 A3001 RMK AO2 SLP141 T02390222 KPHT 221015Z AUTO 00000KT 6SM BR CLR 23/23 A2995 RMK A01 KORL 220142Z 14004KT 10SM BKN006 24/24 A3008 KOQU 220250Z 26005KT 10SM BKN150 26/19 A2983 RMK LAST LFRL 221000Z AUTO 22013KT 190V250 9999 ///TCU 16/10 Q1009 ESMK 221020Z AUTO 09014KT 9999 NCD 19/13 Q1019 KPIL 220953Z AUTO 16006KT 10SM CLR 27/25 A2992 RMK AO2 SLP132 T02670250 KOSC 221013Z AUTO 00000KT 10SM SCT007 OVC100 20/19 A2986 RMK AO2 T01980185 ETEB 220958Z AUTO 26007KT 9999 FEW032 23/15 A3000 RMK AO2 SLP149 T02340153 $ KPIM 211755Z AUTO 00000KT 10SM CLR 34/22 A3005 RMK AO2 T03410224 10342 20254 PWINO RCNN 221000Z 27006KT 8000 VCSH FEW012 SCT021 BKN050 27/23 Q1008 NOSIG RMK A2978 VCSH SW LFRM 221000Z AUTO 23010KT 190V260 9999 SCT030 BKN047 BKN054 19/12 Q1012 NOSIG LFSD 221000Z AUTO 22008KT 180V270 9999 SCT034 BKN045 23/15 Q1015 LFRN 221000Z AUTO 29004KT 240V320 9999 SCT027/// BKN041/// BKN062/// ///TCU 16/14 Q1011 TEMPO 20020G35KT 3000 TSRA BKN015CB ESND 221020Z AUTO 08005KT 9999 OVC007/// 13/11 Q1021 LFRO 221000Z AUTO 25016KT 190V280 9999 RA FEW013/// SCT023/// BKN037/// ///CB 12/10 Q1010 TEMPO 20020G30KT 2000 TSRA KPHX 220951Z 07007KT 10SM FEW120 SCT160 31/20 A2984 RMK AO2 SLP083 T03110200 LGIO 221020Z /////KT CAVOK 34/14 Q1019 LFSG 221000Z AUTO 20005KT 170V260 9999 FEW022 SCT035 BKN043 22/16 Q1015 KNZY 220452Z 26004KT 10SM FEW015 FEW200 21/17 A2992 RMK SLP130 T02060172 LFRQ 221000Z AUTO 24010KT 210V270 9999 BKN024 BKN047 BKN070 15/12 Q1010 TEMPO 2500 TSRA BKN013CB ESNG 221020Z AUTO 25004KT 200V310 9999 OVC072/// ///// Q1022 KOSH 220953Z 00000KT 10SM OVC017 19/16 A2979 RMK AO2 SLP077 T01940161 LFSI 221000Z AUTO 22009KT 9999 BKN040/// BKN046/// 22/13 Q1014 ESMQ 221020Z 10007KT 050V140 CAVOK 19/11 Q1020 PTYA 220953Z VRB04KT 12SM FEW016 BKN130 OVC300 28/25 A2977 RMK SLP083 T02770247 LGIR 221020Z 30017KT CAVOK 28/19 Q1012 NOSIG KPIR 220953Z AUTO 29005KT 10SM CLR 19/18 A2986 RMK AO2 SLP093 T01940183 LFRS 221000Z AUTO 25007KT 9999 -RA FEW022 SCT030 BKN039 17/14 Q1012 TEMPO 24015G25KT 4000 SHRA SCT030CB KORS 221015Z AUTO 00000KT 10SM OVC050 16/13 A3014 RMK AO2 LFRT 221000Z AUTO 24007KT 190V280 9999 FEW023/// BKN120/// BKN140/// ///TCU 15/12 Q1009 ESMS 221020Z 10014KT 9999 SCT033 20/12 Q1018 KPIT 221007Z 19004KT 1SM R28R/P6000FT -DZ BR OVC004 23/23 A2994 RMK AO2 P0000 T02280228 KPKB 220953Z AUTO 00000KT 1/4SM FG VV002 22/22 A2997 RMK AO2 SLP140 T02170217 RVRNO $ LGKC 220950Z 31006G20KT 310V030 CAVOK 30/14 Q1016 LFRU 221000Z AUTO 27009KT 220V290 9999 FEW012/// SCT021/// BKN030/// ///CB 13/12 Q1009 LFSL 221000Z AUTO 19004KT 160V240 CAVOK 21/12 Q1016 NOSIG ESNK 221020Z AUTO 16006KT 140V210 9999 NCD 20/10 Q1021 ESMT 221020Z 12009KT 080V170 9999 FEW040 21/11 Q1018 LHBC 220845Z 36002KT CAVOK 29/20 Q1016 LFRV 221000Z AUTO 22005KT 180V260 9999 FEW028 SCT070 BKN120 15/13 Q1011 ESNL 221020Z AUTO 02003KT 340V060 9999 BKN056/// 17/04 Q1022 KPKD 221021Z AUTO 19006KT 10SM -TSRA FEW070 OVC100 19/18 A2983 RMK AO2 LTG DSNT S AND SW RAB07 TSE0955B19 P0000 T01940178 LFSN 221000Z AUTO 17005KT 120V220 9999 BKN034/// OVC041/// 23/16 Q1014 KQD3 220957Z 28011G20KT 230V330 5000 HZ FEW004 42/16 A2956 RMK SLPNO WND DATA ESTMD T04190162 LFSO 221000Z AUTO 20008KT 170V230 9999 BKN033/// BKN039/// OVC049/// 22/15 Q1014 ESNN 221020Z AUTO 15010KT 9999 FEW039/// 18/11 Q1022 ESOE 221020Z AUTO VRB04KT 9999 NCD 24/10 Q1020 LGKF 220950Z 15008KT CAVOK 31/19 Q1015 KQBF 220956Z AUTO 30005KT 9999 FEW140 29/21 A3000 RMK AO2 LTG DSNT NE SLPNO WND DATA ESTMD T02900214 ESNO 221020Z AUTO 24007KT 9999 FEW031/// BKN055/// OVC062/// 16/10 Q1022 ESMX 221020Z AUTO 12007KT 070V170 9999 NCD 20/09 Q1020 KOTG 221024Z AUTO 14009KT 5SM BR FEW003 21/21 A2978 RMK AO2 KS25 221015Z AUTO 23005KT 10SM CLR 10/09 A2996 RMK AO2 LFTH 221000Z AUTO 20008KT CAVOK 28/20 Q1014 NOSIG LFRZ 221000Z AUTO 25014KT 9999 FEW029 SCT034 BKN074 18/12 Q1012 TEMPO 24015G27KT 4000 SHRA SCT030CB KOTH 220956Z AUTO 00000KT 10SM CLR 13/13 A3016 RMK AO2 SLP214 T01330128 ESNQ 221020Z 10008KT 9999 FEW033 BKN048 13/07 Q1022 GANR 220900Z 26010KT 9999 FEW030 SCT150 28/23 Q1015 LFST 221000Z AUTO 18003KT 120V240 9999 FEW027/// SCT048/// BKN120/// ///CB 25/19 Q1014 TEMPO 18015G25KT 4000 SHRA ESNS 221020Z AUTO 08008KT 9999 OVC098/// 17/09 Q1022 ESPA 221020Z 36004KT 330V050 9999 FEW029 BKN110 15/09 Q1022 ESOK 221020Z AUTO 18008KT 110V220 9999 NCD 22/08 Q1020 LGKL 221020Z 32008KT CAVOK 35/10 Q1014 KOSU 221024Z AUTO 15008KT 10SM VCTS BKN042 BKN070 23/23 A2987 RMK AO2 LTG DSNT ALQDS T02330228 KQBL 220956Z AUTO 02003KT 10SM SCT016 BKN024 26/24 A3002 RMK AO2 CIG 019V036 SLP167 WND DATA ESTMD T02630239 ESNU 221020Z 15005KT 9999 VCSH SCT036 16/09 Q1022 KS32 221035Z AUTO 21005KT 9SM CLR 16/16 A2983 RMK AO2 KOTM 220953Z AUTO 02008KT 10SM SCT042 OVC110 27/24 A2981 RMK AO2 LTG DSNT NE-S RAB13E31 TSB16E37 SLP085 P0003 T02720239 ESNV 221020Z AUTO VRB01KT 9999 HZ FEW033/// BKN068/// 16/08 Q1021 KS33 221015Z AUTO 00000KT 10SM CLR 14/06 A3020 RMK AO2 LFSX 221000Z AUTO VRB03KT 9999 BKN022 OVC029 23/18 Q1015 ESPE 221020Z AUTO VRB03KT 9999 FEW060/// BKN080/// 15/09 Q1022 LGKO 221020Z 31012KT CAVOK 30/18 Q1010 LGKP 221020Z 31029KT 9999 FEW025 28/21 Q1009 ESNX 221020Z AUTO VRB02KT 9999 FEW047/// BKN074/// 15/06 Q1022 LHBP 221001Z 25007KT 230V290 9999 -TSRA FEW040CB BKN060 23/18 Q1017 BECMG RA ETGG 221020Z 10014KT 9999 BKN017 BKN038 18/15 Q1015 WHT ESNZ 221020Z 20005KT 9999 OVC020 13/10 Q1021 LGKR 221020Z 13007KT CAVOK 33/22 Q1015 NOSIG ETHA 221020Z AUTO 27006KT //// // ////// 22/13 Q1018 /// VRMM 221000Z 27007KT 9999 FEW018 SCT270 31/25 Q1008 NOSIG WIMM 221000Z 04006KT 6000 FEW018 31/24 Q1007 KS39 221015Z AUTO 21003KT 10SM CLR 10/04 A3020 RMK AO2 ETHB 221020Z AUTO 05004KT 4000 // ////// 22/16 Q1013 /// LHDC 220945Z 36003KT CAVOK 29/17 Q1016 NOSIG ETHC 221020Z AUTO 03006KT 7000 // ////// 18/16 Q1013 /// LGLM 221020Z 03012KT CAVOK 28/14 Q1015 KPMD 220953Z AUTO 20005KT 10SM CLR 22/02 A2996 RMK AO2 SLP112 T02170017 LGKV 221020Z 23009KT CAVOK 29/14 Q1015 KPKV 221015Z AUTO 17003KT 10SM CLR 25/24 A2995 RMK AO2 T02520235 LFTW 221000Z AUTO VRB05KT CAVOK 29/17 Q1014 NOSIG KOVE 220953Z AUTO 00000KT 10SM CLR 23/16 A2988 RMK AO2 SLP116 T02330161 KPLN 220954Z AUTO 00000KT 10SM FEW090 17/16 A2987 RMK AO2 SLP112 T01720161 KOUN 221015Z AUTO 18007KT 10SM CLR 25/21 A2994 RMK AO2 ETHE 221020Z AUTO 15006KT //// // ////// 24/16 Q1012 /// ESOW 221020Z 02006KT 340V060 CAVOK 23/11 Q1020 ETHF 221020Z AUTO 21005KT 9999 // ////// 23/16 Q1013 /// KQDG 220956Z AUTO 00000KT 9000 M BKN029 21/21 A2980 RMK AO2 SLP093 P0001 T02110205 PWINO $ LGKZ 220950Z 00000KT CAVOK 29/16 Q1019 KPLR 221015Z AUTO 00000KT 5SM BR CLR 22/22 A3000 RMK A01 LGLR 220950Z 00000KT 9999 FEW030 32/15 Q1016 BLU KOWA 221015Z AUTO 22003KT 7SM OVC003 21/19 A2981 RMK AO2 KPNA 221015Z AUTO 28006KT 10SM CLR 05/02 A3033 RMK AO2 LGMK 221020Z 36026KT 9999 FEW008 24/17 Q1013 KOWB 220956Z AUTO 19004KT 7SM CLR 25/24 A2992 RMK AO2 SLP133 T02500239 KPNC 220953Z AUTO 19004KT 10SM CLR 28/20 A2988 RMK AO2 SLP102 T02780200 TSNO KOVL 221013Z AUTO 14003KT 10SM CLR 21/19 A2976 RMK AO2 KPLU 221015Z AUTO 00000KT 10SM BKN055 OVC065 16/14 A3017 RMK AO2 ETHL 221020Z 23006G16KT 9999 FEW030 SCT300 23/15 Q1016 BLU+ KOWD 220953Z AUTO 00000KT 10SM CLR 18/16 A2983 RMK AO2 SLP101 T01780161 $ KS52 221015Z AUTO 00000KT 10SM CLR 14/09 A3011 RMK AO2 T01420092 ETIC 220958Z AUTO 27007KT 9999 FEW035 SCT110 24/16 A2997 RMK AO2 SLP133 T02380155 KPNE 220954Z AUTO 02004KT 10SM CLR 26/22 A2989 RMK AO2 SLP120 T02560217 ETHN 221020Z 22005KT 9999 SCT030 SCT220 23/15 Q1016 BLU+ LFVP 221000Z 25007KT 0400 R26/0600N -DZ FG VV/// 15/15 Q1001 NOSIG KPMP 220953Z AUTO 32003KT 8SM CLR 24/23 A3005 RMK AO2 SLP176 T02390228 KQEI 221020Z AUTO 11001KT 9999 OVC019 21/21 A2983 RMK A02 TSNO ETIH 220958Z AUTO 22007KT 9999 SCT034 BKN120 BKN180 24/15 A3000 RMK AO2 SLP144 KOWI 221015Z AUTO 19008G13KT 10SM CLR 27/22 A2985 RMK AO2 PWINO PWAK 220958Z AUTO 10004KT 9999 CLR 28/24 A2984 RMK AO2 SLP111 KQEJ 221020Z AUTO 00000KT 9999 OVC018 22/22 A2981 RMK A02 TSNO KOVS 221024Z AUTO 03004KT 1 1/4SM BR BKN003 OVC007 21/21 A2977 RMK AO2 T02110206 ETHS 221020Z 05006KT 6000 -RA SCT005 SCT050 OVC090 18/17 Q1014 RERA WHT ESSA 221020Z 03005KT 9999 FEW026 19/12 Q1020 NOSIG KQFB 221020Z AUTO 11002KT 9999 SCT060 28/25 A2985 RMK A02 TSNO KOXB 221023Z AUTO 07005KT 8SM SCT003 24/22 A2987 RMK AO2 T02390222 LGMT 221020Z 33014KT 300V360 CAVOK 29/17 Q1013 KPOB 220958Z AUTO 26005KT 10SM CLR 25/23 A2997 RMK AO2 SLP150 T02470234 $ KPOC 220347Z 26010KT 10SM CLR 24/15 A2993 RMK LAST ETIK 220958Z AUTO 25003KT 9999 FEW032 SCT049 24/16 A2998 RMK AO2 SLP141 T02400156 $ ESSB 221020Z 33004KT 280V010 CAVOK 21/10 Q1020 KQEL 220800Z AUTO 10002KT 0800 BR FEW004 SCT020 27/26 A2986 RMK A02 TSNO KOXC 220955Z 34004KT 10SM CLR 20/13 A2989 RMK AO1 KPMU 221015Z AUTO 00000KT 7SM CLR 23/22 A2997 RMK AO2 T02300221 WIOO 221000Z 17004KT 9999 SCT013 31/25 Q1007 NOSIG KPNM 221016Z AUTO 00000KT 10SM CLR 19/18 A2981 RMK AO2 KPMV 221015Z AUTO 30004KT 10SM CLR 26/19 A2977 RMK AO2 T02570194 ESSD 221020Z AUTO 10007KT 9999 NCD 19/10 Q1020 KQEN 221020Z AUTO 05002KT M0400 FG CLR 18/18 A2994 RMK A02 TSNO KPOE 220958Z AUTO 00000KT 7SM FEW027 BKN160 24/23 A2997 RMK AO2 LTG DSNT S SLP148 T02360229 KPOF 220953Z AUTO 00000KT 5SM BR CLR 26/25 A2991 RMK AO2 SLP120 T02560250 KQEP 221020Z AUTO 27001KT 8000 HZ SCT065 30/26 A2980 RMK A02 TSNO KOWP 221015Z AUTO 21004KT 10SM CLR 28/21 A2991 RMK AO2 T02800210 KQEQ 221020Z AUTO 21001KT 3200 BR BKN017 BKN050 28/26 A2981 RMK A02 TSNO RCSS 221003Z 11012KT 9999 FEW020 SCT100 BKN180 32/21 Q1007 WS R10 NOSIG RMK A2975 KQER 221020Z AUTO 14001KT 9999 OVC015 22/21 A2978 RMK A02 TSNO KOXI 221015Z AUTO 00000KT 10SM SCT006 BKN044 OVC055 22/21 A2984 RMK AO1 KQES 221020Z AUTO 21005KT 6000 HZ CLR 29/26 A2982 RMK A02 TSNO KPNS 220953Z 29004KT 10SM FEW095 28/24 A2999 RMK AO2 RAB0855E24 SLP157 P0000 T02780239 LGPA 220950Z 35024KT CAVOK 25/18 Q1012 KPPA 221015Z AUTO 19006KT 10SM CLR 21/15 A3001 RMK AO2 T02120145 ESTA 221020Z 12013KT 9999 SCT033 BKN190 21/13 Q1018 KPNT 221015Z AUTO 30006KT 10SM -RA SCT065 SCT075 BKN120 22/22 A2990 RMK AO2 LTG DSNT NW P0001 T02210218 ESSL 221020Z AUTO 13005KT 040V220 9999 FEW200/// 23/09 Q1020 KQEV 221020Z AUTO 25002KT 9999 FEW075 30/25 A2975 RMK A02 TSNO WIPP 220130Z 19004KT 2500 HZ FEW010 25/24 Q1012 FKKD 221000Z 18004KT 110V230 9999 3500SE -RADZ SCT006 BKN013 FEW016CB 26/25 Q1015 TEMPO 4000 -RADZ KQEW 221020Z AUTO 22001KT 9999 CLR 30/25 A2978 RMK A02 TSNO KQGE 220956Z AUTO 01003KT 10SM BKN017 26/24 A3000 RMK AO2 SLP163 T02610235 RCTP 221000Z 29005KT 250V310 9999 FEW020 BKN150 32/27 Q1007 NOSIG RMK A2974 KPPF 221026Z AUTO 18006KT 1 3/4SM HZ CLR 26/22 A2990 RMK AO2 T02560217 KQEX 221020Z AUTO 03002KT 9999 CLR 29/25 A2971 RMK A02 TSNO LGNX 220850Z 36014KT 9999 FEW020 25/17 Q1012 KOWX 221015Z AUTO 17009KT 7SM SCT008 BKN040 OVC060 21/21 A2987 RMK AO1 KQEY 221020Z AUTO 25002KT 9999 CLR 30/24 A2953 RMK A02 TSNO ESSP 221020Z AUTO 08003KT 030V130 9999 NCD 23/07 Q1020 KOXR 220951Z AUTO 04003KT 8SM CLR 17/15 A2989 RMK AO2 SLP121 T01720150 KOZA 221015Z AUTO 18007KT CLR 24/17 A3003 RMK AO2 PWINO KQFT 221020Z AUTO 19001KT 1600 -RA BR BKN037 BKN065 28/27 A2976 RMK A02 TSNO ESST 221020Z AUTO 16003KT 070V220 9999 SCT057/// 22/11 Q1020 KQFU 221020Z AUTO 24002KT 4800 HZ BKN050 29/25 A2982 RMK A02 TSNO KPOU 220953Z 00000KT 9SM CLR 18/17 A2988 RMK AO2 SLP113 T01830172 ESTL 221020Z AUTO 11014KT 9999NDV FEW028/// 20/12 Q1019 KQFV 221020Z AUTO 16001KT 4000 BR SCT008 BKN018 25/24 A2985 RMK A02 TSNO KOXV 221015Z AUTO 06006KT 10SM SCT120 BKN150 OVC190 27/23 A2979 RMK AO2 KPOV 221019Z AUTO 09003KT 10SM BKN005 21/20 A2992 RMK AO2 ESSV 221020Z 36011KT CAVOK 20/09 Q1020 ESUD 221020Z AUTO VRB03KT 9999 NCD 18/05 Q1021 KQFW 221020Z AUTO 02005KT 9999 SCT025 BKN030 26/24 A2980 RMK A02 TSNO FKKN 221000Z 20006KT 9999 BKN016 25/19 Q1019 KQFX 221020Z AUTO 12001KT 6000 HZ BKN028 30/27 A2976 RMK A02 TSNO KPPO 221015Z AUTO 22007KT 10SM -RA SCT042 SCT050 BKN065 22/21 A2983 RMK AO2 T02160212 KPOY 221015Z AUTO 32011KT 10SM CLR 14/M06 A3015 RMK AO2 KPPQ 221015Z AUTO 22007KT 10SM CLR 28/22 A2984 RMK AO2 LTG DSNT N AND NW T02810215 LFYR 221000Z AUTO 21013KT 9999 BKN014 BKN037 OVC050 18/15 Q1013 KPQI 220956Z AUTO 28006KT 10SM FEW050 13/12 A2979 RMK AO2 SLP125 T01330117 FKKR 221000Z 30008KT 9999 BKN016 28/22 Q1014 NOSIG KPRB 220953Z AUTO 00000KT 10SM CLR 14/10 A2995 RMK AO2 SLP132 T01390100 TSNO KPRC 220953Z AUTO 10003KT 10SM BKN090 OVC110 21/17 A3016 RMK AO2 SLP137 T02060167 KPQL 220953Z AUTO 00000KT 8SM FEW035 FEW060 SCT075 24/23 A3000 RMK AO2 LTG DSNT ALQDS RAB03E14B19E49 TSE10 SLP159 P0000 T02440228 KPQN 221014Z AUTO 00000KT 10SM CLR 21/19 A2981 RMK AO2 KPRG 221015Z AUTO 00000KT 10SM BKN085 BKN110 26/25 A2989 RMK AO2 T02590245 ESUP 221020Z AUTO VRB02KT 9999 OVC024/// 12/07 Q1023 LGPZ 221020Z 27009KT CAVOK 31/21 Q1015 KOZR 220956Z AUTO 00000KT 10SM CLR 22/21 A3001 RMK AO2 SLP162 T02180209 LGSA 221020Z 30012KT CAVOK 30/21 Q1015 KOZS 221015Z AUTO 21006KT 10SM CLR 26/20 A2992 RMK AO2 VTBD 221000Z 23006KT 190V280 9999 FEW020 33/24 Q1006 NOSIG KRAC 221000Z AUTO 21004KT 5SM BR BKN008 OVC080 22/22 A2979 RMK AO2 T02170217 PWINO $ KPSC 220953Z AUTO 36004KT 10SM CLR 14/11 A3008 RMK AO2 SLP181 T01390111 ESUT 221020Z AUTO 18006KT 150V210 9999 NCD 17/05 Q1021 ETML 221020Z AUTO 06017KT //// // ////// 18/16 Q1015 /// KOZW 221015Z AUTO 19007KT 10SM SCT070 BKN090 23/19 A2984 RMK AO2 T02330191 KPRN 221012Z AUTO 00000KT 2 1/2SM BR BKN004 22/20 A3001 RMK AO2 T02220200 ETMN 221020Z 10007KT 9999 -RADZ SCT005 SCT040 OVC090 18/17 Q1013 RERA BLU KPSF 220954Z AUTO 25005KT 10SM CLR 17/14 A2990 RMK AO2 SLP100 T01670144 LGRP 221020Z 26012KT CAVOK 29/21 Q1008 NOSIG KQHY 220956Z AUTO 01003KT 10SM BKN015 BKN017 BKN031 26/24 A3001 RMK AO2 SLP169 T02600237 ETNG 211650Z 14004KT CAVOK 26/11 Q1010 NOSIG ETNH 221020Z VRB03KT 9999 BKN020 OVC080 19/15 Q1015 WHT BLU TEMPO WHT LIBA 211755Z 07008KT CAVOK 28/19 Q1011 RMK SKC VIS MIN 9999 WIND THR11 08012KT WIND THR29 /////KT BLU VTCC 221000Z 14008KT 9999 BKN035 29/23 Q1007 NOSIG KPRS 221015Z AUTO 00000KT 10SM RA SCT120 21/19 A3007 RMK AO2 T02070191 LGSK 220950Z 04006KT CAVOK 27/18 Q1016 KPSK 221015Z AUTO 20003KT 7SM CLR 22/19 A3006 RMK AO2 LTG DSNT N T02190194 KPTB 221015Z AUTO 00000KT 7SM CLR 21/21 A2991 RMK AO2 T02060206 KT20 221015Z AUTO 19005KT 10SM CLR 25/25 A2996 RMK AO2 T02510251 KRAL 220953Z AUTO 00000KT 10SM CLR 21/17 A2992 RMK AO2 SLP112 T02060172 $ ETNL 221020Z 11012KT 9999 FEW027 BKN100 BKN210 22/16 Q1015 BLU VTBO 221000Z 22014KT 8000 SCT020 29/25 Q1009 KRBD 220953Z AUTO 17004KT 10SM CLR 27/23 A2992 RMK AO2 SLP123 T02670228 LGSM 221020Z 03014KT 330V060 CAVOK 32/20 Q1009 LIBD 221020Z 08011KT 050V120 CAVOK 36/11 Q1014 KPSM 220958Z 30004KT 10SM SCT150 SCT250 21/16 A2982 RMK AO2A SLP099 T02100161 LHKE 221015Z 33006KT 280V350 9999 FEW033 BKN060 BKN107 27/18 Q1016 NOSIG RMK BLU KPSN 221015Z AUTO 14003KT 10SM CLR 24/23 A2997 RMK AO2 T02420235 LIBF 220950Z 22009KT 180V250 9999 FEW040 36/09 Q1013 ETNN 221020Z AUTO 11006KT 8000 // ////// 25/12 Q1012 /// VTCH 221000Z VRB02KT 9999 FEW020 BKN028 28/22 Q1005 KPSO 221015Z AUTO 00000KT 10SM CLR 14/12 A3032 RMK AO2 T01350120 LGSO 220850Z 36017KT 9999 FEW015 27/17 Q1013 LGRX 221020Z 00000KT CAVOK 34/15 Q1015 KPRX 220956Z AUTO 21004KT 24/22 RMK AO2 SLPNO T02390222 PWINO $ LIBG 220950Z 23005KT CAVOK 36/13 Q1014 KRBG 220953Z AUTO 00000KT 10SM CLR 17/10 A3013 RMK AO2 SLP200 T01670100 KPSP 220953Z 00000KT 10SM CLR 29/13 A2981 RMK AO2 SLP091 T02940133 KRAP 220952Z AUTO 34008KT 10SM FU CLR 17/06 A3000 RMK AO2 SLP128 T01720061 LGTG 220920Z 33008KT CAVOK 30/10 Q1016 BLU KQKG 220955Z AUTO 00000KT 9999 FEW095 BKN150 27/08 A2996 RMK AO2 SLP071 WND DATA ESTMD T02700082 $ LIBH 220955Z 17006KT CAVOK 31/22 Q1015 RMK SKC QUK 1 QUL 0 VIS MAR 15 KM VIS MIN 9999 VTBS 221000Z 17010KT 140V210 9999 FEW020 31/22 Q1007 NOSIG LGSR 221020Z 34020KT CAVOK 28/19 Q1012 VTBU 221000Z 23010KT 9999 FEW020 30/22 Q1007 NOSIG VTCL 221000Z 19004KT 110V220 9999 SCT023 SCT100 32/23 Q1005 LICA 220950Z VRB03KT CAVOK 35/12 Q1015 KRAS 221015Z AUTO 18010G14KT 10SM SCT021 SCT028 28/24 A2994 RMK AO2 T02820240 KRCA 220958Z AUTO 34008KT 10SM CLR 23/03 A3000 RMK AO2 SLP127 T02320031 $ ETNS 221020Z AUTO 08008KT //// // ////// 19/15 Q1015 /// LICB 220950Z 24012KT CAVOK 32/10 Q1018 KPUB 220953Z AUTO 23005KT 10SM CLR 21/13 A3010 RMK AO2 SLP114 T02110133 KPTK 220953Z 16006KT 10SM OVC085 24/21 A2985 RMK AO2 SLP098 T02440206 ETNT 221020Z AUTO 09008KT 4400 // ////// 18/16 Q1012 /// VTCN 221000Z 21006KT 9999 FEW018TCU BKN025 OVC100 27/26 Q1006 A2972 KPUC 220953Z AUTO 03005KT 10SM CLR 14/13 A3023 RMK AO2 SLP149 T01440133 LICC 221020Z 13008KT 100V160 CAVOK 35/13 Q1015 KRBL 220954Z AUTO 31003KT 10SM CLR 22/14 A2989 RMK AO2 SLP118 T02220144 LICD 220950Z 16007KT CAVOK 28/23 Q1018 LIBN 220955Z 18006KT CAVOK 37/15 Q1014 RMK SKC VIS MIN 9999 WIND THR14 17006KT WIND THR32 18006KT BLU VTCP 221000Z AUTO 14012KT 100V190 //// // ////// 25/25 Q1006 KPTN 220956Z AUTO 00000KT 10SM CLR 23/22 A2998 RMK AO2 SLP153 P0001 T02330222 KQN3 220956Z AUTO 00000KT 9999 FEW006 25/22 A2996 RMK AO2 SLPNO WND DATA ESTMD T02500223 ETNW 221020Z AUTO 10009KT //// // ////// 18/17 Q1013 /// LICF 220955Z 21009KT CAVOK 32/16 Q1015 RMK SKC QUK 1 QUL 0 VIS MAR 15 KM MON LIB NC VIS MIN 9999 KPSX 220953Z AUTO 20008KT 10SM FEW023 28/24 A2995 RMK AO2 SLP141 T02830244 KRBO 221015Z AUTO 13003KT 10SM CLR 25/25 A2994 RMK AO2 T02500250 LICG 220955Z 18018KT 150V230 CAVOK 30/22 Q1016 LIBP 220950Z 03008KT 330V070 CAVOK 30/19 Q1015 LGSY 220950Z 35009KT CAVOK 26/17 Q1015 BLU KT35 221015Z AUTO 21007KT 10SM CLR 26/24 A2995 RMK AO2 T02590236 LIBQ 220255Z 25005KT CAVOK 19/05 Q1023 VTCT 221000Z 24003KT 9999 SCT028 28/25 Q1007 LIBR 221015Z 10014KT CAVOK 32/23 Q1015 NOSIG KQKR 220956Z AUTO 30007KT 260V350 9999 SCT020 27/22 A2994 RMK AO2 SLPNO WND DATA ESTMD T02650220 KPTS 221015Z AUTO 22007KT 10SM CLR 27/22 A2990 RMK AO2 T02730224 LGTS 221020Z 31005KT CAVOK 30/17 Q1016 NOSIG LICJ 221020Z 33008KT CAVOK 29/23 Q1016 KPUJ 221015Z AUTO 28003KT 7SM CLR 25/25 A3002 RMK AO2 KPVB 221015Z AUTO 21015KT 10SM BKN005 OVC120 21/21 A2981 RMK AO1 T02080208 KPTT 221015Z AUTO 24009KT 10SM CLR 23/17 A2992 RMK AO2 T02310165 KQKT 220958Z AUTO 25004KT 10SM CLR 22/20 A2991 RMK AO2 SLPNO T02240202 $ LICL 220955Z 24005KT 6000 NSC 29/16 Q1016 RMK SKC QUK 1 QUL 0 VIS MAR 6 KM VIS MIN 6000 KPVC 220956Z AUTO 29005KT 10SM CLR 21/17 A2983 RMK AO2 SLP101 T02060172 LIBV 220955Z 09005KT 030V150 CAVOK 36/04 Q1015 RMK SCT SCT130 VIS MIN 9999 WIND THR32 VRB04KT WIND THR14 10004KT 040V270 BLU KRDD 220953Z AUTO 36005KT 10SM CLR 23/11 A2990 RMK AO2 SLP117 T02330106 TSNO $ ETOU 220958Z AUTO 18005KT 9999 BKN030 24/18 A2994 RMK AO2 SLP134 T02410175 KPVD 220951Z 32004KT 10SM SCT250 BKN300 22/18 A2985 RMK AO2 SLP106 T02220178 KRCM 221035Z AUTO 19008KT 10SM CLR 26/21 A2985 RMK AO2 KPTV 220956Z AUTO 16004KT 10SM 21/12 A2988 RMK AO2 SLP123 T02110117 $ KPVE 220425Z AUTO 00000KT 6SM BR CLR 26/25 A2998 RMK A01 GCGM 221000Z VRB09G23KT 9999 FEW035 24/14 Q1019 RMK R09/32008KT 270V350 ARP/VRB04KT GCFV 221000Z 02020KT 350V050 9999 FEW030 BKN040 24/15 Q1017 KRBW 221015Z AUTO 00000KT 10SM CLR 22/22 A3002 RMK AO2 KPTW 220954Z AUTO 00000KT 5SM BR CLR 21/21 A2991 RMK AO2 SLP124 T02110211 KPVF 220955Z AUTO 06009KT 10SM OVC075 22/07 A2999 RMK AO1 LIBY 220955Z 16004KT CAVOK 29/22 Q1015 RMK SKC QUK 1 QUL 0 VIS MAR 20 KM VIS MIN 9999 KPVG 221015Z AUTO 25003KT 10SM CLR 24/21 A2989 RMK AO1 KRDG 220954Z AUTO 04003KT 5SM BR CLR 22/22 A2989 RMK AO2 SLP122 T02220222 LICR 220950Z 21004KT 140V250 CAVOK 30/19 Q1015 KRCR 221015Z AUTO 16005KT 10SM OVC004 22/22 A2984 RMK AO2 LTG DSNT S AND W GCHI 221000Z 01016KT 340V040 9999 FEW026 SCT045 24/17 Q1019 KPWA 220953Z AUTO 20013KT 10SM CLR 28/21 A2991 RMK AO2 SLP108 T02780206 LIEA 221020Z 28007KT 240V320 CAVOK 31/22 Q1014 KPVJ 221015Z AUTO 15003KT 10SM CLR 24/22 A2992 RMK AO2 T02400215 LIEB 220955Z 07009KT 4000 BR NSC 30/23 Q1014 RMK BKN BKN070 QUK 2 QUL 0 VIS MAR 4 KM MON INVIS VIS MIN 4000 LICT 220955Z 17013KT CAVOK 33/22 Q1016 KRDK 221015Z AUTO 00000KT 10SM SCT120 SCT150 BKN190 24/23 A2977 RMK AO2 LIEC 220955Z 22009KT 9999 FEW015 28/24 Q1015 RMK FEW QUK 2 QUL 0 VIS MAR 11 KM VIS MIN 9999 KPWC 221012Z AUTO 00000KT 10SM BKN002 17/17 A2989 RMK AO2 LTG DSNT W AND NW LIED 220955Z 16007KT CAVOK 34/21 Q1013 RMK SKC VIS MIN 9999 WIND THR35 15008KT WIND THR17 16008KT BLU KRCV 221010Z AUTO 27010KT 10SM CLR 15/08 A3035 RMK AO2 T01470081 KRDM 220956Z AUTO 23004KT 10SM CLR 14/06 A3019 RMK AO2 SLP199 T01440056 KQND 220956Z AUTO 00000KT 9999 CLR 30/22 A2999 RMK AO2 SLPNO WND DATA ESTMD T02970222 KPUW 220953Z AUTO 00000KT 10SM CLR 11/04 A3016 RMK AO2 SLP206 T01060044 LIEE 221020Z 16006KT 130V190 CAVOK 31/22 Q1014 KRCX 221015Z AUTO 00000KT 1 1/4SM BR VV007 18/18 A2984 RMK AO2 T01810176 KPWG 220956Z AUTO 16005KT 10SM CLR 25/22 A2994 RMK AO2 SLP140 T02500222 $ KREG 221015Z AUTO 00000KT 10SM CLR 23/23 A2997 RMK AO2 LTG DSNT SE T02340230 LICZ 220955Z 26004KT CAVOK 39/06 Q1015 RMK SKC VIS MIN 9999 WIND THR28 22004KT WIND THR10 25004KT A3000 BLU KRCZ 221005Z AUTO 00000KT 10SM CLR 24/24 A2998 RMK AO2 T02370237 KRDR 221001Z AUTO 25005KT 3SM BR CLR 17/17 A2978 RMK AO2 SLP087 $ ETSA 221020Z 29003KT 9999 FEW040 SCT100 23/13 Q1017 BLU+ KPWK 220952Z AUTO 19017G25KT 10SM -RA SCT110 23/22 A2977 RMK AO2 PRESFR SLP076 P0007 T02280222 $ ETSB 221020Z AUTO 20011KT 9999 // ////// 21/14 Q1014 /// KRDU 220951Z 23006KT 10SM FEW065 SCT250 24/22 A2996 RMK AO2 SLP139 T02440222 KPVU 220956Z AUTO 16010KT 10SM CLR 22/12 A3011 RMK AO2 SLP130 T02220122 KPWM 220951Z 27004KT 10SM SCT250 21/16 A2982 RMK AO2 SLP096 T02060156 KRFD 221011Z 21013KT 10SM -TSRA FEW008 SCT065CB BKN110 22/19 A2978 RMK AO2 LTG DSNT S-W OCNL LTGICCC VC SE-SW TS VC SE-SW MOV SE P0002 T02170194 $ KPVW 221015Z AUTO 00000KT 10SM CLR 20/15 A3003 RMK AO2 T02020154 KPXE 221015Z AUTO 21004KT 5SM BR CLR 22/22 A3002 RMK AO2 T02230220 KREO 220952Z AUTO 06007KT 17/01 A3015 RMK AO1 SLP165 T01720006 LIEO 221020Z 05010KT 9999 FEW040 30/21 Q1015 KT65 221015Z AUTO 18010KT 10SM CLR 26/24 A2991 RMK AO2 T02630237 ETSH 221020Z 13009KT 9999 FEW050 SCT070 BKN100 27/18 Q1013 BLU KRFI 221015Z AUTO 00000KT 7SM CLR 24/23 A2997 RMK AO2 T02350229 ETSI 221020Z AUTO 30008KT 7000 // ////// 24/14 Q1016 /// LHPA 221015Z 20008KT 150V230 CAVOK 30/16 Q1014 NOSIG RMK BLU KRGA 221015Z AUTO 21006KT 7SM CLR 24/21 A2996 RMK AO2 KPWT 220956Z AUTO 20004KT 10SM OVC035 17/11 A3015 RMK AO2 SLP222 T01720111 ETSL 221020Z AUTO 23006KT 8000 // ////// 24/13 Q1017 /// ETSN 221020Z 19006KT 9999 FEW030 SCT150 25/16 Q1016 BLU+ LGZA 221020Z 04007KT CAVOK 31/17 Q1015 GCLA 221000Z 01016KT 9999 FEW020 BKN045 24/17 Q1020 KRGK 221015Z AUTO 00000KT 10SM OVC007 21/19 A2977 RMK AO2 FLKK 220900Z 04009KT CAVOK 21/07 Q1025 KPYM 220952Z AUTO 00000KT 10SM CLR 18/16 A2984 RMK AO2 SLP103 T01780156 TSNO KT82 221015Z AUTO 00000KT 10SM CLR 23/19 A3001 RMK AO2 T02320190 LHPP 220945Z 07012KT CAVOK 27/17 Q1015 FMCH 221000Z 27004KT 9999 SCT020 28/21 Q1018 NOSIG KRHI 221003Z AUTO 00000KT 10SM BKN013 OVC017 17/16 A2984 RMK AO2 T01720161 LHPR 220945Z 15010KT 110V170 CAVOK 25/16 Q1015 RMK BLU AGGH 221000Z 15004KT 9999 FEW016 SCT300 25/23 Q1011 KRIC 220954Z 28004KT 10SM FEW160 SCT300 24/22 A2990 RMK AO2 SLP126 T02440217 KRID 221035Z AUTO 21003KT 7SM SCT060 SCT080 SCT120 21/20 A2994 RMK AO2 KQRD 220958Z AUTO 35003KT 10SM BKN017 26/24 A3000 RMK AO2 SLP163 KPYX 221015Z AUTO 00000KT 10SM CLR 23/15 A2997 RMK AO2 T02270153 KRHP 221005Z AUTO 00000KT 3SM BR SCT002 19/19 A3006 RMK AO2 T01850185 GCLP 221000Z 36024KT 9999 FEW025 SCT045 25/15 Q1018 NOSIG KPZQ 221015Z AUTO 19004KT 10SM BKN110 19/16 A2987 RMK AO2 T01870158 KQRH 220956Z AUTO 29008G15KT 250V330 6000 HZ CLR 43/16 A2961 RMK AO2 SLP014 WND DATA ESTMD T04280163 KSAA 221015Z AUTO 00000KT 10SM SCT090 11/11 A3031 RMK AO2 KSAC 220953Z AUTO 17003KT 10SM CLR 18/12 A2986 RMK AO2 SLP112 T01780122 KRIL 220953Z AUTO 00000KT 10SM CLR 17/14 A3021 RMK AO2 SLP152 T01670139 $ KSAD 220951Z AUTO 01003KT 10SM CLR 23/21 A2999 RMK AO2 SLP100 T02280211 KRHV 220447Z 00000KT 10SM SKC 18/12 A2998 RMK LAST FMEE 221000Z 08018KT 9999 FEW030 27/20 Q1019 NOSIG KSAF 220953Z AUTO 09004KT 10SM CLR 19/13 A3021 RMK AO2 SLP107 T01890128 KQQY 220955Z AUTO 00000KT 10SM -RA FEW070 BKN095 22/20 A3010 RMK AO2 RAB0954 SLP176 P0000 T02220202 $ KU16 220658Z AUTO 04010KT 10SM CLR 26/03 A3004 RMK AO2 SLP793 T02560028 $ FMCZ 221000Z 17009KT 9999 FEW023 BKN300 29/20 Q1016 NOSIG KSBA 220953Z AUTO 08003KT 8SM CLR 17/16 A2988 RMK AO2 SLP119 T01670156 KRKD 220956Z AUTO 30003KT 10SM CLR 18/16 A2980 RMK AO2 SLP091 T01830156 KRIV 220958Z AUTO 29003KT 10SM CLR 18/15 A2993 RMK AO2 SLP121 T01770147 KSBD 221018Z AUTO 00000KT 10SM CLR 22/16 A2992 RMK AO2 T02160157 LHSM 220945Z 05011KT CAVOK 25/19 Q1015 NOSIG ETWM 221020Z AUTO 11006KT 9999 // ////// 23/15 Q1012 /// KRIW 220953Z AUTO 31013KT 10SM CLR 16/M01 A3017 RMK AO2 SLP142 T01611011 LHSN 221015Z 33004KT CAVOK 27/18 Q1016 TEMPO -SHRA RMK BLU KSAN 220951Z 00000KT 9SM OVC012 21/17 A2992 RMK AO2 SLP131 T02110172 FMEP 221000Z AUTO 13013KT CAVOK 26/20 Q1019 BECMG 28012KT KSAR 221015Z AUTO 22004KT 10SM CLR 26/24 A2990 RMK AO2 T02620235 KSAT 220951Z 16007KT 10SM CLR 26/22 A2998 RMK AO2 SLP131 T02560222 KSBM 221008Z AUTO 01003KT 10SM OVC016 19/18 A2979 RMK AO2 T01890183 KSAV 220953Z 00000KT 10SM FEW250 24/22 A3002 RMK AO2 SLP166 T02390217 KSCD 221015Z AUTO 00000KT 7SM CLR 22/22 A3002 RMK AO2 T02200220 KRLD 221015Z AUTO 00000KT 10SM CLR 17/12 A3008 RMK AO2 T01720122 LHUD 221013Z /////KT 9999 -SHRA FEW040CB SCT083 LJCE 221000Z 26002KT CAVOK 33/12 Q1013 RMK BLU KSBN 221021Z 18013KT 10SM FEW005 BKN022 22/22 A2979 RMK AO2 LTG DSNT S RAE20 P0002 T02170217 KSAW 220956Z AUTO 16004KT 1/2SM FG OVC001 17/17 A2985 RMK AO2 T01730170 GBYD 221000Z 27015KT 9999 BKN012 FEW018CB SCT120 29/24 Q1014 CB SW-W KSBO 221015Z AUTO 20003KT 1/2SM FG OVC002 22/22 A3003 RMK AO2 KSCF 221015Z AUTO 24007KT 10SM CLR 30/24 A3000 RMK A01 KRKP 220953Z AUTO VRB05KT 10SM FEW030 28/24 A2993 RMK AO2 SLP136 T02830239 KSBP 220956Z AUTO 00000KT 10SM CLR 12/11 A2991 RMK AO2 SLP128 T01220106 $ KSCH 220145Z 00000KT 10SM CLR 23/17 A2988 RMK LAST KSAZ 221012Z AUTO 35010G20KT 10SM SCT014 SCT080 BKN110 18/17 A2986 RMK AO2 LTG DSNT NW KRKR 220956Z AUTO 00000KT 10SM CLR 24/22 A2992 RMK AO2 LIMA 220950Z 23003KT 170V290 CAVOK 25/17 Q1015 KRKS 220954Z AUTO 00000KT 10SM CLR 16/09 A3027 RMK AO2 SLP161 T01560094 KSBS 221014Z AUTO 00000KT 10SM CLR 10/09 A3032 RMK AO1 T00980089 KSDA 221015Z AUTO 00000KT 10SM CLR 24/22 A2977 RMK AO2 KSDB 220953Z AUTO VRB06KT 10SM CLR 22/M02 A3010 RMK AO2 SLP127 T02221017 KSCK 220955Z AUTO 01005KT 10SM CLR 17/11 A2987 RMK AO2 SLP113 T01720106 LIMC 221020Z VRB03KT 9999 FEW050 27/16 Q1015 NOSIG KU42 221015Z AUTO 20005KT 10SM CLR 21/13 A3010 RMK AO1 T02060128 LIME 221020Z 19004KT 140V240 CAVOK 28/17 Q1015 NOSIG KRME 220953Z AUTO 00000KT 8SM CLR 16/15 A2990 RMK AO2 SLP122 T01560150 $ LIMF 221020Z 17003KT 110V230 CAVOK 26/17 Q1015 KSDF 220956Z 24006KT 7SM CLR 28/24 A2991 RMK AO2 SLP123 T02780239 KQVF 220955Z AUTO 06008G17KT 020V110 10SM FEW025 SCT033 28/20 A3001 RMK AO2 SLP162 WND DATA ESTMD T02810204 KSBY 220955Z 00000KT 6SM BR CLR 26/25 A2987 LIMG 220950Z 09010KT CAVOK 28/19 Q1015 KRMG 220953Z AUTO 00000KT 4SM BR CLR 24/24 A2998 RMK AO2 SLP140 T02440244 LIMH 220955Z /////KT 9999 BKN010 04/M03 Q1029 RMK BKN MON CLD SCT VAL S FOSCHIA VIS MIN 9999 KSCR 221005Z AUTO 00000KT 10SM 22/22 A2997 RMK AO2 T02180216 KSEA 220953Z 16006KT 10SM SCT070 BKN090 18/12 A3016 RMK AO2 SLP216 T01830117 LIMJ 221020Z 16005KT 130V200 CAVOK 27/21 Q1015 FKYS 221000Z 24005KT 160V290 9999 BKN013 26/21 Q1018 NOSIG LIMK 220555Z 11003KT CAVOK 19/18 Q1016 RMK FEW FEW200 VAL S CLD SCT VIS MIN 9999 KSDL 220953Z 00000KT 10SM CLR 29/21 A2989 RMK AO2 SLP091 T02890211 LIML 221020Z 16004KT 090V230 9999 FEW020 29/16 Q1014 NOSIG KRNC 221015Z AUTO 00000KT M1/4SM OVC001 22/22 A3001 RMK KSDM 220953Z 28003KT 9SM OVC007 19/18 A2991 RMK AO2 SLP123 T01940178 KRND 220956Z AUTO 00000KT 10SM CLR 24/24 A2997 RMK AO2 SLP139 T02370237 CHINO RWY33R $ LIMN 211755Z 14007KT 9999 FEW030CB 27/18 Q1011 RMK BKN BKN080 VIS MIN 9999 BLU KRMN 221015Z AUTO 00000KT 10SM BKN050 23/23 A2993 RMK AO2 T02310227 KSEE 221015Z AUTO 30003KT 10SM 20/17 A2991 RMK AO2 KSEF 221015Z AUTO 19004KT 10SM CLR 24/23 A3005 RMK AO2 LTG DSNT NW T02430229 LIMP 220950Z 32005KT 9999 FEW060 28/19 Q1014 KSEG 220953Z AUTO 00000KT 4SM BR CLR 19/19 A2991 RMK AO2 SLP125 T01890189 KRNH 221015Z AUTO 00000KT 10SM CLR 18/18 A2982 RMK AO2 T01820179 LIMS 211755Z 09006KT 9999 FEW040 SCT080 30/23 Q1009 KROA 220954Z 00000KT 10SM CLR 24/21 A2998 RMK AO2 SLP138 T02390206 KSFB 220953Z AUTO 24003KT 10SM CLR 24/22 A3004 RMK AO2 SLP171 T02390222 LIMU 220955Z 03010KT 9999 FEW026 28/22 Q1015 RMK BKN BKN200 QUK 3 QUL 1 SE VIS MAR 30 KM VIS MIN 9999 KROC 220954Z 23003KT 9SM CLR 19/18 A2992 RMK AO2 SLP130 T01890178 KRNM 220953Z AUTO 00000KT 8SM CLR 17/16 A2993 RMK AO2 SLP117 T01720156 KSEM 221015Z AUTO 18003KT 9SM CLR 22/21 A3000 RMK AO2 TSNO VTPH 221000Z 24005KT 180V270 9000 -RA BKN028 30/24 Q1007 KSFF 220953Z AUTO 04004KT 10SM CLR 15/07 A3012 RMK AO2 SLP187 T01500067 KRNO 220955Z 17003KT 10SM CLR 20/04 A3013 RMK AO2 SLP139 T02000039 LIMY 220955Z 05006KT 350V090 CAVOK 23/18 Q1016 RMK SCT SCT200 VAL FOSCHIA VIS MIN 9999 KRMY 221013Z AUTO 17004KT 10SM CLR 21/21 A2983 RMK AO2 T02120210 KRNP 221015Z AUTO 00000KT 10SM BKN048 BKN055 OVC070 22/20 A2984 RMK AO2 T02220201 KSDY 220956Z AUTO 00000KT 10SM CLR 12/06 A2998 RMK AO2 SLP144 T01220056 KSEP 221015Z AUTO 00000KT 10SM SCT095 24/20 A2999 RMK AO2 T02360196 KROG 220958Z AUTO 20005KT 10SM CLR 24/21 A2997 RMK AO2 SLP129 T02440211 LIMZ 220950Z 06004KT CAVOK 25/17 Q1016 LIPA 220955Z 05008KT 9999 FEW020 FEW040TCU 29/22 Q1014 RMK SCT VIS MIN 9999 WIND THR05 06010KT WIND THR23 08008KT A2995 BLU GCRR 221000Z 01020KT 9999 BKN035 24/15 Q1017 KU68 221015Z AUTO 25006KT 10SM CLR 17/ A3009 RMK AO2 VTPM 221000Z 24010KT 8000 -RA SCT020 BKN027 OVC100 27/24 Q1006 KRNT 220953Z AUTO VRB04KT 10SM OVC060 18/13 A3015 RMK AO2 SLP213 T01830133 LIPB 220950Z 00000KT 9999 FEW030 25/18 Q1015 KSET 220954Z AUTO 23004KT 10SM CLR 27/23 A2984 RMK AO2 SLP097 T02670228 LIPC 220955Z 33004KT CAVOK 31/20 Q1013 FNBC 221000Z 30009KT 9999 BKN014 23/// Q1018 VTPO 221000Z 17005KT 9999 TS FEW018 SCT022 BKN025 30/26 Q1005 RERA KRPD 221015Z AUTO 00000KT 5SM BR CLR 17/17 A2983 RMK AO2 T01700166 KSFM 220956Z AUTO 25003KT 10SM 17/16 A2983 RMK AO2 SLP109 T01670156 $ KRNV 221015Z AUTO 00000KT 10SM CLR 24/24 A2996 RMK AO2 T02380238 VTPP 220900Z 17006KT 9999 FEW015CB FEW022 32/25 Q1005 LIPE 221020Z 34007KT 300V030 CAVOK 30/16 Q1015 LIPF 220955Z 27006KT CAVOK 33/24 Q1013 KSGF 220952Z 17005KT 10SM CLR 23/22 A2994 RMK AO2 SLP121 T02330217 KQWX 220955Z AUTO 12SM FEW120 SCT190 28/18 A2977 RMK AO2 SLP052 WND DATA ESTMD T02770177 KSFO 220956Z 30006KT 10SM CLR 14/11 A2993 RMK AO2 SLP133 FG IN GAP W T01390106 LIPH 221020Z 12005KT 060V190 9999 FEW040 31/19 Q1013 FNBG 221000Z 12006KT 9999 OVC020 23/17 Q1019 KSGH 221027Z AUTO 22/21 RMK AO2 TSB02E27RAB14RAEMM P0031 PWINO $ KRPH 221015Z AUTO 16003KT 10SM CLR 26/19 A2992 RMK AO2 T02630190 KSFQ 221015Z AUTO 21004KT 10SM CLR 24/23 A2992 RMK AO2 T02430227 KSEZ 221015Z AUTO 35003KT 10SM -RA BKN080 OVC100 21/16 A3014 RMK AO2 KROS 221014Z AUTO 00000KT 7SM CLR 17/16 A2982 RMK AO2 T01670160 KSGJ 220956Z AUTO 23005KT 10SM CLR 23/22 A3004 RMK AO2 SLP171 T02330222 KRPJ 221015Z AUTO 21006KT 10SM RA SCT120 20/20 A2983 RMK AO2 LTG DSNT S THRU NW P0001 T01990196 LIPK 211550Z 09007KT CAVOK 31/17 Q1010 FNCA 221000Z 21005KT 9999 SCT015 BKN023 25/21 Q1017 EVLA 221020Z AUTO 03006KT 350V060 9999 NCD 20/09 Q1019 KRQB 221015Z AUTO 17005KT 10SM OVC042 19/17 A2982 RMK AO2 T01900172 LIQC 220955Z 31002KT CAVOK 30/14 Q1016 RMK SKC QUK 2 QUL 1 SE VIS MAR 20 KM VIS MIN 9999 LIPL 220955Z /////KT CAVOK 28/20 Q1013 RMK SKC VIS MIN 9999 WIND THR31 22003KT BLU KSHD 221015Z AUTO 00000KT 3SM BR SCT002 18/18 A2998 RMK AO2 T01820180 KRQE 220953Z AUTO 00000KT 10SM BKN110 19/13 A3025 RMK AO2 SLP115 T01890133 TSNO $ KROW 220951Z AUTO 19007KT 10SM CLR 22/12 A3002 RMK AO2 SLP092 T02170122 KQZF 211555Z AUTO RMK AO2 SLPNO WND DATA ESTMD PWINO PNO TSNO $ LIPO 220950Z 24004KT CAVOK 28/18 Q1014 KROX 221014Z AUTO 18006KT 10SM CLR 16/13 A2975 RMK AO2 KSFY 221015Z AUTO 18009KT 10SM -TSRA SCT008 SCT043 OVC100 21/21 A2986 RMK AO2 LTG DSNT ALQS T02080205 LIPQ 221020Z 19005KT 140V230 CAVOK 30/17 Q1013 VTSB 221000Z 05007KT 8000 FEW020 32/26 Q1008 KSGR 220953Z AUTO 00000KT 10SM CLR 26/24 A2996 RMK AO2 SLP144 T02610244 LIPR 221015Z 02008KT 9999 FEW040 31/20 Q1013 LIPS 220955Z 08007KT CAVOK 30/21 Q1013 RMK SKC VIS MIN 9999 WIND THR26 07006KT WIND THR08 06007KT BLU VTSC 220900Z 02007KT 350V050 9000 FEW020 SCT100 32/25 Q1007 LIRA 221020Z 17010KT CAVOK 32/10 Q1015 KSGS 221013Z AUTO 20004KT 10SM OVC012 22/19 A2980 RMK AO2 T02150192 GCTS 221000Z 07021G31KT 9999 FEW030 26/14 Q1018 NOSIG KSGT 221015Z AUTO 18005KT 10SM CLR 26/18 A2995 RMK AO1 LIPU 220600Z VRB03KT CAVOK 24/19 Q1012 VTSE 221000Z 27005KT 9999 FEW018 25/23 Q1008 KSHL 221015Z AUTO 09004KT 5SM BR FEW013 22/21 A2980 RMK AO2 KSGU 220956Z AUTO 13003KT 10SM CLR 31/12 A2997 RMK AO2 SLP100 T03060122 TSNO VTSF 221000Z 02009KT 350V050 9999 SCT018 31/26 Q1007 KSHM 220958Z AUTO 33005KT 10SM BKN160 17/12 A3019 RMK AO2 SLP135 T01730116 $ VTSG 220100Z 00000KT 9999 FEW020 26/24 Q1011 LIQN 220950Z 19008KT CAVOK 31/10 Q1015 LIRE 220955Z 18011KT CAVOK 30/19 Q1015 RMK SKC VIS MIN 9999 WIND THR13 19010KT WIND THR31 18010KT BLU KSHN 220953Z AUTO 22005KT 10SM FEW024 BKN039 OVC070 17/12 A3014 RMK AO2 SLP203 T01720122 LIQO 220955Z 18006KT 0100 FG VV001 26/24 Q1017 RMK VAL INVIS NC VIS MIN 0100 KRPX 220955Z AUTO 00000KT 10SM 17/M03 A3003 VTSH 220900Z 02006KT 8000 FEW020 32/24 Q1008 NOSIG LIRF 221020Z 19011KT 150V220 9999 FEW035 30/21 Q1015 NOSIG LIPX 221020Z 19003KT 090V240 CAVOK 30/15 Q1014 KSIF 221010Z AUTO 00000KT 4SM BR CLR 20/20 A2996 RMK AO2 T01950195 KRQO 221015Z AUTO 18011KT 160V220 10SM SCT110 26/20 A2994 RMK AO2 T02630200 LIRG 211755Z 20006KT CAVOK 30/11 Q1012 LIPY 220950Z 30008KT 250V330 CAVOK 33/13 Q1013 LIRH 211755Z 15006KT CAVOK 32/06 Q1013 WMBA 221000Z VRB05KT 9999 FEW022 SCT150 BKN280 31/26 Q1007 LIPZ 221020Z 15007KT 120V180 CAVOK 30/21 Q1013 NOSIG VTSK 220200Z 00000KT 6000 BR FEW100 BKN300 30/24 Q1009 A2982 LIRI 220950Z 22008KT CAVOK 31/11 Q1016 KSHR 220953Z AUTO 29006KT 10SM CLR 17/04 A3010 RMK AO2 SLP154 T01670044 FMMI 221030Z 17005KT 130V200 9999 FEW020 BKN046 22/09 Q1023 NOSIG LIRK 220955Z AUTO 26004KT //// ///// Q//// VTSM 221030Z 31009KT 9999 FEW020 30/25 Q1008 KSIK 221035Z AUTO 00000KT 10SM CLR 27/24 A2992 RMK AO2 LIRL 211755Z 15003KT 9999 FEW080 29/14 Q1013 KSJC 220953Z AUTO 32003KT 10SM CLR 14/12 A2993 RMK AO2 SLP135 T01440117 KRRL 221015Z AUTO 00000KT 7SM OVC005 18/18 A2981 RMK AO2 T01840184 LIRM 220955Z 24006KT CAVOK 32/18 Q1015 RMK SKC VIS MIN 9999 WIND THR06 22005KT BLU KTAD 220954Z AUTO 28005KT 10SM CLR 16/12 A3020 RMK AO2 SLP134 T01610117 TSNO KSHV 220956Z 20005KT 10SM FEW280 26/24 A2995 RMK AO2 SLP136 T02560244 VTSP 221000Z 29008KT 9000 FEW018 SCT100 31/22 Q1010 NOSIG LIRN 221020Z 18005KT 130V230 CAVOK 33/12 Q1016 NOSIG VTSR 221000Z 23004KT 9999 BKN025 29/26 Q1008 LIRP 221015Z 24005KT 9999 SCT025 29/21 Q1014 NOSIG VTSS 221000Z 25008KT 9999 SCT020 SCT100 33/24 Q1007 NOSIG LIRQ 221020Z VRB03KT 9999 FEW030 32/18 Q1014 VTST 221000Z 24007KT 8000 FEW020 32/24 Q1007 WMAU 221000Z AUTO /////KT //// // 30/27 Q//// QFF1008 LIRS 220955Z 21014KT 9999 SCT030 30/23 Q1014 KSKA 220958Z AUTO 19003KT 10SM CLR 15/04 A3012 RMK AO2 SLP191 T01470035 LIRT 212155Z /////KT CAVOK 22/08 Q1020 RMK SKC MON INVIS VAL INVIS VIS MIN 9999 VTUD 221000Z 26004KT 230V290 9999 FEW028TCU 29/26 Q1006 KRRT 221014Z AUTO 00000KT 10SM CLR 16/14 A2975 RMK AO2 LIRU 220950Z 21008KT CAVOK 32/17 Q1015 FMMT 221000Z 22010KT 9999 VCSH FEW007 SCT017 BKN033 25/21 Q1019 NOSIG KRSL 220953Z AUTO 21012KT 10SM CLR 26/15 A2984 RMK AO2 SLP078 T02560150 LIRV 220955Z 23007KT 160V280 9999 BKN030 28/22 Q1016 FMNM 221000Z 32005KT 9999 FEW023 32/16 Q1015 NOSIG KTAN 220952Z AUTO 00000KT 3SM BR CLR 16/15 A2983 RMK AO2 SLP101 T01610150 KSJN 220954Z AUTO 00000KT 10SM OVC110 19/17 A3016 RMK AO2 SLP113 T01940172 TSNO KRSN 221015Z AUTO 00000KT 10SM CLR 24/22 A3000 RMK AO2 T02400223 LIRX 220955Z 12010KT 9999 SCT005 25/24 Q1015 RMK BKN SCT070 VIS MIN 9999 VIS MAR 15 KM FMNN 221000Z 02002KT 9999 SCT020 30/20 Q1015 KSKF 220958Z AUTO 16005KT 7SM CLR 25/23 A2995 RMK AO2 SLP133 T02480228 $ KRSP 221010Z AUTO 33005KT 2 1/2SM BR FEW003 21/21 A2998 RMK AO2 $ VVCI 221000Z 13006KT 9999 FEW017 FEW020TCU 30/27 Q1006 NOSIG VTUI 221000Z AUTO 29003KT 240V350 9999 BKN100/// 30/25 Q1006 A2971 KSIY 220953Z AUTO 05006KT 10SM CLR 17/03 A3014 RMK AO2 SLP190 T01670033 LIRZ 220950Z 23009KT 9999 FEW065 30/15 Q1016 VTUK 221000Z 02004KT 340V050 9999 FEW025 SCT040 30/26 Q1006 NOSIG VTUL 220900Z 36004KT 320V020 9999 FEW012 BKN028 27/25 Q1007 KSJS 220850Z AUTO 20003KT 10SM CLR 24/24 A2998 RMK AO2 T02430236 KSJT 220951Z AUTO 18007KT 10SM CLR 26/16 A2997 RMK AO2 SLP118 T02560156 KSLB 221015Z AUTO 00000KT 1 1/4SM BR OVC002 22/21 A2981 RMK AO2 KRST 221021Z 00000KT 1/4SM R31/2000FT FG VV002 20/20 A2982 RMK AO2 T02000200 KTCC 220953Z AUTO 22010KT 10SM CLR 23/14 A3002 RMK AO2 SLP090 T02330144 KSLC 220954Z 14008KT 10SM CLR 26/11 A3006 RMK AO2 SLP110 T02610106 VTUO 220900Z 09005KT 060V120 4000 TSRA BKN018CB OVC020 25/25 Q1007 A2976 INFO J RWY 22 KRSV 221015Z AUTO 22004KT 10SM CLR 25/24 A2988 RMK AO2 T02500238 KRUE 220953Z AUTO 16003KT 6SM BR CLR 24/23 A2992 RMK AO2 SLP123 T02390233 KRTN 220953Z AUTO 35010KT 10SM CLR 19/10 A3020 RMK AO2 SLP112 T01940100 KRSW 220953Z 14004KT 10SM CLR 24/23 A3004 RMK AO2 LTG DSNT SW SLP171 T02440233 KSLE 220956Z AUTO 15003KT 10SM CLR 16/08 A3013 RMK AO2 SLP203 T01610083 KTBN 220956Z AUTO 22005KT 10SM CLR 25/21 A2992 RMK AO2 SLP120 T02510214 KSJX 221016Z AUTO 00000KT 10SM SCT120 18/18 A2985 RMK AO2 T01810177 VVCR 221000Z 33011KT 6000 -SHRA SCT015 SCT050 28/27 Q1007 NOSIG GCXO 221000Z 33015KT 300V040 9999 FEW012 BKN020 18/13 Q1021 NOSIG KSLG 221015Z AUTO 20005KT 10SM CLR 23/19 A2995 RMK AO1 KSLH 221013Z AUTO 00000KT 10SM SCT110 17/16 A2986 RMK AO2 T01730160 KTAZ 221015Z AUTO 20004KT 10SM SCT041 SCT048 25/24 A2986 RMK AO2 LTG DSNT NW T02520239 VVCT 221000Z 26009KT 230V290 9999 SCT015 28/24 Q1008 NOSIG KTBR 221015Z AUTO 00000KT 10SM CLR 23/23 A3001 RMK AO2 T02250225 KSLI 220958Z AUTO 19003KT 10SM OVC010 20/18 A2990 RMK AO2 SLP128 T02020180 FNGI 221000Z 08005KT CAVOK 26/02 Q1021 VTUU 221000Z VRB02KT 9999 FEW020TCU SCT025 BKN100 30/26 Q1006 NOSIG LJLJ 221000Z 22002KT 9999 FEW060 29/15 Q1014 NOSIG KRTS 221010Z AUTO 01004KT 10SM CLR 14/02 A3016 RMK AO2 VTUV 221000Z 20006KT 9000 FEW018CB SCT100 29/23 Q1006 A2972 INFO K RWY 18 LJMB 221000Z 18007KT 150V250 9999 FEW043 SCT110 30/15 Q1013 KSLK 221020Z AUTO 00000KT 3SM BR FEW080 12/12 A2990 RMK AO2 T01170117 $ LIVC 220655Z 27003KT 0500 FG VV/// 13/10 Q1024 RMK MON INVIS VAL INVIS VIS MIN 0500 VVDN 221000Z 01014KT 9999 FEW015 FEW017CB 30/26 Q1005 NOSIG VTUW 221000Z VRB02KT 9999 FEW020 SCT030 31/25 Q1006 KTCL 220953Z AUTO 17003KT 8SM CLR 23/23 A2999 RMK AO2 SLP151 T02330233 LIVD 220955Z /////KT 3000 FEW025TCU 18/15 Q1021 RMK BKN SCT070 VIS MIN 3000 KTCM 220958Z AUTO 00000KT 10SM BKN060 16/14 A3016 RMK AO2 CIG 050 RWY16 SLP216 T01630137 $ LIVE 220955Z 27003KT 9999 SCT030 17/09 Q1020 RMK SCT VIS MIN 9999 KSLN 220953Z AUTO 21012KT 10SM CLR 29/17 A2982 RMK AO2 SLP078 T02890172 KSME 221015Z AUTO 00000KT 5SM BR CLR 21/21 A2999 RMK AO2 LIVF 220255Z 25022G32KT 9999 FEW035 24/09 Q1014 KSMF 220953Z 17008KT 10SM CLR 19/12 A2985 RMK AO2 SLP107 T01890122 KTDF 221005Z AUTO 00000KT 7SM CLR 22/21 A2997 RMK AO2 KSKX 221015Z AUTO 08005KT 10SM CLR 14/07 A3029 RMK AO1 KSLO 221015Z AUTO 20005KT 10SM CLR 27/24 A2988 RMK AO2 T02710238 KTBX 221015Z AUTO 31022KT CLR 16/M04 A3037 RMK AO2 PWINO KRUQ 211410Z AUTO 36003KT 10SM CLR 29/22 A3006 RMK AO2 T02890216 KSLR 221015Z AUTO 21006KT 10SM CLR 26/23 A2996 RMK AO2 T02570227 KSNA 220953Z AUTO VRB03KT 9SM OVC013 21/18 A2990 RMK AO2 SLP124 T02060178 KTCS 220953Z AUTO 32005KT 10SM SCT110 21/15 A3011 RMK AO2 SLP106 T02060150 KTEB 220951Z 30003KT 10SM CLR 24/20 A2986 RMK AO2 SLP110 T02440200 EVRA 221020Z 33009KT 290V010 9999 SCT032 19/13 Q1019 NOSIG KRUT 220956Z AUTO 14008KT 10SM CLR 15/13 A2989 RMK AO2 SLP132 T01500133 $ KSNC 221015Z AUTO 00000KT 10SM CLR 22/16 A2988 RMK AO2 LKCV 221000Z 07007KT 020V110 9999 FEW038 SCT120 BKN220 26/16 Q1014 RMK BLACK LIVO 220955Z 27003KT 9999 SCT030 24/16 Q1016 RMK BKN BKN200 VIS MIN 9999 KRWF 220953Z AUTO 16010G21KT 10SM CLR 21/19 A2972 RMK AO2 PK WND 18029/0917 WSHFT 0855 RAE26 SLP057 P0001 T02110194 KSMO 220951Z AUTO 00000KT 10SM CLR 19/17 A2991 RMK AO2 SLP126 T01890172 LIVP 220655Z 17008KT 0600 FG VV/// 10/09 Q1021 RMK MON INVIS VAL INVIS VIS MIN 0600 KSMP 220956Z AUTO 00000KT 10SM BKN040 12/09 A3024 RMK AO2 SLP222 T01170094 KSMQ 221020Z AUTO 00000KT 1 3/4SM BR CLR 21/21 A2987 RMK AO2 T02110211 KSNH 221015Z AUTO 00000KT 9SM CLR 24/23 A2996 RMK A01 LIVR 220955Z 13007KT 9999 BKN025 15/08 Q1023 RMK BKN MON CLD SCT VIS MIN 9999 KRWI 220953Z AUTO 20007KT 8SM CLR 24/24 A2995 RMK AO2 SLP140 T02440239 TSNO KTDR 220956Z AUTO 00000KT 10SM FEW026 FEW033 24/23 A3001 RMK AO2 LTG DSNT SE-S SLP166 T02390231 $ KRVS 220953Z 00000KT 10SM BKN110 26/21 A2990 RMK AO2 SLP125 T02610206 KSOA 221015Z AUTO 16006KT 10SM CLR 26/20 A3005 RMK AO2 KSMS 221015Z AUTO 00000KT 7SM CLR 24/23 A3000 RMK AO2 LIVT 220955Z 25004KT CAVOK 30/23 Q1013 RMK SKC QUK 1 QUL 0 VIS MAR 20 KM VIS MIN 9999 KSNK 221015Z AUTO 15006KT 10SM CLR 24/15 A3001 RMK AO2 T02440148 KRWL 220953Z AUTO 06003KT 10SM CLR 13/08 A3027 RMK AO2 SLP150 T01280083 KSNL 221015Z AUTO 20007KT 10SM CLR 25/20 A2992 RMK AO2 T02510202 FNHU 221000Z 00000KT CAVOK 24/04 Q1025 FMSD 221000Z 06012KT 9999 FEW020 26/20 Q1019 KRXE 220953Z AUTO 08005KT 10SM CLR 12/07 A3014 RMK AO2 SLP165 T01170067 KSMX 221009Z AUTO 00000KT 7SM FEW006 SCT010 11/11 A2992 RMK AO2 T01110111 $ KTDZ 220953Z AUTO 15005KT 5SM -RA BR SCT110 23/23 A2986 RMK AO2 LTG DSNT SE AND S RAB0857 SLP104 P0006 T02330228 KSNS 221016Z AUTO 25006KT 9SM BKN007 13/12 A2995 RMK AO2 T01330117 KSPA 221015Z AUTO 00000KT 10SM CLR 22/20 A2999 RMK AO2 KSPB 220953Z AUTO 35003KT 10SM CLR 17/12 A3014 RMK AO2 SLP205 T01720122 KSNT 220951Z AUTO 00000KT 04/M01 A3033 RMK AO1 SLP184 T00391006 KSPD 220956Z AUTO 31006KT 16/13 A3008 RMK AO1 SLP114 T01560128 KTEW 221022Z AUTO 18004KT 10SM SCT065 22/21 A2984 RMK AO2 T02200205 KSPF 221015Z AUTO 20007KT 10SM CLR 15/05 A3008 RMK AO2 KTEX 221015Z AUTO 12007KT 10SM BKN110 11/11 A3043 RMK AO2 T01130105 KSNY 220953Z AUTO 00000KT 10SM CLR 20/12 A3006 RMK AO2 SLP114 T02000122 KSPG 221021Z AUTO 18006KT 10SM FEW095 28/25 A3002 RMK AO2 LTG DSNT N T02780250 KSOP 220956Z AUTO 21007KT 10SM CLR 24/23 A2998 RMK AO2 SLP161 T02440228 KTFP 221015Z AUTO 10SM SCT022 SCT031 29/25 A2994 RMK AO2 T02870247 KSPI 220952Z AUTO 00000KT 8SM -RA SCT048 BKN070 BKN090 28/24 A2985 RMK AO2 RAB34 SLP099 P0000 T02780239 $ KTGI 221014Z AUTO 23011KT 10SM CLR 28/24 A2987 RMK AO1 KTHA 221015Z AUTO 00000KT 10SM CLR 22/21 A3002 RMK KRYM 220956Z AUTO 00000KT 10SM OVC110 18/18 A2982 RMK AO2 LTG DSNT NW SLP095 T01800176 $ KRYN 220245Z 21015G20KT 10SM CLR 29/21 A2995 KSOW 221015Z AUTO 19006KT 10SM CLR 16/13 A3024 RMK AO2 KSQI 220956Z VRB06KT 10SM TSRA FEW038 SCT046 OVC070 21/20 A2984 RMK AO2 LTG DSNT ALQDS TSE08B13E27B29E39B40 SLP113 T02060200 PNO $ KSPR 221015Z AUTO 24004KT 10SM 29/24 A2999 RMK A01 KSPS 220952Z AUTO 17007KT 10SM CLR 24/20 A2990 RMK AO2 SLP110 T02440200 MBGT 221000Z 09010KT 9000 SCT010 26/22 Q1017 FNMA 221000Z 11005KT 6000 OVC008 18/16 Q1021 KRYT 220853Z AUTO 00000KT 9SM CLR 23/22 A2992 RMK AO2 SLP116 T02280222 55008 TSNO $ EVVA 221020Z AUTO 36010KT CAVOK 19/11 Q1020 KSRB 221015Z AUTO 00000KT 1/2SM FG 21/21 A3000 RMK A01 KSQL 221010Z AUTO 00000KT 10SM CLR 14/12 A2993 RMK AO2 KRZL 221015Z AUTO 27003KT 1 1/4SM +TSRA OVC005 22/21 A2985 RMK AO2 VIS 1/4V5 P0006 LTG DSNT ALQS KSRC 221027Z AUTO 00000KT 3/4SM BR CLR 24/24 A2994 RMK AO2 KRYV 221015Z AUTO 00000KT 10SM OVC005 19/19 A2980 RMK AO2 LTG DSNT SW T01850185 KSPW 220953Z AUTO 03007KT 9SM OVC005 23/22 A2983 RMK AO2 SLP091 T02280217 $ KRYW 221015Z AUTO 20006KT 10SM CLR 26/22 A2999 RMK AO2 T02550220 KRZN 221015Z AUTO 00000KT 1 1/4SM BR VV007 16/16 A2983 RMK AO2 T01640158 KTIF 221015Z AUTO 30006KT 10SM CLR 24/15 A2998 RMK AO2 T02350154 KRYY 220249Z 00000KT 10SM BKN060 29/22 A3006 WMKA 220900Z 25009KT 200V300 9000 FEW020 SCT140 BKN280 31/26 Q1008 LJPZ 221000Z 23008KT 190V260 9999 FEW050 30/16 Q1013 WMKB 221000Z 21007KT 110V270 7000 FEW020 BKN270 32/26 Q1008 NOSIG KRZR 221015Z AUTO 00000KT 5SM BR CLR 23/22 A2999 RMK A01 WMKC 220900Z 36008KT 320V040 8000 FEW017CB SCT140 BKN280 31/26 Q1007 WMKD 221000Z 11007KT 050V150 9999 FEW016CB BKN280 31/27 Q1007 NOSIG KRZT 221014Z AUTO 22005KT 7SM SCT050 BKN080 21/21 A2990 RMK AO2 LTG DSNT ALQS KTIK 220958Z AUTO 18009KT 10SM CLR 25/20 A2992 RMK AO2 SLP121 T02520202 $ WMKE 221000Z 14007KT 070V190 9999 FEW020 SCT150 BKN280 29/26 Q1007 KSSC 220958Z AUTO 20004KT 10SM CLR 24/22 A2997 RMK AO2 SLP148 T02360224 $ FNLU 221000Z VRB03KT 8000 BKN020 25/19 Q1017 GEML 221000Z 02006KT 340V070 CAVOK 28/14 Q1014 KTHV 221021Z AUTO 00000KT 2 1/2SM BR CLR 20/20 A2991 RMK AO2 T02000200 KW13 221015Z AUTO 00000KT 7SM CLR 20/20 A2998 RMK AO1 T01950195 KSSF 220953Z AUTO 00000KT 10SM CLR 25/23 A2994 RMK AO2 SLP124 T02500228 FNMO 221000Z 34008KT 9999 OVC012 19/16 Q1019 WMKI 221000Z 22008KT 140V250 9999 FEW017CB SCT140 BKN280 32/24 Q1007 KTIP 221015Z AUTO 00000KT 10SM BKN095 24/23 A2986 RMK AO2 T02350227 WMKJ 221000Z 21004KT 160V260 9999 FEW017CB SCT130 BKN300 31/25 Q1007 KSRQ 220953Z 14007KT 10SM CLR 25/23 A3001 RMK AO2 LTG DSNT N AND SW SLP162 T02500233 WMKK 221000Z 17005KT 110V230 9999 FEW017CB BKN280 32/22 Q1007 NOSIG KSSI 220953Z AUTO 27003KT 10SM CLR 24/23 A3002 RMK AO2 SLP166 T02390228 KSRR 221015Z AUTO 26006KT 10SM CLR 14/11 A3027 RMK AO2 WMKL 221000Z 24003KT 150V310 9999 FEW022 SCT140 BKN270 30/26 Q1008 WMKM 221000Z VRB04KT 9999 FEW022 BKN300 32/25 Q1008 LKKB 221000Z 14011KT 050V160 9999 FEW043 SCT130 27/16 Q1014 NOSIG KTKC 211059Z AUTO 18017G21KT 7SM TSRA BKN050 OVC065 22/22 A2987 RMK AO2 LTG DSNT ALQS P0001 WMKN 221000Z VRB03KT 9999 FEW022 SCT150 BKN300 31/27 Q1007 RETS KSTC 220953Z AUTO 19003KT 10SM CLR 19/19 A2979 RMK AO2 SLP089 T01940194 KW22 221015Z AUTO 00000KT 1/4SM FG BKN060 BKN095 20/20 A2998 RMK AO2 WMKP 221000Z 22008KT 190V260 8000 FEW020 SCT140 BKN270 31/25 Q1007 NOSIG KTIW 220953Z AUTO 19005KT 10SM OVC046 17/12 A3017 RMK AO2 SLP212 T01670117 KUBE 221015Z AUTO 00000KT 10SM CLR 16/16 A2983 RMK AO2 KSTE 221015Z AUTO 14003KT 7SM OVC006 18/18 A2983 RMK AO2 T01800180 KTIX 220047Z 18004KT 7SM BKN100 26/23 A3003 RMK LAST KSTF 221035Z AUTO 00000KT 5SM BR BKN049 BKN060 22/22 A3000 RMK AO2 KUAO 220953Z AUTO 00000KT 10SM CLR 18/11 A3015 RMK AO2 SLP209 T01780106 LLBG 221020Z 29010KT 260V320 9999 FEW032 31/21 Q1009 NOSIG KTKI 220953Z AUTO 17004KT 10SM CLR 25/24 A2993 RMK AO2 SLP127 T02500239 KSTJ 220953Z AUTO 21009KT 10SM CLR 28/23 A2978 RMK AO2 SLP072 T02780233 KSUA 221015Z AUTO 00000KT 10SM CLR 25/25 A3007 RMK AO2 KW29 221005Z AUTO 03004KT 7SM HZ SCT048 27/24 A2986 RMK AO2 KSTK 221010Z AUTO 30011KT 10SM CLR 18/16 A3004 RMK AO2 KSTL 220951Z 22012KT 10SM FEW250 30/22 A2986 RMK AO2 SLP094 T03000222 KW31 221015Z AUTO 00000KT 10SM SCT110 23/23 A2992 RMK AO1 T02330233 KSUE 220956Z AUTO 00000KT 10SM 19/17 A2985 RMK AO2 SLP119 T01940172 PNO $ KSTP 221006Z AUTO 09003KT 10SM BKN017 21/20 A2980 RMK AO2 T02110200 KTLH 220953Z 00000KT 10SM CLR 23/23 A3002 RMK AO2 SLP164 T02330233 $ VVNB 221000Z 30008KT CAVOK 32/27 Q1006 NOSIG KSTS 220953Z AUTO 00000KT 10SM CLR 13/10 A2990 RMK AO2 SLP118 T01280100 KTMA 221015Z AUTO 00000KT 10SM CLR 22/22 A3003 RMK AO2 T02160216 KTMB 220953Z AUTO 00000KT 10SM CLR 24/23 A3004 RMK AO2 SLP173 T02440228 LKKU 221004Z 18005KT 120V230 CAVOK 29/15 Q1014 KSVC 221015Z AUTO 29003KT 10SM BKN110 19/18 A3016 RMK AO2 T01910182 LKKV 221000Z VRB02KT 9999 FEW045 24/14 Q1015 KTKV 221015Z AUTO 00000KT 10SM 18/16 A2983 RMK AO2 T01800161 FOGM 220700Z /////KT 3000 BR SCT005 OVC013 22/20 Q//// LKLN 221000Z AUTO 22011KT 190V260 9999 BKN100 25/14 Q1015 KSUN 221015Z AUTO 31011KT 10SM CLR 13/00 A3021 RMK AO2 KTME 221015Z AUTO 18003KT 10SM SCT020 24/24 A2997 RMK AO2 KSVE 221015Z AUTO 24003KT 10SM CLR 16/03 A3013 RMK AO2 KW43 221015Z AUTO 00000KT 10SM CLR 15/04 A3011 RMK AO2 KTKX 221015Z AUTO 00000KT 4SM BR CLR 26/25 A2991 RMK AO2 FOGO 221000Z 18006KT 9999 SCT010 OVC026 22/22 Q//// KUCP 221008Z AUTO 18003KT 10SM BKN005 21/21 A2994 RMK AO2 KUDG 220956Z AUTO 20005KT 10SM CLR 24/23 A2999 RMK AO2 SLP158 T02390233 KSVH 221005Z AUTO 00000KT 5SM BR CLR 23/23 A2998 RMK AO2 T02250225 FOGR 221000Z 36006KT 9999 SCT009 OVC025 24/22 Q//// LKNA 221000Z 13009KT 100V160 CAVOK 26/14 Q1015 NOSIG RMK BLU BLU KSUS 220954Z AUTO 22007KT 10SM CLR 28/23 A2985 RMK AO2 SLP096 T02780228 KTMK 221015Z AUTO 00000KT 10SM CLR 11/10 A3018 RMK AO2 KTNB 221015Z AUTO 27004KT 7SM CLR 19/18 A3014 RMK AO2 T01870183 KSUU 220958Z AUTO 23017KT 10SM CLR 15/12 A2983 RMK AO2 SLP108 T01490121 $ KSVN 220958Z AUTO 00000KT 10SM CLR 23/22 A3000 RMK AO2 SLP162 T02280221 $ KSUX 221015Z 08007KT 10SM FEW016 FEW120 24/23 A2981 RMK AO2 RAE01 TSE0959 P0000 T02390228 KSWF 220945Z 00000KT 10SM SCT100 20/19 A2990 KUCY 221015Z AUTO 00000KT 5SM BR 23/23 A2993 RMK A01 VVPB 221000Z 34006KT 9999 FEW015 FEW020CB SCT070 32/26 Q1006 NOSIG KTOA 220250Z 30012KT 10SM FEW009 20/17 A2987 FNSA 221000Z 12005KT CAVOK 29/10 Q1018 LKMT 221000Z VRB02KT 9999 SCT047 27/15 Q1015 NOSIG KTOB 221013Z AUTO 21004KT 1/2SM FG OVC001 20/19 A2982 RMK AO2 KTMT 221015Z AUTO 00000KT 10SM CLR 09/M05 A3019 RMK AO2 T00871055 KTOC 221015Z AUTO 00000KT 10SM CLR 24/24 A3001 RMK AO2 T02430235 KW63 221015Z AUTO 18003KT 7SM CLR 22/22 A2994 RMK AO1 KSWO 220953Z AUTO 20008KT 10SM CLR 27/19 A2989 RMK AO2 SLP105 T02670194 KTOI 220953Z AUTO 00000KT 9SM CLR 22/22 A3002 RMK AO2 SLP160 T02170217 KTPA 220953Z 00000KT 10SM TS FEW025CB SCT090 27/24 A3003 RMK AO2 LTG DSNT SW AND W TSE41B45 SLP169 OCNL LTGIC SW-NW TS SW-NW LTL MOV T02670244 $ KUES 221015Z AUTO 00000KT 10SM OVC007 17/17 A2980 RMK AO2 PWINO LLET 220950Z 01017KT CAVOK 40/17 Q1007 KTOL 220952Z AUTO 17003KT 4SM RA BR SCT110 22/22 A2985 RMK AO2 LTG DSNT SE AND S SLP101 P0009 T02220222 KTNU 221015Z AUTO 06014G19KT 10SM BKN043 BKN060 24/21 A2984 RMK AO2 PWINO LKPD 221000Z 08008KT 9999 FEW031 BKN100 26/17 Q1014 NOSIG RMK BLU BLU KSWW 221015Z AUTO 19008KT 10SM CLR 26/14 A3002 RMK AO2 T02550142 VVPQ 221000Z 27006KT 9999 FEW017 29/24 Q1008 NOSIG KTPF 221015Z AUTO 00000KT 10SM BKN110 27/27 A3004 RMK AO2 KSYF 221015Z AUTO 00000KT 10SM CLR 21/13 A2996 RMK AO2 T02100131 KTOP 220953Z AUTO 21007KT 10SM CLR 28/23 A2981 RMK AO2 SLP082 T02830228 $ KW75 221015Z AUTO 00000KT 10SM CLR 25/23 A2988 RMK AO1 T02460233 KTPH 220956Z AUTO 36007KT 10SM CLR 19/01 A3015 RMK AO2 SLP117 T01890011 KTOR 220953Z AUTO 06007KT 10SM CLR 17/14 A3007 RMK AO2 SLP125 T01670144 KSYI 221015Z AUTO 10003KT 4SM BR CLR 23/22 A2999 RMK A01 KSXS 220958Z AUTO 22003KT 10SM CLR 22/21 A3001 RMK AO2 SLP160 T02240210 LLHA 220950Z 27008KT 210V330 9999 FEW030 31/21 Q1009 KW78 221015Z AUTO 00000KT 1 1/2SM VV007 22/21 A2994 RMK AO1 T02200211 KSXT 220956Z AUTO 02009KT 10SM CLR 15/07 A3020 RMK AO2 SLP175 T01500072 FNUB 221000Z 11006KT CAVOK 24/// Q1026 KTPL 220951Z AUTO 17009KT 10SM CLR 26/22 A2995 RMK AO2 SLP140 T02560222 KSXU 221015Z AUTO 22005KT 10SM CLR 21/12 A3008 RMK AO2 T02060120 KW81 221015Z AUTO 00000KT 10SM CLR 24/21 A2992 RMK AO1 T02350212 FNSU 221000Z 26006KT 6000 FEW012 BKN013 22/// Q1020 KSYM 221010Z AUTO 22007KT 10SM FEW048 FEW055 26/22 A2997 RMK AO2 KUGN 220955Z AUTO 33007KT 10SM BKN015 22/22 A2978 RMK AO2 RAE12B34E52 PRESRR SLP073 P0002 T02220222 $ KSYN 221014Z AUTO 18003KT 10SM BKN004 21/19 A2978 RMK AO2 T02070193 KTQE 221025Z AUTO 36011KT 8SM OVC005 26/24 A2981 RMK AO2 T02560239 FNUE 221000Z 15007KT CAVOK 25/09 Q1025 FNUG 221000Z 27008KT 9999 BKN015 19/16 Q1019 WMSA 221000Z 19006KT 150V240 9999 FEW019 SCT140 BKN280 33/22 Q1008 KTQH 221015Z AUTO 00000KT 10SM CLR 22/20 A2994 RMK AO2 LKPR 221000Z 14007KT 100V170 9999 FEW044 26/16 Q1014 NOSIG KSYR 220954Z 00000KT 10SM BKN190 BKN250 19/16 A2989 RMK AO2 SLP116 T01890156 $ LLIB 220950Z 11007KT 060V160 CAVOK 32/20 Q1009 KSZL 220958Z AUTO 23012KT 10SM CLR 27/23 A2985 RMK AO2 SLP099 T02720233 $ MBPV 221000Z 08005KT 9999 SCT015 26/24 Q1017 GFLL 221000Z 27006KT 9999 BKN012 FEW027CB 26/23 Q1014 RMK CB-NE KW96 221015Z AUTO 00000KT 10SM CLR 23/23 A2989 RMK AO1 T02290229 KTRI 220953Z 00000KT 8SM CLR 21/20 A3003 RMK AO2 SLP141 T02060200 MDAB 212200Z 00000KT 9999 BKN020 BKN300 28/26 Q1015 KSZT 221015Z AUTO 00000KT 10SM CLR 10/06 A3014 RMK AO2 KTRK 221015Z AUTO 00000KT 10SM CLR 07/03 A3025 RMK AO2 KW99 221010Z AUTO 00000KT 5SM BR BKN002 OVC110 20/20 A2997 RMK AO2 LTG DSNT W T02020201 KTRL 220953Z AUTO 18004KT 10SM CLR 26/23 A2993 RMK AO2 SLP129 T02560228 KUIL 220953Z AUTO 15005KT 3SM -RA BR BKN016 OVC021 14/14 A3014 RMK AO2 RAE0858B34 SLP206 P0001 T01440139 KTRM 220952Z AUTO 31003KT 10SM CLR 28/14 A2974 RMK AO2 SLP074 T02780139 KVAD 220958Z AUTO 00000KT 10SM CLR 21/21 A3002 RMK AO2 RAB02E11 SLP166 P0000 T02140207 $ KUIN 220954Z AUTO 23010KT 10SM CLR 28/21 A2980 RMK AO2 SLP081 T02780206 KVAF 221015Z AUTO 20008KT 10SM FEW024 SCT050 BKN065 29/21 A2998 RMK A01 KSZY 221015Z AUTO 24004KT 10SM CLR 24/23 A2996 RMK A01 KTTA 221010Z AUTO 00000KT 10SM SCT070 SCT085 22/21 A2996 RMK AO2 T02210214 LKTB 221000Z 16006KT 120V190 CAVOK 28/16 Q1014 NOSIG FOOB 221000Z /////KT 9999 OVC013 24/20 Q1015 KTTD 220953Z AUTO 07003KT 10SM CLR 17/13 A3014 RMK AO2 SLP207 T01720128 KUKF 221005Z AUTO 00000KT 7SM CLR 21/21 A3004 RMK AO2 KTTF 221015Z AUTO 00000KT 10SM -RA SCT027 SCT033 SCT060 23/22 A2984 RMK AO2 P0001 T02280218 KTSP 221015Z AUTO 00000KT 10SM CLR 13/02 A3009 RMK AO2 KVBG 221003Z AUTO 00000KT 3/8SM R30/1600FT FG VV001 11/11 A2993 RMK AO2 SLP138 MDBH 220000Z 13010KT 9999 FEW018CB SCT018 BKN080 BKN300 29/24 Q1016 CB/NE/E VVTS 221000Z 26009KT 9999 SCT015 FEW017TCU BKN050 30/25 Q1007 NOSIG TCU/NE/E/SE FOOG 221000Z 17010KT 9999 SCT008 OVC026 24/22 Q1017 KUKI 220956Z AUTO 00000KT 10SM CLR 16/11 A2994 RMK AO2 SLP128 T01610106 KVCB 220953Z AUTO 22004KT 10SM CLR 19/12 A2985 RMK AO2 SLP108 T01940122 FOOK 221000Z 00000KT 9999 SCT008 OVC025 23/20 Q1016 FOOL 221000Z 16009KT 9000 SCT010 BKN028 25/21 Q1016 NOSIG KTTN 220953Z 36003KT 10SM CLR 24/22 A2988 RMK AO2 SLP109 T02390217 FOON 221000Z /////KT 9999 OVC011 24/20 Q1017 KVAY 220954Z AUTO 00000KT 5SM BR SCT090 23/23 A2987 RMK AO2 SLP115 T02280228 KTTS 211358Z VRB03KT 7SM FEW130 27/26 A3009 RMK AO2 LTG DSNT E SLP190 T02670260 VISNO RWY15 CHINO RWY15 FOOR 221000Z /////KT 9999 BKN008 25/22 Q//// KVBS 221020Z AUTO VRB06G15KT 10SM FEW028 FEW049 29/24 A2997 RMK A01 KVBT 221015Z AUTO 00000KT 10SM CLR 23/19 A2997 RMK AO1 KUKT 221015Z AUTO 00000KT 10SM CLR 20/20 A2991 RMK AO1 FOOT 221000Z 18002KT 9000 SCT011 BKN033 28/23 Q1016 KTUL 220953Z 20010KT 10SM FEW110 28/21 A2989 RMK AO2 SLP109 T02830211 KTVC 220953Z AUTO 00000KT 10SM OVC060 23/17 A2982 RMK AO2 SLP093 T02280167 KULM 221014Z AUTO 15007KT 10SM SCT005 20/19 A2973 RMK AO2 KVBW 221015Z AUTO 03005KT 4SM CLR 19/19 A2997 RMK AO2 T01870187 KVDF 221015Z AUTO 00000KT 2 1/2SM BR CLR 23/22 A3005 RMK AO2 KTVF 221001Z AUTO 24004KT 8SM BKN036 OVC045 18/18 A2979 RMK AO2 SLP086 T01780178 KTUP 220953Z AUTO 00000KT 10SM CLR 25/22 A2996 RMK AO2 SLP140 T02500222 $ RJAA 221000Z 17007KT 9999 FEW030 BKN/// 28/23 Q1011 NOSIG KTVI 221015Z AUTO 00000KT 10SM SCT002 22/22 A3004 RMK AO2 KVDI 221015Z AUTO 00000KT 10SM CLR 22/22 A3002 RMK AO2 KTUS 220953Z 16005KT 10SM CLR 26/21 A2999 RMK AO2 SLP107 T02560211 KVCT 220951Z AUTO 09003KT 10SM FEW020 24/23 A2996 RMK AO2 SLP141 T02440233 KTVK 221015Z AUTO 22008G16KT 10SM CLR 27/22 A2979 RMK AO2 KTVL 220953Z AUTO 18003KT 10SM CLR 09/06 A3025 RMK AO2 SLP184 T00890056 KVCV 221015Z AUTO 00000KT 10SM CLR 19/03 A2998 RMK AO2 RJAF 220700Z VRB06KT 9999 VCSH FEW040 SCT050 FEW050CB BKN110 29/19 Q1012 LKVO 211200Z VRB05KT CAVOK 27/14 Q1015 KTWF 220953Z AUTO 21010KT 10SM CLR 19/01 A3012 RMK AO2 SLP137 T01940006 MDCY 220000Z 00000KT 7000 -RA FEW016CB BKN016 BKN300 26/25 Q1016 CB/E RJAH 221000Z 18008KT 9999 FEW030 BKN230 28/23 Q1010 KTVR 220953Z AUTO 00000KT 7SM CLR 23/22 A2997 RMK AO2 SLP154 T02330222 KUNI 221015Z AUTO 00000KT 7SM SCT039 22/22 A2992 RMK AO2 LTG DSNT N AND SE T02150215 RJBB 221000Z 22013KT 9999 FEW015 BKN/// 28/26 Q1009 NOSIG KX60 221015Z AUTO 00000KT 9SM CLR 24/23 A3003 RMK A01 RJBD 221000Z 16009KT 9999 FEW030 FEW040CB BKN045 BKN060 28/24 Q1011 KVEL 220953Z AUTO 27003KT 10SM CLR 17/12 A3019 RMK AO2 SLP158 T01720117 RJBE 221000Z 23013KT 9999 FEW020 BKN/// 27/27 Q1010 SABE 221000Z 01007KT 330V030 CAVOK 11/07 Q1019 KTWM 221014Z AUTO 00000KT 10SM CLR 15/12 A2981 RMK AO2 SAAP 211422Z 32003KT 5000 FU NSC 16/05 Q1023 KUNO 220953Z AUTO 22005KT 8SM CLR 24/22 A2996 RMK AO2 SLP128 T02440222 KTVY 221035Z AUTO 18008KT 10SM CLR 20/08 A3007 RMK AO2 SAAR 221000Z 00000KT 4000 MIFG BR NSC 05/05 Q1017 KVER 221015Z AUTO 21006KT 10SM CLR 28/20 A2985 RMK AO2 LTG DSNT NE T02770204 RJAT 212210Z 17003KT 9999 FEW000 BKN012 BKN200 23/23 Q1018 RMK 2ST000 5CU012 6CI200 A3007 RJCB 221000Z 13004KT 090V160 6000 FEW005 SCT015 BKN050 21/20 Q1009 KVES 221015Z AUTO 00000KT 10SM RA BKN008 OVC016 21/21 A2992 RMK AO2 LTG DSNT NE THRU S RJCC 221000Z 35008KT 9999 FEW010 BKN025 22/21 Q1008 EYKA 221020Z VRB03KT 9999 SCT045 BKN054 22/11 Q1017 KTXK 220953Z AUTO 23005KT 10SM CLR 25/23 A2994 RMK AO2 SLP132 T02500233 KUNU 221015Z AUTO 16003KT 10SM OVC006 18/17 A2981 RMK AO2 T01820171 RJAW 220900Z 14006KT 9999 FEW005 SCT015 BKN150 26/24 Q1011 RMK 1ST005 3CU015 7AC150 A2987 KUNV 220953Z 00000KT 8SM SCT100 20/19 A2995 RJCH 221000Z VRB02KT 9000 FEW004 SCT018 BKN020 22/21 Q1008 RJBT 220900Z 13003KT 050V200 9999 FEW000 SCT100 BKN/// 27/24 Q1010 RJCK 221018Z VRB02KT 0600 R17/0750VP2000U FG VV001 18/18 Q1009 RMK A2982 RJDC 221000Z VRB05KT 9999 FEW020 BKN/// 30/27 Q1009 RJCM 221000Z 07003KT 8000 FEW004 BKN009 18/16 Q1010 RJCN 220900Z 05007KT 6000 FEW004 BKN009 BKN025 17/17 Q1010 RJCO 220045Z 34007KT 9999 FEW012 SCT040 BKN230 22/19 Q1010 RMK 1ST012 3CU040 7CI230 A2983 SACO 221000Z 01009KT CAVOK 06/M03 Q1013 SADF 221000Z 36003KT CAVOK 08/05 Q1019 KUOX 221015Z AUTO 00000KT 10SM CLR 24/22 A2999 RMK AO2 KTYQ 221015Z AUTO 20004KT 10SM -RA CLR 22/21 A2990 RMK AO2 LTG DSNT NE AND NW T02200212 FQCH 221000Z 02006KT CAVOK 22/08 Q1023 KTYR 220953Z AUTO 17004KT 10SM CLR 25/24 A2995 RMK AO2 SLP133 T02500239 RJCT 220310Z 23003KT 9999 FEW030 SCT100 30/23 Q1008 RMK 2CU030 4AC100 A2977 FQBR 211600Z 15005KT 9999 FEW020 22/17 Q1019 RJEB 220700Z 07005KT 040V100 9999 FEW005 BKN012 19/17 Q1010 KTYS 220953Z 00000KT 9SM FEW250 23/21 A2999 RMK AO2 SLP141 T02330211 RJEC 221000Z 30005KT 9999 FEW010 SCT080 BKN/// 23/20 Q1009 KVGT 220953Z AUTO 34005KT 10SM CLR 29/08 A2986 RMK AO2 SLP097 T02940083 RJDM 220730Z 13004KT 9999 -SHRA FEW020CB BKN030 BKN200 30/27 Q1009 RETS RMK 2CB020 6CU030 7CI200 A2980 CB 10KM SE MOV SE RJCW 220900Z 02007KT 9999 FEW012 SCT/// 19/16 Q1010 KVIH 220953Z AUTO 19008KT 8SM CLR 24/22 A2991 RMK AO2 SLP113 T02390222 KTZR 221015Z AUTO 16004KT 10SM SCT035 BKN044 BKN065 23/22 A2990 RMK AO2 LTG DSNT N AND NW T02250222 RJDT 221000Z 26005KT 210V300 9999 FEW015 BKN/// 28/25 Q1009 MDJB 212300Z 00000KT 9999 FEW014CB SCT018 BKN070 28/25 Q1016 CB/SW/NW LLSD 220950Z 26010KT 9999 FEW020 30/22 Q1009 RJFF 221000Z 32008KT 9999 FEW020 BKN/// 30/26 Q1009 KUSE 221015Z AUTO 26006KT 3SM +RA FEW005 BKN031 OVC065 22/22 A2988 RMK AO2 RJFG 220900Z 03003KT 320V070 9999 FEW015 28/25 Q1011 KVJI 221015Z AUTO 00000KT 7SM CLR 22/21 A3007 RMK AO2 T02150209 RJFK 221000Z 24005KT 200V280 9999 VCSH FEW004 SCT020 FEW025CB BKN030 28/24 Q1011 RMK 1ST004 3CU020 1CB025 5CU030 A2986 CB 10KM N AND E MOV S KUTA 221015Z AUTO 17004KT 10SM 23/22 A2996 RMK AO2 TSNO KVIS 220956Z AUTO 31004KT 10SM CLR 22/14 A2987 RMK AO2 SLP117 T02170144 KY19 221015Z AUTO 26005KT 10SM CLR 14/14 A2992 RMK AO2 RJFM 221000Z 10003KT 9999 FEW020 FEW025CB SCT050 BKN060 28/25 Q1010 KWAL 220954Z AUTO 23005KT 10SM CLR 26/24 A2987 RMK AO2 SLP110 T02610244 RJFO 221000Z VRB01KT 9999 FEW015 SCT030 BKN040 28/24 Q1009 KY23 221015Z AUTO 00000KT 10SM CLR 17/17 A2982 RMK AO2 T01670167 RJGG 221000Z 14011KT 9999 FEW020 BKN/// 28/24 Q1010 NOSIG SAEZ 221000Z 05005KT CAVOK 10/07 Q1018 RJFR 221000Z 32011KT 9999 FEW015 BKN/// 30/26 Q1009 RJFS 221000Z 28010KT 9999 FEW015 SCT035 BKN/// 31/25 Q1009 RJFT 221000Z 16004KT 110V200 6000 TSRA FEW010 SCT025CB BKN030 29/26 Q1010 RJFU 221000Z 26007KT 230V290 9999 FEW020 SCT025 BKN/// 30/26 Q1009 EYPA 221020Z 05008KT 350V090 9999 FEW046 22/08 Q1019 KY31 221012Z AUTO 00000KT 10SM OVC080 20/19 A2983 RMK AO2 T02010191 KVLD 220953Z AUTO 00000KT 8SM CLR 21/21 A3003 RMK AO2 SLP175 T02110211 KUTS 220953Z AUTO 17004KT 10SM FEW100 26/23 A2997 RMK AO2 SLP142 T02610233 KUVA 221015Z AUTO 00000KT 10SM CLR 23/21 A2997 RMK AO2 T02320209 KVKS 221015Z AUTO 00000KT 10SM 23/22 A2995 RMK A01 KVLL 221015Z AUTO 15005KT 10SM OVC090 26/21 A2987 RMK AO2 T02550205 GGOV 221000Z 32007KT 9999 FEW014 28/24 Q1014 NOSIG KVKY 221015Z AUTO 24008KT 10SM FEW021 28/24 A3001 RMK A01 KWDG 221015Z AUTO 19007KT 10SM CLR 27/20 A2989 RMK AO2 SBAA 212000Z 14005KT CAVOK 37/14 Q1013 MDLR 220300Z 00000KT 9999 FEW016CB SCT016 24/23 Q1018 CB/W/NW KY50 220956Z AUTO 06004KT 10SM OVC012 18/18 A2980 RMK AO2 SLP107 T01830178 KY49 221015Z AUTO 00000KT 3SM BR OVC001 17/17 A2982 RMK AO2 LTG DSNT S THRU NW T01670166 KUUU 220953Z AUTO 00000KT 10SM CLR 19/19 A2984 RMK AO2 SLP102 T01940189 KVNC 221015Z AUTO 11004KT 10SM SCT024 SCT028 26/26 A3003 RMK AO2 LTG DSNT N LMML 221015Z 21008KT 170V250 CAVOK 29/20 Q1018 NOSIG KY51 221015Z AUTO 00000KT 1/4SM OVC002 20/20 A2980 RMK AO1 T02000200 SBAF 221000Z 25002KT 7000 FEW015 BKN020 18/17 Q1022 RJKA 221000Z 33008KT 9999 VCSH FEW015 SCT020 BKN030 28/25 Q1009 KWDR 221015Z AUTO 00000KT 10SM CLR 23/22 A3003 RMK AO1 LTG DSNT SE KVOA 221015Z AUTO 24007KT 10SM CLR 29/24 A3000 RMK A01 EYSA 221020Z 02006KT 310V070 9999 FEW044 SCT054 21/10 Q1019 BLU NOSIG SBAN 221000Z 10006KT CAVOK 17/06 Q1024 SBBE 221000Z 08003KT 9999 FEW020 SCT100 24/22 Q1014 KY63 221016Z AUTO 36013G18KT 10SM SCT010 SCT031 BKN075 20/20 A2987 RMK AO2 LTG DSNT NW THRU NE T01980196 SBBG 212000Z 00000KT CAVOK 17/06 Q1020 FQIN 220800Z 00000KT 9999 FEW020 23/16 Q1022 SBAQ 220200Z 19004KT CAVOK 17/11 Q1024 SBBH 221000Z 00000KT CAVOK 11/09 Q1024 SBBI 221000Z 06005KT 0000 FG VV000 09/09 Q1025 SBAR 221000Z 24004KT 9999 SCT017 23/20 Q1019 SBCA 212200Z 00000KT CAVOK 16/09 Q1023 SBAT 212100Z 13005KT CAVOK 33/14 Q1015 SBCB 221000Z 00000KT 9999 SCT020 BKN070 22/21 Q1021 SBAU 212300Z 20003KT CAVOK ///// Q1020 SBCC 212000Z 12009KT CAVOK 32/11 Q1016 KVOK 221023Z AUTO 00000KT 1SM R27/2200FT BR OVC002 19/19 A2979 RMK AO2 VIS 1V1 1/2 SLP087 KY70 221014Z AUTO 12003KT 10SM SCT035 BKN041 OVC050 22/20 A2982 RMK AO2 T02150195 KVPC 220953Z AUTO 00000KT 5SM BR CLR 23/23 A3000 RMK AO2 SLP145 T02280228 KUXL 221015Z AUTO 00000KT 10SM CLR 26/25 A2998 RMK AO2 LTG DSNT SW T02590253 MDPC 221000Z 07006KT 9999 FEW016CB FEW018 SCT070 26/24 Q1016 CB/SW SBAX 212200Z 27003KT CAVOK ///// Q1024 SBCF 221000Z 14004KT 9999 FEW025 13/10 Q1024 KUYF 221015Z AUTO 18005KT 7SM SCT038 SCT085 SCT110 23/22 A2989 RMK AO2 LTG DSNT W THRU NE SBCG 221000Z 06008KT CAVOK 15/07 Q1021 SBBQ 221000Z 11002KT 8000 NSC 08/07 Q1027 SBCH 220900Z 08004KT CAVOK 09/07 Q1022 KVNY 220951Z 13003KT 10SM CLR 20/16 A2992 RMK AO2 SLP120 T02000156 SBCI 212000Z 11004KT 9999 FEW030 36/15 Q1013 SBBR 221000Z 00000KT CAVOK 11/09 Q1024 SBCJ 221015Z 00000KT CAVOK 19/16 Q1019 KUZA 220954Z AUTO 23003KT 8SM CLR 23/21 A2999 RMK AO2 SLP140 T02280211 SBBU 220900Z 06007KT CAVOK 16/09 Q1022 FPST 221000Z 18014KT 9999 FEW020 BKN040 27/21 Q1016 NOSIG SBBV 221000Z 30002KT 9999 VCSH SCT004 SCT015 FEW020TCU OVC070 2 4/23 Q1015 SBBW 220000Z /////KT CAVOK 20/10 Q1020 SAME 221000Z 00000KT CAVOK 04/M01 Q1009 FQLC 221000Z 35003KT 9999 SCT025 21/08 Q1024 SBCO 221000Z 00000KT 0500 R12/0700 R30/0800 FG NSC 03/02 Q1024 SBCP 221000Z 32002KT CAVOK 17/16 Q1021 MDPP 220900Z 00000KT 9999 FEW014CB SCT016 BKN300 24/24 Q1015 CB/E/N SBCR 221000Z 12002KT CAVOK 17/14 Q1017 SBCT 221015Z 02003KT 0300 R33/0275 R15/0300 FG OVC001 08/08 Q10 25 KVPS 220955Z 00000KT 10SM SCT016 25/24 A3000 RMK AO2A SCT V BKN SLP165 T02380236 $ KVRB 220953Z AUTO 21004KT 10SM CLR 24/23 A3005 RMK AO2 SLP175 T02390228 FQMA 221000Z 35010KT CAVOK 27/10 Q1017 NOSIG RMK QNH TEND Q1016 SBDN 220900Z 08003KT CAVOK 16/06 Q1020 SBCX 211800Z 30008KT CAVOK 15/10 Q1022 RJNG 211548Z 11002KT 9999 FEW020 SCT030 26/24 Q1013 RMK 1CU020 3CU030 A2993 SBEG 221000Z 00000KT 9999 FEW007 23/22 Q1015 SBCY 221000Z 34003KT CAVOK 15/14 Q1018 KWHP 220255Z 12005KT 10SM SKC 27/14 A2991 RMK LAST SBCZ 220745Z 00000KT CAVOK 18/18 Q1016 KVQQ 221015Z AUTO 00000KT 10SM CLR 21/21 A3003 RMK AO2 KVPZ 221015Z AUTO 26008KT 9SM -RA BKN008 BKN070 OVC120 23/22 A2986 RMK AO2 RAB12 CIG 005V025 P0000 T02280217 TSNO $ RJOA 221000Z 15003KT 9999 FEW020 BKN/// 27/26 Q1011 SBEK 212100Z 18001KT CAVOK 38/21 Q1012 RJOB 221000Z VRB01KT 9999 -SHRA FEW020 SCT090 BKN110 27/24 Q1010 RJNK 221000Z VRB01KT 9999 FEW030 SCT180 BKN250 30/20 Q1009 RJOC 221000Z 25009KT 9999 FEW015 SCT050 BKN080 29/25 Q1009 SAOC 221000Z 32006KT CAVOK 07/M03 Q1011 KVQT 221015Z AUTO VRB04G10KT 10SM CLR 30/24 A2999 RMK A01 MDSD 221000Z 02004KT 9999 FEW016CB FEW016 SCT070 24/23 Q1016 CB/E/SE/S/SW RJOF 220937Z 07005KT 040V100 9999 TS FEW020 FEW030CB BKN230 29/25 Q1009 RMK 1CU020 1CB030 A2981 FBL TS NE KVSF 220954Z AUTO 00000KT 10SM CLR 15/13 A2988 RMK AO2 SLP116 T01500133 KWJF 220956Z AUTO 27004KT 10SM CLR 19/02 A2995 RMK AO2 SLP119 T01890017 RJOH 221000Z 17005KT 140V200 9999 FEW010 BKN015 BKN025 29/21 Q1009 SANR 220900Z 05004KT 5000 BR NSC 01/00 Q1014 SBFI 221000Z 12008KT CAVOK 10/08 Q1020 RJOI 220955Z 12005KT 9999 FEW025 SCT045 BKN100 29/26 A2981 RMK SHRAE41 CB DSNT NW SLP094 WR P0002 T02890261 SBES 221000Z /////KT 9999 SCT045 BKN100 ///// Q1021 RJNS 221000Z 20005KT 9999 -SHRA FEW008 SCT025 BKN/// 27/24 Q1011 RJOK 221000Z 22003KT 9999 FEW010 SCT060 BKN/// 28/25 Q1010 RJNT 221000Z 12004KT 080V180 9999 FEW030 SCT100 BKN/// 29/24 Q1009 SANT 221000Z 27008KT CAVOK 07/00 Q1014 KVTA 221001Z AUTO 00000KT 9SM SCT040 BKN055 22/21 A2990 RMK AO2 LTG DSNT NW RAE0959 P0000 T02220211 SBFL 221000Z 30005KT CAVOK 11/09 Q1024 RJOM 221000Z VRB02KT 9999 FEW030 BKN090 BKN/// 28/23 Q1009 SBFN 221000Z 12013KT 9999 FEW023 27/22 Q1017 RJNW 221000Z VRB01KT CAVOK 26/23 Q1010 LOAN 221000Z 02007KT 35KM FEW070CU SCT120AC BKN300CI RJOO 221000Z 24010KT 9999 FEW015 BKN/// 30/22 Q1009 RJOP 220246Z 13011KT 9999 FEW025 SCT230 32/25 Q1011 RMK 1CU025 A2987 RJNY 220849Z 19007KT 9999 FEW012 FEW030CB BKN230 28/24 Q1010 RETS RMK 1CU012 1CB030 A2985 CB N FQNP 211600Z 22004KT 9999 BKN020 23/13 Q1017 RJOR 221000Z VRB01KT 9999 FEW030CB SCT070 BKN/// 29/24 Q1009 SBFS 221000Z /////KT 0500 NSC ///// Q//// KVTI 221015Z AUTO 24009G18KT 10SM -RA SCT019 SCT026 SCT034 23/20 A2974 RMK AO2 T02310204 RJOT 221000Z 21004KT 9999 FEW025 BKN/// 28/26 Q1010 VYMD 220930Z 08010KT 6000 BKN018 FEW020CB BKN100 32/27 Q1002 MDST 221000Z 15003KT 9999 SCT016 22/22 Q1016 SBGL 221000Z 26007KT 9999 FEW015 SCT100 20/17 Q1022 SBGM 211900Z 23004KT CAVOK 32/16 Q1015 FQPB 211630Z 15013KT 9999 FEW020 BKN100 25/18 Q1016 LOAV 221000Z 08007KT 25KM FEW035CU BKN100AC 26/16 RJOW 221000Z 23002KT 9999 FEW015 BKN030 BKN/// 29/26 Q1010 KWLD 220954Z AUTO 19006KT 10SM CLR 27/21 A2990 RMK AO2 SLP107 T02720206 KVTN 220952Z AUTO 30004KT 10SM CLR 20/13 A2994 RMK AO2 SLP111 T02000128 SBGO 221000Z 00000KT CAVOK 13/11 Q1022 RJOY 221000Z 29007KT 9999 FEW030 BKN/// 31/23 Q1009 RJOZ 220651Z 28010KT 240V310 9999 FEW030 BKN/// 33/25 Q1009 RMK 2CU030 A2981 SBFZ 221000Z 14007KT CAVOK 24/22 Q1017 KXBP 221015Z AUTO 00000KT 10SM CLR 25/20 A2994 RMK AO2 T02460203 SBGR 221000Z 36003KT 2500 BR OVC002 12/12 Q1025 KVUJ 221005Z AUTO 00000KT 10SM CLR 22/22 A3002 RMK AO2 T02220217 SBIC 212100Z 18004KT 9999 FEW018 30/24 Q1013 SARC 221000Z 09004KT CAVOK 10/07 Q1018 KWMC 220956Z AUTO 03011KT 10SM CLR 23/01 A3010 RMK AO2 SLP130 T02280011 SBGW 221000Z VRB01KT 0800 FG OVC001 10/09 Q1024 SARE 221000Z 07003KT CAVOK 08/07 Q1018 SARF 221000Z 00000KT CAVOK 07/06 Q1018 KVUO 220953Z AUTO 00000KT 10SM CLR 18/13 A3014 RMK AO2 SLP208 T01830128 SBIH 212100Z 00000KT CAVOK 33/21 Q1011 KVVG 221010Z AUTO 00000KT 10SM 23/23 A2995 RMK A01 SARI 221000Z 05005KT CAVOK 08/08 Q1021 RJSA 221000Z 20003KT 9999 FEW005 BKN008 BKN010 22/21 Q1009 SASA 221000Z 00000KT CAVOK 01/M01 Q1018 SBHT 221000Z 00000KT 9999 FEW010 BKN080 23/23 Q1014 RKJB 221000Z 21008KT 9000 FEW030 BKN180 29/26 Q1009 NOSIG SBIL 220900Z 28004KT 9999 FEW025 18/18 Q1020 RJSC 221000Z 36005KT 9999 FEW010 SCT100 BKN/// 26/24 Q1009 SARL 221000Z 09007KT 8000 NSC 06/05 Q1020 FQQL 211500Z 16008KT 140V200 9999 FEW020 SCT100 25/16 Q1018 SBJF 212200Z 00000KT 9999 SCT020 19/12 Q1024 RJSF 221013Z 16004KT 9999 VCSH FEW030CB SCT050 BKN120 25/23 Q1012 RMK 1CB030 3CU050 6AC120 A2990 CB 15KM S-SW MOV E SBIP 220200Z 22002KT CAVOK 14/13 Q1021 SARP 221000Z 11005KT CAVOK 10/07 Q1020 RJSH 220911Z 34005KT 300V030 3100 BR SCT004 BKN008 BKN015 23/21 Q1008 RMK 3ST004 5ST008 7CU015 A2977 RJSI 221000Z 17005KT 6000 -SHRA FEW006 SCT010 BKN015 24/23 Q1009 SASJ 221000Z 34007KT CAVOK 05/01 Q1018 SCBA 221000Z AUTO 28009KT 9999 -RA VV/// 03/01 Q0995 RJSK 221000Z 15003KT 120V210 9000 -SHRA FEW001 SCT004 BKN015 23/22 Q1009 RKJK 220958Z AUTO 21007KT 10SM CLR 29/26 A2977 RMK AO2 SLP085 T02920261 $ HAAB 220800Z 24005KT 8000 FEW004 BKN025 BKN080 16/13 Q1028 RJSN 221000Z 26006KT 9999 FEW050 SCT070 BKN/// 29/23 Q1009 KVVV 221013Z AUTO 00000KT 10SM CLR 21/18 A2982 RMK AO2 RJSO 220352Z 03010KT 9999 SCT010 BKN015 BKN100 23/21 Q1008 RMK 3ST010 6CU015 7AC100 A2977 RJTF 220800Z 19009KT 150V230 9999 FEW030 SCT/// 30/21 Q1010 SBKG 221000Z 17007KT 8000 SCT008 BKN011 20/20 Q1020 SBJP 221000Z 21007KT 9999 FEW015 SCT020 23/23 Q1018 SBIZ 221000Z 00000KT 9999 BKN020 23/21 Q1015 SBJR 221000Z 24001KT 9999 SCT012 BKN015 BKN020 20/19 Q1022 RJTI 220700Z 19013KT 9999 FEW030 BKN/// 30/24 Q1010 RJSR 221000Z 29004KT 9999 FEW005 SCT010 BKN015 24/24 Q1008 SCAR 221000Z 06005KT CAVOK 12/08 Q1016 SCAS 212000Z 24008KT 9000 -RA OVC033 11/09 Q1004 RJSS 221000Z 06007KT 9999 FEW008 SCT050 BKN130 25/23 Q1009 SBLB 221000Z 36007KT CAVOK 23/19 Q1021 W///S3 SCAT 221000Z AUTO 02005KT 8000 // ///017 12/10 Q1020 RJSU 212145Z 15002KT 9999 FEW030 BKN080 25/23 Q1010 RMK 1CU030 5AC080 A2985 SCCC 212000Z 30007KT 9999 FEW040 SCT090 10/05 Q1001 SBJU 220900Z 16002KT 9999 FEW010 SCT019 22/18 Q1021 KVWU 212245Z AUTO 34007KT 10SM TSRA SCT050 OVC065 19/18 A2989 RMK AO2 P0002 LTG DSNT ALQDS SBJV 220900Z 32003KT CAVOK 09/09 Q1023 SBLE 212100Z 35004KT CAVOK 23/16 Q1020 RJTO 220800Z 21012KT 9999 FEW015 BKN/// 28/25 Q1011 SCCF 221000Z 10016KT CAVOK 00/M21 Q1027 RJSY 221000Z 24004KT 9999 -TSRA FEW015 FEW020CB SCT030 BKN040 27/23 Q1009 SBKP 221000Z 16005KT 7000 NSC 13/10 Q1024 SCCH 221000Z AUTO 04007KT 4000 -DZ BR BKN009 BKN013 OVC036 10/10 Q1014 SATR 211135Z 02002KT 5000 BR NSC 04/04 Q1021 SCCI 221000Z 00000KT 9999 -RA SCT030 OVC080 02/02 Q0984 NOSIG SBMA 221000Z 00000KT CAVOK 23/22 Q1015 SCDA 221000Z 09008KT 9999 SCT025 14/08 Q1017 RJTT 221000Z 19017KT 9999 FEW013 BKN/// 28/25 Q1010 NOSIG SAVC 222200Z 00000KT CAVOK 12/07 Q1003 SBMD 212000Z 07002KT 9999 FEW025 30/23 Q1012 SBME 221000Z 34001KT CAVOK 14/14 Q1021 SBLO 221000Z 16002KT CAVOK 13/09 Q1023 SBLP 211900Z 15005KT 9999 FEW030 33/10 Q1016 SBMG 221000Z 35001KT CAVOK 14/07 Q1020 RJTY 220958Z AUTO 18011KT 10SM FEW130 28/23 A2985 RMK AO2 SLP103 T02760227 SBLS 221000Z 18008KT CAVOK 13/11 Q1024 SBMK 220900Z 10002KT CAVOK 13/07 Q1022 KVYS 221015Z AUTO 17006KT 3SM VCTSRA SCT035 BKN047 OVC065 21/19 A2990 RMK AO2 LTG DSNT ALQS P0012 T02050191 SBML 212300Z 21007KT CAVOK 21/09 Q1022 KWRB 220958Z AUTO 15004KT 10SM CLR 22/22 A3000 RMK AO2 SLP158 T02240217 FQTT 211600Z 13008KT 9999 SCT025 25/07 Q1018 SAWE 221000Z 36004KT 0000 FG VV/// 01/01 Q0985 SBMN 221000Z 35006KT 9999 FEW008 25/22 Q1015 SBNF 221000Z 25008KT 9000 SCT025 10/10 Q1024 SBMO 221000Z 26004KT 9999 FEW010 SCT020 22/21 Q1019 SCCY 221019Z AUTO 33003KT 290V100 3700 -RASN FEW002 OVC037 04/03 Q0996 SAWG 221000Z 32008KT 290V370 9999 FEW030 SCT080 03/M01 Q0986 SAWH 221000Z 32002KT 9999 VCSH BKN020 OVC080 02/00 Q0984 SBMQ 221000Z 29003KT CAVOK 26/26 Q1014 KXIH 221015Z AUTO 24012KT 10SM FEW026 FEW060 31/24 A2995 RMK A01 SBMS 212100Z 15005KT 9999 BKN020 BKN100 26/21 Q1015 KWRI 220958Z AUTO 00000KT 10SM CLR 23/21 A2986 RMK AO2 SLP110 T02250214 SCFA 221000Z 28003KT 9999 OVC026 14/09 Q1018 NOSIG SBMT 221000Z 15003KT 4000 BR SCT009 BKN010 15/12 Q1025 SCEL 221000Z 32004KT 1500 0800NW R17L/1500U R17R/1700U BCFG OVC003 08/08 Q1016 NOSIG SBNM 211900Z 27006KT CAVOK 20/10 Q1021 KWRL 220953Z AUTO 35004KT 10SM CLR 19/02 A3008 RMK AO2 SLP135 T01940017 FQVL 221000Z 12006KT 070V150 9999 SCT020 25/18 Q1020 SBMY 212100Z 18002KT 9999 FEW020 SCT100 32/21 Q1014 SBOI 212000Z 25007KT 9999 FEW030 FEW032TCU SCT100 27/23 Q1012 SBPA 221000Z 00000KT 3000 BCFG BR NSC 05/05 Q1024 SBPB 212145Z 10006KT 9999 SCT017 FEW025TCU 28/24 Q1013 SAWT 211330Z 34008KT 9999 -RA BKN025 OVC100 02/M01 Q0991 SBNT 221000Z 17005KT 9999 -RA SCT008 SCT015 BKN049 23/22 Q1017 SBPC 212000Z 31004KT 9999 SCT021 20/10 Q1024 RKPC 221000Z 27008KT CAVOK 31/23 Q1009 NOSIG SCFM 212100Z 08009KT 9999 -RA BKN020 03/01 Q0990 SCGE 212200Z 00000KT CAVOK 15/13 Q1013 SBPF 212300Z 08002KT CAVOK 16/07 Q1023 RKNY 221000Z 26004KT 7000 -RA SCT007 BKN025 OVC100 21/21 Q1009 NOSIG LPAR 211600Z /////KT 9999 FEW035 25/14 Q1015 SBPJ 221000Z 13003KT CAVOK 21/16 Q1017 SBPK 221015Z 00000KT 5000 BR NSC 06/06 Q1023 LPBJ 221000Z 34010KT 290V010 9999 FEW045 22/11 Q1017 SCFT 221000Z AUTO VRB02KT CAVOK 08/03 Q1001 RKPK 221000Z 15007KT 9999 FEW040 BKN200 29/23 Q1008 NOSIG MGCB 220000Z 00000KT 9999 SCT018 BKN200 21/19 QFE 871.3 SBPL 221000Z 16011KT 9999 SCT023 BKN070 22/16 Q1021 KWST 220953Z AUTO 00000KT 10SM CLR 22/18 A2985 RMK AO2 SLP108 T02170178 SBPP 212200Z 00000KT CAVOK 22/12 Q1021 SBPR 221000Z 00000KT CAVOK 17/11 Q1024 LPAZ 221000Z 14004KT 090V200 9999 FEW008 SCT020 BKN040 21/20 Q1024 SBPS 221000Z 28005KT 8000 SCT004 19/19 Q1021 SBRB 221000Z 00000KT CAVOK 15/13 Q1016 SCIC 221000Z AUTO 05005KT 3700 BR OVC012 10/10 Q1016 SAZM 220900Z 36006KT CAVOK 07/06 Q1018 SBPV 221000Z 00000KT CAVOK 20/18 Q1014 KXLL 221015Z AUTO 00000KT 7SM CLR 22/21 A2991 RMK AO2 SAZN 221000Z 18001KT CAVOK 02/01 Q1006 SCIE 221000Z 36005KT 9999 BKN015 10/10 Q1014 SBRF 221000Z 22005KT 9999 VCSH BKN010 BKN050 24/23 Q1018 SCGZ 211900Z 10016KT 9999 SCT033 BKN055 BKN076 07/00 Q0995 SCHR 212000Z 30010KT 9999 SCT035 BKN200 11/02 Q0997 SAZS 221000Z 29015KT CAVOK 08/02 Q1005 KWVI 221016Z AUTO 00000KT 10SM BKN005 10/10 A2995 RMK AO2 CIG 003V006 T01000100 SBRJ 221000Z 04004KT 6000 SCT025 19/19 Q1022 LPCS 221000Z 33014KT 9999 FEW022 23/15 Q1018 KXNA 220953Z AUTO 00000KT 10SM CLR 23/21 A2996 RMK AO2 SLP126 T02280211 SBSC 221000Z 25006KT 9999 SCT012 BKN020 20/19 Q1022 FSIA 221000Z 14015KT 9999 FEW011 SCT016 28/24 Q1011 NOSIG SBQV 221000Z 12005KT 0300 FG VV001 14/13 Q1025 KWVL 220956Z AUTO 00000KT 10SM CLR 18/15 A2979 RMK AO2 SLP111 T01830150 KWWD 220955Z AUTO 04004KT 10SM CLR 23/23 A2988 RMK AO2 SLP118 T02330228 SAZY 211420Z 00000KT 9999 FEW010 BKN200 05/04 Q1015 RKSG 220958Z AUTO 28006KT 5SM BR SCT060 BKN200 30/28 A2976 RMK AO2A SLP078 T03010276 $ SBSG 221000Z 22004KT 9999 VCSH FEW006 SCT015 BKN100 22/22 Q1017 SBRP 221000Z 12004KT CAVOK 12/10 Q1022 SCIP 221000Z 15009KT 9999 FEW020 16/08 Q1027 NOSIG SCIR 212000Z 18008KT 9999 OVC015 13/10 Q1017 RKSI 221000Z 22009KT 180V240 6000 2700N BKN040 OVC180 27/24 Q1008 NOSIG SBTA 220900Z 24002KT 6000 NSC 12/10 Q1023 SBSJ 221000Z 21002KT 7000 FEW005 10/09 Q1025 KXMR 220958Z AUTO 00000KT 10SM CLR 23/23 A3004 RMK AO2 SLP176 T02310226 $ SBTC 212000Z 16004KT 9999 SCT010 BKN070 24/21 Q1020 SBSL 221000Z 12008KT 9999 FEW017 SCT090 26/22 Q1015 SBSM 221000Z 08002KT 0900 R11/0900 R29/0900 FG NSC 04/04 Q1022 RKSM 220900Z 22006KT 9999 FEW030 SCT050 BKN200 32/26 A2976 RMK CIG200 SLP076 8/508 9/303 SBSN 221000Z 00000KT 9999 SCT017 BKN100 25/24 Q1014 SBTE 221000Z 13003KT CAVOK 26/20 Q1016 SCJO 212200Z 01005KT 320V050 9999 SCT040 BKN200 13/08 Q1012 SBTF 212245Z 00000KT CAVOK 26/22 Q1014 RKSO 220955Z 25002KT 4SM HZ BKN065 BKN110 31/25 A2976 RMK SLPNO AO2A WND DATA ESTMD ALSTG ESTMD $ KXNO 220958Z AUTO 00000KT 10SM CLR 22/22 A3000 RMK AO2 SLP158 T02240218 $ SBSP 221000Z 14005KT 9999 BKN008 13/12 Q1026 SBSR 221000Z 17002KT CAVOK 16/08 Q1023 SBUA 212000Z 21002KT CAVOK 28/22 Q1014 RKSS 221000Z 24003KT 160V260 9999 BKN040 OVC120 30/24 Q1008 NOSIG KWWR 221015Z AUTO 19013G18KT 10SM CLR 27/15 A2995 RMK AO2 SBST 220900Z 35003KT 1500 BR OVC033 18/15 Q1023 SBTK 212200Z 21002KT CAVOK 30/16 Q1015 MGES 220000Z 03004KT 9999 BKN016 SCT090 24/19 QFE 909.5 LPFL 221000Z VRB04KT 9999 SCT030 22/15 Q1025 SBSV 221000Z 13006KT 9999 FEW020 23/18 Q1020 RKTN 221000Z 17007KT 9999 BKN030 BKN200 26/25 Q1008 NOSIG SBUF 211900Z 15010KT 9999 FEW020 BKN070 25/19 Q1018 SBUG 221000Z 05005KT CAVOK 07/03 Q1020 SBSY 220900Z AUTO 20003KT CAVOK 07/07 Q1023 LPFR 221000Z 20008KT 140V250 CAVOK 25/11 Q1015 SBTT 212300Z 11002KT CAVOK 26/19 Q1015 SBTU 212100Z /////KT 9999 FEW030 SCT080 ///// Q1015 SBUL 220900Z 11008KT CAVOK 16/07 Q1023 RKTU 221000Z 23006KT 9999 FEW030 BKN200 30/25 Q1008 NOSIG VYYY 221000Z 21006KT 6000 BKN012 FEW016CB OVC090 26/25 Q1006 SBVH 212300Z 07003KT 9999 FEW030 24/16 Q1019 SBUR 220900Z 13006KT CAVOK 17/17 Q1023 SCMK 212200Z 36005KT 9000 -RA OVC006 11/10 Q1005 RERA KWYS 221015Z AUTO 00000KT 10SM CLR 03/M01 A3030 RMK AO2 MGGT 221000Z 36010KT 9999 BKN012 18/16 Q1025 A3027 KXPY 221015Z AUTO 22004KT 10SM CLR 29/24 A2999 RMK A01 YABA 221030Z AUTO 32005KT 9999 // NCD 09/08 Q1015 LPHR 221000Z 13006KT 9999 FEW020 22/14 Q1025 KXSA 221015Z AUTO 23003KT 10SM CLR 23/23 A2990 RMK AO2 T02320232 SBVT 221000Z 02003KT CAVOK 17/17 Q1021 MGHT 221000Z 18008KT 9999 BKN018 16/14 QFE 820.8 WSAP 221000Z 20008KT 9999 FEW022 BKN300 32/22 Q1008 KYIP 220953Z 25004KT 10SM -RA BKN065 BKN120 23/22 A2987 RMK AO2 RAB08 SLP106 P0000 T02330222 SCNT 211900Z 18006KT 9999 BKN016 BKN200 04/02 Q0987 MHAM 220000Z 00000KT CAVOK 31/24 SCON 221000Z AUTO 33004KT 270V010 6000 RA VV014 10/09 Q1001 LPLA 221000Z 07004KT 9999 FEW025 SCT030 21/16 Q1026 MHCA 220600Z 00000KT 9999 SCT028 23/20 HZ LQBK 221000Z 12006KT CAVOK 32/15 Q1013 NOSIG KYKM 220953Z AUTO 24004KT 10SM CLR 17/12 A3011 RMK AO2 SLP189 T01720117 KYKN 220956Z AUTO 03004KT 10SM CLR 22/21 A2983 RMK AO2 SLP103 T02170206 PWINO SCPQ 221000Z AUTO 34019KT 9999 -RA BKN005 OVC010 09/08 Q1003 RERA MHCH 220000Z 00000KT 9999 SCT030 BKN080 29/23 HZ SBYS 221000Z 11002KT 5000 2300E BR NSC 07/07 Q1023 LPMA 221000Z 02015KT 350V060 9999 FEW016 24/15 Q1022 SCRD 212200Z 30009KT 9000 OVC018 11/09 Q1016 SCRG 212100Z 19010KT CAVOK 19/08 Q1014 SCQP 221000Z 35006KT 9999 FEW028 07/07 Q1011 KXVG 221015Z AUTO 00000KT 2SM BR OVC002 18/17 A2983 RMK AO2 VIS 1 1/2V3 LTG DSNT NW FSPP 221000Z 17010KT //// //// 28/24 Q1012 SCRM 221000Z 08011KT 9999 -SN FEW006 BKN009 OVC014 M13/M15 Q1014 MGMM 221000Z 00000KT 9999 SCT014 24/23 Q1016 A3000 SCSE 221000Z 10004KT 9999 OVC020 12/09 Q1019 LOWG 221020Z VRB03KT 9999 FEW060 FEW070TCU 29/16 Q1014 NOSIG KYNG 220951Z 13005KT 10SM BKN150 OVC210 20/18 A2992 RMK AO2 SLP123 T02000183 LPMR 221000Z 33010KT 290V010 9999 FEW018 BKN035 22/14 Q1018 LOWI 221020Z VRB03KT 9999 FEW040 SCT110 23/16 Q1017 NOSIG SCTB 212200Z 24004KT 8000 NSC 17/07 Q1015 MGMT 220000Z 00000KT CAVOK 30/25 QFE 1008.4 SCT070 BKN200 LPMT 221000Z 01011KT 330V030 9999 FEW030 25/15 Q1017 LOWK 221020Z VRB03KT 9999 FEW060 27/15 Q1015 NOSIG SEAM 212300Z 14006KT 9999 FEW040 17/11 Q1029 LOWL 221020Z 27010KT 9999 FEW030 BKN120 23/15 Q1016 NOSIG SCSN 221000Z AUTO 04005KT 360V060 9999 OVC026 12/09 Q1017 SCTE 221000Z 36015KT 8000 -RA OVC015 09/08 Q1006 NOSIG SECA 212300Z 12013KT 090V160 9999 FEW040 26/11 Q1017 LOWS 221020Z 26004KT 210V350 9999 FEW042 BKN110 24/16 Q1017 NOSIG MGPB 221000Z 00000KT 9999 SCT018 SCT200 25/24 Q1013 A2991 LPPD 221000Z 03007KT 360V070 9999 FEW008 SCT013 BKN030 21/18 Q1025 SCTN 221000Z AUTO 35020G31KT 7000 BKN035 10/09 Q1003 LOWW 221020Z VRB04KT CAVOK 28/17 Q1014 NOSIG LOXT 220950Z 23008KT 190V280 40KM FEW040CU SCT300CI 28/17 Q1014 SCT SCVD 220200Z 35004KT 9999 OVC020 10/09 Q1012 LPOV 221000Z 30004KT 9999 FEW015 BKN022 20/16 Q1018 SECO 212300Z 17003KT 9999 FEW026 28/20 Q1015 LOXZ 220950Z VRB02KT 30KM FEW060CU BKN130AC 27/12 Q1015 BKN LPPR 221000Z 29004KT 230V350 9999 SCT012 20/16 Q1018 LPPS 221000Z 02012KT 9999 SCT015 22/16 Q1022 SECU 220400Z 03004KT 9999 FEW030 SCT100 13/08 Q1028 LPPT 221000Z 34013KT 300V010 9999 FEW032 24/14 Q1017 SCVM 221000Z 01004KT 9999 OVC025 11/09 Q1017 YBAF 221000Z AUTO 00000KT 9999 // NCD 13/08 Q1021 RMK MGQZ 220000Z 05016KT 9999 SCT020 OVC080 16/10 QFE 773.7 YBAS 221000Z AUTO 10005KT 9999 // NCD 18/M04 Q1020 MGSJ 220000Z 00000KT 9999 FEW016 BKN070 29/25 Q1011 A2985 SCT200 MGRT 220000Z 00000KT 9999 -DZ SCT0128 OVC090 25/24 Q1013 A2991VOL. STA. MARIA Y SANTIAGUITO EN ACTIVIDAD YBBN 221000Z 00000KT CAVOK 13/10 Q1021 LRBC 221000Z 36007KT 330V050 CAVOK 30/20 Q1014 YBCG 221000Z AUTO 23003KT 9999 // NCD 12/09 Q1021 YBCK 221000Z AUTO 00000KT //// // ////// 12/M02 Q1019 RMK LRAR 221000Z 32007KT 280V360 9999 FEW050CB 33/14 Q1015 YAMB 221000Z AUTO /////KT 9999 // NCD 10/08 Q1021 LPST 211600Z 32017G27KT 9999 SCT023 21/14 Q1017 MHLC 220600Z 14004KT 9999 FEW028 SCT200 26/25 Q1015 A2997 NOSIG LRBM 221000Z 28008KT 250V330 9999 FEW042 29/19 Q1015 YBDG 221000Z AUTO 07004KT 9999 // SCT084 OVC100 08/03 Q1016 MHLE 220000Z 03002KT 9999 FEW024 BKN200 18/15 LRBO 221000Z 21012KT 9999 FEW040 30/18 Q1014 BLU BLU YBCS 221000Z 16009KT 9999 FEW025 21/17 Q1018 NOSIG SEGS 220000Z 15018KT 9999 FEW023 23/18 Q1012 A2988 LRBS 221000Z 27008KT 230V320 CAVOK 32/16 Q1015 NOSIG YBCV 221000Z AUTO 15005KT 9999 // NCD 13/M04 Q1020 LRCK 221000Z 18010KT CAVOK 33/02 Q1016 NOSIG SEGU 221000Z 22013KT 9999 FEW010 BKN026 BKN100 22/18 Q1013 NOSIG RMK A2991 LRCL 221000Z VRB03KT 9999 FEW036 31/13 Q1015 MHLM 221000Z 00000KT 9999 FEW024 24/24 Q1014 A2995 NOSIG YANG 221000Z AUTO 12004KT 9999 // NCD 21/02 Q1018 YBDV 221000Z AUTO 19003KT //// // ////// 16/M03 Q1020 LRCT 221000Z 15004KT 9999 FEW050 31/17 Q1016 BLU BLU SEJD 212100Z 08006KT 9999 SCT020 SCT040 29/21 Q1016 LRCV 221000Z 18006KT CAVOK 33/14 Q1015 LQMO 221000Z VRB04KT CAVOK 35/14 Q1013 BGBW 220950Z 22006KT 9999 BKN005 07/05 Q1010 ROAH 221000Z 29005KT 270V340 9999 FEW025 31/24 Q1010 RMK 1CU025 A2984 YBGD 221000Z AUTO 18004KT 9999 // NCD 22/03 Q1017 RMK SFAL 211650Z 01008KT 9999 BKN003 03/02 Q1012 GMAD 221000Z 27003KT 140V310 CAVOK 24/15 Q1013 NOSIG MHNO 212300Z 35002KT 9999 BKN035CB 27/22 CB E SE S SW VCSH S TCU TDS HZ GMAG 221000Z 24004KT 9999 FEW016 20/18 Q1013 NOSIG FTTA 221000Z 22006KT 9999 FEW030 BKN040 29/24 Q1014 FTTC 220900Z 00000KT CAVOK 29/21 Q1014 FTTD 220700Z 00000KT 9999 FEW030 25/22 Q1014 HDAM 220700Z 28018KT 5000 HZ NSC 39/22 Q1005 YBHI 221000Z AUTO 04008KT 9999 // NCD 11/M05 Q1018 KZPH 221035Z AUTO 00000KT 7SM CLR 22/22 A3006 RMK AO2 LTG DSNT SW THRU NW T02200219 MGZA 220000Z 06010KT 99999 BKN025 29/20 QFE 987.1 FEW200 SEMC 212300Z 36005KT 9999 BKN026 22/18 Q1019 FTTJ 221000Z 25005KT 9999 FEW033 30/22 Q1013 NOSIG YBHM 221000Z AUTO 13014KT 9999 // BKN042 20/14 Q1020 MHPL 212000Z 00000KT 9999 SCT028TCU BKN250 31/26 Q1012 TCU TDS HZ GMAT 221000Z 36022KT 5000 BKN016 21/15 Q1015 NOSIG YARG 221000Z AUTO 00000KT 9999 // NCD 24/M03 Q1015 LRIA 221000Z 35008KT 300V020 CAVOK 29/16 Q1014 BGGH 220950Z 23002KT 9999 FEW200 10/04 Q1007 SELT 221000Z 20007KT 8000 FEW010 BKN030 09/09 Q1030 YARM 221000Z AUTO 28004KT 9999 // NCD 03/M02 Q1021 RMK FVBU 220700Z 03008KT CAVOK 16/06 Q1025 NOSIG RODN 220956Z AUTO 32005KT 10SM CLR 31/24 A2985 RMK AO2 SLP113 T03050241 $ HCMF 221000Z 32005KT CAVOK 34/27 Q1001 NOSIG YCBA 221000Z AUTO 05004KT 9999 // NCD 05/M05 Q1020 PRESENT WEATHER SENSOR US HCMH 221000Z 25010KT 9999 FEW030 28/15 Q1016 NOSIG YCBB 221000Z AUTO 26002KT //// // ////// 09/M04 Q1021 LQSA 221000Z 30005KT 260V330 CAVOK 26/15 Q1017 NOSIG SEMT 221000Z 17003KT 9999 SCT023 SCT120 22/20 Q1013 RMK A2993 WSSL 221000Z 16009KT 9999 FEW022TCU BKN300 33/21 Q1008 RMK 0930Z Q1008 SENL 212300Z 14004KT CAVOK 29/20 Q1015 YBKE 221000Z AUTO 00000KT //// // ////// 06/M07 Q1021 RMK MHSC 220258Z 03003KT 9999 BKN065 25/19 A3006 RMK AO2A SLP140 T02470195 51018 CHINO RWY17 $ HCMM 221000Z 22012KT 9999 BKN020 29/24 Q1013 NOSIG MHRO 220300Z 07020G30KT 9999 FEW020 SCTC200 29/25 Q1016 A3000 NOSIG YCAR 221030Z AUTO 20011KT 9999 // NCD 19/14 Q1019 YCAS 221000Z AUTO 29003KT //// // ////// 08/06 Q1021 WSSS 221000Z 15008KT 130V200 9999 FEW022 BKN300 30/25 Q1008 NOSIG FVCZ 220900Z 00000KT CAVOK 23/10 Q1025 FVFA 220900Z 08008KT 040V120 CAVOK 22/09 Q1023 NOSIG MHTE 220000Z 04004KT 8000 VCSH SCT028CB SCT030 BKN080 28/24 Q1011 CB N SW TCU TDS 8 KM ESE SW VCSH HZ YCBP 221000Z AUTO 25005KT 9999 // BKN110 20/01 Q1017 MHTG 221000Z 0000KT 9999 SCT026 18/17 Q1019 A3009 NOSIG GMFF 221000Z 03004KT 320V160 CAVOK 25/14 Q1017 NOSIG YBMA 221000Z AUTO 17006KT 9999 // NCD 16/M06 Q1018 YBKT 221000Z AUTO 06002KT //// // ////// 23/01 Q1015 MHSR 220000Z 02008KT 9999 BKN025TCU SCT100 BKN250 24/16 TCU NE SE NW YBLN 221000Z AUTO 29005KT //// // ////// 14/09 Q1016 RMK GMFK 221008Z 16009KT 3500 HZ NSC 37/M05 Q1019 M2 GMFM 221000Z 32002KT CAVOK 23/15 Q1017 NOSIG BGJN 220950Z 27005KT 250V310 9999 FEW180 08/M02 Q1007 GMFO 221000Z 04006KT 340V100 CAVOK 29/08 Q1016 NOSIG YBNA 221000Z AUTO 00000KT 3400 // NCD 09/08 Q1022 YBLT 221000Z AUTO 01015KT 9999 // NCD 07/03 Q1014 RMK MHTR 220000Z 09004KT 9999 SC022TU BKN080 28/24 TCU TDS HZ YBMK 221000Z AUTO 17004KT 9999 // SCT044 15/13 Q1020 SERB 212100Z 04030KT 9999 FEW040 19/09 Q1028 FVHA 221000Z VRB04KT CAVOK 19/M01 Q1026 NOSIG YCEE 221000Z AUTO 29008KT //// // ////// 15/05 Q1015 SEQM 221000Z 18002KT 9999 FEW040 09/06 Q1026 NOSIG RMK A3030 YCDO 221000Z AUTO 02005KT //// // ////// 02/M02 Q1020 RMK BGKK 220950Z 20006KT 120V250 9999 -RA OVC040 06/05 Q1005 YCCY 221000Z AUTO 20006KT //// // ////// 20/M06 Q1017 ROIG 221000Z 16006KT 9999 FEW017 BKN/// 30/26 Q1010 LQTZ 221000Z 12004KT 080V190 9999 SCT045 26/15 Q1015 SESA 220300Z 24008KT 9999 FEW010 BKN015 22/19 Q1015 YCDU 221000Z AUTO 00000KT 9999 // NCD 11/08 Q1017 YCEM 221000Z AUTO 35013KT //// // ////// 11/02 Q1015 RMK SESD 212200Z 28002KT 9999 BKN020 24/21 Q1011 GLRB 221000Z 20005KT 9999 BKN014 27/24 Q1016 NOSIG SERO 220200Z 23004KT 9999 OVC016 22/19 Q1015 SESG 221000Z 21004KT CAVOK 36/01 Q1013 YBNS 221000Z AUTO 32012KT 9999 // NCD 13/M02 Q1013 RMK YBOK 221000Z AUTO 01005KT 9999 // NCD 07/03 Q1021 YCFL 221000Z AUTO 15019KT //// // ////// 24/18 Q1016 RMK SESM 212300Z 36002KT 9999 SCT026 BKN100 21/18 Q1019 A3011 YAYE 221000Z AUTO 32005KT 9999 // NCD 18/01 Q1019 LROD 221000Z 29009KT 260V320 CAVOK 31/14 Q1015 YCFS 221000Z AUTO 33004KT 9999 // NCD 09/08 Q1021 RF00.0/000.0 SGAS 221000Z 00000KT 6000 NSC 08/05 Q1018 SEST 220000Z 18014KT 9999 SCT016 SCT130 22/19 Q1011 RMK A2987 HEBA 221000Z 33013KT CAVOK 30/20 Q1011 NOSIG YBPN 221000Z AUTO 19003KT 9999 // NCD 15/13 Q1020 FVKB 220700Z 00000KT CAVOK 22/07 Q1021 LSGC 221020Z 26006KT 240V300 9999 SCT030 SCT048 20/14 Q1018 SETN 220300Z 21007KT 9999 SCT020 BKN070 24/22 Q1013 A2993 LROP 221000Z 25011KT CAVOK 31/19 Q1014 NOSIG LSGG 221020Z VRB04KT 9999 FEW030 SCT120 BKN300 23/16 Q1016 NOSIG YAYT 220950Z 03008KT CAVOK 41/M08 Q1006 HEAR 212300Z 00000KT CAVOK 26/21 Q1008 NOSIG SETU 212100Z 07012KT 9999 SCT023 15/07 Q1031 HECA 221030Z 34007KT CAVOK 32/21 Q1010 NOSIG HEAT 220900Z 01008KT CAVOK 34/16 Q1012 NOSIG HEBL 221000Z 09008KT CAVOK 38/10 Q1009 NOSIG HEAX 220900Z 32012KT 9999 SCT020 30/19 Q1010 NOSIG MHYR 220000Z 09002KT 9999 BKN025TCU 26/21 TCU TDS HZ YBRK 221000Z AUTO 08003KT 9999 // NCD 17/13 Q1021 YBRL 221000Z AUTO 04006KT //// // ////// 24/07 Q1015 RMK LSGS 221020Z VRB01KT 9999 FEW090 26/12 Q1015 YBRM 221000Z AUTO 25009KT 9999 // NCD 24/20 Q1014 GMMB 221000Z 32005KT 220V030 CAVOK 25/12 Q1017 NOSIG YCIN 221000Z AUTO 19005KT 9999 // NCD 26/09 Q1013 GMMC 221000Z 34004KT CAVOK 23/17 Q1015 FWCL 220900Z 02004KT 9999 FEW025 23/10 Q1024 NOSIG YBSG 221000Z AUTO 13005KT //// // ////// 25/17 Q1014 RMK GMMD 221000Z 26003KT CAVOK 22/11 Q1016 NOSIG GMME 221000Z 31007KT 270V350 CAVOK 22/14 Q1016 NOSIG HEDF 211300Z 29010KT CAVOK 34/17 Q1006 GMMH 221000Z 03021KT 9999 FEW016 22/17 Q1016 NOSIG GMMI 221000Z 07014KT 8000 NSC 25/18 Q1014 NOSIG LRSB 221000Z 33008KT 290V010 9999 FEW050 31/12 Q1016 LTAC 220950Z 34004KT 9999 SCT040 SCT100 29/10 Q1015 NOSIG SGEN 221000Z 05005KT CAVOK 10/05 Q1021 KZZV 220953Z AUTO 17004KT 9SM OVC003 22/21 A2993 RMK AO2 LTG DSNT W SLP127 T02220211 GMML 221000Z 02019KT 9999 BKN020 23/15 Q1016 NOSIG YBRY 221000Z AUTO 13004KT 9999 // NCD 22/03 Q1018 RMK YBTH 221000Z AUTO 06003KT 9999 // NCD 05/M03 Q1020 RMK ROMY 221000Z 18007KT 9999 VCSH FEW021 30/26 Q1010 LTAF 220950Z 20007KT 140V290 9999 SCT035 34/24 Q1007 NOSIG GMMN 221000Z 01006KT 340V060 CAVOK 24/14 Q1017 NOSIG LTAG 220950Z 18007KT 9999 SCT035 34/22 Q1007 NOSIG LTAH 211431Z 02011KT 9999 -SHRA FEW030TCU BKN035 29/10 Q1012 RMK RWY13 05010KT SGES 221000Z 19004KT 3000 BR NSC 07/07 Q1020 LTAI 220950Z 15008KT 100V190 9999 FEW030 32/24 Q1008 NOSIG YBSU 221000Z AUTO 00000KT 9999 // NCD 10/08 Q1021 LTAJ 220950Z 24008KT 180V290 CAVOK 36/12 Q1009 NOSIG LTBA 220950Z 04012KT 350V090 CAVOK 31/16 Q1015 NOSIG YBTL 221000Z AUTO 11007KT 9999 // NCD 20/14 Q1019 YBUD 221000Z AUTO 00000KT 9999 // NCD 13/10 Q1021 YCKN 221000Z AUTO 13009KT 9999 // SCT026 SCT035 23/18 Q1017 LRTC 221000Z 20009KT 170V240 CAVOK 33/07 Q1014 LTAL 220850Z 32004KT CAVOK 24/12 Q1017 LTBD 211550Z 27016KT 9999 FEW035TCU 32/19 Q1004 LRSM 221000Z AUTO 33006KT 290V040 9999 NCD 29/19 Q1015 FVMV 220900Z 08002KT CAVOK 20/05 Q1024 LTAN 220950Z 03009KT 360V070 CAVOK 30/10 Q1016 NOSIG LTBF 220950Z 04013KT 9999 FEW035 29/18 Q1014 NOSIG GMMW 221000Z 02004KT CAVOK 29/08 Q1014 NOSIG LTAP 220950Z 07008KT 360V110 9999 FEW040 29/11 Q1013 NOSIG GMMX 221000Z VRB05KT CAVOK 22/09 Q1016 NOSIG BGSF 220950Z AUTO 08008KT 9999NDV NCD 09/M00 Q1008 LTBH 220950Z 02017KT 9999 FEW035 29/15 Q1014 LTBI 211512Z 33013KT 9999 TS FEW030CB BKN035 26/16 Q1012 TEMPO -TSRA RMK RWY09 29017KT LTAR 220950Z 34010KT 300V020 CAVOK 25/05 Q1019 GMMZ 221000Z VRB01KT CAVOK 32/00 Q1017 NOSIG LTAS 220950Z 27010KT 230V290 9999 FEW035 27/19 Q1014 LTCA 220950Z VRB06KT CAVOK 37/08 Q1010 NOSIG LTBJ 220950Z 35017KT CAVOK 32/18 Q1011 NOSIG LTCB 220950Z 33006KT 290V350 9999 SCT035 BKN090 25/20 Q1013 LTAT 220950Z VRB07KT CAVOK 36/09 Q1010 NOSIG LTBL 211708Z 01009KT 330V050 CAVOK 31/16 Q1007 NOSIG RMK RWY17 03008KT 350V070 LTAU 220950Z 07006KT 010V130 9999 FEW040 31/02 Q1015 NOSIG LTCC 220950Z 10007KT 040V170 CAVOK 40/09 Q1007 NOSIG LRSV 221000Z 35012KT CAVOK 24/17 Q1016 LRTM 221000Z 24005KT 200V270 9999 FEW040 30/18 Q1015 LTCD 220950Z VRB02KT CAVOK 34/10 Q1012 NOSIG LTAW 211250Z 08008KT 050V140 9999 FEW040 29/14 Q1012 YDBY 221000Z AUTO 31006KT 9999 // NCD 25/13 Q1014 LTCE 220950Z 21011KT 170V250 CAVOK 33/02 Q1017 NOSIG BIBD 211600Z 03005KT 9999 FEW012 BKN022 OVC050 14/// Q1007 LTBO 211350Z 04008KT 010V080 9999 FEW027TCU BKN030 30/11 Q1011 RETS LTCF 220950Z 21007KT 160V290 CAVOK 30/09 Q1019 LTAY 220950Z VRB04KT 9999 FEW035 30/15 Q1014 LTCG 220950Z 32006KT 290V360 9999 BKN030 25/20 Q1013 NOSIG LTBQ 220950Z 11005KT 040V190 9999 FEW040 28/18 Q1015 TEMPO 04012KT LTAZ 220950Z VRB04KT 9999 FEW040 33/09 Q1014 LRTR 221000Z 32008KT 280V340 CAVOK 34/13 Q1015 LTBR 220950Z 36008KT CAVOK 29/16 Q1014 NOSIG LTCI 220950Z 30004KT 9999 FEW040 28/10 Q1018 NOSIG LSMA 211450Z VRB02KT 9999 SCT060 BKN200 26/19 Q1011 RMK BLU+ LTCJ 220950Z 26004KT 190V340 CAVOK 41/06 Q1007 LTDA 220950Z 23018KT 200V270 9999 FEW035 33/22 Q1007 LTBS 220950Z 22011KT 9999 FEW030 31/21 Q1008 NOSIG YCMM 221000Z AUTO 33007KT //// // ////// 13/13 Q1015 RMK BIAR 221000Z VRB01KT 9999 FEW050 17/12 Q1007 LTCK 220950Z 23010KT 190V270 CAVOK 37/04 Q1014 LTCL 211250Z 28006KT 190V340 CAVOK 43/04 Q1004 LTBU 220950Z 01013KT 340V050 CAVOK 29/15 Q1016 LSMD 220850Z AUTO VRB02KT 9999NDV FEW019 22/16 Q1016 RMK LTCM 220750Z 27012KT 9999 FEW035 SCT100 26/17 Q1013 LSME 220850Z AUTO 26003KT 190V360 9999NDV NCD 22/16 Q1017 RMK LTCN 220950Z 27017KT CAVOK 35/18 Q1007 NOSIG BGTL 220958Z AUTO 00000KT 9999 OVC035 08/02 A2981 RMK AO2 SLP078 T00810017 $ HEGN 221000Z 36020KT CAVOK 36/17 Q1007 NOSIG LTCO 220950Z 23009G21KT 200V280 CAVOK 34/M05 Q1017 LTCP 220950Z 19010KT 140V210 CAVOK 36/12 Q1008 LTBY 220950Z VRB04KT 9999 FEW040 29/16 Q1016 LRTZ 221000Z 16012KT 9999 SKC 32/12 Q1015 BLU BLU LTBZ 220450Z 04004KT 010V070 8000 NSC 19/19 Q1016 YCMT 221000Z AUTO 00000KT //// // ////// 11/M04 Q1020 RMK YCNK 221000Z AUTO 01005KT //// // ////// 07/M01 Q1019 RMK LTCR 220950Z 24009KT 180V310 CAVOK 41/09 Q1007 LTCS 220950Z 23006KT 160V290 CAVOK 38/13 Q1011 YCNM 221000Z AUTO 00000KT //// // ////// 07/M01 Q1021 LTCT 220950Z 11008KT 070V150 CAVOK 35/12 Q1012 YCOE 221000Z AUTO 09004KT 040V100 //// // ////// 22/18 Q1015 LTCU 220950Z 19013KT 160V240 CAVOK 38/06 Q1012 LTCV 220950Z 36006KT 320V080 CAVOK 43/05 Q1007 LSMM 220950Z AUTO 25003KT 190V320 7000NDV NCD 20/16 Q1016 RMK LTCW 220950Z VRB04KT 9999 FEW040 33/01 Q1020 YBWP 221000Z AUTO 11011KT 9999 // NCD 26/17 Q1014 LSMP 220950Z VRB03KT 9999 FEW018 SCT021 22/17 Q1016 RMK BLU+ RORS 221000Z 17005KT 9999 VCSH FEW025 30/26 Q1010 LSMS 220950Z VRB02KT 9999 FEW060 25/13 Q1016 RMK BLU+ YCOM 221000Z AUTO 03007KT 010V070 9999 // NCD 02/M09 Q1017 YBWW 221000Z AUTO 19002KT 9999 // NCD 07/03 Q1021 RMK LTFC 220950Z 13003KT 9999 FEW035 31/12 Q1014 LTFD 220950Z 06016KT 9999 FEW035 31/17 Q1012 YBWX 221000Z AUTO 24014KT //// // ////// 22/15 Q1014 YCNY 221000Z AUTO 21004KT //// // ////// 20/M05 Q1016 RMK LTFE 220950Z 29010KT 9999 FEW035 35/17 Q1008 NOSIG RORY 221000Z AUTO 34009KT 9999 FEW020 30/25 Q1010 LTFG 220950Z 24008KT 9999 SCT030 30/24 Q1009 LTFH 220950Z 30008KT 260V350 9999 FEW033 SCT100 27/19 Q1013 NOSIG BIEG 221000Z 17018KT 9999 FEW035 16/10 Q1010 RPLB 221000Z VRB02KT 9999 VCSH SCT018 BKN080 26/24 Q1008 RMK A2977 SW AND W LTFJ 220950Z 03012KT 350V060 CAVOK 30/14 Q1015 NOSIG LTFK 211250Z 35010KT CAVOK 29/17 Q1011 HEIS 221000Z 27006KT CAVOK 33/17 Q1010 RPLC 221000Z 14003KT 9000 FEW020 BKN100 29/24 Q1009 NOSIG RMK A2980 GMTA 221000Z 36004KT CAVOK 27/19 Q1014 NOSIG ROTM 220958Z 34007KT 9999 FEW030 FEW140 31/25 A2987 RMK SLP140 STNPR29570 T03080248 RPLI 221000Z 07004KT 6000 TSRA BKN018CB OVC090 25/25 Q1008 RMK A2977 CB SW TO NW YBYU 221000Z AUTO 13012KT 9999 // ////// 27/18 Q1013 YDGU 221000Z AUTO 22005KT 9999 // NCD 21/02 Q1019 RMK FWKI 221000Z 05006KT 9999 FEW030 23/09 Q1023 NOSIG RPLL 221000Z 23006KT 200V260 9999 FEW025 BKN080 30/25 Q1008 NOSIG RMK A2977 RPMD 221000Z 00000KT 9999 -RA FEW016 OVC290 26/24 Q1010 RMK A2983 GMTN 221000Z 24013KT CAVOK 29/10 Q1014 NOSIG HEMA 221000Z 36015KT CAVOK 35/14 Q1007 NOSIG GMTT 221000Z 25010KT 220V280 8000 FEW016 SCT200 23/16 Q1016 NOSIG RPMR 220900Z 00000KT 9999 -SHRA FEW018 OVC080 27/24 Q1011 NOSIG RMK A2985 HEMM 221000Z 36012KT CAVOK 29/21 Q1012 NOSIG BIHN 221000Z 12007KT 0800 FG VV001 12/// Q1013 HELX 221000Z 04003KT CAVOK 38/16 Q1007 NOSIG RPMZ 221000Z 04002KT 9999 FEW017 OVC100 25/23 Q1012 RMK A2988 FVWN 211200Z 05002KT CAVOK 25/02 Q1020 MKJP 221000Z 34003KT 9999 VCTS FEW022 FEW024CB 28/23 Q1014 MKJS 221000Z VRB01KT 9999 FEW022 27/24 Q1014 YCUN 221000Z AUTO 24004KT 9999 // NCD 13/09 Q1018 RMK BIIS 221000Z VRB03KT 9999 VCSH BKN018 OVC035 14/11 Q1005 ROYN 221000Z AUTO 16009KT 9999 NSC 30/26 Q1009 YDLQ 221000Z AUTO 03009KT //// // ////// 10/M00 Q1017 RMK YCWA 221000Z AUTO 22003KT 9999 // NCD 20/02 Q1018 RMK GOGG 221000Z 00000KT 8000 -RA BKN016 BKN130 27/26 Q1015 BIKF 221000Z 14022KT 1000 R19/P1500N -DZRA FG SCT001 OVC003 11/11 Q1005 GOGK 220900Z 00000KT CAVOK 26/25 Q1014 HEPS 221000Z 32005KT 9999 FEW025 30/22 Q1010 NOSIG GOGS 221000Z VRB06KT 9999 BKN015 28/25 Q1014 YCWR 221000Z AUTO 03002KT //// // ////// 05/M02 Q1020 HESC 221000Z 07007KT CAVOK 33/08 Q1016 NOSIG HESG 221000Z 33007KT CAVOK 37/10 Q1008 NOSIG HESH 221000Z 04010KT CAVOK 36/18 Q1006 NOSIG YDPO 221000Z AUTO 31017KT 9999 // OVC031 12/10 Q1008 RMK HESN 221000Z 28004KT CAVOK 38/09 Q1008 NOSIG LSZA 221020Z VRB03KT 9999 FEW050 26/17 Q1015 NOSIG LSZB 221020Z 36004KT 280V050 9999 FEW025 23/17 Q1016 NOSIG RPVD 220900Z 22004KT 9000 -RA FEW014 SCT070 OVC220 26/25 Q1009 RMK A2980 LSZC 221020Z AUTO VRB03KT CAVOK 23/16 Q1016 LSZG 221020Z VRB03KT 9999 FEW028 23/17 Q1016 NOSIG LSZH 221020Z 22004KT 150V300 9999 FEW035 24/15 Q1016 NOSIG HETR 221000Z 30019KT CAVOK 30/23 Q1007 LSZL 211450Z AUTO 26004KT 230V300 9999NDV FEW062 28/20 Q1012 RMK RPVM 221000Z 21007KT 9999 SCT020 OVC090 26/24 Q1010 RMK A2983 RPVP 221000Z 18006KT 9999 FEW017CB SCT019 BKN080 28/25 Q1009 RMK A2980 CB N LSZR 221020Z AUTO VRB02KT CAVOK 23/18 Q1016 MMAA 220845Z 34006KT 8SM FEW015TCU SCT300 28/23 A2986 RMK SLP106 57026 965 8/202 HZY LSZS 221020Z 12003KT 070V150 9999 FEW035 SCT050 18/10 Q1021 RMK J YELD 221000Z AUTO 12007KT //// // ////// 25/17 Q1013 RMK CAHR 221000Z AUTO 27007KT 16/14 RMK AO1 SLP037 T01580139 53009 BIRK 221000Z 12013KT 9999 -DZ FEW004 BKN010 OVC013 13/10 Q1006 GOOD 220900Z 32008KT 9999 BKN013 BKN130 27/23 Q1015 MMAN 220440Z 09014KT 10SM SKC 28/21 A2998 YFBS 221000Z AUTO 00000KT //// // ////// 02/M01 Q1020 RMK GOOG 220900Z 26007KT 9999 SCT011 BKN100 26/22 Q//// MMAS 221016Z RTD 07007KT 10SM SKC 14/13 A3029 RMK RTS MMCB 220615Z RTD 36004KT 8SM SCT020 BKN090 22/15 A3017 RMK 8/470 LUKK 221000Z 21011KT 180V250 CAVOK 32/14 Q1013 R26/CLRD// NOSIG GOOK 220900Z 14006KT 9999 FEW013 BKN130 28/24 Q1015 FYGB 221000Z AUTO 31004KT //// // ////// 26/M04 Q1026 YFDF 221000Z AUTO 15005KT 9999 // NCD 23/06 Q1017 RMK CBBC 221020Z AUTO 14005KT 9SM -RA BKN025 OVC032 15/14 A2995 RMK SLP145 MMCE 220450Z 14008KT 7SM FEW070 SCT300 27/// A3001 RMK 8/078 FYGF 220700Z 14009KT CAVOK 11/05 Q//// YEML 221000Z AUTO 10006KT 9999 // NCD 13/M01 Q1020 MMBT 220045Z 00000KT 7SM SCT220 28/// A2988 RMK 8/003 MMCL 220340Z 02006KT 7SM RA SCT030 BKN090 OVC230 28/23 A2990 RMK 8/577 RAB25 RA INTMT MMCM 220940Z 00000KT 7SM SKC 28/25 A2995 MMCN 220145Z 00000KT 10SM SCT100 OVC200 30/22 A2981 RMK 8/063 DSNT CBS 1-2QUAD MMCP 220140Z 00000KT 7SM BKN080 BKN120 25/24 A2996 RMK 8/070 GOOY 221000Z 34011KT 9999 BKN013 27/20 Q1016 NOSIG MMCS 220418Z 10013KT 10SM TSRA BKN050CB OVC250 21/18 A3014 RMK 8/903 TSB10 LTGICCG SW MMCT 211948Z 00000KT 6SM BKN020CB 34/23 A3003 RMK 8/300 RA E MSGTX MMMD MMCU 220247Z 18004KT 10SM SCT025TCU BKN080 BKN200 23/14 A3013 RMK SLP098 57014 970 8/272 VC PCPN OCNL DROPS MMCV 220141Z 16014KT 10SM SKC 30/20 A2993 RMK DSNT TCU S E16014KT ISOL AC MMDO 221005Z RTD 06002KT 6SM DZ FEW010 OVC015 16/16 A3028 RMK 60117 8/6// BINOVC RTS MMCZ 220945Z 00000KT 7SM FEW015 24/23 A2997 RMK 8/500 FZAA 221000Z 18010KT 6000 BKN018 24/19 Q1018 NOSIG BIVM 221000Z 11020KT 0100 -DZ BR VV000 11/11 Q1008 MMEP 220142Z 26003KT 10SM SCT015CB SCT060 BKN140 OVC250 24/21 A3003 RMK 8/977 VCTSLTGRA N B31 BINOVC GOSM 220900Z 28006KT 9999 FEW016 BKN130 27/21 Q1013 GOSP 220900Z 24006KT CAVOK 27/20 Q1012 GOSS 220900Z 34010KT 290V350 9999 SCT013 27/21 Q1013 GOTK 220900Z 22006KT 9999 SCT013 SCT130 27/23 Q1014 MMGL 220952Z 00000KT 8SM BKN030 OVC080 18/16 A3020 RMK 8/57/ MMGM 220245Z 00000KT 5SM BKN170 32/26 A2979 RMK 8/070 MMIA 220148Z 36008KT 6SM RA BKN150 BKN220 22/21 A3003 RMK 6//// 8/058 YERN 221000Z AUTO 30005KT //// // ////// 15/00 Q1020 GOTT 220900Z 24006KT 9999 SCT015 BKN130 27/23 Q1014 FYKT 221000Z AUTO 24004KT //// // ////// 25/M11 Q1021 MMHO 220951Z 11005KT 10SM SCT030 OVC080 31/21 A2989 RMK 8/47/ HZY NCPY 221000Z AUTO 11007KT //// //// 28/24 Q1011 NCRG 221000Z 11005KT 9999 FEW018 23/19 Q1019 FYML 221000Z AUTO 01001KT //// // ////// 23/M07 Q1023 YESP 221000Z AUTO 33007KT 9999 // NCD 10/05 Q1017 MMIO 220340Z 09008KT 10SM SKC 24/14 A3018 RMK SC YGBI 221000Z AUTO 07003KT //// // ////// 26/// Q1013 RMK YEST 221000Z AUTO 32007KT 9999 // NCD 12/05 Q1017 RMK FYLZ 221000Z AUTO 21008KT //// // ////// 17/07 Q1019 FYOA 211400Z AUTO 05003KT //// // ////// 30/M03 Q1018 YGAY 221000Z AUTO 01003KT //// // ////// 10/03 Q1021 RMK YFLI 221000Z AUTO 34009KT 9999 // NCD 12/06 Q1011 RMK MNBL 212300Z 07008KT 4000 TSRA SCT015CB SCT060 24/24 Q1012 CB 4/C YGDH 221000Z AUTO 00000KT //// // ////// 04/02 Q1021 RMK FYOO 221000Z AUTO 04001KT //// // ////// 22/M02 Q//// MNCH 212300Z 00000KT 9999 SCT025TCU SCT090 29/24 Q1010 TCU/NE MMMA 220041Z 13015KT 8SM FEW020 FEW200 31/23 A2993 RMK 8/105 MMLM 220245Z 18005KT 10SM BKN200 31/21 A2986 RMK SLP112 8/008 MMMD 220950Z 13003KT 7SM BKN300 25/23 A2998 RMK 8/008 MMLO 220345Z 10006KT 8SM SCT030 BKN100 BKN200 18/15 A3034 RMK 8/463 FYOW 221000Z AUTO 36002KT //// // ////// 25/M03 Q1022 MMLP 220440Z 17010KT 10SM FEW220 28/11 A2993 RMK 8/008 YGEL 221030Z AUTO 25003KT 9999 // SCT040 15/12 Q1020 MMLT 220041Z 14006KT 8SM BKN200 35/26 A2977 RMK 8/006 MMML 220741Z 12009KT 10SM SKC 29/21 A2976 FZIC 221000Z 33004KT 7000 SCT022 BKN100 31/24 Q1014 NOSIG MMMM 220945Z 00000KT 7SM SCT030 14/14 A3025 RMK 8/500 HZY MMMT 220348Z 36010KT 10SM OVC040 28/25 A2998 RMK 8/5// MMNL 221000Z RTD 14009KT 8SM SKC 27/22 A2991 RMK RTS YGFN 221000Z AUTO 00000KT 9999 // NCD 09/06 Q1021 MMMV 212240Z 04009KT 6SM HZ BKN040 35/16 A2990 RMK8/200 FYRN 221000Z 09006KT CAVOK 24/02 Q1023 MMMX 220948Z 36004KT 10SM BKN080 15/11 A3034 NOSIG RMK 8/030 HZY SKBG 220500Z 00000KT 9999 FEW010 BKN070 21/19 A3005 MMMY 220946Z 10005KT 10SM SKC 25/21 A2992 SKAR 220500Z 00000KT 9999 BKN025 20/19 A3007 MMMZ 221020Z 12012KT 8SM TSRA BKN015CB OVC028 22/21 A2993 RMK 8/9// OCNL TS LTGICCC 1-2QUAD RAB10 MMPA 212342Z 13008KT 6SM FEW020 BKN300 30/25 A2999 RMK SLP146 56015 971 8/103 DSTN CB/S HZY MMPB 220953Z 33006KT 7SM BKN220 10/09 A3034 RMK 8/002 HZY RTS SKCC 221000Z 18018KT 9999 SCT020 SCT080 27/18 A2991 FYRU 221000Z AUTO 05003KT //// // ////// 25/M00 Q1025 MMPE 211717Z RTD 14010KT 10SM FEW100 34/17 A2989 RMK 8/080 SKBO 221000Z 32004KT 8000 BKN017 11/09 A3035 RMK HZ SKCG 221000Z 04003KT CAVOK 26/25 A2980 MMPG 212340Z 12012KT 10SM FEW030 39/21 A2987 RMK 8/500 SKBQ 221000Z VRB02KT CAVOK 26/25 A2981 SKCL 221000Z 15003KT 9999 FEW020 SCT120 20/20 A2999 MMPN 220044Z 00000KT 7SM FEW020CB BKN120 OVC260 19/16 A3018 RMK 8/978 HZY BINOVC MMOX 220150Z 04003KT 7SM SCT090 BKN200 22/10 A3021 RMK 8/032 SC MMPQ 212240Z 09010KT 6SM BKN030TCU 29/24 A2982 RMK 8/200 HZY MMPR 220946Z 03008KT 8SM OVC070 24/24 A2987 RMK 8/07/ OCNL DROPS MMPS 212341Z 35008KT 7SM FEW020 FEW200 29/24 A2992 RMK 8/401 HZY YHBA 221000Z AUTO 00000KT 9999 // NCD 13/09 Q1021 RMK SKEJ 212300Z 04004KT 9999 -DZ BKN020 30/25 A2977 YFRT 221030Z AUTO 29011KT //// // ////// 15/02 Q1018 FZNA 220900Z 22006KT 4000 HZ SCT018 FEW020CB BKN100 24/15 Q1022 NOSIG BKPR 221030Z VRB03KT CAVOK 31/14 Q1018 NOSIG MMQT 220845Z 00000KT 7SM SCT100 15/13 A3032 RMK 8/030 FYWB 221000Z AUTO 01005KT //// // ////// 13/11 Q1021 MMSD 220340Z 11010KT 8SM SKC 29/16 A2991 RMK CI FYWE 221000Z 32005KT CAVOK 21/M07 Q1026 MNJG 212300Z 36012KT 5000 -DZ BKN016 23/19 Q1013 YGLA 221000Z AUTO 12006KT 9999 // NCD 18/12 Q1021 RF00.0/000.0 YGLB 221000Z AUTO 30010KT 9999 // NCD 03/M02 Q1019 RMK FYWH 221000Z 32008KT CAVOK 21/M05 Q1026 NOSIG TAPA 221000Z 08006KT 9999 SCT018 27/25 Q1015 NOSIG GQNI 211200Z 28018KT 5000 BLDU BKN130 31/20 Q//// MMSL 220140Z 20006KT 12SM SKC 30/17 A2994 RMK CU ANC AS MMTC 220940Z 00000KT 8SM BKN030CB BKN080 BKN200 24/17 A3009 RMK 8/363 LTGIC RTS YHAY 221000Z AUTO 02008KT //// // ////// 09/M01 Q1018 RMK MMRX 221010Z RTD 16005KT 7SM SCT025 25/22 A2992 RMK 8/500 HZ FU RTS YGLI 221000Z AUTO 08004KT 9999 // NCD M01/M04 Q1022 RMK MMTG 220348Z 31006KT 7SM SCT080 BKN300 25/20 A2998 RMK 8/032 HZY GQNO 221000Z 34015KT 8000 FEW013 26/19 Q1013 NOSIG MMSP 220948Z 00000KT 10SM FEW010 15/12 A3028 RMK 8/500 MMTJ 220942Z 00000KT 6SM OVC015 19/16 A2993 RMK 8/5// HZY GQPA 220900Z 02006KT 8000 NSC 29/09 Q1014 MNJU 212300Z 09004KT 9999 SCT020TCU SCT080 27/24 Q1012 RESHRA TCU/N/NE/E/NW MMTM 220342Z E14006KT 10SM FEW015 28/24 A2998 RMK 8/500 YFTZ 221000Z AUTO 00000KT //// // ////// 26/04 Q1014 RMK FYWW 221000Z 30005KT CAVOK 20/M05 Q1025 MMTO 220952Z 00000KT 6SM SCT070 BKN200 09/08 A3039 RMK 8/032 HZY MMTP 220941Z 35006KT 10SM DZ OVC100 24/24 A2985 RMK 8/09/ YGLS 221000Z 25003KT CAVOK 22/01 Q1019 RMK RF00.0/000.0 SKIB 220200Z 28003KT 9999 FEW030 BKN100 25/18 A3010 MMVA 221023Z 07009KT 6SM FEW010 SCT060 25/23 A2992 RMK 8/150 RTS FZQA 221000Z 09010KT CAVOK24/11 Q1021 NOSIG K04V 221010Z AUTO RMK AO2 TSNO PWINO K06D 221015Z AUTO 25009KT 10SM 15/16 A2983 RMK AO2 MMUN 220947Z 00000KT 7SM SKC 25/25 A2999 K04W 221015Z AUTO 00000KT 1/2SM FG OVC002 16/16 A2984 RMK AO2 MNMG 221000Z 00000KT 9999 FEW022 24/23 Q1011 A2987 92% NOSIG GQPP 221000Z 01023KT 8000 FEW020 24/16 Q1016 NOSIG K05U 221015Z AUTO 00000KT 10SM CLR 13/M03 A3021 RMK A01 SKIP 212300Z 12005KT 9999 FEW020 11/07 A3045 GQPZ 220900Z 32010KT 270V350 CAVOK 21/15 Q1014 MMVR 220344Z 28003KT 7SM FEW070 SCT200 26/24 A3003 RMK 8/052 HZY SLAL 221000Z 00000KT 9999 NSC 04/01 Q1028 K08D 221015Z AUTO 25004KT 10SM CLR 11/11 A2996 RMK AO2 LWOH 221000Z 16005KT 9999 FEW050 26/12 Q1020 SLCA 212300Z 00000KT 9999 NSC 18/07 Q1022 SLCB 221000Z 00000KT 9999 NSC 06/00 Q1026 SKLC 212300Z 00000KT 8000 VCSH BKN017TCU 29/25 A2981 RMK VCSH/W LXGB 220950Z 28010KT CAVOK 24/17 Q1014 NOSIG MNPC 212300Z 06010KT 7000 BKN016 29/26 Q1012 HZ NFFN 221000Z 06005KT 020V080 9999 FEW028 SCT050 24/23 Q1015 NOSIG YHID 221030Z AUTO 14014KT 9999 // SCT022 BKN051 26/21 Q1013 SKMD 212300Z 06010KT 9999 FEW035 BKN200 27/12 A3006 MMZC 220841Z 00000KT 8SM SCT050 13/10 A3034 RMK 8/400 RTS SLCO 221000Z 00000KT 9999 NSC 17/15 Q1016 SLCP 212200Z 00000KT 9999 NSC 27/15 Q1019 MMZH 220143Z 35003KT 6SM SCT020 BKN080 BKN250 31/24 A2986 RMK 8/463 HZY SKLT 221000Z 00000KT 9999 FEW015 20/19 A2998 MMZO 220147Z 00000KT 10SM BKN020 BKN210 30/26 A2987 RMK 8/106 HZY SKMR 220300Z 00000KT 9999 SCT018 27/24 A2989 K11R 221015Z AUTO 00000KT 10SM SCT100 25/25 A2996 RMK AO2 T02530245 YGTE 221000Z AUTO 15003KT 9999 // SCT085 24/15 Q1014 YGTH 221000Z AUTO 04006KT 9999 // NCD 06/M02 Q1019 K12N 220954Z AUTO 00000KT 20/19 A2991 RMK AO1 SLP118 T02000189 YHLC 221000Z AUTO 11004KT 9999 // NCD 20/M00 Q1017 RMK MNRS 212300Z 00000KT 7000 -TSRA SCT015CB BKN070 26/24 Q1011 CB 4/C SLET 221000Z 27002KT 9999 NSC 14/11 Q1016 TBPB 221000Z 08008KT 9999 FEW020 27/25 Q1014 NOSIG SKPC 220100Z 00000KT 9999 SCT015 BKN070 26/24 A2990 LWSK 221030Z VRB02KT CAVOK 34/11 Q1016 NOSIG YGTN 221030Z AUTO 00000KT 9999 // NCD 20/10 Q1016 SKNV 220300Z 16008KT 130V190 9999 FEW040 BKN100 29/15 A2996 SKPE 221000Z 10005KT 9999 FEW017 SCT080 19/17 A3004 LYBE 221000Z 25004KT 160V280 CAVOK 35/16 Q1014 NOSIG MPBO 220100Z 27005KT 9999 FEW016 OVC090 ///// Q1014 SKPS 212300Z 09011KT 9999 FEW030 23/09 A3013 YHML 221000Z AUTO 36013KT 9999 // NCD 09/04 Q1012 RMK MPDA 220300Z 22004KT(E) 9999 SCT015 ///// Q1011 LYBT 221000Z 23004KT 150V270 CAVOK 33/17 Q1014 NOSIG SKPV 212300Z 07008KT 9999 FEW017 OVC200 29/26 A//// SKRG 221000Z 32003KT 9999 SCT012 SCT200 14/12 A3029 SKRH 212300Z 05012KT 9999 FEW020 29/24 A2982 K14Y 221015Z AUTO 19006KT 10SM OVC013 19/18 A2982 RMK AO2 LTG DSNT N AND NW NFNA 221000Z 00000KT 9999 SCT020 BKN050 25/24 Q1016 K0A9 221015Z AUTO VRB03KT 8SM FEW044 SCT050 21/20 A3005 RMK AO2 PWINO SLJE 212200Z 00000KT 9999 NSC 25/18 Q1018 YIFL 221000Z AUTO 22005KT 9999 // SCT043 19/17 Q1018 RMK K18A 221015Z AUTO 00000KT 10SM CLR 22/22 A3001 RMK AO2 T02220215 SKSM 220400Z 07003KT 9999 FEW020 28/24 A2984 YHOO 221000Z AUTO 13005KT //// // ////// 18/M02 Q1017 RMK SLJO 212200Z 00000KT 9999 NSC 30/19 Q1015 SKSP 221000Z 06009KT 9999 FEW015 BKN200 27/24 A2986 REDZ YHOT 221030Z AUTO 33009KT 9999 // ////// 02/M08 Q1016 K18H 221015Z AUTO VRB03KT 9SM FEW060 30/24 A2998 RMK A01 SKUC 220200Z 00000KT 9999 BKN017 26/25 A2999 TDCF 221000Z 16002KT 9999 SCT017 FEW///CB 25/23 Q1014 SKUI 220200Z 00000KT 4000 -DZ BKN008 OVC070 24/24 A2988 NGFU 221000Z 08015KT 9999 FEW020 30/26 Q1010 K0E0 221015Z AUTO 00000KT 10SM CLR 14/11 A3022 RMK AO2 T01390111 K21D 221012Z AUTO 00000KT 10SM OVC013 20/18 A2981 RMK AO2 SLMG 212300Z 00000KT 9999 NSC 24/19 Q1015 SLLP 221000Z 08007KT 4000E VCFG FEW002 BKN200 M04/M05 Q1037 YJAB 221000Z AUTO 18003KT //// // ////// 27/09 Q1013 RMK K19S 221015Z AUTO 30006KT 10SM CLR 20/14 A2998 RMK AO2 T02040135 K20U 221015Z AUTO 10SM CLR 10/08 A3004 RMK AO2 K20V 221012Z AUTO 08004KT 10SM CLR 15/12 A3037 RMK AO2 K0F2 221015Z AUTO 00000KT 10SM CLR 24/21 A2994 RMK AO2 T02380210 SKVP 220100Z 05008KT 9999 FEW020 30/22 A2989 K0CO 221016Z AUTO 32018KT 10SM CLR 06/M01 A3065 RMK AO2 YHSM 221000Z AUTO 36010KT 9999 // NCD 07/05 Q1014 RMK SKVV 212300Z 21004KT 9999 -DZ SCT020 BKN090 24/22 A3001 K22N 221015Z AUTO 00000KT 2 1/2SM BR CLR 19/19 A2992 RMK AO2 K24A 221005Z AUTO 12003KT 1 1/4SM BR OVC001 18/18 A3014 RMK AO2 VIS 1/2V3 LTG DSNT SE AND NW T01840183 HKEL 221000Z 27006KT 9999 FEW022CB BKN023 22/12 Q1025 YHUG 221000Z AUTO 10007KT 9999 // NCD 23/04 Q1016 NFTF 221000Z 00000KT 9999 FEW010 24/23 Q1018 SLOR 220000Z 06005KT 8000 NSC 09/M01 Q1034 K24J 221015Z AUTO 00000KT 10SM CLR 22/22 A3005 RMK A01 NFTL 220600Z 00000KT 9999 FEW018 25/25 Q1015 SLPO 211800Z 07006KT 9999 NSC 16/M10 Q1035 SLPS 221000Z 00000KT 9999 NSC 17/15 Q1017 SLRB 212300Z 36004KT 9999 NSC 23/19 Q1019 LYKV 221000Z VRB03KT CAVOK 33/14 Q1015 NOSIG NFTV 220600Z 07005KT 9999 FEW020 26/24 Q1015 MPMG 220300Z 33003KT 9999 FEW016CB SCT090 27/25 Q1012 NOSIG K0J4 220958Z AUTO 00000KT 10SM CLR 22/19 A3003 RMK AO2 SLP164 T02170194 SLRI 212300Z 00000KT 9999 NSC 28/18 Q1016 SLSA 212300Z 00000KT 8000 NSC 25/14 Q1015 K1A6 221015Z AUTO 00000KT 7SM SCT004 21/21 A3003 RMK AO2 T02110211 K1A9 221015Z AUTO 00000KT 4SM BR SCT065 22/22 A3000 RMK AO2 T02160216 SLRQ 212200Z 00000KT 9999 NSC 24/20 Q1015 SLSI 212300Z 00000KT 9999 NSC 24/22 Q1017 LYNI 221000Z 23003KT CAVOK 33/13 Q1016 NOSIG SLRY 212200Z 00000KT 9999 NSC 26/17 Q1012 SMJP 221000Z 24003KT 9999 BKN005 24/23 Q1015 NOSIG SLTJ 221000Z 00000KT 9999 NSC 03/M01 Q1021 MPPA 220300Z 34003KT 9999 FEW017 26/// Q1013 K28J 221015Z AUTO 00000KT 10SM CLR 22/22 A3004 RMK AO2 HKJK 221000Z 26004KT 9999 BKN024 21/14 Q1023 K1AM 220958Z AUTO 12004KT 10SM SCT220 10/01 A3015 RMK AO2 SLP141 T01020006 $ K1AN 220956Z AUTO 30009KT 10SM CLR 15/13 A2984 RMK AO2 LTG DSNT N SLP118 T01500125 $ LYPG 221000Z 15005KT 100V220 CAVOK 34/13 Q1015 NOSIG SLTR 221000Z 00000KT 8000 NSC 14/13 Q1017 HKKI 221000Z 22007KT 9999 FEW027CB BKN080 27/18 Q1018 K1BM 220958Z AUTO 26006KT 10SM BKN190 11/00 A3014 RMK AO2 SLP183 T01110002 $ K1AW 220958Z AUTO 26007KT 10SM BKN230 16/12 A3014 RMK AO2 SLP142 T01600119 $ K1BN 220956Z AUTO 29007KT 10SM CLR 16/11 A2990 RMK AO2 LTG DSNT N SLP120 T01630111 $ ZBAA 221000Z 02003MPS CAVOK 26/21 Q1009 NOSIG LZIB 221000Z 13009KT 100V170 CAVOK 29/16 Q1014 NOSIG SLVM 212000Z 00000KT 9999 SCT070 25/17 Q1018 K1F0 221015Z AUTO 00000KT 10SM CLR 25/20 A2992 RMK AO2 K1CM 220958Z AUTO 27006KT 10SM BKN200 13/00 A3016 RMK AO2 SLP181 T01331001 $ K1BW 220958Z AUTO 25013KT 10SM FEW230 18/12 A3014 RMK AO2 SLP135 T01840118 $ K1CN 220956Z AUTO 31006KT 10SM CLR 13/12 A2991 RMK AO2 LTG DSNT N SLP125 T01340124 $ SLVR 221000Z 25005KT 9999 NSC 12/11 Q1017 HKML 220900Z 18013T 9999 SCT022 27/22 Q1016 K1DM 220958Z AUTO 17005KT 10SM M 12/01 A3010 RMK AO2 LTG DSNT NE SLP181 T01230011 $ K1CW 220958Z AUTO 26007KT 10SM FEW250 18/11 A3012 RMK AO2 SLP136 T01820109 $ K1DN 220956Z AUTO 34006KT 10SM CLR 14/12 A2992 RMK AO2 LTG DSNT N SLP128 T01370115 $ HKMO 221000Z 18010KT 9999 FEW022 29/20 Q1017 NOSIG GUCY 221000Z 00000KT 9999 BKN013 OVC100 25/24 Q1015 NOSIG SLYA 212300Z 00000KT 9999 NSC 13/10 Q1020 YJLC 221000Z AUTO 20009KT //// // ////// 17/M04 Q1016 RMK NGTA 221000Z 09016KT 9999 FEW020 SCT300 28/25 Q1009 TDPD 221000Z 26002KT 9999 BKN016 26/24 Q1016 MPSM 220300Z 00000KT 9999 FEW018 SCT080 26/24 Q1011 K1H2 221015Z AUTO 21003KT 10SM CLR 27/25 A2989 RMK AO2 T02660245 K1EM 220958Z AUTO 11006KT 10SM FEW140 BKN200 17/00 A3012 RMK AO2 SLP174 T01690001 $ CERM 221000Z AUTO 30004KT 11/10 RMK AO1 3PAST HR 1010 SLP088 P0001 T01070101 50003 K1DW 220958Z AUTO 27008KT 10SM CLR 17/13 A3014 RMK AO2 SLP137 T01710128 $ K1EN 220956Z AUTO 33004KT 10SM CLR 13/11 A2990 RMK AO2 LTG DSNT N SLP127 T01320109 $ K0R0 221015Z AUTO 00000KT 6SM BR CLR 21/21 A3002 RMK AO2 K33V 221015Z AUTO 14004KT 10SM CLR 07/06 A3041 RMK AO1 K1FM 220958Z AUTO 03007KT 10SM CLR 12/00 A3016 RMK AO2 SLP188 T01190004 $ HKNW 220700Z 00000KT 9999 OVC020 18/14 Q1024 MPTO 221000Z 31005KT 9000 -RA FEW008 SCT016CB BKN080 25/25 Q1011 RWY WET NOSIG K1FN 220956Z AUTO 29006KT 10SM CLR 12/09 A2983 RMK AO2 LTG DSNT N SLP132 T01240094 $ K0R4 221015Z AUTO 00000KT 7SM CLR 23/23 A2998 RMK AO2 T02310231 K1J0 220258Z AUTO 00000KT 10SM CLR 24/23 A3005 RMK AO2 SLP133 T02390233 50009 $ K2A0 221015Z AUTO 00000KT 1 1/4SM BR OVC002 23/23 A2999 RMK A01 YIVO 221000Z AUTO 02007KT //// // ////// 10/M03 Q1019 RMK LYTV 221000Z 26007KT 200V290 CAVOK 32/17 Q1015 NOSIG K1GM 220958Z AUTO 33003KT 10SM CLR 17/M01 A3014 RMK AO2 SLP165 T01691006 $ K1GN 220956Z AUTO 27004KT 10SM CLR 12/09 A2991 RMK AO2 LTG DSNT N SLP132 T01200092 $ K1FW 220958Z AUTO 27010KT 10SM BKN220 18/13 A3009 RMK AO2 SLP124 T01830128 $ LZKZ 221000Z 08006KT 040V110 CAVOK 26/15 Q1016 NOSIG K0S9 221015Z AUTO 00000KT 10SM OVC065 15/13 A3014 RMK AO2 K1K1 221015Z AUTO 20011G17KT 10SM CLR A2988 RMK AO2 K1HM 220958Z AUTO 00000KT 10SM CLR 12/02 A3013 RMK AO2 SLP174 T01210015 $ K1HN 220956Z AUTO 00000KT 10SM CLR 12/09 A2992 RMK AO2 LTG DSNT N SLP132 T01160090 PWINO $ LYUZ 221000Z 31006KT 280V360 CAVOK 27/13 Q1020 LYVR 221000Z 24004KT 160V320 CAVOK 34/14 Q1014 NOSIG GVAC 221000Z 02010KT 9999 SCT014 BKN016 27/19 Q1017 NOSIG K36U 221015Z AUTO 00000KT 10SM CLR 13/09 A3020 RMK AO2 K1IM 220958Z AUTO 18003KT 10SM CLR 12/01 A3013 RMK AO2 SLP186 T01160005 $ K1HW 220958Z AUTO 35012KT 10SM BKN210 19/14 A3005 RMK AO2 SLP129 T01920140 $ K1IN 220956Z AUTO 27006KT 10SM CLR 12/09 A2993 RMK AO2 LTG DSNT N SLP133 T01190090 $ SOCA 221000Z AUTO 07004KT 9999 -RA FEW008/// OVC100/// 23/23 Q1015 TEMPO 1000 TSRA SCT010CB GVBA 221000Z 01014KT 9999 BKN015 27/21 Q1017 NOSIG K2C8 221015Z AUTO 21005KT 10SM CLR 16/16 A2975 RMK AO2 LTG DSNT NW K40B 221016Z AUTO 00000KT 10/10 A2982 RMK AO1 SLP098 T00990103 51008 K1JM 220958Z AUTO 08008KT 10SM CLR 12/03 A3013 RMK AO2 SLP185 T01170033 $ ZBHH 221000Z VRB01MPS 9999 FEW040 26/20 Q1011 NOSIG K1IW 220958Z AUTO 30011KT 10SM BKN140 21/12 A3003 RMK AO2 SLP114 T02070122 $ K1JN 220956Z AUTO 27008KT 10SM CLR 14/12 A2991 RMK AO2 LTG DSNT N SLP125 T01350119 $ K0V4 221015Z AUTO 00000KT 4SM CLR 23/21 A2993 RMK AO1 T02290205 K1M5 221015Z AUTO 18003KT 9SM 25/24 A2997 RMK A01 K40J 221015Z AUTO 00000KT 10SM CLR 23/22 A3003 RMK AO2 LTG DSNT S T02280215 K1KM 220958Z AUTO M 10SM CLR 14/M02 A3017 RMK AO2 SLP180 T01421023 $ K1KN 220956Z AUTO M 10SM CLR 14/11 A2992 RMK AO2 LTG DSNT N SLP126 T01350110 $ K1JW 220958Z AUTO M 10SM FEW140 BKN190 17/13 A3006 RMK AO2 SLP123 T01720133 $ LZPP 221000Z 12009KT CAVOK 28/15 Q1015 HLLM 220950Z 07010KT 8000 SKC 33/21 Q1016 K1LM 220958Z AUTO 02003KT 10SM CLR 14/M01 A3017 RMK AO2 SLP181 T01361012 $ K1LN 220956Z AUTO 28008KT 10SM CLR 13/12 A2991 RMK AO2 LTG DSNT N SLP124 T01330120 $ K1KW 220958Z AUTO 31008KT 10SM BKN220 18/14 A3007 RMK AO2 SLP126 T01760141 $ K2F5 221015Z AUTO 19006KT 10SM BKN110 22/17 A3003 RMK AO2 K0VG 221010Z AUTO 00000KT 7SM CLR 21/20 A3005 RMK AO2 YLBD 221000Z AUTO 25004KT 9999 // NCD 23/20 Q1014 RMK K42J 221015Z AUTO 00000KT 10SM CLR 23/23 A3004 RMK AO1 TSNO MSAC 212250Z 08004KT 9999 -RA FEW023 BKN043 29/26 Q1008 A2978 K1P1 221015Z AUTO 00000KT 7SM CLR 16/15 A2986 RMK AO2 T01610151 K1MM 220958Z AUTO 18009KT 10SM CLR 10/00 A3015 RMK AO2 SLP183 T00991003 $ TFFF 221000Z AUTO 05002KT 9999 FEW020 25/24 Q1015 TEMPO 4000 SHRA FEW013CB SCT018TCU K1MN 220956Z AUTO 27007KT 10SM CLR 13/10 A2990 RMK AO2 LTG DSNT N SLP123 T01320103 $ K1LW 220958Z AUTO 28012KT 10SM FEW190 17/14 A3012 RMK AO2 SLP134 T01690144 $ K2G4 221010Z AUTO 23004KT 3SM OVC003 17/17 A3002 RMK AO1 K2DP 220956Z AUTO 24006KT 10SM CLR 25/23 A2995 RMK AO2 SLPNO T02530229 $ HKWJ 220900Z 17010KT 9999 BKN029 30/17 Q1014 LZSL 221000Z 21004KT 170V270 9999 FEW042 BKN075 23/19 Q1017 K2G9 221015Z AUTO 21007KT 4SM BR OVC005 20/19 A3001 RMK AO2 K1NM 220958Z AUTO 27007KT 10SM CLR 12/M01 A3011 RMK AO2 SLP177 T01211009 $ K1MW 220958Z AUTO 30006KT 10SM BKN190 17/16 A3008 RMK AO2 SLP135 T01690156 $ K1NN 220956Z AUTO 28009KT 10SM CLR 14/11 A2989 RMK AO2 LTG DSNT N SLP117 T01390111 $ TFFR 221000Z AUTO 00000KT CAVOK 25/25 Q1015 TEMPO 1200 TSRA FEW013CB BKN018TCU MRLB 220600Z 07004KT CAVOK 24/23 A2989 NOSIG K2I0 220915Z AUTO 20003KT 7SM CLR 26/25 A2993 RMK AO2 T02630251 K1OM 220958Z AUTO 29008KT 10SM FEW160 14/03 A3011 RMK AO2 LTG DSNT NE SLP168 T01400032 $ K1ON 220956Z AUTO 28008KT 10SM CLR 13/12 A2986 RMK AO2 LTG DSNT N SLP113 T01340118 $ K1NW 220958Z AUTO 31010KT 10SM FEW240 16/15 A3009 RMK AO2 SLP129 T01630153 $ YLEC 221000Z AUTO 36005KT //// // ////// 13/M01 Q1018 LZTT 221000Z VRB03KT 9999 SCT050 25/13 Q1018 NOSIG MRLM 220000Z 34003KT 9999 DZ BKN010 26/24 A2989 RETS YKMP 221000Z AUTO 00000KT //// // ////// 06/04 Q1021 RMK SMZO 221000Z 00000KT 9999 FEW010 SCT035 25/24 Q1014 NOSIG K1OW 220958Z AUTO 29013KT 10SM FEW210 15/13 A3012 RMK AO2 SLP132 T01520134 PWINO $ K1S5 221015Z AUTO 00000KT 10SM 12/09 A3008 RMK AO2 T01210090 YLEO 221000Z AUTO 00000KT 9999 // NCD 15/02 Q1019 RMK YKNT 221030Z AUTO 08007KT //// // ////// 18/00 Q1019 MROC 221000Z 08005KT 9999 SCT035 21/19 A2996 NOSIG K46U 221000Z AUTO 14006KT 10SM M26/ A3027 RMK A01 AYMO 220600Z 23004KT 9999 BKN018 28/26 Q1007 RMKS K49A 221015Z AUTO 00000KT 5SM HZ CLR A3007 RMK AO2 YKOW 221000Z AUTO 22005KT //// // NCD 24/18 Q1014 RMK K3D2 221015Z AUTO 16003KT 10SM BKN070 OVC080 19/17 A2983 RMK AO2 T01860168 YLHI 221000Z AUTO 19004KT 9999 // OVC057 16/11 Q1019 K1V4 220954Z AUTO 16/16 A2985 RMK AO1 SLP097 T01560156 SPCL 221000Z 00000KT 9999 FEW015 20/18 Q1017 RMK PP000 K3AU 221015Z AUTO 18006KT 10SM CLR 25/21 A2988 RMK AO2 YLHR 221000Z AUTO 12013KT //// // SCT017 SCT024 SCT028 24/21 Q1014 LZZI 221019Z 30003KT 250V340 9999 FEW010 FEW057CB BKN060 21/17 Q1016 YKSC 221000Z AUTO 30009KT 9999 // NCD 14/12 Q1013 RMK AYNZ 220300Z 08005KT 9999 SCT016 SCT030 OVC120 26/24 Q1010 MRPV 220000Z 10011KT 9999 FEW035 BKN100 21/17 A3003 NOSIG K3F3 221015Z AUTO 00000KT 10SM CLR 25/24 A3000 RMK AO2 T02500242 YMBA 221030Z AUTO 14009KT //// // ////// 18/14 Q1020 YLIS 221000Z AUTO 35007KT 9999 // NCD 09/08 Q1021 ZBSJ 221000Z 06002MPS 2800 BR FEW016 OVC043 25/24 Q1008 BECMG TL1120 3000 OAHR 220955Z 01027KT CAVOK 37/10 Q1008 RMK BLU YMBD 221000Z AUTO 32016KT 9999 // NCD 15/01 Q1014 RMK YKRY 221000Z AUTO 09003KT 9999 // NCD 06/02 Q1022 K2P2 221015Z AUTO 00000KT 10SM CLR 18/16 A2982 RMK AO2 T01780164 ZBTJ 221000Z 12003MPS CAVOK 26/18 Q1008 NOSIG AYPY 220400Z 16016KT 9999 SCT020 BKN140 29/23 Q1008 RMKS OAKB 220950Z 08009G19KT 340V130 9999 FEW100 34/M07 Q1011 NOSIG RMK BLU BLU YMAV 221000Z AUTO 35013KT 9999 // NCD 10/04 Q1013 YLLE 221000Z AUTO 11007KT 9999 // NCD 15/M06 Q1020 OAJL 220955Z 09007KT 9999 FEW080 FEW250 39/17 A2949 RMK AO2A SLP933 T03880174 YMAY 221000Z AUTO 00000KT 9999 // OVC125 05/03 Q1020 GVNP 221000Z 02009KT 9999 BKN018 26/23 Q1017 NOSIG OBBI 221030Z 10010KT CAVOK 39/26 Q0997 NOSIG K54J 221015Z AUTO 00000KT 7SM CLR 23/23 A3003 RMK AO2 T02270225 SPGM 212100Z 35005KT 9999 FEW040 30/17 Q1016 RMK BIRD HAZARD RWY19 TX/// PP000 YMCO 221000Z AUTO 32008KT //// // ////// 08/05 Q1015 NIUE 221000Z AUTO 09006KT //// ////// 25/23 Q1018.0 OAKN 220955Z 27008G13KT 9999 CLR 39/M01 A2962 RMK AO2A SLP910 Q1003 DA7122 YMDG 221000Z AUTO 04006KT 9999 // NCD 01/M03 Q1021 K3I2 221015Z AUTO 00000KT 10SM CLR A2994 RMK AO2 MTCH 212000Z 05018KT 8000 SCT025CB BKN070 Q1014 A2997 RMK/CB/SSE/SSW SPHI 221000Z VRB02KT 9999 OVC016 17/15 Q1015 RMK PP000 SPHO 221000Z 07002KT CAVOK 07/03 Q1030 RMK PP000 MSLP 220950Z VRB02KT CAVOK 22/22 Q1011 A2986 NOSIG K4A6 221015Z AUTO 00000KT 8SM CLR 23/23 A3001 RMK AO2 YMEK 221000Z AUTO 23004KT 9999 // NCD 18/03 Q1020 K3J7 221015Z AUTO 00000KT 5SM BR CLR 23/22 A2998 RMK AO2 SPJC 221000Z 16007KT 8000 OVC014 16/13 Q1015 NOSIG RMK PP000 MSLU 212250Z 12005KT 9999 FEW037 32722 Q1010 A2982 K4A9 221015Z AUTO 00000KT 5SM BR CLR 21/20 A3001 RMK AO2 K1YT 220958Z AUTO 12007KT 10SM CLR 19/10 A3010 RMK AO2 SLPNO T01870095 $ YMEN 221006Z AUTO 01018G28KT 9999 // OVC090 10/04 Q1014 K57C 221015Z AUTO 26007KT 10SM SCT005 SCT020 SCT040 21/20 A2978 RMK AO2 LTG DSNT W T02080202 SPHY 221000Z /////KT CAVOK M02/M09 Q1036 RMK PP000 K3K3 221015Z AUTO 28004KT 10SM CLR 18/13 A3000 RMK AO2 YMER 221000Z AUTO 26001KT 9999 // NCD 05/03 Q1015 YMES 221000Z AUTO 01004KT 9999 // ////// 12/01 Q1013 SPJI 212100Z 00000KT CAVOK 30/19 Q1022 RMK TX31.8 PP000 YMGB 221030Z AUTO 13008KT //// // ////// 27/18 Q1014 SPJJ 211229Z VRB02KT CAVOK 03/M04 Q1032 OAMS 220950Z 25006KT 9999 SKC 39/03 Q1004 BLU+BLU+ YMGD 221000Z AUTO 08004KT 9999 // OVC069 26/21 Q1013 RMK SPJL 220300Z /////KT CAVOK 04/M02 Q1035 RMK PP000 K3L4 221015Z AUTO 00000KT 26/25 A2998 RMK A01 SPJR 221000Z 30004KT 240V340 CAVOK 06/02 Q1027 RMK PP000 YMHB 221000Z 36011KT 9999 FEW025 SCT055 10/05 Q1003 ZBYN 221000Z VRB01MPS 9999 FEW040TCU 34/22 Q1007 BECMG TL1030 09006MPS YMIA 221000Z AUTO 01007KT 9999 // NCD 13/M01 Q1016 K2V6 221009Z AUTO 27010KT 10SM CLR 17/12 A3003 RMK AO2 YLRE 221000Z AUTO 09008KT 9999 // NCD 17/M03 Q1018 SPME 220300Z 27008KT 240V310 9999 OVC013 22/19 Q1015 RMK BIRD HAZARD RWY 32/14 PP000 SPLO 212100Z 17006KT 9999 OVC025 17/13 Q1015 RMK TX18.2 PP000 GVSV 221000Z 07014KT 9999 FEW017 28/21 Q1017 NOSIG K4BM 221014Z AUTO 25006KT 10SM CLR 10/03 A3059 RMK AO2 K3LF 221015Z AUTO 19003KT 7SM CLR 24/23 A2987 RMK AO2 LTG DSNT NW T02350227 K2W6 221017Z AUTO 26003KT 10SM CLR 23/21 A2988 RMK AO1 YMHU 221000Z AUTO 00000KT 9999 // NCD 22/02 Q1015 K3N8 221015Z AUTO 00000KT 10SM CLR 19/17 A2981 RMK AO2 LTG DSNT SE T01850169 YMIN 221000Z AUTO 36009KT //// // ////// 10/08 Q1014 RMK SPMS 212300Z 34003KT CAVOK 30/19 Q1016 RMK BIRD HAZARD RWY 09/27 PP000 MSSA 212250Z 02002KT 9999 FEW033 SCT043 29/21 Q1017 A3003 YNAR 221000Z AUTO 00000KT //// // ////// 03/00 Q1020 YLST 221000Z AUTO 22003KT 9999 // NCD 16/05 Q1019 RMK YLTN 221000Z AUTO 23004KT //// // ////// 16/03 Q1019 MSSM 220050Z 00000KT 9999 FEW037 28/23 Q1012 A2989 DAAD 221000Z 00000KT 3000 HZ FEW030 40/12 Q1015 YNBR 221000Z AUTO 09005KT 9999 // NCD 09/01 Q1021 DAAE 221000Z 07006KT 6000 FEW020 BKN230 29/25 Q1013 DAAG 221000Z 34008KT 300V020 9999 SCT020TCU FEW023CB BKN090 29/22 Q1015 MSSS 220550Z 00000KT CAVOK 25/19 Q1017 A3003 YLTV 221000Z AUTO 03003KT 9999 // BKN100 08/04 Q1013 RMK DAAJ 221000Z 13004KT CAVOK 33/08 Q1020 MUCC 220950Z 10006KT 070V130 9000 FEW015 28/24 Q1016 DABB 221000Z 05010KT 7000 FEW020 SCT090 29/23 Q1014 DABC 221000Z 02006KT 8000 FEW030 SCT200 35/18 Q1018 MUCF 220959Z AUTO 06005KT 24/23 Q1017 K4I3 221020Z AUTO 13004KT 3SM VCTS BR SCT001 21/21 A2992 RMK AO2 LTG DSNT W AND NW K2WX 220956Z AUTO 34006KT 18/04 A2995 RMK AO1 SLP114 T01830044 DAAP 221000Z 09012KT CAVOK 39/12 Q1016 YMLT 221000Z AUTO 34017KT 9999 // BKN021 OVC025 10/07 Q1007 YMML 221016Z 36024G34KT CAVOK 09/02 Q1014 FM1016 MOD/SEV TURB BLW 5000FT K3R7 221015Z AUTO 12003KT 10SM SCT031 25/24 A2998 RMK AO2 LTG DSNT S T02510241 YMNE 221000Z AUTO 23005KT 9999 // NCD 17/03 Q1019 RMK MUCL 221005Z AUTO 11012KT 28/21 Q1016 DAAS 221000Z 20012KT 7000 NSC 35/05 Q1021 DAAT 221000Z 11016KT 6000 NSC 33/04 Q1023 MUCM 220950Z 10007KT 9000 NSC 24/23 Q1017 YMNG 221000Z AUTO 04011KT 9999 // SCT100 08/03 Q1017 RMK DAAV 221000Z 03009KT 6000 FEW016 BKN200 30/24 Q1013 TGPY 221000Z 00000KT 9999 FEW018 27/25 Q1014 NOSIG DAAY 221000Z 18030KT 3000 BLSA FEW030 38/14 Q1033 K5A6 221015Z AUTO 00000KT 7SM CLR 24/24 A2997 RMK AO2 T02350235 AZUH 220950Z 33004KT 9999 FEW035 35/09 Q1014 SPQT 221000Z 00000KT 9999 2000SW BCFG BKN070 20/20 Q1014 NOSIG RMK PP000 K3S8 221015Z AUTO 00000KT 10SM CLR 16/08 A3015 RMK AO2 K65S 221015Z AUTO 00000KT 10SM FEW090 12/07 A3014 RMK AO2 SPQU 221000Z 04009KT CAVOK 07/M09 Q1028 RMK PP000 DABS 221000Z 22013KT 8000 NSC 38/13 Q1001 MUCU 220950Z 01006KT 9000 FEW020 25/19 Q1015 DABT 221000Z 28003KT 8000 FEW023 39/10 Q1019 YMOG 221000Z AUTO 25004KT //// // ////// 18/03 Q1020 RMK K3T5 221015Z AUTO 00000KT 10SM CLR 26/25 A2994 RMK AO2 T02560248 K66R 221015Z AUTO 00000KT 10SM SCT017 BKN110 24/24 A2997 RMK AO2 T02430235 SPRU 221000Z 13008KT 7000 OVC017 17/16 Q1015 RMK BR PP000 K5C1 221015Z AUTO 17003KT 10SM CLR 23/21 A3002 RMK AO1 SPSO 221000Z 09003KT 7000 NSC 11/10 Q1015 RMK BR FU PP000 YMOR 221000Z AUTO 15003KT 9999 // NCD 08/00 Q1021 SPST 220300Z 00000KT 9999 FEW025 21/19 Q1017 RMK BIRD HAZARD RWY 17/35 PP000 SPTN 221000Z 02003KT CAVOK 13/11 Q1017 RMK PP000 YMRB 221000Z AUTO 09009KT 9999 // NCD 16/08 Q1020 RMK YNHL 221000Z AUTO 36007KT //// // ////// 12/04 Q1014 RMK DAFH 221000Z 22018KT CAVOK 40/05 Q1019 MUHA 220955Z 07004KT 9000 FEW025 22/20 Q1016 SPTU 212300Z 00000KT CAVOK 20/17 Q1014 RMK SCT240 BIRD HAZARD RWY 01/19 PP000 K4M9 221015Z AUTO 22005KT 9SM CLR 25/25 A2992 RMK AO2 MUGM 220956Z 35009KT 9999 FEW050 26/23 A2999 RMK SLP154 T02610228 MTPP 221000Z 14008KT 8000 FEW018 27/22 Q1014 A2994 MUHG 220950Z 06005KT 9000 SKC 25/23 Q1016 K4O4 221015Z AUTO 19003KT 10SM CLR 24/21 A2994 RMK AO2 YMRY 221000Z AUTO 30004KT 9999 // NCD 05/03 Q1016 RMK YMTG 221000Z AUTO 35012KT 9999 // SCT067 11/06 Q1011 YMTI 221000Z AUTO 08005KT //// // ////// 22/09 Q1015 RMK K4MR 220958Z AUTO 23011KT 10SM CLR 22/15 A3009 RMK AO2 SLP119 T02220154 $ K5H4 221015Z AUTO 26006KT 10SM 16/16 A2988 RMK AO2 PWINO SPYL 212300Z 20013KT 9999 SCT010 20/16 Q1012 RMK BIRD HAZARD RWY 17/35 PP000 DBBB 221000Z 23011KT 8000 SCT010 27/25 Q1014 TEMPO 4000 DZ BKN008 K4R5 221015Z AUTO 00000KT BKN021 15/14 A2978 RMK AO2 T01450141 PWINO K6A1 221015Z AUTO 23003KT 4SM BR 22/21 A3003 RMK AO2 T02200213 K74V 221015Z AUTO 25004KT 10SM CLR 14/11 A3022 RMK AO2 K4S2 221015Z AUTO 00000KT 10SM CLR 16/10 A3013 RMK AO2 K6A2 221015Z AUTO 29004KT 7SM SCT100 23/22 A3002 RMK AO2 SPZO 221000Z 28003KT 9999 NSC 00/M04 Q1034 RMK BIRD HAZARD RWY 28 PP000 UAAA 221000Z 04003MPS 330V090 9999 FEW050 33/04 Q1011 R05L/CLRD65 NOSIG K6B0 221015Z AUTO 00000KT 10SM CLR 16/15 A2987 RMK AO2 T01580149 UAAH 221000Z 25006MPS 220V290 9999 FEW046 33/06 Q1010 R23/0///60 NOSIG RMK QFE719/0959 K6B9 221015Z AUTO 00000KT 10SM CLR 19/17 A2993 RMK AO2 UACC 221000Z 30003MPS 220V020 CAVOK 27/10 Q1014 R22/0///70 NOSIG RMK QFE729/0972 K4V0 221015Z AUTO 15004KT 10SM CLR 16/13 A3021 RMK AO2 T01590132 DAOB 221000Z 21010KT 9999 SCT026 SCT216 31/14 Q1019 TJBQ 220650Z 11006KT 10SM SKC 25/23 A3002 DAOF 221000Z 28008KT 9999 FEW040 33/06 Q1011 YNRC 221000Z AUTO 36007KT //// // ////// 12/06 Q1012 RMK UACK 221000Z 31002MPS 280V340 CAVOK 26/14 Q1013 R20/010070 NOSIG RMK QFE736/0982 DAOI 221000Z 20006KT 9999 SCT026 SCT100 29/17 Q1014 K79J 220956Z AUTO 00000KT 10SM CLR 23/21 A3000 RMK AO2 SLP155 T02280206 UADD 221000Z 05007MPS 010V080 9999 NSC 34/04 Q1010 R31/0///65 NOSIG RMK QFE700/0933 K5M9 221015Z AUTO 22004KT 10SM CLR 24/24 A2994 RMK AO2 T02430243 DAOL 221000Z 29004KT CAVOK 30/04 Q1015 UACP 221000Z 25002MPS 9999 BKN040 27/13 Q1013 R23/0/0060 NOSIG RMK QFE747/0996 DAON 221000Z 32006KT CAVOK 30/07 Q1015 DAOO 221000Z 34004KT 290V100 CAVOK 31/10 Q1014 DAOR 221000Z 20009KT 1500 HZ SCT033 SCT100 38/02 Q1017 YPAD 221000Z 01007KT CAVOK 14/05 Q1014 NOSIG K82C 221015Z AUTO 00000KT 1/4SM FG OVC002 19/19 A2978 RMK AO2 T01920191 YPAG 221000Z AUTO 30006KT 9999 // NCD 14/01 Q1016 RMK DAOV 221000Z 01004KT 9999 SCT033 29/12 Q1016 DAOY 221000Z 20019KT 6000 FEW030 SCT233 34/01 Q1022 YNSM 221000Z AUTO 21004KT //// // ////// 13/04 Q1018 RMK OEAB 221000Z 35005KT 9999 FEW020 33/02 Q1020 NOSIG MUSC 220950Z 10005KT 9000 SKC 24/22 Q1017 OEAH 221000Z 00000KT CAVOK 46/M01 Q0998 NOSIG OEBA 221000Z 02014KT CAVOK 35/07 Q1015 NOSIG YPCC 221000Z AUTO 12014KT 9999 // OVC049 26/19 Q1013 YOLD 221000Z AUTO 02009KT 9999 // NCD 17/M01 Q1017 YNTN 221030Z AUTO 19008KT 9999 // NCD 26/01 Q1015 YPBO 221000Z AUTO 18007KT 9999 // NCD 23/03 Q1017 K82V 221015Z AUTO 27006KT 10SM CLR 15/13 A3013 RMK AO2 OEAO 221000Z 06008KT CAVOK 39/12 Q1010 OEBH 221000Z 33008KT CAVOK 39/02 Q1010 NOSIG OEAR 221000Z 27006KT CAVOK 40/19 Q1004 MWCB 220000Z 06004KT 9999 FEW022 30/25 Q1016 K6I2 221015Z AUTO 18004KT 8SM CLR 25/23 A2996 RMK AO2 YPEA 221003Z AUTO 30009KT 240V310 5000 +RA SCT022 BKN032 OVC038 14/12 Q1018 YPED 221000Z AUTO 04008KT 9999 // NCD 11/05 Q1014 RMK K5R8 221015Z AUTO 00000KT 7SM CLR 24/24 A2998 RMK AO2 T02400235 YOLW 221000Z AUTO 18010KT //// // ////// 24/06 Q1015 RMK DAUA 221000Z 00000KT 1000 HZ NSC 40/04 Q1012 YPDN 221000Z 30003KT CAVOK 25/19 Q1013 NOSIG DAUB 221000Z 12017KT 6000 SCT040 41/16 Q1013 TJIG 212245Z 09008KT 8SM SCT030 BKN080 28/25 A3004 DATM 221000Z 24010KT 9000 36/16 Q1013 OEDF 221000Z 00000KT CAVOK 47/07 Q0997 NOSIG DAUE 221000Z 16011KT CAVOK 42/07 Q1015 UAII 221000Z 04005G10MPS CAVOK 38/06 Q1007 R10/0///70 NOSIG RMK QFE720/0961 MWCR 220300Z 04011KT 9999 FEW018 30/26 Q1016 NOSIG DAUG 221000Z 23009KT 9000 FEW046 42/04 Q1016 DAUH 221000Z 15008KT 8000 NSC 44/09 Q1013 YOOD 221000Z AUTO 02009KT //// // ////// 21/M01 Q1017 RMK YNWN 221000Z AUTO 18005KT 9999 // NCD 21/02 Q1017 DAUK 221000Z 17010KT CAVOK 42/18 Q1013 OEDM 221000Z 03012KT CAVOK 39/M07 Q1008 DAUL 221000Z 27010KT 5000 HZ NSC 37/09 Q1018 DAUO 221000Z 18010KT 8000 NSC 42/13 Q1012 MUVR 220951Z 13004KT 050V150 8000 NSC 24/23 Q1017 OEDR 221000Z 16007KT CAVOK 46/05 Q0996 NOSIG UBBB 221000Z 02013KT CAVOK 33/19 Q1011 R88/CLRD// NOSIG YOOM 221000Z AUTO 00000KT 9999 // NCD 13/M03 Q1020 RMK K5T9 221015Z AUTO RMK A01 PNO DAUT 221000Z 13006KT 3000 HZ NSC 41/11 Q1013 DAUU 221000Z 19009KT CAVOK 44/05 Q1013 ZGGG 221000Z 12002MPS 090V160 9999 SCT043 34/22 Q1006 NOSIG UBBG 221000Z 08006KT 360V170 9999 SCT100 35/10 Q1011 R12/CLRD// NOSIG K6L4 221015Z AUTO 00000KT 10SM CLR 22/21 A3000 RMK AO2 LTG DSNT NE ZGHA 221000Z 14002MPS 060V210 9999 FEW050 37/20 Q1007 NOSIG DAUZ 221000Z 12009KT 080V140 CAVOK 38/00 Q1017 UAKK 221000Z 33005MPS CAVOK 25/09 Q1014 R05/0///70 NOSIG RMK QFE713/0951 TIST 220953Z 07005KT 10SM -RA FEW018 SCT031 BKN041 27/26 RMK AO2 RAB42 SLPNO P0000 T02720256 $ UBBL 221000Z 09007KT 9999 SCT200 33/18 Q1011 R33/CLRD// NOSIG RMK MT OP UBBN 221000Z 13008KT 9999 NSC 38/04 Q1010 R14R/CLRD// NOSIG RMK MT OP QFE683 NLWW 220900Z AUTO 11007KT 080V140 9999 FEW022/// 28/23 Q1013 NOSIG TISX 220953Z 01003KT 10SM CLR 26/25 A3000 RMK AO2 SLP158 T02610250 K5SM 221012Z AUTO 00000KT 10SM CLR 11/03 A3057 RMK AO2 UBBQ 221000Z 30007KT 9999 FEW200 34/11 Q1012 R16/CLRD// NOSIG RMK MT OP YPGV 221000Z AUTO 16007KT 9999 // OVC079 25/17 Q1014 YORG 221000Z AUTO 34001KT 9999 // NCD 01/M02 Q1020 RMK OEGN 221000Z 27015KT 240V300 CAVOK 36/25 Q1002 NOSIG K7BM 221012Z AUTO 20005KT 10SM CLR 13/06 A3049 RMK AO2 UBBY 221000Z 19005KT 9999 FEW100 34/08 Q1015 R33/////// NOSIG RMK MT OP OEGS 221000Z 36005KT CAVOK 44/11 Q1005 OEGT 221000Z 29018KT CAVOK 38/11 Q1009 NOSIG OEHL 221000Z 06008KT CAVOK 41/05 Q1011 UBEE 221000Z 17009KT CAVOK 37/14 Q1010 R30/CLRD// NOSIG YPKA 221000Z AUTO 30007KT 9999 // NCD 23/14 Q1014 RMK YPKG 221030Z AUTO 25004KT 9999 // SCT042 13/08 Q1019 TJNR 220953Z AUTO 06007KT 10SM SCT019 BKN027 BKN033 27/24 A3003 RMK AO2 RAB21E31 SLP169 P0000 T02720244 YPJT 221000Z AUTO 00000KT 9999 // SCT039 SCT068 14/12 Q1018 YPLC 221000Z AUTO 29008KT 9999 // NCD 14/12 Q1014 RMK ZHCC 221000Z 09004MPS 6000 SCT030 34/27 Q1006 NOSIG ZGKL 221000Z 11002MPS 070V150 9999 FEW033TCU 35/23 Q1007 NOSIG K6P9 221015Z AUTO 21004KT 10SM BKN100 24/19 A2997 RMK AO2 T02440185 UAOO 221000Z 02006G11MPS CAVOK 39/04 Q1010 R05/CLRD70 NOSIG RMK QFE746/0995 OEJN 221000Z 30022KT CAVOK 36/21 Q1003 NOSIG YPKS 221000Z AUTO 08006KT 9999 // NCD 02/M02 Q1020 RMK YPKT 221000Z AUTO 20003KT //// // ////// 25/05 Q1013 RMK OEKJ 221000Z VRB02KT CAVOK 45/02 Q1005 YPKU 221000Z AUTO 18005KT 9999 // NCD 22/05 Q1014 OEKK 221000Z 03011KT CAVOK 47/14 Q1003 NOSIG YPLM 221000Z AUTO 21014KT 9999 // NCD 22/10 Q1016 OEKM 220900Z 03015G26KT CAVOK 33/M02 Q1020 NOSIG K6R3 221015Z AUTO 00000KT 4SM BR CLR 23/23 A2997 RMK AO2 T02320225 TJPS 220550Z 05005KT 10SM FEW030 24/23 A3004 K6R6 220953Z AUTO 00000KT 26/17 A2997 RMK AO1 SLP108 T02560172 OEMA 221000Z 03006KT CAVOK 44/M09 Q1008 NOSIG K6S0 221015Z AUTO 26008KT 10SM SCT047 SCT055 SCT080 13/M00 A3020 RMK A01 K8A0 221015Z AUTO 24003KT 7SM CLR 23/23 A3001 RMK AO2 K6S2 221015Z AUTO 00000KT 10SM CLR 12/12 A3015 RMK AO2 YPMQ 221002Z AUTO 00000KT 9999 // NCD 07/06 Q1021 K8A3 221015Z AUTO 24005KT 10SM CLR 24/22 A3001 RMK A01 SUAA 221000Z 04005KT CAVOK 05/04 Q1021 YPOD 221000Z AUTO 35011KT 9999 // NCD 12/06 Q1010 RMK OEMK 221000Z 00000KT CAVOK 42/21 Q1003 ZGNN 221000Z 36003MPS 330V030 9999 FEW030 32/23 Q1007 NOSIG K8B0 221015Z AUTO 32003KT 10SM SCT070 14/11 A2988 RMK AO2 OENG 221000Z 03006KT 9999 SCT030 40/02 Q1009 NOSIG UARR 221000Z 33007MPS 300V360 CAVOK 31/10 Q1011 R04/CLRD70 NOSIG RMK QFE755/1007 TJSJ 220956Z 00000KT 10SM SCT022 BKN034 27/24 A3002 RMK AO2 SLP163 VCSH SE SW VIS LWR SE SW T02720244 $ UASK 221000Z 34003MPS 290V010 9999 FEW033CB BKN130 27/15 Q1010 R12/090060 NOSIG RMK QFE732/0977 YPPD 221000Z AUTO 33006KT 9999 // NCD 22/16 Q1015 YPPF 221000Z AUTO 03005KT 9999 // NCD 12/05 Q1014 RMK UATE 221000Z 26004MPS 210V310 CAVOK 34/16 Q1011 R30/0///70 NOSIG RMK QFE756/1009 K7L2 221015Z AUTO 26004KT 10SM CLR A2991 RMK AO2 YPPH 221000Z 25009KT 9999 FEW028 BKN060 15/11 Q1018 INTER 1100/1300 5000 SHRA SCT015 UATG 221000Z 24003MPS 9999 SCT033CB 37/13 Q1009 R32/CLRD70 NOSIG RMK QFE759/1012 UASP 221000Z 35008MPS 330V030 7000 -TSRA OVC033CB 18/15 Q1012 R21/0///70 TEMPO VRB15MPS 2000 TSRA SQ RMK QFE748/0997 SUCA 221000Z 04012KT CAVOK 09/06 Q1018 UASS 221000Z 32005MPS 270V360 CAVOK 25/13 Q1012 NOSIG RMK QFE740/0987 OEPA 221000Z 32008KT CAVOK 47/12 Q1001 NOSIG ZGOW 221000Z 12005MPS 9999 SCT060 31/25 Q1008 NOSIG ZHHH 221000Z 23004MPS CAVOK 36/23 Q1006 NOSIG K8D3 221015Z AUTO 31007KT 22/20 A2984 RMK AO1 WSHFT 0955 T02220200 UATT 221000Z 21005MPS CAVOK 36/06 Q1009 R31/////// NOSIG RMK QFE737/0982 K7N0 220956Z AUTO 00000KT 10SM 28/25 RMK AO2 LTG DSNT ALQDS TSE02 SLPNO T02830250 $ CMGB 221015Z AUTO 35001KT 16/14 RMK AO1 SLP110 T01620137 53007 CMFM 221000Z AUTO 00000KT 05/05 RMK AO1 SLP110 T00460046 53005 UAUU 221000Z 18002MPS 150V220 CAVOK 27/17 Q1011 R15/CLRD70 NOSIG RMK QFE742/0990 OERF 221000Z 01016KT CAVOK 45/02 Q1004 SUDU 221000Z 04004KT 8000 NSC 04/04 Q1020 OERK 220900Z 03006KT CAVOK 43/M02 Q1005 NOSIG OESH 221000Z 29008KT 9999 FEW040 41/16 Q1003 NOSIG OERR 221000Z 09006KT CAVOK 48/18 Q1006 NOSIG OETB 221000Z 20006KT CAVOK 39/10 Q1010 NOSIG OESK 221000Z 25004KT CAVOK 44/06 Q1008 NOSIG UCFL 221000Z 13004MPS 090V150 9999 FEW033 25/09 Q1017 RMK G/O YPTN 221000Z AUTO 15003KT 9999 // NCD 22/08 Q1014 UCFM 221000Z 27003MPS CAVOK 35/06 Q1011 R26/CLRD70 NOSIG UCFO 221000Z 26003MPS 220V320 9999 FEW050CB 35/10 Q1009 R12/CLRD70 NOSIG OETF 221000Z 04016KT CAVOK 36/05 Q1015 NOSIG ZGSZ 221000Z 21004MPS CAVOK 30/26 Q1007 NOSIG TKPK 221000Z 05005KT 9999 SCT018 27/26 Q1016 TKPN 221000Z VRB02KT 9999 FEW014CB SCT018 27/24 Q1015 RMK CB-N OETR 221000Z 30012KT CAVOK 40/11 Q1010 K9A5 221015Z AUTO 00000KT 4SM CLR 21/19 A3001 RMK AO2 T02070192 YREN 221000Z AUTO 34006KT 9999 // NCD 16/M01 Q1014 RMK OEWD 221000Z 28006KT CAVOK 43/17 Q1003 NOSIG YPWR 221000Z AUTO 01010KT 9999 // NCD 15/M01 Q1016 OEWJ 221000Z 30017KT CAVOK 33/28 Q1006 NOSIG YPXM 221030Z AUTO 12014KT 9999 // BKN006 OVC010 24/22 Q1013 MYGF 212300Z 00000KT 9999 -RA FEW012CB BKN120 BKN200 27/23 A3006 RMK CB SW/NE HTAR 221000Z 09005KT 9999 BKN020 BKN080 18/15 Q1020 OEYN 221000Z 27018KT CAVOK 45/14 Q1000 NOSIG K7W4 221015Z AUTO 00000KT 5SM CLR 21/21 A2991 RMK AO1 T02070207 K7W6 221010Z AUTO 23005KT 10SM CLR 25/23 A2996 RMK AO2 T02450230 SULS 221000Z 05009KT CAVOK 07/06 Q1021 HTDA 221000Z 15017KT 9999 BKN026 30/22 Q1017 NOSIG HTBU 221000Z 00000KT 9999 SCT016 FEW018CB BKN090 22/19 Q1020 SUMU 221000Z 02005KT CAVOK 05/04 Q1021 NOSIG HTDO 221000Z 09013KT 9999 FEW028 25/13 Q1020 NOSIG YSBK 221000Z AUTO 00000KT 9999 // NCD 07/03 Q1019 YSCB 221000Z AUTO 36012KT 9999 // NCD 06/M02 Q1019 TLPC 221000Z VRB02KT 9999 FEW026 26/24 Q1015 NOSIG HSOB 220500Z 18006KT CAVOK 24/12 Q1013 HSNN 220800Z 24006KT CAVOK 30/16 Q1014 YRMD 221024Z AUTO 29004KT 210V330 //// // ////// 16/M05 Q1016 TLPL 221000Z 10008KT 9999 FEW026 26/24 Q1015 NOSIG YSCN 221000Z AUTO 00000KT 9999 // NCD 05/03 Q1019 RMK YSCO 221000Z AUTO 33003KT //// // ////// 04/M01 Q1020 RMK YSCR 221000Z AUTO 34006KT //// // ////// 12/07 Q1018 RMK HSPN 220800Z 18003KT CAVOK 39/14 Q1007 MZBZ 220000Z 07013KT 9999 SCT018 30/27 A2994 Q1014 NOSIG HRYR 221000Z 17006KT 100V250 9999 FEW025 BKN300 26/09 Q1022 NOSIG YSDU 221000Z AUTO 08002KT 9999 // NCD 06/M02 Q1020 YROM 221000Z AUTO 01005KT 9999 // NCD 06/M01 Q1021 RMK YSGE 221030Z AUTO 03004KT 9999 // NCD 07/M04 Q1021 SUSO 221000Z 13004KT CAVOK 02/02 Q1019 MYNN 221000Z 08003KT 999 FEW018 BKN200 28/22 A3007 K9L2 220958Z AUTO 00000KT 10SM CLR 20/M02 A2993 RMK AO2 SLP107 T02041022 TNCA 221000Z 10016KT 9999 FEW018 28/24 Q1011 NOSIG HTIR 221000Z 09010KT 9999 FEW022 26/12 Q1022 TNCB 220955Z AUTO 11011KT 070V140 9999 NCD 27/24 Q1013 HTKA 221000Z 27010KT 9999 FEW024 28/19 Q1019 TNCC 220900Z 13012KT 9999 FEW018 27/24 Q1013 NOSIG TNCE 220955Z AUTO 07007KT 030V100 //// // ///////// 27/25 Q1015 RE// DFFD 221000Z 33005KT 280V020 8000 FEW020 30/24 Q1016 NOSIG YSHK 221000Z AUTO 18008KT //// // ////// 19/12 Q1020 RMK ZJHK 221000Z 05003MPS 020V080 9999 -SHRA FEW023TCU FEW023 26/25 Q1006 NOSIG SVMC 212100Z 18006KT 9999 SCT016 31/25 Q1010 HTKJ 221000Z 06010KT 9999 BKN030 BKN100 23/15 Q1019 NOSIG HSSS 221030Z 18010KT CAVOK 37/17 Q1011 NOSIG TNCM 221000Z 10004KT 9999 -SHRA FEW014CB SCT016 27/27 Q1016 A3000 TEMPO SHRA K8W2 221015Z AUTO 00000KT 5SM OVC002 20/20 A2995 RMK AO1 T02000195 SVMG 221000Z /////KT 9999 FEW010 26/25 Q1013 NOSIG SVMI 221000Z 00000KT 9999 SCT016 27/21 Q1012 YSHT 221000Z AUTO 04008KT 9999 // SCT115 08/03 Q1017 RMK YSHW 221000Z AUTO 22005KT 9999 // NCD 07/01 Q1019 RMK HTMG 221000Z 00000KT 9999 SCT025 28/18 Q1019 OIAA 221000Z 13008KT CAVOK 48/10 Q0997 K9MN 221012Z AUTO 00000KT 5SM OVC003 20/20 A2981 RMK AO1 T02020203 YTAR 221000Z AUTO 26008KT //// // ////// 17/01 Q1016 RMK YRTI 221000Z AUTO 26010KT //// // ////// 16/10 Q1018 RMK OIAG 221000Z 28008KT CAVOK 49/10 Q0997 OIAH 221000Z 00000KT CAVOK 44/M10 Q1004 OIAI 221000Z 36008KT CAVOK 47/M06 Q1000 OIBA 221000Z 32006KT CAVOK 38/24 Q0996 OIBB 221000Z 24008KT CAVOK 40/22 Q0996 A2943 HTMT 221000Z 10010KT 9999 BKN023 FEW024CB 29/19 Q1017 DGAA 221000Z 22010KT 9999 BKN016 BKN026 27/24 Q1015 NOSIG HTMU 221000Z 32015KT 9999 FEW025 FEW026CB SCT090 25/20 Q1019 OIAM 221000Z 24010KT 8000 NSC 44/26 Q0997 HTMW 221000Z 30006KT 9999 FEW023 FEW024CB BKN090 25/19 Q1018 NOSIG HUEN 221000Z 34010KT 9999 FEW025 FEW027CB BKN170 28/19 Q1018.5 NOSIG OIBJ 221000Z 07006KT CAVOK 44/M02 Q1004 OIBK 221000Z 25010KT 3500 HZ NSC 37/31 Q0997 OICC 221000Z 12008KT CAVOK 39/M15 Q1013 A2993 NOSIG OIBL 221000Z 20006KT 4000 HZ NSC 38/25 Q0997 OIAW 221000Z 10004KT CAVOK 50/16 Q0996 YSMH 221000Z AUTO 19002KT 9999 // SCT045 14/13 Q1020 RMK YSMI 221030Z AUTO 33010KT //// // ////// 12/09 Q1007 OIBP 221000Z 28010KT 4000 HZ NSC 40/29 Q0995 A2939 OIBQ 221000Z 29006KT 8000 NSC 41/22 Q0997 OICI 221000Z 27006KT CAVOK 40/06 Q1013 A2993 OICJ 220951Z 09008KT CAVOK 36/09 Q1017 OIBS 221000Z 07008KT 5000 HZ NSC 37/30 Q0997 OICK 220950Z 01010KT CAVOK 42/M03 Q1011 YTEE 221000Z AUTO 20006KT 9999 // NCD 17/M04 Q1018 RMK OIBV 221000Z 26006KT 4000 HZ NSC 39/27 Q0997 OICM 221000Z 18004KT CAVOK 50/M07 Q0999 YSNF 221020Z AUTO 20016G26KT 9999 // SCT034 BKN052 16/12 Q1015 YTEF 221000Z AUTO 30003KT //// // NCD 26/06 Q1015 OICS 221000Z 36004KT CAVOK 39/M05 Q1014 YTEM 221000Z AUTO 00000KT //// // ////// 01/M00 Q1021 RMK CPBT 220900Z AUTO 24004KT 09/07 RMK AO1 T00880067 UDSG 221000Z 00000KT 9999 NSC 31/10 Q1016 R02/CLRD70 NOSIG YSOL 221000Z AUTO 01005KT 9999 // NCD 22/04 Q1017 RMK YSNW 221000Z AUTO 30013KT 9999 // NCD 11/M03 Q1017 CPEH 220900Z AUTO 28002KT 11/08 RMK AO1 T01050082 YTGM 221030Z AUTO 00000KT //// // ////// 11/M05 Q1021 OIFK 221000Z 08010KT CAVOK 38/M01 Q1012 HTTB 221000Z 10006KT CAVOK 28/14 Q1020 OIFM 221000Z 05018KT CAVOK 34/M05 Q1016 A3002 HTSO 221000Z 00000KT 9999 BKN023 24/11 Q1024 OIGG 221000Z 32004KT CAVOK 33/20 Q1010 YTIB 221000Z AUTO 02008KT //// // ////// 13/M05 Q1020 RMK SVVA 220100Z 16002KT 9999 BKN016 23/21 Q1017 OIFS 221000Z 05010KT CAVOK 31/M06 Q1020 CPFI 221000Z AUTO 23004KT 09/08 RMK AO1 T00920077 OIGK 220954Z 08008KT 9999 FEW040 31/04 Q1021 K9V9 221015Z AUTO 00000KT 10SM CLR 20/19 A2987 RMK AO2 T01950192 HTSU 220900Z 18004KT 9999 FEW020 22/10 Q1022 YSRI 221000Z AUTO 32004KT 300V360 9999 // NCD 07/02 Q1019 PRESENT WEATHER SENSOR US DFOO 221000Z 30008KT 9999 FEW016 SCT026 28/23 Q1016 OIHH 221000Z 10008KT CAVOK 34/M03 Q1018 OIHM 220950Z 15008KT CAVOK 33/M04 Q1017 OIIE 221000Z 00000KT CAVOK 38/M02 Q1012 OIII 221000Z 25008KT CAVOK 35/M01 Q1014 A2995 NOSIG OIHR 220700Z 31008KT CAVOK 31/01 Q1019 OIIK 221000Z 26012KT CAVOK 36/07 Q1014 PAAD 221015Z AUTO 15006KT 10SM -DZ OVC090 05/03 A2970 RMK AO2 T00470033 YSTH 221030Z AUTO 34009KT 9999 // OVC026 11/07 Q1008 OIIP 221000Z 26006KT CAVOK 36/02 Q1014 OJAI 221000Z 27014KT 7000 NSC 32/10 Q1013 NOSIG OIIS 221000Z 06016KT CAVOK 37/M04 Q1014 PABA 220952Z AUTO 12018KT 10SM CLR 03/02 A2977 RMK AO2 SLP065 T00330017 TSNO OIKB 221000Z 21010KT 5000 HZ NSC 40/26 Q0996 A2943 NOSIG PAAK 221016Z 13004KT 10SM OVC008 08/05 A3017 RMK AO1 OJAM 221000Z 24009KT 5000 HZ NSC 32/13 Q1012 NOSIG YSSY 221000Z 01007KT CAVOK 13/03 Q1018 NOSIG ZJSY 221000Z 33002MPS 300V010 9999 SCT013 FEW026CB 26/25 Q1006 BECMG AT1040 -TSRA PABE 220953Z 31008KT 10SM CLR 17/14 A2999 RMK AO2 SLP154 T01720144 OJAQ 221000Z 35012KT CAVOK 37/18 Q1007 NOSIG PAAQ 220953Z AUTO 00000KT 10SM FEW090 12/10 A2992 RMK AO2 SLP132 T01170100 TSNO PABI 220953Z AUTO 21008KT 10SM CLR 12/11 A2992 RMK AO2 SLP134 T01220106 TSNO $ CPIR 220900Z AUTO 26008KT 10/08 RMK AO1 T00990080 OIKK 221000Z 08008KT CAVOK 33/M11 Q1015 A3000 PABL 220956Z AUTO 22008KT 10SM OVC100 19/12 A2985 RMK AO2 RAB28E40 SLP111 P0000 T01940122 YSTW 221000Z AUTO 08005KT 9999 // NCD 05/00 Q1021 PACD 221022Z AUTO 30007KT 2 1/2SM BR OVC002 09/09 A3008 RMK AO2 T00890089 TSNO $ OIKO 220950Z 21008KT 7000 NSC 45/12 Q0996 OIKQ 221000Z 22012KT 7000 NSC 41/20 Q0996 PABR 220953Z AUTO 28020G26KT 10SM OVC003 06/05 A2957 RMK AO2 PK WND 28026/0951 SLP012 T00560050 TSNO HTZA 221000Z 16010KT 9999 SCT022 29/21 Q1016 NOSIG OIMB 221000Z 07014KT CAVOK 34/M08 Q1012 PABT 220953Z VRB03KT 10SM BKN100 OVC140 15/03 A2981 RMK AO2 SLP099 T01500028 OIMC 221000Z 15018KT CAVOK 39/06 Q1008 YTMO 221000Z AUTO 18004KT 9999 // NCD 15/M03 Q1019 RMK OIMD 221000Z 06010KT CAVOK 35/M04 Q1007 PACM 220956Z AUTO 24005KT 10SM CLR 12/09 A3005 RMK AO2 SLP172 T01220089 PABV 220956Z AUTO 04006KT 10SM SCT095 13/09 A2993 RMK AO2 SLP142 T01330094 $ YTNG 221030Z AUTO 18001KT 9999 // NCD 12/06 Q1021 PADE 220953Z AUTO 18008KT 10SM BKN100 18/11 A2981 RMK AO2 SLP096 T01780111 TSNO $ YSWG 221000Z AUTO 08006KT 9999 // NCD 06/03 Q1020 YSWH 221000Z AUTO 36009KT 9999 // SCT100 SCT120 11/M01 Q1016 PADG 211830Z 10008KT 10SM FEW050 SCT080 13/06 A2993 UDYZ 221000Z VRB01KT 9999 NSC 37/06 Q1011 R09/000070 NOSIG YTNK 221000Z AUTO 12007KT 9999 // NCD 20/M01 Q1018 OINB 221000Z 34014KT CAVOK 31/26 Q1010 PADK 221016Z AUTO 09003KT 2SM OVC004 08/03 A3022 RMK AO1 PAEC 220248Z 00000KT 20SM SCT040 BKN050 19/10 A2984 RMK NOSPECI LAST PADL 220956Z AUTO 00000KT 10SM SCT100 BKN120 18/15 A2994 RMK AO2 SLP144 T01780150 PNO $ OIMM 221000Z 04016KT CAVOK 35/M01 Q1013 A2992 PAED 220958Z AUTO 15008KT 10SM CLR 14/11 A2990 RMK AO2 SLP120 T01410113 PACV 220953Z 00000KT 10SM OVC034 12/08 A2988 RMK AO2 SLP117 T01170083 PADM 220956Z AUTO VRB03KT 10SM CLR 16/12 A3000 RMK AO2 SLP167 T01610117 OINE 221000Z 20008KT CAVOK 37/14 Q1009 OIMN 221000Z 01012KT CAVOK 33/03 Q1015 OING 221000Z 24012KT 9999 FEW035 36/20 Q1011 PAEG 220953Z AUTO 00000KT 10SM CLR 05/04 A2988 RMK AO2 SLP121 T00500039 TSNO OIMQ 221000Z 09006KT CAVOK 36/M03 Q1011 PAEH 220955Z AUTO VRB04KT 10SM CLR 10/10 A3006 RMK AO2 SLP179 T00990098 PADQ 220953Z AUTO 29004KT 10SM CLR 09/08 A2994 RMK AO2 SLP139 T00890078 TSNO PACZ 220955Z AUTO 00000KT 10SM CLR 14/07 A3003 RMK AO2 SLP167 T01380066 PAEI 220958Z AUTO 16004KT 10SM CLR 11/09 A2987 RMK AO2 SLP119 T01070092 $ NSFA 221000Z 10003KT 9999 FEW024 26/22 Q1014 NOSIG PAFA 220953Z 07003KT 10SM FEW070 FEW160 13/11 A2986 RMK AO2 SLP115 T01280106 $ OINK 221000Z 23004KT 9999 FEW030 39/14 Q1008 PAFB 220958Z AUTO 06003KT 10SM CLR 11/09 A2987 RMK AO2 SLP117 T01070087 $ PAEL 220302Z 00000KT 20SM SCT050 OVC100 15/11 A2985 RMK NOSPECI LAST PADU 220456Z 09005KT 4SM BR BKN001 OVC005 10/10 A3008 RMK AO2 CIG LWR NE-NW BP PAEM 220956Z AUTO 25005KT 10SM CLR 12/11 A3000 RMK AO2 SLP219 T01220111 OINN 221000Z 01008KT CAVOK 31/24 Q1010 PAEN 220953Z AUTO 17004KT 10SM BKN120 12/11 A2992 RMK AO2 SLP132 T01170106 TSNO PAFE 220856Z AUTO 04003KT 5SM RA BR 13/12 A2985 RMK AO2 RAB06 SLP119 P0004 60004 T01280122 58011 $ OINR 221000Z 03006KT 9999 FEW020 31/25 Q1009 PAGA 220956Z AUTO 00000KT 10SM FEW110 17/12 A2989 RMK AO2 SLP122 T01720117 PNO $ PAFM 220956Z AUTO 00000KT 10SM BKN070 14/07 A2987 RMK AO2 SLP127 T01440072 YTRA 221000Z AUTO 27003KT 9999 // NCD 15/02 Q1019 RMK OINZ 221000Z 31008KT CAVOK 35/21 Q1010 PAGH 220956Z AUTO 09007KT 10SM BKN070 14/08 A2985 RMK AO2 SLP112 T01390078 PAFR 221016Z AUTO 00000KT 10SM CLR 12/08 A2992 RMK AO1 SYCJ 221000Z 12006KT 9000 TSRA FEW016CB BKN017 BKN039 24/24 Q1015 CB NE-S PAFS 221001Z AUTO 00000KT CLR 14/09 A2990 RMK AO2 SLP141 T01390089 PWINO $ PAGK 220953Z AUTO 32005KT 10SM CLR 12/08 A2988 RMK AO2 SLP114 T01220083 TSNO PAGL 221016Z AUTO 23007KT 10SM CLR 16/08 A2996 RMK AO1 YTRE 221000Z AUTO 00000KT 9999 // NCD 09/08 Q1020 PAGM 221019Z AUTO 20016KT 3/4SM BR OVC003 09/09 A2992 RMK AO2 PAGN 220956Z AUTO 06004KT 10SM SCT045 OVC055 13/12 A2983 RMK AO2 SLP092 T01330117 PAGS 220956Z AUTO 31003KT 10SM -RA BKN060 OVC090 12/11 A2985 RMK AO2 RAE06B31 SLP110 P0000 T01220106 SYEC 220100Z 05006KT CAVOK 27/24 Q1015 PAHL 220956Z AUTO 21003KT 10SM CLR 18/07 A2986 RMK AO2 SLP121 T01780067 PAHN 220954Z AUTO 31010KT 10SM SCT060 SCT110 13/11 A2987 RMK AO2 SLP116 T01280106 TSNO PAHO 220953Z AUTO 04004KT 10SM CLR 09/07 A2993 RMK AO2 SLP134 T00890072 TSNO PAGY 220953Z AUTO 00000KT 10SM CLR 12/08 A2987 RMK AO2 SLP116 T01220083 TSNO PAHP 220956Z AUTO 29006KT 10SM CLR 12/11 A3004 RMK AO2 SLP210 T01220106 PAIG 220956Z AUTO 16007KT 9SM -RA FEW048 BKN070 OVC080 16/15 A2991 RMK AO2 RAE0858B51 SLP139 P0000 T01560150 $ PAII 220856Z AUTO 26007KT 10SM FEW065 SCT075 BKN110 14/13 A2996 RMK AO2 SLP148 T01390128 50002 OISA 220955Z 34006KT CAVOK 30/M07 Q1020 NTAA 221000Z 12003KT 9999 FEW020 BKN050 25/21 Q1016 NOSIG PAIK 220956Z AUTO 00000KT 10SM OVC060 17/13 A2984 RMK AO2 SLP107 T01670128 PAIL 220953Z AUTO 30003KT 6SM BR SCT080 14/13 A2992 RMK AO2 SLP132 T01390133 TSNO PAJC 220956Z AUTO 23007KT 10SM CLR 16/09 A3001 RMK AO2 SLP163 T01560094 PAIM 220955Z AUTO VRB05KT 10SM CLR 17/04 A2987 RMK AO2 SLP104 T01650044 $ PAIN 220956Z AUTO 00000KT 10SM CLR 09/06 A2993 RMK AO2 SLP148 T00940056 OISF 221000Z 34004KT CAVOK 37/M04 Q1008 PAHX 220956Z AUTO 26003KT 10SM CLR 13/09 A2995 RMK AO2 SLP143 T01280094 YTTI 221000Z AUTO 05011KT //// // ////// 25/16 Q1014 RMK PAHY 220956Z AUTO 13014G21KT 4SM RA BR OVC008 14/13 A2977 RMK AO2 CIG 006V013 SLP078 P0010 T01390128 $ YTST 221030Z AUTO 02003KT 9999 // NCD 23/15 Q1014 OISL 221000Z 36010KT CAVOK 43/08 Q1003 PAJN 220953Z 12003KT 10SM -RA SCT060 OVC100 13/11 A2985 RMK AO2 RAB22 SLP106 P0000 T01280111 PAIW 220958Z AUTO 20027G32KT 9SM CLR 12/11 A2984 RMK AO2 PK WND 19032/0950 SLP107 T01220106 DIAD 221000Z 26006KT 9999 SCT013 29/24 Q1015 NOSIG PAKF 221014Z AUTO 01007KT 1 1/4SM -RA BR OVC003 09/08 A3011 RMK AO2 P0000 $ CPRO 221000Z AUTO 24005KT 10/09 RMK AO1 T00960087 OISR 221000Z 02008KT CAVOK 46/13 Q1000 ZLLL 221000Z 05005MPS 020V080 9999 FEW023 28/13 Q1016 NOSIG OISS 221000Z 34004KT CAVOK 35/M07 Q1013 A2992 PAKK 221016Z AUTO 16003KT 10SM CLR 16/04 A2990 RMK AO1 OKBK 221000Z 13007KT CAVOK 46/10 Q0998 NOSIG OITL 221000Z 07023KT 9999 SCT090 28/07 Q1017 OITM 221000Z 27004KT 9999 FEW035 36/07 Q1015 PAKN 220954Z 16006KT 10SM BKN100 16/16 A2990 RMK AO2 SLP126 T01610156 $ OISY 221000Z 00000KT CAVOK 34/M13 Q1017 OITP 221000Z 11010KT CAVOK 35/20 Q1007 PAKP 220956Z AUTO 19008KT 10SM OVC065 13/04 A2978 RMK AO2 SLP108 T01280039 PALG 220956Z AUTO 00000KT CLR 17/14 A2994 RMK AO2 SLP142 T01720139 PWINO $ PALH 220953Z AUTO 19005KT 10SM CLR 14/11 A2992 RMK AO2 SLP133 T01390106 TSNO $ PAJZ 220956Z AUTO 30004KT 9SM FEW070 SCT080 17/14 A2997 RMK AO2 SLP152 T01720144 $ YTWB 221000Z AUTO 09005KT 9999 // NCD 10/05 Q1023 RMK CPRY 220900Z AUTO 19002KT 10/08 RMK AO1 T00990075 OITR 221000Z 09006KT 9999 FEW035 35/07 Q1015 NOSIG DIAP 221000Z 26007KT 8000 SCT012 BKN030 27/23 Q1016 NOSIG PALJ 220050Z 23008KT 40SM BKN070 23/11 A2987 RMK 402440089 EST PASS OPEN NOSPECI OITT 221000Z 28010KT 9999 FEW040 36/04 Q1016 A3002 NOSIG PAKT 221005Z AUTO 15012G18KT 1 3/4SM +RA BR BKN027 OVC033 14/13 A2982 RMK AO2 P0005 T01390133 TSNO PAMB 220956Z AUTO 00000KT 10SM BKN120 19/16 A2994 RMK AO2 SLP143 T01890156 $ PAKU 220245Z 17004KT 10SM R24/P6000FT SCT030 SCT090 11/03 A2990 OITU 220951Z 12010KT 9999 FEW035 32/05 Q1016 PAMC 220953Z AUTO 32003KT 10SM CLR 14/09 A2991 RMK AO2 SLP131 T01390094 TSNO DIBK 221000Z 22010KT 9999 OVC010 25/23 Q1019 NOSIG CPST 221000Z AUTO 24007KT 11/07 RMK AO1 T01100068 PAMD 220951Z AUTO 27005KT 10SM CLR 11/11 A2989 RMK AO2 SLP114 T01110111 PAKV 220953Z AUTO 10SM CLR 14/09 A2994 RMK AO2 SLP139 T01390094 TSNO $ PAKW 220953Z AUTO VRB03KT 8SM -RA BKN046 BKN055 OVC070 14/12 A2975 RMK AO2 RAE05B33 SLP072 P0000 T01390122 TSNO CPSV 221000Z AUTO 21005KT 09/09 RMK AO1 T00920092 PALP 220245Z 14008KT 10SM SCT200 12/03 2988 OITZ 221000Z 31004KT 9999 FEW035 36/M01 Q1016 PAMH 220956Z AUTO 00000KT 7SM CLR 14/08 A2990 RMK AO2 SLP139 T01390083 PAMK 220956Z AUTO 23008KT 10SM CLR 13/12 A2999 RMK AO2 SLP157 T01280117 $ PANC 220953Z 17006KT 10SM CLR 13/11 A2991 RMK AO2 SLP128 T01330106 PALU 221017Z AUTO 36012KT 10SM -RA BKN012 OVC038 09/07 A2982 RMK AO2 SLP098 PAMM 220856Z AUTO 13009G19KT 10SM -RA BKN024 OVC032 15/12 A2984 RMK AO2 SLP095 P0004 60011 T01500122 57008 DIBU 221000Z 24006KT 6000 BKN013 26/22 Q1017 NOSIG PAMR 220953Z 18004KT 10SM CLR 14/11 A2991 RMK AO2 SLP127 T01390111 PANI 220956Z AUTO 00000KT 10SM CLR 17/12 A2994 RMK AO2 SLP106 T01670117 DIDK 220800Z ///// 9999 BKN013 25/24 Q1017 NOSIG DIDL 221000Z ///// 9999 BKN013 26/23 Q1017 NOSIG PANN 220953Z AUTO 00000KT 10SM CLR 12/11 A2986 RMK AO2 SLP115 T01170106 TSNO PAMY 220956Z AUTO 26007KT 10SM CLR 06/06 A3006 RMK AO2 SLP183 T00610056 PAOH 220856Z AUTO 00000KT 10SM -RA OVC030 13/12 A2985 RMK AO2 RAB08 SLP110 P0001 60001 T01280122 58003 PANT 220953Z AUTO 12013G24KT 4SM BR SCT013 OVC020 15/13 A2981 RMK AO2 SLP096 T01500128 PWINO TSNO PAPB 220953Z AUTO 1/4SM FG VV001 06/06 A3015 RMK AO2 SLP198 T00610056 TSNO $ PAOM 220953Z AUTO 29004KT 10SM CLR 12/12 A2992 RMK SLP132 T01220117 TSNO VIA AUTODIAL PANW 220956Z AUTO 33009KT 10SM BKN110 19/14 A2994 RMK AO2 SLP150 T01890139 UGKO 221000Z 25013KT 230V290 9999 BKN027 30/23 Q1010 R07/09//70 NOSIG PAOO 220956Z AUTO 30011KT 10SM CLR 14/09 A3003 RMK AO2 SLP179 T01390094 PAPG 220556Z 00000KT 10SM -RA BKN042 OVC050 13/11 A2989 RMK RAB49 PAPH 221025Z AUTO 24008KT 2 1/2SM BR OVC002 12/12 A3004 RMK AO2 PAOR 220953Z 00000KT 10SM BKN100 12/09 A2988 RMK AO2 SLP118 T01220094 OIZB 221000Z 33019KT CAVOK 42/02 Q0997 PAOT 220953Z AUTO 29005KT CLR 15/12 A2981 RMK AO2 SLP093 T01500117 TSNO $ DIGA 221000Z 24008KT 9999 BKN013 26/23 Q1018 NOSIG PAOU 221028Z AUTO 27010KT 1/2SM -RA FG OVC002 11/11 A3008 RMK AO2 P0000 PAPM 221008Z AUTO 27007KT 2SM BR OVC003 13/12 A3004 RMK AO2 CPXL 221000Z AUTO 15002KT 10/08 RMK AO1 T00960077 PAPN 221013Z AUTO 23011KT 10SM BKN004 12/12 A2999 RMK AO2 PAPO 220956Z AUTO 01014KT 10SM FEW005 10/08 A2979 RMK AO2 SLP088 T01000083 OIZH 221000Z 33008KT CAVOK 37/M04 Q1009 A2980 NOSIG OIZI 221000Z 31004KT 9999 FEW040 44/00 Q1001 OIZJ 221000Z 24008KT 6000 NSC 36/32 Q0996 PARC 220856Z AUTO 18010KT 10SM OVC085 12/04 A2979 RMK AO2 SLP111 T01220039 58002 OIYY 221000Z 32012KT CAVOK 35/M08 Q1013 PASA 220856Z AUTO 20019KT 10SM CLR 17/09 A2990 RMK AO2 SLP126 T01670089 402170067 58007 $ PAQT 221007Z AUTO 19012KT 10SM -RA SCT025 OVC035 11/09 A2964 RMK AO2 RAB0957 P0000 T01060094 TSNO PASC 220953Z 14008KT 10SM -RA BKN055 OVC085 08/07 A2968 RMK AO2 RAE22B52 SLP050 P0000 T00780072 $ PASD 220956Z AUTO 05003KT 10SM CLR 12/09 A3004 RMK AO2 SLP176 T01220094 YWCA 221000Z AUTO 01008KT //// // ////// 10/M05 Q1020 RMK PASH 220956Z AUTO 22012KT 10SM CLR 14/11 A2981 RMK AO2 SLP097 T01440111 PASI 220953Z 32004KT 10SM OVC085 30/13 A2974 RMK AO2 RAE45 SLP071 P0002 T03000128 $ YWBL 221000Z AUTO 36013KT 9999 // NCD 10/06 Q1011 RMK OLBA 221000Z 25008KT 210V270 8000 SCT026 30/21 Q1011 PATA 220952Z AUTO 04003KT 10SM CLR 09/04 A2988 RMK AO2 SLP118 T00890044 TSNO PARS 220856Z AUTO 30005KT 10SM CLR 19/12 A2996 RMK AO2 SLP148 T01940122 53010 $ PASK 220956Z AUTO 24008KT 10SM FEW080 18/14 A2984 RMK AO2 SLP103 T01780144 $ PASL 221016Z AUTO 00000KT 10SM CLR 12/09 A2995 RMK AO1 PATC 220955Z AUTO 21017KT 10SM OVC007 12/11 A2985 RMK AO2 SLP108 T01170105 PASM 220956Z AUTO 30003KT 10SM CLR 14/12 A3003 RMK AO2 SLP182 T01390117 PASN 221020Z AUTO 25005KT 2SM BR OVC001 05/05 A3013 RMK AO2 T00500050 TSNO $ PATE 220956Z AUTO 21013KT 10SM CLR 13/11 A2988 RMK AO2 SLP120 T01330106 $ PASO 220953Z AUTO 00000KT 10SM CLR 09/08 A2992 RMK AO2 SLP132 T00890083 TSNO $ YWBR 221000Z AUTO 19005KT //// // ////// 19/03 Q1018 PATG 220756Z AUTO 31008KT 10SM OVC100 19/15 A2997 RMK AO2 SLP239 T01940150 PARY 220956Z AUTO 00000KT 10SM CLR 14/07 A2990 RMK AO2 SLP146 T01440072 MSV 221000Z AUTO 29008KT 9999 // NCD 06/M05 Q1018 RMK PATK 220953Z AUTO 00000KT 10SM CLR 11/09 A2990 RMK AO2 SLP127 T01060094 TSNO PATL 220955Z AUTO 00000KT 10SM CLR 18/08 A2996 RMK AO2 SLP136 T01780081 PASV 220955Z AUTO 35007KT 10SM CLR 18/08 A2994 RMK AO2 SLP120 T01820081 MUI 221000Z AUTO 31004KT 9999 // NCD 09/M01 Q1021 RMK PATO 220953Z AUTO 29005KT 10SM SCT110 12/09 A2991 RMK AO2 SLP128 T01170094 TSNO PASX 220956Z AUTO 00000KT 10SM OVC070 11/09 A2992 RMK AO2 SLP141 T01110089 $ UHHH 221000Z 28002MPS 220V310 CAVOK 24/14 Q1009 R23L/090060 NOSIG RMK QFE750/1000 PASY 221003Z 17013KT 4SM BR OVC002 08/08 A3011 RMK AO2 WND DATA ESTMD $ PATQ 220956Z AUTO 28023KT 7SM -RA OVC005 08/08 A2963 RMK AO2 PK WND 27031/0857 RAE01B28 CIG 004V008 SLP041 P0001 T00830078 TSNO PAVA 220956Z AUTO 28009KT 10SM CLR 11/09 A3003 RMK AO2 SLP252 T01060094 NSTU 220950Z 12016KT 10SM SCT019 BKN040 OVC100 27/27 A2996 RMK SLP146 T02740265 PAVC 221024Z AUTO 26016KT 1SM -RA BR OVC003 09/09 A3008 RMK AO2 P0000 PAVD 221016Z 09003KT 10SM CLR 08/06 A2989 RMK AO1 PAUN 220956Z AUTO 24008KT 10SM CLR 17/14 A2997 RMK AO2 SLP154 T01720139 DIKO 221000Z 24006KT 9999 FEW013 29/23 Q1016 NOSIG UGSB 221000Z 23014KT 2400 RA BKN009 OVC021 23/22 Q1014 R13/19//60 NOSIG PAUT 221015Z AUTO 31015KT 1/4SM FG OVC003 08/08 A3011 RMK AO2 T00800080 PAVL 220953Z AUTO 08003KT 5SM BR FEW006 11/09 A2978 RMK AO2 SLP083 T01060094 TSNO $ PAWD 220953Z AUTO 01008KT 10SM CLR 11/10 A2989 RMK AO2 SLP121 T01110100 TSNO PAWG 220956Z AUTO 08010KT 10SM -RA FEW032 OVC085 14/13 A2983 RMK AO2 RAB21 SLP101 T01390128 TSNO PNO $ PAWI 221000Z AUTO 28019KT 10SM FEW009 OVC055 07/06 A2966 RMK AO2 T00670056 TSNO UGTB 221000Z 13007G17KT 080V200 CAVOK 36/08 Q1014 R13R/CLRD70 NOSIG PAWM 220956Z AUTO 24007KT 10SM CLR 15/11 A2993 RMK AO2 SLP137 T01500106 DIMN 221000Z 24006KT 9999 BKN013 25/22 Q1018 NOSIG YWHA 221000Z AUTO 32007KT 9999 // NCD 14/01 Q1015 PAYA 220953Z AUTO 00000KT 5SM BR CLR 08/08 A2983 RMK AO2 SLP101 T00830078 TSNO PAWS 220956Z AUTO 00000KT 10SM CLR 11/09 A2994 RMK AO2 SLP151 T01060094 ZLXY 221000Z 17005MPS 120V230 9999 -SHRA SCT040CB SCT050 34/23 Q1004 BECMG TL1200 24003MPS DIOD 221000Z 30004KT 6000 BKN013 27/23 Q1017 NOSIG YWGT 221000Z AUTO 07004KT 9999 // BKN100 BKN110 07/03 Q1019 YVRD 221030Z AUTO 17004KT //// // ////// 19/02 Q1015 PAZK 220956Z AUTO 22007KT 10SM SCT095 10/08 A2994 RMK AO2 SLP151 T01000083 YWIS 221000Z AUTO 10005KT //// // ////// 18/14 Q1020 RMK OMAA 221000Z 31012KT 6000 NSC 45/16 Q0996 NOSIG OMAD 221000Z 24005KT 170V300 5000 DU NSC 45/18 Q0996 BECMG 30010KT 7000 NSW ZMUB 221000Z 01003MPS 330V080 9999 FEW030CB FEW033 21/10 Q1014 NOSIG RMK QFE653.6 49 MOP OMAL 221000Z VRB05KT 7000 FEW048 44/14 Q0999 BECMG 27008KT YWLG 221000Z AUTO 00000KT 9999 // NCD 06/00 Q1021 RMK TQPF 212300Z 06009KT 9999 SCT019 28/24 Q1017 YWLM 221000Z AUTO 35006KT 9999 // NCD 10/03 Q1019 DITB 221000Z 22008KT 9999 BKN013 27/24 Q1016 NOSIG UHPP 221000Z 04002MPS 4300 -SHRA BR SCT010 BKN040CB 14/14 Q1007 R34L/190060 NOSIG RMK MT OBSC QFE752/1002 EBBE 220955Z AUTO 20012KT 9999 FEW047/// 23/11 Q1012 BLU DISP 221000Z 22010KT 9999 BKN013 27/24 Q1016 NOSIG OMDB 221000Z 30012KT 8000 NSC 45/15 Q0997 NOSIG DISS 221000Z 22004KT 9999 BKN013 26/22 Q1017 NOSIG EBBL 220955Z AUTO 20006KT 9999 BKN045/// 24/12 Q1012 BLU EBAW 221020Z 21009KT 180V250 9999 FEW045 BKN047 23/12 Q1011 NOSIG UIII 221000Z 31004MPS 9999 SCT050CB 23/11 Q1012 R30/CLRD60 NOSIG RMK QFE715/0953 EBCI 221020Z 19009KT 150V240 9999 FEW042 22/11 Q1012 TEMPO 22018G28KT EBBR 221020Z 20011KT 160V220 9999 SCT048 24/11 Q1011 NOSIG CTCK 221000Z AUTO 00000KT 13/13 RMK AO1 SLP107 T01330130 53001 VAAH 221000Z 28008KT 1500 BR SCT010 BKN018 OVC060 25/25 Q0998 NOSIG YWOL 221000Z AUTO 09004KT 040V130 9999 // NCD 09/M02 Q1018 RMK VABB 221000Z 24014G24KT 2200 HZ SCT015 FEW025TCU BKN090 29/26 Q1002 TEMPO 1500 SHRA KA08 221015Z AUTO 00000KT 7SM CLR 22/22 A3000 RMK AO2 T02210221 OMDW 221000Z 30011KT 6000 NSC 45/16 Q0997 NOSIG EBCV 221014Z AUTO 19011KT 2800 -RA OVC030/// 19/13 Q1011 YLO OMFJ 221000Z 11009KT 7000 FEW025 40/19 Q0997 RMK A2945 VAAU 220900Z 23009KT 6000 SCT020 SCT025 BKN100 28/23 Q1004 NOSIG EBDT 220955Z AUTO 20010G21KT 9999 FEW048/// 23/12 Q1011 BLU VABO 221000Z 27010KT 2500 RA SCT015 SCT020 OVC070 26/25 Q0999 TEMPO 1500 VABP 221000Z 24014KT 5000 -RA FEW010 SCT020 BKN100 26/25 Q1000 NOSIG VABV 220400Z 25011KT 3000 DZ HZ SCT015 SCT018 OVC080 26/25 Q1000 EBFN 220955Z AUTO 19009KT 9999 FEW035/// OVC050/// 18/12 Q1010 BLU EBFS 220955Z AUTO 19011KT 9999 NCD 21/10 Q1012 BLU KA39 221015Z AUTO 12005KT 10SM SCT110 29/20 A2992 RMK AO2 DIYO 221000Z 22006KT 9999 BKN013TCU BKN100 25/23 Q1017 NOSIG YWUD 221000Z AUTO 28007KT //// // ////// 10/05 Q1016 YWTN 221000Z AUTO 19006KT //// // ////// 17/M01 Q1017 RMK UHWW 221000Z 21003MPS 9999 NSC 23/12 Q1010 R25L/0///70 NOSIG RMK QFE756 TRPG 221000Z 12007KT 9999 BKN016 26/26 Q1016 VAID 220900Z 25011KT 5000 HZ SCT020 SCT025 26/24 Q1000 NOSIG EBLB 220955Z AUTO 21007KT 9999 BKN033/// 21/12 Q1014 BLU EBLG 221020Z 22014KT 9999 SCT046 23/11 Q1012 NOSIG YWWL 221000Z AUTO 26003KT //// // ////// 01/M02 Q1020 RMK VAJB 220900Z 00000KT 5000 -RA SCT020 SCT030 BKN100 27/25 Q1001 VAJJ 221000Z 26015G30KT 220V310 3000 -RA FEW012 SCT018 FEW025TCU BKN090 29/26 Q1004 TEMPO 1500 SHRA UKBB 221000Z 30004MPS 260V340 9999 VCTS SCT035CB 27/17 Q1012 R18L/CLRD// TEMPO VRB12G18MPS 0700 +TSRAGR SQ BKN020CB YWYM 221000Z AUTO 17005KT //// // ////// 24/M02 Q1013 RMK CTNK 221000Z AUTO 00000KT 12/11 RMK AO1 SLP126 T01230108 53001 UKDD 221000Z 00000MPS CAVOK 33/13 Q1014 R26/090070 NOSIG UKDE 221000Z VRB02MPS CAVOK 33/13 Q1013 R02/CLRD70 NOSIG YWYY 221000Z AUTO 31011KT 9999 // OVC033 12/09 Q1008 RMK TTCP 221000Z 06003KT 9999 FEW017 26/24 Q1014 NOSIG EBOS 221020Z 18008KT 9999 FEW020 BKN046 18/13 Q1011 TEMPO SHRA UKDR 221000Z 25002MPS 220V320 9999 SCT040 34/12 Q1014 R18/09//70 NOSIG OMRK 221000Z 34014KT 8000 NSC 43/20 Q0997 A2945 VANP 221000Z 24008KT 3000 HZ FEW012 SCT018 FEW030CB BKN090 30/26 Q1001 TEMPO 2000 RA OMSJ 221000Z 31004KT CAVOK 45/16 Q0997 EDAC 221020Z 24006KT CAVOK 23/17 Q1014 EDAH 221020Z 03006KT 360V070 9999 BKN015 20/16 Q1016 NVSS 220500Z 14006KT 9999 FEW025 28/24 Q1012 RMK HZ UKHH 221000Z 22006MPS 190V250 9999 FEW040 SCT100 32/12 Q1013 R25/0///66 NOSIG VAPR 220600Z 29012KT 2000 -DZ SCT015 SCT018 OVC080 28/26 Q1002 PFCL 220956Z AUTO 28005KT OVC120 18/17 A2994 RMK AO2 SLP139 T01830167 PWINO $ YYNG 221000Z AUTO 21003KT //// // ////// M02/M04 Q1020 RMK VARK 220000Z 27017KT 3000 MOD RA BKN010 OVC070 26/26 Q0998 EDDB 221020Z 09013KT CAVOK 25/18 Q1013 NOSIG EDDC 221020Z VRB05KT 9999 FEW049 BKN090 BKN300 27/15 Q1013 NOSIG EDDE 221020Z 27007KT 9999 FEW016 SCT023 BKN110 20/16 Q1014 NOSIG EDDF 221020Z 19005KT 070V240 9999 VCSH FEW025CB SCT028 24/17 Q1013 TEMPO SHRA EDDG 221020Z 13006KT 070V180 9999 FEW023 24/18 Q1012 NOSIG EDDH 221020Z 16004KT 100V180 8000 RA FEW010 BKN030 18/17 Q1014 TEMPO 4500 NSW KC07 221012Z AUTO 27008KT 10SM CLR 10/05 A3054 RMK AO2 KAAA 221015Z AUTO 36004KT 10SM SCT110 25/22 A2988 RMK AO2 LTG DSNT W T02490222 PFEL 220956Z AUTO 21007KT 10SM CLR 16/09 A2992 RMK AO2 SLP132 T01560094 KC09 221015Z AUTO 26009KT 10SM RA SCT075 OVC100 21/20 A2987 RMK AO2 P0006 T02100203 NVVV 220500Z 13011KT 9999 BKN020 OVC040 24/22 Q1014 RMK HZ EDDK 221020Z 12006KT 080V160 9999 FEW030 24/15 Q1012 NOSIG EDDL 221020Z 22010KT 190V250 9999 FEW045 SCT070 25/14 Q1012 NOSIG EDDM 221020Z 22007KT 180V250 9999 FEW030 BKN100 23/16 Q1017 NOSIG KAAF 220953Z AUTO 00000KT 10SM CLR 24/24 A2999 RMK AO2 SLP157 T02440244 EDDN 221020Z VRB03KT 9999 FEW035 24/15 Q1015 NOSIG VCBI 221010Z 24009KT 200V270 9999 SCT018 30/23 Q1007 NOSIG EDDP 221020Z 24003KT 210V290 9999 -RA FEW040 BKN074 BKN100 22/17 Q1013 NOSIG UKKK 221000Z 28005MPS 250V310 CAVOK 28/17 Q1012 R26/CLRD70 TEMPO VRB10G18MPS 2100 -TSRAGR SQ BKN015CB VASU 220730Z 26008KT 6000 SCT010 SCT020 BKN080 29/26 Q1000 EDDR 221020Z 21007KT 170V260 9999 SCT016 SCT110 22/17 Q1015 NOSIG VAUD 221000Z 30003KT 2000 RA SCT025 OVC080 26/26 Q0998 NOSIG EDDS 221020Z VRB03KT 9999 SCT037 24/16 Q1015 NOSIG UKKM 221000Z AUTO 30005MPS 250V340 9999 ///029/// 26/19 Q1013 EDDT 221020Z 08011KT 030V120 CAVOK 25/16 Q1013 NOSIG ZPPP 221000Z 01003MPS 350V050 9999 -RA FEW004 BKN016 OVC036 15/15 Q1023 NOSIG EDDV 221020Z 09003KT 060V140 9999 -DZ FEW005 BKN006 18/16 Q1014 TEMPO SCT006 KABE 220951Z 00000KT 10SM CLR 23/19 A2990 RMK AO2 SLP122 T02280194 EDDW 221020Z 09006KT 060V140 9999 BKN010 BKN100 20/17 Q1013 TEMPO SCT010 KAAO 220954Z AUTO 20012KT 10SM CLR 28/21 A2987 RMK AO2 SLP095 T02780206 UKLI 221000Z 27003MPS 250V310 9999 OVC026 22/18 Q1017 R28/090070 NOSIG KABH 220956Z AUTO 17004KT CLR A3019 RMK AO2 SLPNO $ KABI 220952Z 15008KT 10SM CLR 24/17 A2997 RMK AO2 SLP117 T02390167 EDFH 221020Z 23005KT 170V290 9999 FEW027 22/15 Q1014 UKLL 221000Z 30002MPS 9999 OVC020 20/16 Q1018 R31/CLRD// NOSIG KAAT 220955Z AUTO VRB03KT 10SM CLR 17/04 A3018 RMK AO2 SLP169 T01670039 KACB 221015Z AUTO 00000KT 10SM SCT060 OVC070 20/18 A2986 RMK AO2 T01960179 KC29 221015Z AUTO 00000KT 1SM OVC003 20/20 A2981 RMK AO1 T02010201 UKLN 221000Z 31005MPS 250V020 9999 BKN023CB BKN100 22/17 Q1017 R33/09//70 NOSIG EDFM 221020Z 18007KT 140V220 9999 SCT027 25/16 Q1014 KC35 221015Z AUTO 00000KT 1/2SM FG OVC003 19/19 A2979 RMK AO2 T01880188 UKLR 221000Z 31004MPS 280V340 9999 SCT016 SCT016CB OVC100 21/18 Q1016 NOSIG KABQ 220952Z 13006KT 10SM FEW080 SCT095 SCT170 21/14 A3015 RMK AO2 SLP115 T02060139 KABR 220953Z AUTO 30005KT 10SM CLR 19/19 A2984 RMK AO2 SLP094 T01940194 KACJ 221015Z AUTO 00000KT 5SM BR CLR 22/22 A3005 RMK AO2 UKLU 221000Z 00000MPS 9999 SCT043 27/17 Q1015 R10/090070 NOSIG KACK 220953Z 26008KT 7SM FEW065 BKN120 21/21 A2984 RMK AO2 SLP103 T02110206 $ KADC 221010Z AUTO 33011G20KT 7SM +VCTSRA SCT019 BKN029 OVC100 19/19 A2986 RMK AO2 P0001 LTG DSNT ALQDS KADF 220956Z AUTO 00000KT 6SM BR CLR 23/23 A2994 RMK AO2 SLP139 T02330228 KADG 220953Z AUTO 00000KT 4SM -RA BR FEW100 SCT120 22/22 A2987 RMK AO2 SLP111 P0007 T02220217 $ KABY 220953Z AUTO 18005KT 10SM CLR 23/22 A3003 RMK AO2 SLP167 T02280222 KACP 221015Z AUTO 00000KT 4SM BR CLR 23/22 A2998 RMK AO2 T02300224 KACQ 221013Z AUTO 18005KT 7SM SCT006 20/18 A2980 RMK AO2 KADH 221015Z AUTO 19004KT 10SM CLR 25/21 A2993 RMK AO2 EDHI 221020Z 09004KT 8000 -RA BKN035 18/17 Q1014 EDGS 221020Z 18008KT 150V240 9999 SCT038 21/14 Q1015 KACT 220951Z AUTO 18009KT 10SM CLR 27/23 A2994 RMK AO2 SLP128 T02670228 EDHK 221020Z 09008KT 9999 BKN012 19/16 Q1015 KACV 220953Z AUTO 17004KT 10SM OVC008 14/13 A3004 RMK AO2 SLP178 T01390128 EDHL 221020Z 11004KT 9999 -RA SCT027 BKN120 19/17 Q1015 KADM 221015Z AUTO 00000KT 10SM CLR 23/22 A2992 RMK AO2 T02290215 UKOH 221000Z 14005MPS 070V230 9999 SCT040 34/10 Q1013 R21/CLRD// NOSIG KACY 220954Z 00000KT 9SM FEW042 BKN070 OVC090 24/23 A2987 RMK AO2 RAB17E43 SLP115 P0005 T02440233 KAEG 221015Z AUTO 26004KT 10SM CLR 17/11 A3019 RMK AO2 T01700113 KADS 221015Z AUTO 20006KT 10SM CLR 28/22 A2995 RMK AO2 T02750221 KAEJ 221015Z AUTO 32007KT 10SM SCT110 14/09 A3037 RMK AO2 T01390087 DNAA 220900Z 17004KT 100V250 9999 BKN009 26/20 Q1017 NOSIG EDJA 221020Z 22008KT 200V270 9999 FEW031 23/15 Q1017 KADU 221015Z AUTO 04005KT 3SM -RA OVC003 23/21 A2982 RMK AO2 KAEL 221012Z AUTO 00000KT 1 1/4SM BR OVC002 21/20 A2982 RMK AO2 UKON 221000Z VRB02MPS 9999 SCT033 34/11 Q1013 NOSIG KC62 221015Z AUTO 12004KT 3SM BR BKN004 BKN080 OVC100 20/20 A2985 RMK AO2 T02050205 UKOO 221000Z 17003MPS 130V230 CAVOK 31/16 Q1014 R16/090060 NOSIG KADW 220958Z AUTO 26003KT 10SM SCT045 SCT210 26/22 A2987 RMK AO2 SLP119 T02550223 CWAE 220100Z 18003KT 15SM BKN047 OVC074 16/10 A3016 RMK SC5AS3 WND ESTD/LAST OB/NEXT 221300UTC SLP216 DENSITY ALT 2500FT KAFF 220958Z AUTO 00000KT 10SM OVC160 16/12 A3019 RMK AO2 SLP120 T01630120 CWAF 221000Z AUTO 30009KT 08/05 RMK AO1 T00750051 KAFJ 221015Z AUTO 00000KT 5SM OVC015 22/21 A2996 RMK AO1 CWAJ 221000Z AUTO RMK AO1 CWBA 221000Z AUTO 36002KT 15/14 RMK AO1 T01500137 KAFK 221015Z AUTO 29003KT 10SM CLR 26/20 A2978 RMK AO2 T02640203 KAGC 221027Z AUTO 19006KT 1 1/4SM R28/6000VP6000FT BR BKN003 OVC007 22/21 A2995 RMK AO2 T02220206 TTPP 221000Z 00000KT 9999 FEW010CB FEW014TCU 24/23 Q1014 NOSIG RMK CB SW TCU W KAFN 220952Z AUTO 17003KT 10SM CLR 17/16 A2989 RMK AO2 SLP119 T01720161 CWBE 221000Z AUTO 05007KT 20/11 RMK AO1 SLP128 T02010106 58004 KAEX 220953Z 00000KT 6SM BR CLR 24/23 A2995 RMK AO2 SLP146 T02390233 KAFO 221015Z AUTO 19006KT 10SM CLR 04/02 A3027 RMK AO2 TSNO KAFP 221005Z AUTO 00000KT 10SM CLR 23/22 A2998 RMK AO2 T02340217 PWINO KC75 221015Z AUTO 06003KT 10SM VCTSRA SCT013 BKN065 OVC100 21/21 A2987 RMK AO2 LTG DSNT ALQS P0001 T02100210 CWAQ 221000Z AUTO 26004KT 10/08 RMK AO1 SLP140 T00980082 53009 PFKT 220956Z AUTO 21018KT 10SM CLR 15/12 A2989 RMK AO2 SLP121 T01500122 CWCA 221000Z 02005KT 15SM OVC025 10/09 A2947 RMK SC8 SLP981 CWBK 221000Z AUTO 28016KT 19/17 RMK AO1 PK WND 28020/0955 SLP039 T01890168 53005 CWAV 221000Z AUTO 26001KT 04/03 RMK AO1 SLP192 T00350031 56002 KAFW 220953Z 20003KT 10SM CLR 27/22 A2992 RMK AO2 SLP112 T02670217 CWCF 221000Z AUTO 08006KT 16/06 RMK AO1 SLP093 T01550064 56012 CWBO 221000Z AUTO 25003KT 12/10 RMK AO1 SLP174 T01220097 51009 CWCI 220900Z AUTO 36009KT 13/11 RMK AO1 PK WND 07018/0820 SLP123 T01270112 53004 KAIA 220953Z AUTO 34004KT 10SM CLR 19/12 A3005 RMK AO2 SLP121 T01940122 KAGS 220953Z AUTO 00000KT 7SM CLR 23/22 A2999 RMK AO2 SLP154 T02280217 CWDA 220900Z AUTO 11005KT 11/11 RMK AO1 SLP988 T01070107 55006 CWCJ 221000Z AUTO 04007KT 15/09 RMK AO1 SLP123 T01450091 56001 CWBS 221000Z AUTO 34012KT 17/09 RMK AO1 PK WND 34017/0916 T01670093 EDMA 221020Z 24004KT 200V330 9999 FEW031 23/15 Q1016 KAIB 221015Z AUTO 00000KT 10SM CLR 17/12 A3025 RMK AO2 CWBT 221000Z AUTO 28005KT 11/ RMK AO1 SLP019 T0113 52015 KAID 211947Z 34006KT 10SM SCT030 30/23 A3001 CWDC 221000Z AUTO 19004KT 17/12 RMK AO1 SLP098 T01740124 51002 CWBU 221000Z AUTO 01003KT 13/12 RMK AO1 1010 SLP132 T01270118 50004 CWBV 221000Z AUTO 28005KT 17/ RMK AO1 SLP040 T0171 51010 KAHN 220951Z AUTO 00000KT 9SM CLR 22/22 A3000 RMK AO2 SLP150 T02220217 EDLN 221020Z VRB03KT CAVOK 25/14 Q1012 CWCO 221000Z AUTO 00000KT 18/15 RMK AO1 SLP112 T01810148 50002 KAIG 221015Z AUTO 15003KT 10SM OVC006 17/17 A2983 RMK AO2 T01730167 CWBY 221000Z AUTO 00000KT 13/07 RMK AO1 SLP019 T01300071 51012 EDLP 221020Z 21005KT 150V270 9999 SCT025 24/15 Q1013 KAHQ 221015Z AUTO 36004KT 4SM BR BKN003 26/25 A2978 RMK AO2 T02570250 CWBZ 221000Z AUTO 10001KT 16/16 RMK AO1 T01560156 53004 UMBB 221000Z 08002MPS 9000 BKN024 22/14 Q1016 NOSIG KD07 220956Z AUTO 33008KT 17/07 A2995 RMK AO1 SLP123 T01670072 OOMS 220950Z 05007KT CAVOK 41/16 Q0997 NOSIG CWDJ 221000Z AUTO 27005KT 08/07 RMK AO1 SLP134 T00800067 53010 KAIK 221015Z AUTO 20003KT 10SM CLR 21/21 A3004 RMK AO2 KBAB 220958Z AUTO 00000KT 10SM CLR 20/12 A2985 RMK AO2 SLP110 T01970115 $ CWEB 221000Z AUTO 12012G20KT 14/14 RMK AO1 2PAST HR 8003 PK WND 13023/0936 SLP178 P0001 T01410137 50012 CWDK 221000Z AUTO 34002KT 09/06 RMK AO1 SLP185 T00850058 50000 CWCT 221000Z AUTO 27005KT 09/09 RMK AO1 SLP173 T00930090 51006 KBAC 221015Z AUTO 18004KT 6SM BR CLR 17/17 A2985 RMK AO2 KBAD 220958Z AUTO 15004KT 10SM CLR 26/24 A2995 RMK AO2 SLP143 T02590238 CWDM 221000Z AUTO 20003KT 13/13 RMK AO1 SLP982 T01300126 58002 EDLV 221020Z 21008KT 180V250 CAVOK 24/13 Q1013 PFNO 220956Z AUTO 25005KT 10SM OVC070 16/14 A2983 RMK AO2 SLP102 T01610139 CWEE 220900Z AUTO RMK AO1 53006 KBAF 220953Z AUTO 00000KT 10SM CLR 17/16 A2987 RMK AO2 SLP111 T01720156 EDLW 220850Z 20005KT 170V250 CAVOK 22/15 Q1012 KAIO 221015Z AUTO 04007KT 10SM FEW005 OVC090 24/23 A2979 RMK AO2 EDMO 220950Z 24004KT 190V280 CAVOK 21/15 Q1017 CWEF 220900Z AUTO 26016KT 19/17 RMK AO1 PK WND 26019/0854 SLP002 T01910171 56019 CWDO 221000Z AUTO 22007KT 15/14 RMK AO1 SLP993 T01520140 56005 KAJG 221015Z AUTO 22008KT 7SM CLR 26/24 A2987 RMK AO2 T02550237 CWDQ 221000Z AUTO 33004KT 09/05 RMK AO1 SLP130 T00920053 51009 CWEH 221000Z AUTO 30009KT 13/10 RMK AO1 PK WND 31017/0940 SLP163 T01250095 52010 EEEI 220950Z 28009KT 240V340 9999 FEW010 SCT025 17/13 Q1019 NOSIG KBAK 221030Z 03006KT 10SM SCT022 BKN029 OVC080 25/22 A2992 KAIT 221013Z AUTO 00000KT 1 1/2SM BR OVC003 17/16 A2984 RMK AO2 LTG DSNT NW KBBB 221013Z AUTO 00000KT 10SM CLR 19/18 A2983 RMK AO2 CWDT 220900Z AUTO 29006KT 05/02 RMK AO1 SLP108 T00470015 53005 CWEK 221000Z AUTO 08013KT 14/13 RMK AO1 2PAST HR 8010 SLP104 P0005 T01400131 50076 CWEL 221000Z AUTO 11014KT 16/14 RMK AO1 8001 PK WND 11017/0959 SLP202 T01550136 50002 KBAM 221015Z AUTO 33010KT 10SM CLR 19/00 A3011 RMK AO1 NWWW 221000Z AUTO 14002KT 9999 BKN043 OVC058 17/13 Q1019 NOSIG CWDV 221000Z AUTO 07003KT 13/12 RMK AO1 SLP118 T01270115 55004 CWFD 221000Z AUTO ///// ////SM //// BKN180 07/M01 A2967 KBAN 220952Z AUTO 00000KT 10SM CLR 10/01 A3028 RMK AO2 SLP139 T01000006 $ KAJO 220956Z AUTO 25005KT 8SM CLR 19/17 A2991 RMK AO2 SLP133 T01890172 KBBF 221015Z AUTO 21014KT 10SM SCT023 29/24 A2996 RMK A01 ULLI 221000Z 32003MPS 300V360 9999 VCTS BKN033CB 20/11 Q1017 R28L/090060 NOSIG CWFF 221000Z AUTO 03006KT 13/12 RMK AO1 3012 SLP136 T01290120 50002 KD25 221015Z AUTO 00000KT 7SM OVC011 19/19 A2983 RMK AO2 T01850185 KBBG 221015Z AUTO 22006KT 10SM 25/20 A2997 RMK AO2 CWEP 221000Z AUTO 11/10 RMK AO1 SLP023 T01130098 56001 KAKH 220954Z AUTO 22004KT 10SM CLR 24/21 A2998 RMK AO2 SLP144 T02390211 KAIZ 220956Z AUTO 24007KT 10SM CLR 27/22 A2991 RMK AO2 SLP114 T02670217 CWEQ 221000Z AUTO 20003KT 14/13 RMK AO1 SLP109 T01350132 51009 KAJR 221015Z AUTO 00000KT 7SM CLR 22/21 A3004 RMK AO2 T02190209 CWER 221000Z AUTO 31003KT RMK AO1 CWFJ 221000Z AUTO 19005KT 10/06 RMK AO1 T01030056 KALB 220951Z 23005KT 10SM FEW095 BKN240 BKN270 19/16 A2988 RMK AO2 SLP116 T01940156 KBCB 221015Z AUTO 00000KT 7SM CLR 21/20 A3006 RMK AO2 T02120202 CWGB 221000Z AUTO 11014KT 17/14 RMK AO1 0000 SLP197 T01700140 50002 CWEU 221000Z 15013KT 6SM -RA BR FEW012 SCT020 OVC035 04/03 A2961 RMK SC1SC3SC4 SLP030 CWGD 221000Z AUTO 14006KT 21/17 RMK AO1 SLP108 T02140174 57011 KBCE 220953Z AUTO 25003KT 10SM CLR 11/11 A3035 RMK AO2 SLP168 T01110106 CWEW 221000Z AUTO 36003KT 17/11 RMK AO1 SLP126 T01680112 53014 KAKO 220953Z AUTO 26008KT 10SM CLR 18/16 A3008 RMK AO2 SLP114 T01780156 KBAX 221016Z AUTO 10003KT 10SM -RA SCT050 SCT075 OVC120 20/19 A2987 RMK AO2 T02040193 KBBP 221015Z AUTO 00000KT 10SM CLR 25/25 A2998 RMK AO2 KAKQ 220954Z AUTO 00000KT 5SM BR CLR 24/23 A2990 RMK AO2 SLP125 T02390233 EDOP 221020Z 08011KT CAVOK 21/16 Q1014 KBAZ 220951Z AUTO 20005KT 10SM CLR 23/22 A2996 RMK AO2 SLP133 T02330222 EDNY 221020Z VRB04KT 9999 FEW035 24/15 Q1016 KAJZ 221015Z AUTO 01005KT 10SM CLR 20/15 A3019 RMK AO2 T02020147 CWFQ 221000Z AUTO 32002KT 17/16 RMK AO1 SLP112 T01680157 53005 CWEZ 221000Z AUTO 31004KT 16/12 RMK AO1 SLP204 T01600115 52001 KALI 220953Z AUTO 16005KT 10SM CLR 24/23 A2992 RMK AO2 SLP130 T02390233 KAKR 220954Z AUTO VRB03KT 6SM BR BKN007 24/22 A2990 RMK AO2 CIG 006V009 SLP115 T02390222 TSNO KAMA 220953Z AUTO 20008KT 10SM CLR 21/15 A3003 RMK AO2 SLP108 T02110150 KD39 221014Z AUTO 23003KT 10SM OVC013 20/20 A2982 RMK AO2 T02030196 KBCK 221015Z AUTO 00000KT 3SM BR OVC004 20/20 A2979 RMK AO2 T02010201 KALK 220956Z AUTO 26009KT 10SM CLR 20/17 A3014 RMK AO2 SLP113 T02000172 CWGL 221000Z AUTO 36003KT 20/16 RMK AO1 SLP119 T02010156 58001 KALM 221015Z AUTO 00000KT 10SM CLR 20/15 A3009 RMK AO2 CWGM 221000Z AUTO 21005KT 10/05 RMK AO1 T01040049 KBDE 220953Z AUTO 00000KT 10SM CLR 15/15 A2978 RMK AO2 SLP082 T01500150 KBBW 220953Z AUTO 00000KT 10SM CLR 24/19 A2989 RMK AO2 SLP088 T02440194 KALN 221015Z AUTO 22005KT 10SM CLR 27/23 A2987 RMK AO2 LTG DSNT N T02650231 KALO 220954Z AUTO 22006KT 10SM FEW005 22/20 A2975 RMK AO2 LTG DSNT SE-SW RAE07 TSE17 SLP067 P0001 T02170200 KAMG 220953Z AUTO 23003KT 5SM BR BKN001 22/21 A3002 RMK AO2 SLP163 T02220211 KBDG 221015Z AUTO 29005KT 10SM CLR 17/13 A3026 RMK AO1 T01670130 KBDH 221014Z AUTO 00000KT 10SM CLR 20/19 A2981 RMK AO2 NZAA 221000Z AUTO 23013KT 9999 FEW019/// 12/10 Q0996 NOSIG OOSA 220950Z 17011KT 7000 SCT012 BKN020 28/25 Q1003 NOSIG CWHI 220900Z AUTO 27003KT 09/08 RMK AO1 T00910082 CWGR 221000Z AUTO 28021G27KT 19/15 RMK AO1 PK WND 29027/0956 SLP002 T01940150 57005 ZSAM 221000Z 11006G11MPS 070V130 CAVOK 31/25 Q1007 NOSIG KALS 220952Z AUTO 22003KT 10SM FEW110 13/11 A3031 RMK AO2 SLP154 T01280106 KBEA 221015Z AUTO 16004KT 10SM CLR A2995 RMK AO2 KBCT 220247Z 00000KT 10SM CLR 25/23 A3009 RMK LAST KANB 220953Z AUTO 00000KT 10SM CLR 23/22 A3000 RMK AO2 SLP146 T02330217 KD50 221015Z AUTO 22007KT 10SM CLR 11/11 A2994 RMK AO2 CWGT 221000Z AUTO 12014KT 17/14 RMK AO1 SLP197 T01700136 56004 KBDL 220951Z 32003KT 10SM FEW200 BKN220 OVC250 19/16 A2987 RMK AO2 SLP112 T01940156 KBEC 221015Z AUTO 20010G14KT 150V210 10SM CLR 27/20 A2987 RMK AO2 T02690202 CWHL 221000Z AUTO 14011KT 13/12 RMK AO1 8008 SLP105 T01320122 50016 KAND 220956Z AUTO 00000KT 9SM CLR 24/22 A2999 RMK AO2 SLP143 T02390217 KBED 220956Z AUTO 00000KT 10SM CLR 18/14 A2983 RMK AO2 SLP111 T01830144 EDQM 221020Z 22008KT 9999 SCT018 BKN023 19/14 Q1016 CWID 221000Z AUTO 00000KT 11/09 RMK AO1 SLP038 T01100087 53003 KALW 220953Z AUTO 16007KT 10SM CLR 20/02 A3010 RMK AO2 SLP186 T02000022 KBDN 221015Z AUTO 23004KT 10SM CLR 12/05 A3022 RMK AO2 KANE 221014Z AUTO 00000KT 10SM SCT120 20/19 A2980 RMK AO2 KAMN 221011Z AUTO 33006KT 7SM -RA BKN041 OVC060 21/20 A2985 RMK AO2 T02120201 CWHN 221000Z AUTO 00000KT 1/8SM OVC000 11/11 A2994 RMK SLP149 CWGW 221000Z AUTO 01005KT 08/06 RMK AO1 SLP210 T00830056 52009 KALX 221015Z AUTO 00000KT 7SM CLR 21/21 A3002 RMK AO2 T02120208 CWGX 221000Z AUTO 14005KT 09/06 RMK AO1 SLP152 T00860063 51006 CWHO 221000Z AUTO 03005KT 09/08 RMK AO1 2PAST HR 3003 SLP986 P0001 T00880082 50002 KD55 221015Z AUTO 24008KT 9SM CLR 16/16 A2980 RMK AO2 LTG DSNT NW CWHP 221000Z AUTO 26010KT 14/12 RMK AO1 SLP995 T01410121 58001 CWIG 221000Z AUTO 02005KT RMK AO1 CWGY 221000Z AUTO 23009KT 11/09 RMK AO1 SLP166 T01060086 52008 KBEH 220953Z AUTO 15013KT 10SM SCT004 SCT080 BKN090 22/21 A2974 RMK AO2 LTG DSNT SE AND S RAE0856B30E47 PRESFR SLP066 P0001 T02220206 CWGZ 212000Z 06020G28KT 30SM FEW026 SCT055 SCT240 07/02 A2971 RMK SC2SC1CI1 8.2/2.0/0.0/5.4/LAST OBS/NXT 221200Z SLP067 CWHQ 221000Z AUTO 34004KT 12/11 RMK AO1 T01160114 KBDR 220952Z AUTO 00000KT 10SM CLR 23/18 A2986 RMK AO2 SLP111 T02330178 CWII 221000Z AUTO 11010KT 19/17 RMK AO1 T01910166 KANJ 220955Z AUTO 00000KT 10SM CLR 15/12 A2989 RMK AO2 SLP117 T01500122 CWIJ 221000Z AUTO 21009KT 12/07 RMK AO1 SLP056 T01210067 57006 KANK 221015Z AUTO 26003KT 10SM CLR 16/09 A3041 RMK AO1 T01580087 KD60 221015Z AUTO 25005KT 10SM CLR 11/11 A2996 RMK AO2 OPKC 220955Z 24012KT 6000 SCT020 BKN030 31/25 Q0999 NOSIG CWIK 221000Z AUTO 30005KT 12/11 RMK AO1 SLP116 T01170107 51011 CWHT 221000Z AUTO 02001KT 11/09 RMK AO1 1005 SLP127 T01060093 50005 CWJB 221000Z AUTO 26001KT 13/10 RMK AO1 T01280095 EDSB 221020Z 24005KT 150V280 9999 FEW032TCU 25/18 Q1014 KBDU 221014Z AUTO 00000KT 10SM CLR 16/14 A3012 RMK AO2 UKWW 221000Z 31005MPS CAVOK 26/17 Q1014 R31/0///65 NOSIG CWIL 221000Z AUTO 23014KT 10/ A2962 RMK SLP038 KBFD 220953Z AUTO 00000KT 10SM CLR 15/15 A2998 RMK AO2 SLP137 T01500150 CWJD 222300Z AUTO 06008KT 19/09 RMK AO1 SLP129 T01860094 58017 CWHV 221000Z AUTO 30001KT 12/12 RMK AO1 SLP107 T01170115 53008 UMGG 221000Z 35005MPS 9999 BKN009 BKN024 20/17 Q1014 R28/290050 NOSIG KAMW 221010Z AUTO 13010KT 10SM OVC026 23/23 A2978 RMK AO2 LTG DSNT E AND SE T02330228 NZAP 221000Z 06002KT 45KM BKN080 08/08 Q0995 RMK ALT VATSIM USE ONLY KBFF 220953Z AUTO 32006KT 10SM CLR 19/13 A3006 RMK AO2 SLP123 T01890128 CXAF 221000Z AUTO 14001KT 07/06 RMK AO1 T00690062 KANQ 212115Z AUTO 21003KT 10SM 31/29 A2997 RMK TUPJ 220200Z 09005KT 9999 BKN018 28/24 Q1018 RMK A3007 CXAG 220900Z AUTO 23001KT 12/11 RMK AO1 T01170114 CWIP 221000Z AUTO 28009KT 12/ RMK AO1 T0118 KAOH 221024Z AUTO 19009KT 10SM -RA FEW100 21/21 A2989 RMK AO2 LTG DSNT ALQDS TSE11 P0006 T02110211 $ CWJH 221000Z AUTO 24001KT 05/04 RMK AO1 SLP145 T00460041 51002 KBFI 220953Z 16007KT 10SM OVC055 19/12 A3014 RMK AO2 SLP207 T01890122 OPLA 220925Z 10007KT 5000 FU SCT040 BKN100 34/24 Q1000 A29.59 CWJI 221000Z AUTO 27008KT 11/09 RMK AO1 SLP146 T01060086 53006 KAPA 220953Z 00000KT 10SM FEW100 SCT120 BKN200 17/14 A3016 RMK AO2 SLP146 T01670139 PHBK 220956Z AUTO 06004KT 10SM CLR 24/18 A2999 RMK AO2 SLP158 T02440183 403060217 CXBA 220900Z AUTO 25006KT 11/11 RMK AO1 T01070106 CXAJ 220900Z AUTO 00000KT 11/10 RMK AO1 T01060095 50004 CWIS 222200Z AUTO 21/08 RMK AO1 SLP059 T02140083 56007 EEKA 220750Z 33008KT 9999 BKN013 16/11 Q1020 CXAK 220900Z AUTO 25006KT 11/10 RMK AO1 T01100095 KAPC 220954Z AUTO 22006KT 9SM FEW009 15/12 A2992 RMK AO2 SLP122 T01500122 KBFL 220954Z AUTO 00000KT 10SM CLR 26/07 A2988 RMK AO2 SLP111 T02560072 $ KBFM 221019Z 00000KT 8SM -TSRA SCT027 BKN100 25/24 A3003 RMK AO2 P0003 T02500244 KBGD 220951Z AUTO 20006KT 10SM CLR 25/15 A2999 RMK AO2 SLP101 T02500150 TSNO CWKD 220900Z AUTO 29004KT 04/01 RMK AO1 SLP096 T00440013 51001 KANW 221015Z AUTO 00000KT 10SM CLR 20/16 A2994 RMK AO2 T01970163 KBGE 221015Z AUTO 00000KT 10SM CLR 23/23 A3003 RMK AO2 CWIW 221000Z AUTO 28007KT 13/12 RMK AO1 SLP135 T01280116 53009 KAPF 220953Z 11003KT 10SM VCTS FEW043 25/24 A3005 RMK AO2 LTG DSNT S-W SLP173 T02500239 KAOO 221018Z AUTO 00000KT 3SM BR CLR 21/21 A2997 RMK AO2 T02110211 EEKE 220950Z VRB03KT 9999 SCT038 20/09 Q1020 KBGF 221015Z AUTO 00000KT 8SM CLR 22/21 A3001 RMK CWIX 220900Z AUTO 30010KT 09/05 RMK AO1 SLP116 T00890047 53013 CWJO 221000Z AUTO 30012KT 09/04 RMK AO1 PK WND 29018/0905 SLP123 T00910039 51009 NZCH 221000Z AUTO 22019KT 6000 -RA FEW009/// SCT023/// OVC038/// 06/05 Q1002 TEMPO 9999 BKN018 TEMPO RA BKN014 KAPG 221021Z AUTO 00000KT 9SM OVC065 23/23 A2987 RMK AO2 RAB10E21 SLP118 NZCI 221000Z 23013KT 45KM BKN024 11/08 Q0995 RMK ALT NZNR VATSIM USE ONLY CWKG 221000Z AUTO 36003KT 15/14 RMK AO1 SLP070 T01530137 53011 CWIZ 221000Z AUTO 01004KT 16/13 RMK AO1 T01550130 CWKH 221000Z AUTO 15/11 RMK AO1 SLP200 T01500106 53002 CXBI 221000Z AUTO 31002KT 16/15 RMK AO1 SLP127 T01630146 50001 CWJR 221000Z AUTO 07004KT 17/06 RMK AO1 SLP196 T01720064 51006 CXCA 221000Z AUTO 29001KT 15/13 RMK AO1 SLP112 T01540134 53002 KBHB 220956Z AUTO 00000KT 10SM CLR 17/15 A2979 RMK AO2 SLP091 T01720150 $ NZCM 220555Z 07018G32KT 0200 -SN BLSN VV020 M31/M36 A2919 RMK PK WND 17045/0152 WSHFT 0450 SLP890 CXAT 220900Z AUTO 30004KT 03/02 RMK AO1 SLP061 T00270015 53007 CWKK 220900Z AUTO 11015KT 16/11 RMK AO1 PK WND 11018/0848 SLP122 T01620107 55005 CXBK 221000Z AUTO 29007KT 09/08 RMK AO1 SLP125 T00850079 53009 CWLB 221000Z AUTO 16001KT 12/12 RMK AO1 SLP142 T01230116 51003 CWJT 221000Z AUTO 04001KT 13/11 RMK AO1 SLP119 T01340114 53009 KBHC 221015Z AUTO 00000KT 5SM BR SCT001 22/22 A3002 RMK AO2 EDTL 211750Z 36003KT CAVOK 27/16 Q1010 CWLC 221000Z AUTO 13017KT 14/ RMK AO1 PK WND 13022/0907 T0136 CWJU 221000Z AUTO 19010G22KT 12/12 RMK AO1 1PAST HR 3004 PK WND 18022/0953 SLP082 P0000 T01210118 50006 KBGM 220953Z 00000KT 10SM CLR 18/17 A2995 RMK AO2 SLP131 T01780167 CXCD 220900Z AUTO 18003KT 13/08 RMK AO1 T01260079 CWJV 221000Z AUTO 09002KT 15/10 RMK AO1 SLP186 T01520095 52005 CWKM 221000Z AUTO 10012KT A2978 KBFW 221022Z AUTO 02004KT 10SM CLR 16/12 A2981 RMK AO2 KAPN 220954Z AUTO 00000KT 10SM CLR 19/17 A2988 RMK AO2 SLP117 T01940172 CWLE 221000Z AUTO 30002KT 09/09 RMK AO1 SLP144 T00850087 53006 CWJW 221000Z AUTO 16002KT 12/08 RMK AO1 SLP179 T01190076 58004 VCRI 221010Z 27016KT 240V300 9999 FEW017 35/22 Q1005 NOSIG CWJX 221000Z AUTO 26007KT 10/08 RMK AO1 SLP161 T00980080 53009 CXBO 221000Z AUTO 29002KT RMK AO1 CWKO 221000Z AUTO 27008KT 12/09 RMK AO1 SLP154 T01170086 53007 UMII 221000Z 04004G07MPS 9999 SCT046 21/12 Q1016 R23/CLRD// NOSIG CWKP 221000Z AUTO 28022KT 02/ A2973 RMK SLP093 CXCH 221000Z AUTO 15/15 RMK AO1 T01530148 50017 KBGR 220953Z 30004KT 10SM FEW110 BKN250 18/15 A2980 RMK AO2 SLP086 T01830150 CXBR 221000Z AUTO 31007KT 09/05 RMK AO1 T00930052 KARA 220953Z AUTO 27007KT 6SM -RA BR FEW055 BKN090 BKN100 26/24 A2998 RMK AO2 LTG DSNT SW AND W RAB43 SLP150 P0000 T02560239 KAPS 221015Z AUTO 00000KT 2 1/2SM BR CLR 25/24 A2999 RMK AO2 LTG DSNT E AND SE T02540241 KARB 220953Z AUTO 21004KT 7SM -RA BKN055 BKN110 22/22 A2986 RMK AO2 RAB0859E09B25 SLP104 P0000 T02220217 KBHK 220951Z AUTO 25003KT 10SM CLR 12/03 A3002 RMK AO2 SLP142 T01220028 CXDB 221000Z AUTO 21007KT 09/04 RMK AO1 T00910044 CXCK 221000Z AUTO 00000KT 09/08 RMK AO1 SLP120 T00920084 51007 NZDN 221000Z 24005KT 2000 DZ BKN019 05/05 Q1004 RMK ALT VATSIM USE ONLY KBHM 220953Z 00000KT 10SM CLR 24/22 A3002 RMK AO2 SLP154 T02440217 KBID 220956Z AUTO 23004KT 10SM CLR 21/19 A2986 RMK AO2 SLP113 T02110194 CWLM 221000Z AUTO 33002KT 15/12 RMK AO1 SLP206 T01520121 53002 KBIE 221015Z AUTO 32015G19KT 10SM CLR 26/18 A2981 RMK AO2 T02630181 EDVE 221020Z VRB03KT 6000 OVC003 18/18 Q1013 CXBW 220900Z AUTO 26005KT 09/08 RMK AO1 T00920077 CWME 221000Z AUTO 08004KT 15/14 RMK AO1 T01500136 50002 CXDE 221000Z AUTO 31010G16KT 07/04 RMK AO1 SLP134 T00670035 51018 KBIF 220958Z AUTO 14004KT 10SM SCT130 23/17 A3006 RMK AO2 SLP112 T02250170 $ KAQO 221010Z AUTO 00000KT 10SM CLR 24/20 A3001 RMK AO2 CWKX 221000Z AUTO 00000KT 09/05 RMK AO1 SLP140 T00860051 58004 KAQP 221014Z AUTO 00000KT 10SM CLR 21/19 A2981 RMK AO2 KARG 221015Z AUTO 20004KT 7SM CLR 25/23 A2992 RMK AO1 KD95 221013Z AUTO 35003KT 10SM SCT044 SCT050 OVC090 22/20 A2986 RMK AO2 T02210203 KAPY 221015Z AUTO 12003KT 10SM CLR 26/21 A2991 RMK AO2 T02610219 OPNH 221000Z 13508KT 5000M HZ SCT035 SCT100 39/24 Q0996 NOSING EDTY 221020Z VRB02KT 9999 FEW025 25/19 Q1016 CXCP 221000Z AUTO 32002KT 07/06 RMK AO1 T00650056 CWLP 221000Z AUTO 14019KT 13/12 RMK AO1 1010 PK WND 14026/0923 SLP160 T01280123 50006 KBIH 220956Z AUTO 29005KT 10SM CLR 18/03 A3006 RMK AO2 SLP121 T01780033 KAQR 221015Z AUTO 00000KT 10SM CLR 22/22 A2992 RMK AO2 CXDI 221000Z AUTO 16001KT 19/17 RMK AO1 SLP121 T01940174 55000 OPMT 221000Z 13006KT 7000 HZ SCT040 39/25 Q0997 NOSIG KBIJ 221015Z AUTO 00000KT 7SM CLR 23/21 A3002 RMK AO2 CXCS 220900Z AUTO 28009KT 11/10 RMK AO1 8PAST HR M P0003 T01120098 50015 CWLS 221000Z AUTO 15002KT 19/15 RMK AO1 SLP130 T01930146 55000 CXEA 221000Z AUTO 08004KT 16/10 RMK AO1 SLP106 T01590097 55013 CWMJ 221000Z AUTO 01002KT 14/08 RMK AO1 SLP134 T01400078 53011 EDVK 221020Z 17003KT 120V220 9999 SCT020 22/18 Q1014 CXDK 221000Z AUTO 35012G20KT 15/09 RMK AO1 PK WND 35020/0953 SLP078 T01490094 53036 KBIL 220953Z 32005KT 10SM CLR 17/M03 A3011 RMK AO2 SLP161 T01671033 KBJC 221008Z AUTO 31003KT 10SM CLR 16/13 A3014 RMK AO2 KE11 221015Z AUTO 00000KT 10SM BKN120 23/18 A3003 RMK AO2 T02280177 CWNC 221000Z AUTO 27004KT 18/14 RMK AO1 SLP114 T01750143 55001 CXEC 221000Z AUTO 27003KT 14/12 RMK AO1 SLP152 T01390118 51003 KASD 220953Z AUTO 00000KT 10SM CLR 23/22 A2998 RMK AO2 LTG DSNT SE-W SLP152 T02330222 KCAD 221015Z AUTO 14003KT 10SM OVC060 20/17 A2985 RMK AO2 T02060176 KARM 221015Z AUTO 00000KT 4SM BR CLR 23/22 A2997 RMK AO2 T02270216 KAQV 220956Z AUTO 00000KT 6SM BR CLR 23/22 A2996 RMK AO2 SLP143 T02330222 CWND 221000Z AUTO 23007KT 03/01 RMK AO1 SLP090 T00280013 57017 CWMM 221000Z AUTO 32003KT 16/14 RMK AO1 3PAST HR 3011 SLP214 P0001 T01600137 50003 KASE 220953Z AUTO 24005KT 10SM CLR 13/11 A3033 RMK AO2 SLP138 T01330106 KAQW 220952Z AUTO 00000KT 8SM CLR 17/16 A2989 RMK AO2 SLP120 T01670156 KCAE 220956Z 00000KT 10SM FEW075 24/22 A2998 RMK AO2 SLP148 T02390217 KAQX 211355Z AUTO RMK AO2 PNO PWINO TSNO CWNE 221000Z AUTO 30024G29KT 16/11 RMK AO1 PK WND 30030/0920 SLP037 T01610110 53012 VEBI 220600Z 09010KT 5000 HZ SCT018 BKN090 29/24 Q1008 KASG 220148Z 15004KT 10SM SKC 30/22 A2999 CWLX 221000Z AUTO 13006KT 03/ A2968 RMK SLP064 KCAG 220953Z AUTO 00000KT 10SM CLR 12/11 A3028 RMK AO2 SLP187 T01170106 CXEG 220900Z AUTO 10/10 RMK AO1 T01040104 CXDP 221000Z AUTO 23003KT 11/11 RMK AO1 T01050105 CWLY 221000Z AUTO 20011G23KT 150V240 9SM BKN085 OVC190 20/09 A3006 RMK SLP177 DENSITY ALT 1300FT KASH 220956Z AUTO 27003KT 10SM CLR 19/16 A2985 RMK AO2 SLP117 T01940161 UMKK 221000Z 04004MPS 010V080 9999 FEW030 21/11 Q1019 R06/CLRD60 NOSIG RMK QFE763/1017 CWNH 221000Z AUTO 33004KT 11/09 RMK AO1 SLP097 T01090086 51014 CWMQ 221000Z AUTO 25006KT 13/09 RMK AO1 SLP175 T01260092 53008 VEAT 221000Z 16008KT 6000 SCT020 SCT025 33/26 Q0998 NOSIG ZSHC 221000Z 10003MPS 9999 FEW026 FEW030TCU 37/23 Q1007 NOSIG KARR 221008Z AUTO 20013KT 5SM RA BR FEW007 SCT090 BKN110 21/21 A2985 RMK AO2 LTG DSNT W TSE08 P0003 T02110211 KBJI 221012Z AUTO 21012G18KT 10SM -RA SCT041 SCT049 BKN060 18/17 A2976 RMK AO2 LTG DSNT SW P0001 T01800170 PFWS 220956Z AUTO 23007KT 10SM OVC120 16/15 A2994 RMK AO2 SLP144 T01560150 VECC 221000Z 30005KT 2800 -RA SCT015 FEW030CB OVC090 29/27 Q0997 NOSIG KBIS 220952Z 29005KT 10SM CLR 17/16 A2991 RMK AO2 SLP118 T01720161 KASJ 221010Z AUTO 00000KT 10SM 24/23 A2993 RMK AO2 T02350227 KBJJ 221004Z AUTO 18005KT 3SM BR OVC002 23/22 A2992 RMK AO2 T02280222 KCAK 220951Z 18005KT 3SM BR BKN007 OVC014 24/22 A2991 RMK AO2 SLP117 T02390222 KART 220956Z AUTO 17005KT 6SM BR CLR 17/17 A2988 RMK AO2 SLP113 T01720167 KBKB 220954Z AUTO 00000KT 6SM BR CLR 24/23 A2996 RMK AO2 SLP169 T02390233 VEBN 221000Z 10003KT 5000 HZ SCT020 BKN100 29/26 Q0999 NOSIG CWMT 221000Z AUTO 33008KT 17/12 RMK AO1 SLP048 T01650115 51013 CWNK 221000Z AUTO 14002KT 14/13 RMK AO1 T01360127 CWOB 221000Z AUTO 18004KT ////SM //// SCT130 OVC180 05/02 A2968 KASL 221015Z AUTO 00000KT 4SM 23/21 A2998 RMK AO1 T02250213 CWNL 220900Z AUTO 06002KT 18/16 RMK AO1 SLP117 T01800162 56008 CWOC 221000Z AUTO 27005KT 13/09 RMK AO1 SLP047 T01250091 51018 KBIV 221023Z AUTO 15003KT 2 1/2SM RA BR FEW033 OVC060 21/19 A2980 RMK AO2 RAB0954 P0011 T02110194 KARV 221015Z AUTO 00000KT 7SM OVC005 20/19 A2983 RMK AO2 T01950185 KBKD 221015Z AUTO 18006KT 10SM CLR 27/18 A2994 RMK AO2 T02650176 CWOD 221000Z AUTO 29006KT 06/05 RMK AO1 SLP109 T00610047 51006 CWNM 221000Z AUTO 22003KT 17/11 RMK AO1 SLP187 T01660106 51004 ZSFZ 221000Z 03009MPS 9999 FEW016 30/26 Q1009 NOSIG KBKE 220953Z AUTO 23005KT 10SM CLR 12/04 A3018 RMK AO2 SLP198 T01170044 TSNO KARW 221015Z AUTO 23003KT 7SM CLR 24/23 A3001 RMK AO2 KCBE 221010Z AUTO 13003KT 2 1/2SM SCT022 21/21 A2999 RMK AO1 VIS 2V4 KASN 221015Z AUTO 00000KT 7SM CLR 23/22 A3001 RMK AO2 T02270220 CXDW 221000Z AUTO 25012G18KT 15/15 RMK AO1 8023 PK WND 26018/0957 SLP064 T01540146 50010 CWOE 221000Z AUTO 30008KT 11/07 RMK AO1 SLP181 T01110066 53009 KCBF 221015Z AUTO 36008KT 10SM CLR 25/22 A2978 RMK AO2 KCAO 220955Z AUTO 35011KT 10SM CLR 19/13 A3011 RMK AO2 SLP112 T01940133 KBIX 221023Z AUTO 00000KT 6SM R21/5000FT -RA BR VCTS FEW055 24/23 A2999 RMK AO2 SLP158 KBKF 220958Z 20003KT 10SM FEW140 SCT220 16/16 A3014 RMK AO2A SLP127 T01570156 KCBG 221015Z AUTO 00000KT 10SM CLR 19/17 A2979 RMK AO2 CWNP 221000Z AUTO 01001KT 16/11 RMK AO1 SLP187 T01580109 51004 VEBS 221000Z 21005KT 3000 HZ BKN018 BKN090 30/28 Q1000 NOSIG CWMZ 220900Z AUTO 28010KT 20/17 RMK AO1 SLP119 T02030172 55003 CWNQ 220700Z AUTO 35005KT 18/12 RMK AO1 SLP102 T01840124 53014 KCAR 220954Z AUTO 29003KT 10SM FEW055 13/11 A2977 RMK AO2 SLP083 T01280111 KCCA 221015Z AUTO 00000KT 3SM BR BKN003 23/23 A2993 RMK AO2 KAST 221027Z AUTO 15003KT 10SM OVC029 16/13 A3016 RMK AO2 T01560128 KCBK 221015Z AUTO 27006KT 10SM CLR 18/15 A2997 RMK AO2 CXET 221000Z AUTO 15002KT 18/14 RMK AO1 SLP120 T01770135 58002 KBKL 220953Z AUTO 14007KT 10SM BKN110 24/18 A2987 RMK AO2 SLP109 T02440178 KATL 220952Z 23004KT 10SM CLR 23/22 A3000 RMK AO2 SLP147 T02330217 EFET 221020Z AUTO 08005KT 010V160 9999 BKN028 13/06 Q1023 CWPC 221000Z AUTO 04002KT 22/17 RMK AO1 SLP125 T02210174 56002 KCAV 221015Z AUTO 12005KT 10SM OVC004 22/22 A2979 RMK AO2 PWINO KCBM 220958Z AUTO 00000KT 10SM CLR 24/24 A2996 RMK AO2 SLP146 T02370237 TSNO $ CXFM 221000Z AUTO 23004KT 08/05 RMK AO1 T00840050 CWPD 221000Z AUTO 03004KT 06/04 RMK AO1 SLP083 T00570037 53003 VEDG 220730Z 05006KT 3500 HZ FEW010 SCT020 BKN090 28/28 Q1000 NOSIG UMMG 221000Z 03003G06MPS 9999 BKN026 BKN066 23/13 Q1015 R17/CLRD// NOSIG KBKN 221015Z AUTO 20010KT 10SM CLR 28/21 A2991 RMK AO2 KASW 221015Z AUTO 00000KT 10SM -RA BKN070 BKN080 21/21 A2983 RMK AO2 CWPE 221000Z AUTO 33007KT 16/15 RMK AO1 SLP073 T01570148 51014 KASX 220953Z AUTO 25003KT 9SM OVC004 17/16 A2981 RMK AO2 SLP093 T01670161 $ KBLF 220952Z AUTO 26006KT 10SM CLR 21/19 A3009 RMK AO2 SLP143 T02110189 KAUG 220953Z AUTO 31004KT 10SM CLR 19/15 A2982 RMK AO2 SLP097 T01890150 CWPF 221015Z AUTO 15003KT 15/12 RMK AO1 T01460124 KATP 221015Z AUTO 00000KT 10SM FEW023 FEW042 29/24 A2999 RMK A01 PHHI 221018Z AUTO 10005KT 10SM SCT023 OVC030 24/20 A3000 RMK AO2 SLP146 KBLH 220952Z AUTO 17007KT 10SM CLR 32/13 A2978 RMK AO2 SLP076 T03220128 KAUH 221015Z AUTO 33004KT 10SM SCT070 SCT085 BKN110 22/21 A2984 RMK AO2 LTG DSNT S T02240205 NZGS 221000Z 32005KT 25KM BKN045 11/11 Q0993 RMK ALT VATSIM USE ONLY CWNZ 221000Z AUTO 17003KT 05/04 RMK AO1 SLP157 T00450039 55002 CXGH 221000Z AUTO 14009KT 20/16 RMK AO1 PK WND 13017/0913 T02040155 KBLI 220953Z AUTO 00000KT 10SM OVC055 17/13 A3013 RMK AO2 SLP210 T01670133 OPPS 221000Z 13012KT 4000 HZ SCT040 SCT100 36/26 Q999 NZHK 221000Z 05003KT 40KM BKN025 08/01 Q0998 RMK ALT VATSIM USE ONLY CXFR 221000Z AUTO 20002KT 11/08 RMK AO1 T01050083 KATS 221015Z AUTO 00000KT 10SM CLR 23/16 A3003 RMK AO2 KCDA 221015Z AUTO 00000KT 2 1/2SM BR CLR 14/14 A2990 RMK AO2 T01420138 KE38 221015Z AUTO 23010G14KT 10SM CLR 21/14 A3017 RMK AO2 LTG DSNT N T02120143 KBKS 221015Z AUTO 13004KT 10SM CLR 25/24 A2992 RMK AO1 T02460237 UMMM 211400Z 04002MPS 9999 BKN033 BKN200 23/11 Q1014 RMK QFE740 CXHA 221000Z AUTO 16004KT 24/22 RMK AO1 SLP095 T02390219 56014 EFHA 221020Z AUTO 33005KT 9999 FEW033 BKN099 18/09 Q1019 KATT 220951Z AUTO VRB03KT 10SM CLR 26/23 A2997 RMK AO2 SLP132 T02610233 PFYU 220956Z AUTO 16003KT 8SM CLR 13/07 A2984 RMK AO2 SLP127 T01330072 KBKT 221015Z AUTO 24003KT 10SM CLR A2992 RMK AO1 CWPK 221000Z AUTO 31002KT 05/05 RMK AO1 SLP140 T00530048 53005 KCDC 220953Z AUTO 09008KT 10SM CLR 21/11 A3017 RMK AO2 SLP119 T02060106 KAVC 221016Z AUTO 20003KT 5SM CLR 23/23 A2999 RMK AO2 T02250225 KBMC 221015Z AUTO 29003KT 10SM CLR 19/02 A3009 RMK AO1 T01920022 NZHN 221000Z 27007KT 40KM BKN050 11/10 Q0994 RMK ALT NZTG VATSIM USE ONLY KBKV 220953Z AUTO 13003KT 9SM CLR 23/22 A3004 RMK AO2 SLP169 T02280222 KCDD 221011Z AUTO 00000KT 4SM BR CLR 09/09 A2984 RMK AO2 LTG DSNT W KAUM 221014Z AUTO 22003KT 1 3/4SM BR OVC003 21/19 A2981 RMK AO2 LTG DSNT SE KBLM 220956Z AUTO 31003KT 10SM CLR 24/22 A2988 RMK AO2 SLP121 T02390217 CXHD 220900Z AUTO 25007KT 12/11 RMK AO1 T01160114 KBKW 220951Z AUTO 00000KT 10SM CLR 19/18 A3005 RMK AO2 SLP137 T01940178 TSNO KAUN 221015Z AUTO 08004KT 10SM CLR 21/09 A2993 RMK AO1 KATW 221022Z 00000KT 10SM BKN017 19/14 A2979 RMK FIRST KAUO 221027Z AUTO 19005KT 1 1/2SM BR BKN002 22/22 A3004 RMK AO2 VIS 1V2 EDXW 221020Z 10014KT 9999 FEW031 19/15 Q1014 KBKX 220956Z AUTO 24006KT CLR 19/18 A2983 RMK AO2 SLP102 T01940183 TSNO RVRNO $ KCCO 221015Z AUTO 00000KT 7SM CLR 23/23 A3002 RMK AO2 T02280228 DNPO 221000Z 23009KT 9999 BKN009 FEW020CB 28/25 Q1015 NOSIG CWPO 221000Z AUTO 21007KT 14/14 RMK AO1 SLP089 T01440138 51002 CXHF 221000Z AUTO 16/14 RMK AO1 T01580140 KBMG 220953Z AUTO 25005KT 9SM CLR 27/23 A2990 RMK AO2 SLP114 T02670228 KATY 220953Z AUTO 28006KT 10SM CLR 20/20 A2983 RMK AO2 SLP088 T02000200 $ CWOY 221000Z AUTO 26005KT 13/12 RMK AO1 0000 SLP124 T01300116 50013 UMMS 221000Z 36005G08MPS 9999 FEW047 SCT086 22/09 Q1016 R31/CLRD// NOSIG KCDH 221015Z AUTO 00000KT 8SM CLR 23/22 A2996 RMK AO2 NZHS 221000Z 23013KT 45KM BKN024 11/08 Q0995 RMK ALT NZNR VATSIM USE ONLY CWQH 221000Z AUTO 17001KT 16/15 RMK AO1 T01580150 KCCR 220953Z AUTO 22003KT 10SM CLR 17/12 A2989 RMK AO2 SLP109 T01670117 KCDI 221005Z AUTO 00000KT 4SM BR OVC005 22/22 A2993 RMK AO2 LTG DSNT NW T02200220 KBMI 220956Z AUTO 04007KT 10SM CLR 22/20 A2989 RMK AO2 SLP125 T02220200 NZHT 221000Z 13019KT 90KM BKN065 11/M04 Q0997 RMK ALT VATSIM USE ONLY CWPR 221000Z AUTO 13001KT 14/08 RMK AO1 SLP198 T01370080 50002 KBNA 220953Z 17004KT 7SM CLR 24/23 A2997 RMK AO2 SLP140 T02440233 KAUS 220953Z 00000KT 10SM FEW020 FEW200 26/24 A2996 RMK AO2 SLP132 T02560239 KCDJ 220952Z AUTO 20009KT 28/23 A2980 RMK AO1 SLP071 T02830233 CWPS 220900Z AUTO 07003KT 23/17 RMK AO1 SLP118 T02330172 56016 CWRA 221000Z AUTO 26010KT 14/14 RMK AO1 PK WND 25019/0907 SLP020 T01380139 50001 KAVK 221015Z AUTO 19010KT 10SM FEW050 28/18 A2989 RMK AO2 KBLU 220852Z AUTO 05005KT 10SM CLR 20/02 A3018 RMK AO2 SLP112 T02000017 58009 TSNO CXIB 221000Z AUTO 24005KT 17/14 RMK AO1 6025 SLP011 T01740140 50032 CWQK 221000Z AUTO 27013KT 13/12 RMK AO1 SLP206 T01260118 53003 KBML 221009Z AUTO 00000KT 5SM BR FEW001 13/11 A2987 RMK AO2 T01280111 EFHK 221020Z VRB03KT 9999 VCSH SCT045CB 20/08 Q1018 TEMPO SHRA BKN045CB KAVL 221003Z AUTO 00000KT 8SM CLR 21/21 A3008 RMK AO2 T02110211 KCCU 221013Z AUTO 00000KT 10SM BKN120 12/03 A3064 RMK AO2 KCEC 220956Z AUTO 00000KT 10SM CLR 11/11 A3006 RMK AO2 SLP180 T01110111 EEPU 220950Z 00000KT 9999 SCT047 20/07 Q1018 KBLV 220958Z AUTO 00000KT 10SM CLR 25/23 A2988 RMK AO2 SLP116 T02510231 $ OPRN 221000Z 18016KT 5000 TS FEW025CB SCT030 BKN090 32/25 Q1002.3/29.60 CXHM 221000Z AUTO 28003KT 20/19 RMK AO1 SLP111 T01960186 58001 PGRO 220950Z 09010KT 7SM FEW012 SCT080 27/25 A2988 RMK WIND DATA ESTIMATED LAST KAUW 220954Z AUTO 13006KT 10SM BKN007 OVC013 19/18 A2979 RMK AO2 SLP084 T01890183 KCDN 221015Z AUTO 20004KT 10SM BKN060 24/23 A3000 RMK AO2 KCEF 220958Z AUTO 00000KT 10SM FEW210 17/15 A2986 RMK AO2 SLP116 T01680151 PHJH 220345Z 05014G21KT 15SM FEW030 SCT040 26/20 A2997 RMK LAST CWQO 221000Z AUTO 27014KT 10/05 RMK AO1 PK WND 28018/0925 T00980054 CWRF 221000Z AUTO ///// A2974 CWPX 221000Z AUTO 22005KT ////SM //// NCD 11/06 A2949 KCCY 221015Z AUTO 16005KT 1 1/4SM BR OVC003 22/22 A2978 RMK AO2 KAVP 220954Z 09005KT 7SM CLR 20/19 A2993 RMK AO2 SLP123 T02000189 KAWG 221015Z AUTO 06010G16KT 2 1/2SM +RA SCT006 BKN029 OVC048 22/21 A2991 RMK AO2 CWQP 221000Z AUTO 30006KT 20/17 RMK AO1 SLP115 T01980166 56002 CXHP 221000Z AUTO 18002KT 11/09 RMK AO1 T01100088 KBMQ 220953Z AUTO 19005KT 10SM CLR 26/21 A3000 RMK AO2 SLP137 T02560206 KAVQ 221015Z AUTO 11004KT 10SM BKN110 27/18 A2994 RMK AO2 T02720180 CWPZ 221000Z AUTO 00000KT 08/07 RMK AO1 SLP152 T00760067 57008 CWRH 221000Z AUTO 06014KT 02/ A2965 RMK SLP070 KCDR 220953Z AUTO 00000KT 9SM CLR 17/12 A3001 RMK AO2 SLP131 T01720117 CXHR 221000Z AUTO 27008KT 10/09 RMK AO1 T00960088 CWQR 221000Z AUTO 29017KT 10/ RMK AO1 PK WND 28020/0909 T0099 KCDS 220953Z AUTO 20006KT 10SM CLR 26/16 A2995 RMK AO2 SLP107 T02610161 KAXA 221015Z AUTO 02004KT 6SM BR OVC004 21/21 A2982 RMK AO2 OPSK 221000Z 00000KT 4000 HZ FEW040 43/25 Q0994 NOSIG CWQS 221000Z AUTO 18018KT 14/10 RMK AO1 1020 PK WND 20024/0946 SLP097 T01360099 50004 CWRJ 221000Z AUTO 26008KT 10/10 RMK AO1 SLP143 T01020096 53010 CWSA 221020Z AUTO 23010KT 3SM BR CLR 16/16 A2965 RMK TS/LTNG TEMPO UNAVBL SLP043 DENSITY ALT 400FT EGAA 221020Z 08008KT 050V110 9999 FEW017 18/13 Q1006 KBMT 221015Z AUTO 10SM CLR 26/24 A2997 RMK AO2 LTG DSNT S AND SW T02560240 CYAB 212000Z 31016G23KT 20SM FEW008 FEW016 SCT090 SCT240 06/02 A2964 RMK SC1SC1AC3CI1 SC TR CI TR 8.3/4.3/0.0/LAST STFD OBS/NEXT 221700Z VIS W NW 4 N 3 BR SLP042 ORBD 220955Z 34011G17KT 310V010 9999 CLR 49/00 A2954 RMK WND DATA/ALSTG ESTMD CWRK 221000Z AUTO 00000KT 14/14 RMK AO1 SLP124 T01380137 56001 KBNL 221015Z AUTO 20003KT 10SM CLR 23/23 A3002 RMK AO2 EGAC 221020Z 03011KT 9999 FEW012 SCT027 16/14 Q1006 UMOO 221000Z 05004MPS 9999 SCT020 BKN/// 21/12 Q1015 NOSIG KAWM 220953Z AUTO 19004KT 7SM CLR 24/24 A2993 RMK AO2 SLP129 T02440239 PGSN 220954Z 10004KT 10SM FEW020 SCT095 BKN120 28/25 A2987 RMK AO2 RAE18 SLP135 P0011 T02780250 $ KCFD 221015Z AUTO 19004KT 10SM CLR 25/25 A2997 RMK AO2 T02490249 CWSD 221000Z AUTO 30009KT 16/14 RMK AO1 SLP047 T01620141 53012 CWQV 221000Z AUTO 27011KT 13/08 RMK AO1 PK WND 26017/0939 T01250082 CWRM 221000Z AUTO 00000KT 09/07 RMK AO1 SLP178 T00850073 54000 KCDW 220953Z AUTO 00000KT 10SM CLR 23/19 A2989 RMK AO2 SLP123 T02280194 TSNO KCFE 221014Z AUTO 00000KT 10SM CLR 21/18 A2980 RMK AO2 T02120181 EGAE 221020Z 04004KT 010V070 9999 FEW009 SCT013 17/15 Q1007 KBNO 220953Z AUTO 10SM CLR 14/01 A3018 RMK AO2 SLP182 T01440011 $ KAVX 220951Z AUTO 13003KT 9SM CLR 18/12 A2993 RMK AO2 SLP111 T01830117 TSNO KAWO 220956Z AUTO 15003KT 10SM OVC055 17/12 A3015 RMK AO2 SLP214 T01670122 CWSF 221000Z AUTO 27010G15KT 14/09 RMK AO1 PK WND 27018/0902 SLP042 T01390094 51009 CWRO 221000Z AUTO 15025G30KT 14/13 RMK AO1 5005 PK WND 14036/0901 SLP089 T01380130 50023 NZKI 221000Z 27017KT 25KM BKN029 06/04 Q1001 RMK ALT VATSIM USE ONLY CWSG 221000Z AUTO 30013KT 14/09 RMK AO1 PK WND 31017/0948 SLP062 T01380090 53014 ORBI 221030Z 34014KT CAVOK 48/11 Q1000 PHJR 220953Z AUTO VRB05KT 10SM FEW055 26/20 A3001 RMK AO2 SLP167 T02560200 403220228 TSNO KAXH 221015Z AUTO 00000KT 3SM BR CLR 24/23 A2997 RMK AO2 LTG DSNT E T02350229 CYAH 221020Z AUTO 27014G19KT 9SM -RA OVC018 06/04 A2967 RMK SLP060 PGUA 221013Z AUTO M 10SM BKN016 28/25 A2989 RMK AO2 CIG 016V024 BKN V SCT SLP112 $ KBOI 220953Z 21005KT 10SM CLR 17/07 A3007 RMK AO2 SLP152 T01670067 NZKK 221000Z 25013KT 20KM BKN032 12/11 Q0995 RMK ALT NZAA VATSIM USE ONLY OPST 220900Z 13010KT 4000 FU SCT040 SCT100 30/22 Q1001 NOSIG RH65 CXKA 221000Z AUTO 00000KT 04/03 RMK AO1 SLP144 T00400032 55001 KBOK 220956Z AUTO 00000KT 10SM CLR 12/12 A3007 RMK AO2 SLP193 T01220117 CYBB 212300Z 24004KT 20SM FEW040 15/03 A2972 RMK SC2 14.9/6.2/0.0/LAST STFD OBS/NXT 151500 UTC SLP067 DENSITY ALT 300FT CWSK 221000Z AUTO 35001KT 14/13 RMK AO1 6PAST HR 0006 SLP213 P0002 T01390134 50012 CWRT 221000Z AUTO 26001KT 07/05 RMK AO1 T00670054 EGBB 221020Z 19006KT 160V240 9999 SCT021 17/12 Q1007 KCEU 220954Z AUTO 00000KT 8SM CLR 24/23 A3000 RMK AO2 SLP146 T02390228 KCGC 221015Z AUTO 00000KT 10SM CLR 23/22 A3003 RMK AO2 LTG DSNT SW AND W KBPC 221015Z AUTO 21007KT 10SM CLR 24/13 A2997 RMK AO2 CWRU 221000Z AUTO 14014G19KT 14/ RMK AO1 6PAST HR 3031 PK WND 11035/0902 SLP154 P0002 T0137 50010 CWSL 221000Z AUTO 12002KT 15/10 RMK AO1 SLP187 T01520100 51006 CYBC 221000Z AUTO 28007KT 9SM CLR 10/04 A2976 RMK SLP078 CYBD 220100Z 30002KT 15SM -RA FEW020 SCT075TCU BKN088 OVC100 17/15 A3002 RMK SC1TCU3AC4AS1 SC TR LAST STFD OBS/NEXT 221300 UTC SLP166 DENSITY ALT 300FT VDPP 221000Z 24009KT 9999 SCT017 32/24 Q1006 CYAM 221000Z VRB02KT 15SM FEW042 FEW068 SCT140 BKN200 BKN260 11/11 A2988 RMK SC1AC1AC3CC2CI1 SC TR AC TR SLP122 KAXN 220953Z AUTO 23006KT 10SM CLR 21/19 A2983 RMK AO2 LTG DSNT N SLP095 T02060194 KCEW 221011Z AUTO 00000KT 4SM BR SCT001 22/21 A3003 RMK AO2 T02220211 EFIV 221020Z AUTO 07007KT 030V110 9999 OVC023 12/07 Q1024 PHKO 220953Z AUTO 13012KT 10SM BKN060 OVC075 25/21 A2996 RMK AO2 SLP145 T02500211 403000239 TSNO KCGE 221010Z AUTO 00000KT 6SM BR BKN015 BKN023 25/24 A2986 RMK A01 KBNW 221015Z AUTO 10008G13KT 10SM BKN070 BKN110 23/22 A2979 RMK AO2 KCGF 220245Z 00000KT 20SM FEW250 22/20 A2997 CXKE 221000Z AUTO 00000KT 15/15 RMK AO1 SLP112 T01500150 53002 EFKE 221020Z 01004KT 340V070 CAVOK 16/09 Q1021 CWRX 221000Z AUTO 34008KT ////SM //// NCD 04/02 A2972 EFJO 221020Z VRB07KT CAVOK 18/08 Q1019 KCEY 221015Z AUTO 20005KT 10SM CLR 25/25 A2995 RMK AO1 KBPG 221015Z AUTO 00000KT 10SM CLR 24/14 A3002 RMK AO2 T02360141 CWTG 221000Z AUTO 28006KT 10/06 RMK AO1 SLP066 T01010062 53015 CWSP 221000Z AUTO 07002KT 14/13 RMK AO1 2PAST HR 3002 SLP207 P0001 T01380128 50002 CWRY 221000Z AUTO 30003KT 09/06 RMK AO1 SLP189 T00860063 51005 CYBG 221000Z 27007KT 25SM FEW055 08/05 A2987 RMK SC1 SLP118 ZSNB 221000Z VRB01MPS CAVOK 35/24 Q1008 NOSIG KCEZ 220953Z AUTO 00000KT 10SM BKN120 16/13 A3019 RMK AO2 SLP157 T01610133 PHLI 220953Z AUTO 06014KT 10SM SCT042 27/22 A3003 RMK AO2 SLP166 T02670222 403060239 TSNO VEGT 221000Z 02006KT 6000 SCT018 FEW025CB BKN100 35/28 Q0999 NOSIG CWRZ 221000Z AUTO 31006KT 14/07 RMK AO1 SLP031 T01350074 51016 KBPI 220953Z AUTO 06007KT 10SM CLR 07/02 A3030 RMK AO2 SLP169 T00670022 KCGI 220953Z AUTO 18004KT 7SM CLR 26/23 A2990 RMK AO2 SLP122 T02560228 CXKI 221000Z AUTO 10/08 RMK AO1 SLP153 T00960075 51010 CWSR 221000Z AUTO 13002KT 10/09 RMK AO1 SLP133 T01010092 53007 KCHA 220953Z 00000KT 10SM SCT250 25/22 A2999 RMK AO2 SLP146 T02500222 EFKI 221020Z 36008KT 340V050 9999 SCT040TCU BKN067 17/08 Q1020 KBOS 220954Z 28009KT 10SM BKN180 24/14 A2983 RMK AO2 SLP100 T02390144 KAXS 221015Z AUTO 12003KT 10SM CLR 26/19 A2994 RMK AO2 T02560185 KCFS 221015Z AUTO 22008KT 5SM RA SCT023 BKN031 OVC090 21/19 A2989 RMK AO2 T02070185 NZMC 221000Z 13019KT 90KM BKN065 11/M04 Q0997 RMK ALT NZHT VATSIM USE ONLY CYAS 211900Z 22003KT 200V270 15SM BKN018 BKN042 BKN150 10/03 A2941 RMK SC5SC1AS1 LAST STFD OBS/NEXT 241200UTC SLP966 DENSITY ALT 500FT EGBJ 221020Z 19005KT 160V230 9999 VCSH SCT022 FEW035TCU 17/11 Q1006 CWSS 221000Z AUTO 30002KT 15/14 RMK AO1 SLP082 T01450139 51011 KBPK 220953Z AUTO 00000KT 10SM CLR 23/22 A2993 RMK AO2 SLP122 T02330222 KE80 221015Z AUTO 17005KT 10SM CLR 19/14 A3015 RMK AO2 T01870136 CXLB 221000Z AUTO 27010KT 19/16 RMK AO1 SLP053 T01890162 51006 CWST 221000Z AUTO 34004KT 13/08 RMK AO1 SLP098 T01340076 51018 CYAT 221000Z AUTO 00000KT 9SM SCT065 04/03 A2989 RMK TS/LTNG TEMPO UNAVBL SLP125 CYCB 221000Z 19006KT 15SM SCT035 SCT070 BKN210 12/06 A2955 RMK CF3AC1CI1 SLP010 DENSITY ALT 200FT CYBK 221000Z VRB03KT 20SM FEW035 FEW240 09/06 A2978 RMK SC2CI1 CI TR SLP088 EFKK 221020Z 01009KT 330V040 CAVOK 17/08 Q1021 PGUM 220954Z 10006KT 10SM CLR 28/26 A2988 RMK AO2 SLP110 T02830261 KAZC 221015Z AUTO 09005KT 10SM CLR 26/12 A3015 RMK AO2 CYBL 220400Z 11007KT 20SM -RA FEW017 SCT042 OVC061 15/14 A3011 RMK SC1SC3SC4 LAST OBS/NEXT 221300 UTC SLP198 KCHD 220400Z 06007KT 10SM CLR 31/19 A2983 CXLC 221000Z AUTO 19006KT 14/10 RMK AO1 SLP049 T01390103 55000 KCFV 220952Z AUTO 19007KT 10SM CLR 26/22 A2989 RMK AO2 SLP112 T02610222 EGCC 221020Z AUTO 18004KT 120V220 9999 SCT017 BKN022 BKN026 15/11 Q1006 NOSIG KAXV 221014Z AUTO 12003KT 10SM -RA SCT026 BKN034 BKN048 21/20 A2991 RMK AO2 LTG DSNT E THRU S NZMF 221000Z 36003KT 30KM SCT010 00/M02 Q1006 RMK ALT NZQN VATSIM USE ONLY CYCD 220400Z 12003KT 15SM HZ FEW030 SCT045 BKN080 OVC120 18/12 A3013 RMK SC1SC3AC2AC2 LAST OBS/NEXT 221300 UTC SLP205 DENSITY ALT 200FT CXKM 221000Z AUTO 26003KT 10/10 RMK AO1 T01020097 50006 VEGY 220930Z 08005KT 3000 TSRA FEW010 BKN016 FEW030CB OVC080 31/26 Q0999 T EMPO 1500 TSPA KBOW 221015Z AUTO 00000KT 10SM CLR 22/ A3005 RMK AO2 LTG DSNT W AND NW FZRANO KAZE 221015Z AUTO 20003KT 10SM CLR 23/23 A3001 RMK AO2 T02300230 CYAW 212308Z 23005KT 15SM FEW035 BKN250 25/18 A2970 RMK CU1CI7 DA1810FT LAST OBS/NXT 241300 UTC SLP058 CWSW 220100Z VRB07KT 20SM FEW087 SCT190 OVC220 23/03 A3011 RMK AC1AS3CS4 THN LYR AS LAST STFD OBS/NEXT 221300 SLP192 DENSITY ALT 5400FT CWTN 221000Z AUTO 29001KT 11/10 RMK AO1 SLP101 T01090103 51008 CYBN 221000Z AUTO 19002KT 9SM CLR 17/16 A2990 RMK SLP124 EETN 221020Z 30010KT 9999 FEW030 18/12 Q1019 NOSIG KAXX 221015Z AUTO 14003KT 10SM CLR 08/06 A3039 RMK AO2 T00780062 ZSNJ 221000Z 23003MPS CAVOK 37/25 Q1007 NOSIG CYCG 220400Z 00000KT 15SM FEW100 SCT220 19/10 A3004 RMK AC1CI4 AC TR LAST OBS/NEXT 221300UTC SLP171 DENSITY ALT 2400FT TVSA 221000Z 06006KT 9999 FEW020 27/24 Q1014 EFJY 221020Z AUTO VRB03KT 9999 BKN055CB 16/11 Q1019 RESHRA CYAY 221020Z AUTO 00000KT 3SM BR OVC008 14/13 A2946 RMK SLP977 DENSITY ALT 400FT CYAZ 220100Z 13010KT 15SM FEW015 BKN022 OVC028 16/12 A3013 RMK CF1SC4SC3 LAST STFD OBS/NEXT 221300UTC SLP204 CYBQ 221000Z AUTO 20005KT 9SM 12/07 A2993 RMK CLD MISG SLP143 KCGS 221008Z AUTO 33003KT 10SM SCT055 25/22 A2988 RMK AO1 T02510220 PHMK 220954Z AUTO 05010KT 10SM CLR 27/21 A3001 RMK AO2 SLP162 T02720211 403220256 TSNO $ CYBR 221000Z 26009KT 15SM FEW140 14/13 A2977 RMK AC1 SLP086 DENSITY ALT 1700FT KAYS 221015Z AUTO 00000KT 10SM CLR 23/23 A3003 RMK AO2 LTG DSNT SW T02320232 CYDA 220300Z VRB02KT 20SM FEW065 SCT100 BKN230 21/08 A2976 RMK CU2AC1CI4 CLIMAT 21.7/12.3/0.0 LAST STFD OBS/NXT 221300Z SLP087 DENSITY ALT 2400FT VEIM 221000Z 17008KT 8000 SCT020 SCT100 28/23 Q1005 NOSIG KBPT 220953Z AUTO 00000KT 10SM CLR 24/24 A2995 RMK AO2 SLP142 T02440239 EFKS 221020Z AUTO 04004KT 360V100 9999 BKN021 14/08 Q1021 EFMA 221020Z AUTO 33005KT 270V040 9999 FEW025 17/10 Q1020 KBQK 221015Z AUTO 00000KT 3SM BR CLR 22/22 A3003 RMK AO2 KF00 221015Z AUTO 19005KT 10SM CLR 25/22 A2993 RMK AO2 KCHK 221015Z AUTO 18005KT 10SM SCT110 27/20 A2989 RMK AO2 T02670201 CWTT 221000Z AUTO 35002KT 17/14 RMK AO1 T01710144 CXKT 221000Z AUTO 25007KT 17/15 RMK AO1 SLP060 T01720153 53014 CYCK 221000Z AUTO 18009KT 9SM OVC130 24/21 A2987 RMK SLP112 DENSITY ALT 1800FT CYDB 221000Z AUTO 29002KT 9SM FEW042 SCT065 BKN120 OVC140 10/09 A2990 RMK SLP146 DENSITY ALT 2700FT ZSOF 221000Z 02002MPS 350V050 CAVOK 37/25 Q1007 NOSIG EFKT 221020Z 06004KT 360V110 9999 OVC025 12/07 Q1023 KCIC 221015Z AUTO 31006KT 10SM CLR 22/12 A2988 RMK AO1 CYDC 220100Z VRB03KT 25SM FEW081 OVC092 20/10 A3010 RMK AC1AS7 LASTSTFDOB NEXT221300UTC SLP194 DENSITY ALT 3200FT CXLL 221000Z AUTO 03005KT 14/09 RMK AO1 SLP092 T01360089 51060 CYBU 221000Z AUTO 34003KT 9SM FEW095 SCT130 SCT160 13/13 A2990 RMK SLP135 CWTU 221000Z AUTO ///// A2946 KBRD 220953Z AUTO 05004KT 4SM BR CLR 17/16 A2982 RMK AO2 SLP092 T01670161 KCID 220952Z AUTO 12004KT 10SM -RA FEW006 FEW032 OVC060 21/21 A2985 RMK AO2 LTG DSNT ALQDS RAB06 TSB07E45 SLP102 P0039 T02060206 $ EFKU 221020Z AUTO VRB03KT 9999 BKN049TCU 18/09 Q1019 EETU 220950Z 32005KT 9999 FEW028 SCT032 18/11 Q1018 CYBV 212100Z 10009KT 040V120 15SM BKN220 25/05 A2990 RMK CS5 LAST STFD OBS/NEXT 211200Z SLP130 DENSITY ALT 2100FT CXMD 221000Z AUTO 24005KT 16/15 RMK AO1 8013 SLP063 T01580147 50136 CWVD 221000Z AUTO 00000KT 07/ A2969 RMK SLP083 PHNG 220857Z 07009G16KT 7SM SCT020 BKN040 26/20 A3000 RMK SLP155 60002 T02630202 50005 CYBW 221000Z AUTO 00000KT 9SM CLR 06/03 A3011 RMK SLP209 KAZO 220953Z 18008KT 6SM BR BKN005 BKN120 22/21 A2981 RMK AO2 SLP090 T02220206 KCHO 220953Z 23004KT 10SM CLR 24/21 A2992 RMK AO2 SLP123 T02440206 EGCN 221020Z 21008KT 9999 SCT014 18/12 Q1007 CYBX 221009Z 00000KT 2SM BR OVC003 13/13 A2945 RMK FG2ST6 SLP976 DENSITY ALT 500FT CYDF 221000Z VRB02KT 8SM SCT018 BKN035 BKN210 16/15 A2949 RMK CU3SC2CI2 SLP989 DENSITY ALT 700FT CYCO 221000Z 33014KT 15SM FEW008 OVC011 07/05 A2968 RMK SF1SC8 SF TR SLP053 CWVF 221015Z AUTO 06009KT 16/ RMK AO1 T0161 KF05 221015Z AUTO 19004KT 10SM CLR 27/16 A2992 RMK AO1 T02660155 KBQP 221015Z AUTO 00000KT 7SM CLR 24/24 A2998 RMK AO2 T02390235 CYCP 220100Z VRB02KT 15SM SCT060TCU BKN100 BKN170 18/12 A3010 RMK TCU3AC2AC2 LAST OBS/NEXT 221300Z SLP200 DENSITY ALT 2900FT CXMG 220900Z AUTO 19008KT 11/09 RMK AO1 T01050087 CWTY 221000Z AUTO 02002KT 16/11 RMK AO1 SLP113 T01590107 53014 CWUP 221000Z AUTO ///// 05/ A2971 RMK SLP079 EFLP 221020Z AUTO 25002KT 9999 -SHRA BKN036 BKN080 16/14 Q1018 KCGZ 220956Z AUTO 17005KT 10SM FEW110 29/21 A2989 RMK AO2 SLP102 T02890206 $ CYCQ 220100Z 23011G18KT 35SM FEW040 SCT110 OVC210 21/07 A2990 RMK CU1AC3CI4 DIST FU S-W LAST STFD OBS/NEXT 221300Z SLP137 DENSITY ALT 3200FT CWVH 221000Z AUTO 25007KT A2991 CWVI 221000Z AUTO 21004KT 11/11 RMK AO1 SLP148 T01110111 53005 CXMI 221000Z AUTO 29004KT 19/16 RMK AO1 T01890159 ZSPD 221000Z 15005MPS CAVOK 34/25 Q1008 NOSIG EFMI 221020Z AUTO 06005KT 350V150 CAVOK 16/12 Q1019 KCHS 220956Z 00000KT 10SM CLR 24/23 A3000 RMK AO2 SLP159 T02440233 KDAA 220958Z AUTO 30006KT 10SM SCT047 SCT060 27/21 A2988 RMK AO2 SLP121 T02650212 CYCS 212200Z 31011KT 15SM SCT170 BKN250 18/04 A2978 RMK AC3CI4 18.0/8.2/0/NIL LAST STFD OBS NXT 221400Z SLP087 DENSITY ALT 600FT CWWA 221000Z AUTO 35001KT 15/12 RMK AO1 1PAST HR 2007 SLP213 P0000 T01530115 50001 CWUS 221000Z AUTO 28005KT 19/06 RMK AO1 SLP184 T01910064 51006 KDAB 220953Z 19003KT 9SM FEW025 FEW070 SCT250 23/23 A3004 RMK AO2 SLP171 T02330233 PHNL 220953Z 05010KT 10SM FEW029 FEW043 SCT060 25/20 A3000 RMK AO2 SLP157 T02500200 403110244 $ CWWB 221000Z AUTO 20001KT 22/16 RMK AO1 SLP117 T02190159 50000 KBRL 221006Z AUTO 06013G19KT 10SM VCTS SCT047 BKN080 BKN110 22/22 A2987 RMK AO2 LTG DSNT ALQDS T02220222 EGEC 211620Z 13009KT 9999 RA FEW014 BKN021 13/11 Q1002 CYDL 221000Z AUTO 00000KT 9SM FEW120 OVC150 09/06 A2990 RMK SLP126 CXMM 221000Z AUTO 11004KT 13/11 RMK AO1 SLP114 T01290114 58001 EGDM 220950Z AUTO 23007KT 9999 FEW019/// BKN050/// 15/12 Q1007 RERA CYED 221000Z AUTO 30005KT 9SM CLR 14/12 A2997 RMK SLP152 KCIN 221015Z AUTO 02006KT 5SM BR OVC004 23/23 A2979 RMK AO2 NZNP 221000Z 16016KT 30KM BKN014 10/07 Q0996 RMK ALT VATSIM USE ONLY CWVN 221000Z AUTO 31006KT 09/05 RMK AO1 SLP163 T00860049 51008 CWWE 221000Z AUTO 30008KT 18/16 RMK AO1 SLP062 T01800164 53004 CYDN 221000Z AUTO 31007KT 9SM OVC010 15/14 A2978 RMK LTNG DIST W NW SLP088 DENSITY ALT 1400FT CWUW 221011Z AUTO VRB02KT ////SM //// FEW017 OVC055 04/03 A2970 KBRO 220953Z AUTO 17007KT 10SM CLR 26/25 A2993 RMK AO2 SLP133 T02610250 PHOG 220954Z AUTO 07010KT 6SM -RA BR FEW022 BKN050 OVC060 24/22 A3000 RMK AO2 RAE21B40 SLP162 P0001 T02390222 403060233 TSNO $ KBQX 221015Z AUTO 20012KT 10SM FEW023 30/30 A2996 RMK A01 NZOH 221000Z 33002KT 20KM BKN055 09/07 Q0997 RMK ALT NZPM VATSIM USE ONLY CWUX 221000Z AUTO 25006KT 08/05 RMK AO1 SLP109 T00780051 51009 CXMO 220900Z AUTO 22004KT 09/08 RMK AO1 T00860080 VDSR 221000Z 30006KT 180V300 8000 VCRA SCT015 SCT017CB BKN040 27/27 Q1006 CB S E SW N CWWF 220900Z AUTO 28004KT 12/11 RMK AO1 SLP125 T01210107 51006 CYCX 221000Z 24004KT 15SM FEW120 15/12 A2975 RMK AC1 DA535FT SLP076 KDAG 220950Z AUTO 26009KT 10SM CLR 25/04 A2990 RMK AO2 SLP092 T02500039 NZNR 221000Z 23013KT 45KM BKN024 11/08 Q0995 RMK ALT VATSIM USE ONLY VEJS 221000Z 27002KT 3000 RA SCT015 SCT025 FEW030CB BKN100 27/25 Q0999 CYDP 221015Z VRB02KT 1SM BR OVC001 04/04 A2948 RMK FG4ST4 VIS E 3 SLP986 CWVP 221000Z AUTO 31007KT 12/08 RMK AO1 SLP167 T01180084 51006 CYEG 221000Z 24005KT 15SM FEW070 SCT250 11/10 A2999 RMK AC1CI2 SLP166 DENSITY ALT 2400FT CYCY 221025Z AUTO 34008KT 9SM BKN010 OVC015 03/02 A2978 RMK SLP088 ORER 221000Z 31008KT 9000 NSC 46/00 Q1006 NOSIG NZNS 221000Z 15002KT 10KM SHRA BKN014 08/04 Q0997 RMK ALT VATSIM USE ONLY CWVQ 221000Z AUTO 03005KT 18/14 RMK AO1 SLP118 T01780135 53009 CYDQ 221000Z AUTO 13007KT 110V200 9SM CLR 12/09 A2991 RMK SLP135 DENSITY ALT 2300FT KCIR 221015Z AUTO 21003KT 10SM CLR 27/24 A2992 RMK AO2 T02650241 KF17 221015Z AUTO 00000KT 2SM BR CLR 27/26 A2998 RMK AO2 VIS 1/2V5 T02670260 UNKL 221000Z VRB01MPS 9999 SCT040CB 21/16 Q1013 R29/CLRD65 NOSIG RMK QFE734 EGDR 220950Z 18010G21KT 7000 VCSH SCT010 SCT018 BKN050 15/13 Q1004 RESHRA GRN TEMPO 2000 +SHRA FEW003 SCT005 BKN012CB YLO2 ZSQD 221000Z 21004MPS CAVOK 34/26 Q1006 NOSIG PGWT 220950Z 08005KT 7SM SCT015 BKN060 BKN100 25/24 A2985 RMK LAST KBTA 221015Z AUTO 02012KT 5SM -RA OVC003 26/25 A2979 RMK AO2 T02600250 CWXA 221000Z AUTO 25005KT 14/03 RMK AO1 SLP175 T01360031 56003 KCKB 221023Z AUTO 00000KT 2 1/2SM BR FEW002 20/19 A2996 RMK AO2 VIS 3/4V5 T02000189 NZNV 221000Z 36004KT 40KM BKN036 05/04 Q1005 RMK ALT VATSIM USE ONLY CWWK 221000Z AUTO 36004KT 16/14 RMK AO1 2PAST HR 1005 SLP209 P0001 T01550142 50002 CWVT 221000Z AUTO 19002KT 12/11 RMK AO1 SLP154 T01220111 53004 CYEK 221000Z AUTO 25007KT 9SM CLR 08/06 A2987 RMK SLP116 CYFB 221018Z 14005KT 3SM BR OVC003 02/02 A2974 RMK FG1ST7 VIS S-W HIER SUN DIMLY VISBL SLP076 KDAL 220953Z 17007KT 10SM CLR 28/22 A2992 RMK AO2 SLP124 T02780222 KCIU 220956Z AUTO 09004KT 10SM CLR 16/13 A2989 RMK AO2 SLP140 T01560128 PNO $ KCKC 221014Z AUTO 04006KT 10SM CLR 14/09 A2985 RMK AO2 VEKO 220900Z 18006KT 6000 DZ SCT015 FEW030CB OVC080 27/26 Q0998 CWXC 221000Z AUTO 15002KT 03/03 RMK AO1 SLP104 T00280028 51009 CWWL 221000Z AUTO 15027G32KT 13/ RMK AO1 7009 PK WND 15037/0903 SLP103 T0133 50018 CWVU 221000Z AUTO 26005KT 14/12 RMK AO1 SLP095 T01440123 53013 CYFC 221000Z AUTO VRB03KT 9SM CLR 13/12 A2974 RMK SLP073 CXNM 221000Z AUTO 28012G17KT 11/12 RMK AO1 PK WND 27017/0938 T01140116 KDAN 220953Z AUTO 00000KT 5SM BR CLR 22/22 A2994 RMK AO2 SLP128 T02220222 CYEN 221000Z 27015KT 15SM FEW250 11/11 A2990 RMK CI2 WND ESTD SLP127 DENSITY ALT 2000FT PHNY 220956Z AUTO 07006KT 10SM CLR 21/19 A3006 RMK AO2 SLP156 T02110194 402780206 KCKF 221015Z AUTO 19003KT 10SM CLR 25/23 A3003 RMK AO2 T02530230 EGEO 221020Z 09012KT 9999 SCT040 18/12 Q1009 EGDX 220950Z 15006KT 9999 VCSH SCT017 BKN050 16/11 Q1005 WHT EGFF 221020Z AUTO 13009KT 9999 -RA SCT020/// BKN029/// BKN044/// //////CB 15/12 Q1005 CXNP 221000Z AUTO 30008KT 17/14 RMK AO1 SLP062 T01650136 53015 EGDY 220950Z AUTO 18008KT 9999 FEW026/// SCT070/// 17/12 Q1006 RERA CXMY 221000Z AUTO 19/16 RMK AO1 T01870164 KCKI 221015Z AUTO 14003KT 4SM BR CLR 22/21 A3000 RMK AO2 KCJR 221015Z AUTO 00000KT 4SM BR CLR 22/22 A2992 RMK AO2 T02150215 CWXI 221000Z AUTO 18003KT 14/13 RMK AO1 SLP972 T01380133 58008 CYER 221000Z AUTO 27004KT 9SM CLR 03/02 A2996 RMK TS/LTNG TEMPO UNAVBL SLP147 KDCA 221020Z 34008KT 10SM BKN050 OVC210 27/23 A2989 RMK AO2 T02670228 CXPA 221000Z AUTO 21003KT 11/01 RMK AO1 T01110008 NZPM 221000Z 33002KT 20KM BKN055 09/07 Q0997 RMK ALT VATSIM USE ONLY CYET 221000Z AUTO 00000KT 9SM CLR 09/07 A3003 RMK SLP171 KBTL 221025Z 16011KT 10SM SCT005 BKN120 21/21 A2980 RMK AO2 T02110206 CWWU 221000Z 24008KT 15SM OVC014 17/15 A2958 RMK SC8 SF TR SLP018 CXOL 220900Z AUTO 24007KT 09/07 RMK AO1 T00850069 CWXL 220900Z AUTO 21002KT 11/08 RMK AO1 T01050077 CXPC 221000Z AUTO 18/17 RMK AO1 SLP106 T01840168 58002 KCKM 221015Z AUTO 16005KT 10SM 24/24 A2996 RMK A01 KBTM 220953Z AUTO 13005KT 10SM CLR 08/M01 A3027 RMK AO2 SLP201 T00781006 VELP 220900Z 20003KT 2000 TSRA BKN016 FEW030 BKN100 26/25 Q0999 NOSIG CYEV 221000Z 23005KT 200V260 15SM SCT025 05/02 A2994 RMK SC3 SLP145 EGGD 221020Z 14008KT 110V170 9999 FEW014 FEW025TCU 15/11 Q1006 KCLE 220951Z 18004KT 10SM BKN120 24/21 A2990 RMK AO2 SLP119 T02440206 KDAW 220951Z AUTO 32005KT 10SM CLR 19/16 A2983 RMK AO2 SLP095 T01940156 KCKN 221014Z AUTO 27004KT 7SM BKN005 OVC009 19/19 A2978 RMK AO2 KDBN 221015Z AUTO 00000KT 5SM BR CLR 21/20 A3004 RMK AO2 NZPP 221000Z 20013KT 15KM VCSH BKN029 09/06 Q0998 RMK ALT VATSIM USE ONLY CYGE 220000Z 32003KT 20SM FEW060 OVC090 19/11 A3010 RMK CU1AC8 CU TR LAST STFD OBS/NEXT 221200Z SLP196 DENSITY ALT 3500FT KBUF 220954Z 18005KT 9SM BKN170 OVC220 20/18 A2991 RMK AO2 SLP123 T02000183 CYFO 212300Z 16005KT 120V200 15SM BKN250 22/08 A2988 RMK CS7 LAST OBS / NEXT 221100UTC SLP124 DENSITY ALT 2200FT CWWX 221000Z AUTO 26003KT 18/16 RMK AO1 SLP114 T01750155 58003 VELR 221000Z 10005KT 7000 SCT018 FEW025CB 36/28 Q1000 KBTP 221015Z AUTO 00000KT 2 1/2SM BKN003 BKN017 22/21 A2995 RMK AO1 KCKP 221015Z AUTO 02005KT 7SM OVC007 23/22 A2983 RMK AO2 T02260223 KDAY 221021Z 31006KT 8SM -TSRA FEW011 SCT025CB BKN095 OVC140 21/21 A2993 RMK AO2 WSHFT 0943 LTG DSNT ALQDS FRQ LTGICCCCG NE-S TS NE-S MOV SE P0019 T02110206 KDBQ 221024Z AUTO 19018G25KT 8SM VCTS -RA BKN006 BKN048 BKN110 21/20 A2980 RMK AO2 PK WND 27029/1013 WSHFT 1003 LTG DSNT S-NW RAB17 TSE04B08E23 P0000 T02060200 CYGH 212300Z 32013KT 2 1/2SM -RA BR BKN008 BKN021 OVC037 09/08 A2982 RMK SC5SC2SC1 17.6/9.3/7.6 CIG RAG LAST STFD OBS/NXT 221300UTC SLP102 CWWZ 221000Z AUTO 01001KT 21/16 RMK AO1 SLP120 T02110164 55000 KBTR 220953Z 05003KT 10SM CLR 23/22 A2997 RMK AO2 SLP149 T02330222 KCLI 221015Z AUTO 10004KT 10SM BKN017 OVC022 18/14 A2979 RMK AO2 CYFR 211800Z 17007KT 15SM FEW070 FEW120 BKN250 21/10 A2977 RMK ACC1AC1CS4 /0/ LAST STFD OBS/NEXT241400Z SLP088 DENSITY ALT 1500FT CWXR 221000Z AUTO 30024G30KT 04/ A2974 RMK SLP079 KCMA 220955Z AUTO 00000KT 8SM CLR 17/15 A2989 RMK AO2 SLP130 T01720150 NZRC 221000Z 36004KT 40KM BKN036 05/04 Q1005 RMK ALT NZNV VATSIM USE ONLY CYHA 212100Z 10008KT 15SM FEW004 FEW030 BKN043 08/07 A2944 RMK SF1SC1SC7 SF TR SC TR LAST STFD OBS/NEXT 211200 UTC SLP972 CWZA 221000Z AUTO 33001KT 16/15 RMK AO1 SLP203 T01550151 51003 CWYJ 221000Z AUTO 27001KT 16/12 RMK AO1 SLP204 T01560121 53001 CYFS 221000Z 34019G26KT 15SM BKN014 14/10 A2976 RMK SC6 SLP083 DENSITY ALT 700FT KCLK 221015Z AUTO 17005KT 10SM SCT110 25/16 A2995 RMK AO2 CYFT 221000Z VRB02KT 3/8SM FG VV003 09/09 A2947 RMK FG8 SLP984 CYGK 221000Z 32004KT 15SM FEW058 BKN210 BKN250 18/15 A2987 RMK SC1CC5CI1 SLP117 DENSITY ALT 800FT CWYK 221000Z AUTO ///// 05/ A2943 RMK SLP991 VEMN 221000Z 02012KT 7000 SCT025 SCT250 35/27 Q1000 NOSIG KCLL 220953Z AUTO 15005KT 10SM CLR 26/24 A2995 RMK AO2 SLP137 T02560239 KDDC 220952Z AUTO 26006KT 10SM CLR 24/13 A2995 RMK AO2 SLP099 T02390133 NZQN 221000Z 36003KT 30KM SCT010 00/M02 Q1006 RMK ALT VATSIM USE ONLY EGHC 221020Z 22011KT 170V250 9000 VCSH FEW006 SCT010 BKN020 12/11 Q1003 CXPL 220900Z AUTO 29004KT 10/10 RMK AO1 T00980097 CWYL 221000Z AUTO 23009KT 10/07 RMK AO1 SLP204 T00950067 55001 CYGL 221000Z 26008KT 1 1/2SM BR BKN002 03/03 A2983 RMK FG2SF4 SLP112 KCLM 220953Z AUTO 30003KT 10SM OVC050 15/13 A3015 RMK AO2 SLP209 T01500133 KCKV 220952Z AUTO 22003KT 8SM CLR 26/23 A2995 RMK AO2 SLP136 T02560233 EFOU 221020Z AUTO 36005KT 300V080 9999 FEW040/// BKN070/// BKN086/// 17/08 Q1020 KBTV 220954Z 05003KT 10SM R15/3500VP6000FT FEW090 SCT150 17/17 A2987 RMK AO2 SLP112 VCFG VIS N-NE 3/4 T01720167 KCMD 221015Z AUTO 00000KT 4SM BR CLR 22/21 A3003 RMK AO2 T02200214 KDCM 221015Z AUTO 00000KT 10SM CLR 22/21 A3000 RMK AO2 LTG DSNT SW KBVE 212051Z AUTO 17007KT 10SM CLR 31/26 A3000 RMK AO2 SLP159 T03110261 58011 $ CYHD 221000Z AUTO 05004KT 9SM CLR 15/14 A2982 RMK SLP106 DENSITY ALT 1800FT CWYM 221000Z AUTO ///// 05/ A2970 RMK SLP089 EGHE 221020Z 23020KT 8000 SHRA FEW009 BKN018 15/13 Q1003 CYHE 221000Z AUTO VRB02KT 9SM OVC070 16/15 A3013 RMK SLP203 KF44 221015Z AUTO 00000KT 10SM CLR 23/23 A2994 RMK AO2 VEMR 220600Z 03004KT 4000 BR SCT018 BKN100 31/27 Q1003 CXOX 221000Z AUTO 28001KT 10/09 RMK AO1 2003 SLP142 T01030094 50002 EFPO 221020Z AUTO 31007KT 270V350 9999 FEW032/// SCT037/// 18/11 Q1020 CXOY 221000Z AUTO 30005KT 10/09 RMK AO1 T00970086 CWZG 221000Z AUTO 25002KT 11/05 RMK AO1 SLP199 T01060049 58001 CYGP 221000Z 27009KT 15SM FEW040 FEW120 13/07 A2963 RMK CU1AC1 CU TR AC TR SLP035 DENSITY ALT 300FT EGGP 221020Z 18007KT 9999 SCT016 16/12 Q1006 KCMH 221027Z 15005KT 10SM TS FEW029 BKN035CB OVC060 23/23 A2988 RMK AO2 LTG DSNT ALQDS TSE18B25E26B27 OCNL LTGICCCCA W TS W MOV E T02330228 KDDH 220954Z AUTO 00000KT 9SM BKN060 17/16 A2990 RMK AO2 RAB06E16 SLP119 P0000 T01720156 KCKZ 221015Z AUTO 00000KT 1 1/2SM BR CLR 20/20 A2991 RMK AO2 KF46 221015Z AUTO 19006KT 10SM CLR 25/24 A2994 RMK AO2 T02480235 KBVI 212347Z 24005KT 10SM SCT050 29/21 A2996 CYGQ 221000Z 09002KT 15SM BKN140 BKN220 12/06 A2996 RMK AC6CS1 SLP151 KCMI 220953Z AUTO 23005KT 7SM CLR 26/23 A2986 RMK AO2 SLP103 T02610233 KBUR 220953Z 08004KT 10SM CLR 20/15 A2991 RMK AO2 SLP116 T02000150 EGHH 221020Z 21010KT 9999 FEW015 SCT025TCU 16/11 Q1007 CYHI 220000Z 33012KT 270V340 14SM FEW003 FEW034 SCT120 14/07 A2951 RMK SF1SC1AC4 SF TR SC TR 8.3/14.0/0.0/ DURING DAY / LAST STFD OBS/NXT 221400Z / HAZE SLP998 DENSITY ALT 500FT CYGR 221000Z 29022G28KT 20SM FEW017 20/16 A2954 RMK CU2 SLP005 DENSITY ALT 1100FT KCLS 221015Z AUTO 19004KT 10SM OVC039 17/14 A3017 RMK AO2 EGHI 221020Z 19006KT 140V230 9999 -SHRA FEW016 SCT022 FEW035TCU 15/12 Q1008 KCLT 220952Z 19004KT 10SM FEW200 FEW250 24/21 A2999 RMK AO2 SLP144 T02440211 KCNB 221014Z AUTO 00000KT 10SM CLR 20/19 A2980 RMK AO2 T02010191 CYGT 212100Z 30004KT 260V320 15SM FEW100 FEW240 11/05 A2959 RMK AC1CI1 11.5/1.8/0.0/LAST STFD OBS/NEXT 221500Z SLP027 DENSITY ALT 200FT CXRB 221000Z AUTO 13016KT 05/03 RMK AO1 PK WND 12027/0901 SLP977 T00530030 55004 CYHK 221000Z AUTO 20006KT 9SM CLR 08/05 A2965 RMK SLP044 KDCU 220953Z AUTO 00000KT 10SM CLR 23/23 A2998 RMK AO2 SLP145 T02330228 KCNC 221015Z AUTO 31003KT 10SM CLR 27/22 A2979 RMK AO2 KDEC 220954Z AUTO 20010KT 10SM FEW042 FEW120 27/23 A2987 RMK AO2 RAE47 SLP105 P0000 T02670233 KBUU 221015Z AUTO 24004KT 10SM CLR 21/21 A2979 RMK AO2 T02060206 CWZL 221000Z AUTO 23010KT 14/13 RMK AO1 3007 SLP100 T01390127 50002 KBWD 221015Z AUTO 00000KT 10SM CLR 24/19 A2998 RMK AO2 KDED 221015Z AUTO 20003KT 10SM CLR 23/22 A3004 RMK AO2 LTG DSNT W NZRO 221000Z 27007KT 40KM BKN050 11/10 Q0994 RMK ALT NZTG VATSIM USE ONLY CYGV 221000Z AUTO 29009KT 9SM FEW240 12/09 A2955 RMK SLP009 DENSITY ALT 200FT CYHM 221000Z 21003KT 15SM -RA FEW055 OVC090 19/18 A2991 RMK SC2AC6 PCPN VRY LGT SLP127 DENSITY ALT 1500FT KCLW 221015Z AUTO 12004KT 2 1/2SM -RA SCT022 BKN026 BKN044 23/23 A3003 RMK AO2 VIS 1/2V5 P0012 PHSF 220956Z AUTO 17011KT 10SM CLR 13/11 A3029 RMK AO2 SLP127 WND DATA ESTMD T01340110 402550080 $ KBVN 221015Z AUTO 34006KT 10SM CLR 22/20 A2984 RMK AO2 T02190197 CWZN 220900Z AUTO 24008KT 15/14 RMK AO1 SLP013 T01460144 57003 CYGW 221000Z AUTO 30016G21KT 9SM OVC016 07/05 A2974 RMK SLP073 KBVO 220953Z AUTO 20004KT 10SM CLR 26/21 A2990 RMK AO2 SLP111 T02610206 EGGW 221020Z AUTO 21007KT 160V230 9999 FEW023/// //////CB 17/12 Q1008 CWZO 221000Z AUTO 09001KT RMK AO1 CYGX 221000Z 14005KT 15SM SKC 09/06 A2997 RMK SLP155 ZSSS 221000Z 16004MPS 140V210 CAVOK 37/26 Q1007 NOSIG KBWG 220953Z AUTO 22004KT 9SM CLR 27/25 A2995 RMK AO2 SLP135 T02670250 KBUY 220954Z AUTO 00000KT 10SM CLR 23/22 A2996 RMK AO2 SLP135 T02330222 TSNO CWYY 221000Z AUTO 00000KT 16/12 RMK AO1 SLP184 T01570120 52008 KDEH 221015Z AUTO VRB04KT 2 1/2SM BR OVC003 21/21 A2978 RMK AO2 EGHQ 221020Z 17015KT 9999 SCT016 15/11 Q1004 UNNT 221000Z 16002MPS 100V240 9999 BKN046CB 25/16 Q1011 R25/090070 R16/090070 NOSIG RMK QFE748/0998 CWZQ 221020Z AUTO 17006KT 18/17 RMK AO1 T01830174 CXRH 221000Z AUTO 10001KT 12/ RMK AO1 T0123 KCMR 221015Z AUTO 00000KT 10SM FEW060 FEW110 15/14 A3028 RMK AO2 KBWI 220954Z 31004KT 7SM FEW048 BKN210 BKN250 26/24 A2987 RMK AO2 SLP112 T02560239 KCNI 221015Z AUTO 00000KT 4SM BR CLR 23/23 A3003 RMK AO2 KBXA 221015Z AUTO 00000KT 7SM CLR 23/21 A3000 RMK AO2 LTG DSNT SE T02260209 KBVS 221015Z AUTO 00000KT 10SM OVC050 16/13 A3015 RMK A01 EGJA 221020Z 24011KT 9999 -SHRA FEW007CB SCT017 12/12 Q1008 RESHRA CWZS 221000Z AUTO 30009KT 12/06 RMK AO1 SLP077 T01150059 53018 EFSA 221020Z 01003KT 9999 VCSH RA FEW030CB SCT030 BKN067 15/13 Q1019 KCNK 220955Z AUTO 24008KT 10SM CLR 27/17 A2981 RMK AO2 SLP073 T02720167 CYIK 212000Z 02018KT 15SM FEW004 FEW009 SCT060 BKN080 05/04 A2952 RMK ST1ST1SC2AC3 ST TR SLP000 EGJB 221020Z 22008KT 9999 -RA FEW014 SCT030 13/11 Q1008 RESHRA KBVU 221015Z AUTO 04003KT 10SM 28/14 A2990 RMK AO2 CXSC 221000Z AUTO 26009KT 11/10 RMK AO1 T01080096 CXRL 221000Z AUTO 15001KT 09/09 RMK AO1 T00880088 CYHU 221000Z AUTO 01010KT 9SM BKN075 OVC092 17/12 A2988 RMK SLP121 DENSITY ALT 300FT KCNM 220953Z AUTO 00000KT 10SM CLR 24/18 A3000 RMK AO2 SLP097 T02390183 KCOD 220956Z AUTO 31004KT 10SM CLR 19/M02 A3019 RMK AO2 SLP169 T01941022 CWZV 221000Z AUTO 25017KT 12/ RMK AO1 1015 PK WND 25018/0950 SLP121 T0120 50005 KDEN 220953Z 24004KT 10SM SCT120 BKN200 16/14 A3012 RMK AO2 SLP114 T01610139 $ KCOE 220956Z AUTO 09003KT 10SM CLR 13/07 A3014 RMK AO2 SLP210 T01330072 NZTG 221000Z 27007KT 40KM BKN050 11/10 Q0994 RMK ALT VATSIM USE ONLY NZSP 220550Z 03012KT 4800 BLSN SCT010 SCT030 BKN060 M51/ A2902 RMK PK WND 02026/0113 CLN AIR 01004KT ALL WNDS GRID CWZW 221000Z AUTO 36001KT 04/03 RMK AO1 SLP137 T00360028 50001 CXSE 221000Z AUTO 30005KT 02/02 RMK AO1 2PAST HR 2009 SLP996 P0001 T00190016 50009 CYIN 221021Z AUTO VRB02KT 9SM -RA FEW065 SCT079 OVC090 09/07 A3009 RMK SLP185 KCNO 220953Z 29005KT 6SM BR CLR 19/17 A2992 RMK AO2 SLP124 T01940172 KCMX 220953Z AUTO 08006G15KT 10SM SCT070 BKN090 BKN110 17/11 A2983 RMK AO2 SLP096 T01670106 KBVX 221015Z AUTO 00000KT 10SM CLR 26/23 A2992 RMK AO1 KCOF 220958Z AUTO 19005KT 10SM CLR 25/24 A3004 RMK AO2 SLP177 T02450240 $ CYJF 211500Z 22007KT 1SM BR BKN003 BKN220 13/13 A2973 RMK FG5SF1CI1 SLP071 DENSITY ALT 900FT CYIO 221000Z AUTO 18003KT 060V190 9SM CLR 05/00 A2974 RMK SLP078 KBVY 220953Z AUTO 28003KT 10SM CLR 20/16 A2982 RMK AO2 SLP093 T02000156 EFRO 221020Z AUTO 05006KT 9999 SCT026 OVC033 13/08 Q1022 KCMY 221015Z AUTO 00000KT 10SM OVC006 19/19 A2979 RMK AO2 T01900187 KBWP 221010Z AUTO 08012G17KT 10SM SCT007 SCT018 BKN080 18/16 A2987 RMK AO1 P0001 CYHY 221000Z 16004KT 15SM FEW060 SCT150 14/11 A2966 RMK SC1AC2 SLP050 DENSITY ALT 900FT ZUCK 221000Z 15005MPS 9999 FEW040 37/20 Q1005 NOSIG KDEQ 220953Z AUTO 00000KT 5SM BR CLR 24/24 A2992 RMK AO2 SLP125 T02390239 CXSH 221000Z AUTO 35007KT 14/07 RMK AO1 SLP115 T01400072 53008 CYHZ 221000Z 30011KT 12SM FEW005 FEW110 SCT300 18/17 A2968 RMK SF1AC1CI1 HZ SLP051 DENSITY ALT 1300FT CWZZ 221000Z AUTO 35018KT ////SM //// BKN002 02/02 A2944 KDFI 221025Z AUTO 03004KT 3SM RA FEW007 BKN031 OVC070 A2986 RMK AO2 LTG DSNT E P0051 $ EFSI 221020Z 31012KT 280V010 9999 FEW037 17/10 Q1020 EGKA 221020Z 20014KT 9999 BKN020 18/13 Q1008 CYKA 221024Z VRB02KT 40SM -SHRA SCT120 BKN160 BKN230 18/08 A3007 RMK AC3AC2CI2 SLP182 DENSITY ALT 1600FT KDET 220953Z 16004KT 10SM SCT047 BKN090 OVC110 25/21 A2986 RMK AO2 SLP107 T02500211 EGJJ 221020Z 21010KT 9999 -SHRA SCT015CB 14/12 Q1009 TEMPO 4000 +SHRA BKN012CB KBXK 221015Z AUTO 06003KT 10SM CLR 30/13 A2984 RMK AO1 KF70 221015Z AUTO 13003KT 10SM CLR 18/15 A2993 RMK AO1 EGKB 221020Z 20009KT 150V240 9999 FEW015 SCT020 16/13 Q1008 KCNU 220952Z AUTO 19008KT 10SM CLR 27/22 A2989 RMK AO2 SLP106 T02670217 KCPC 221005Z AUTO 21004KT 10SM CLR 25/24 A2999 RMK AO2 T02450236 EHAK 221025Z AUTO VRB14KT 9999 NSC 17/14 Q1011 CXSL 221000Z AUTO 00000KT 11/11 RMK AO1 T01140111 KCOM 221015Z AUTO 17003KT 10SM CLR 25/17 A2999 RMK AO2 T02510168 CYIV 220100Z 14004KT 15SM SCT250 20/07 A2993 RMK CI3 LAST STFD OB/NEXT 221400 UTC SLP143 DENSITY ALT 1600FT CYKD 212300Z 32012G23KT 15SM BKN022 BKN062 08/03 A2998 RMK SC6SC1 6.8/SH DIST N-E/LAST STFD OBS/NXT 221300Z SLP153 KCNW 220355Z 12003KT 10SM SKC 29/22 A2995 CXTD 221000Z AUTO 25006KT 17/15 RMK AO1 5000 SLP043 T01670149 50002 KDEW 220953Z AUTO 00000KT 10SM CLR 09/04 A3012 RMK AO2 SLP194 T00890044 PHTO 220953Z AUTO 24005KT 10SM -RA SCT021 SCT026 OVC060 22/21 A3001 RMK AO2 SLP162 P0000 T02220211 402830217 TSNO KBWW 221035Z AUTO 00000KT 10SM OVC060 17/04 A2991 RMK AO2 KCON 220951Z AUTO 00000KT 10SM CLR 17/16 A2985 RMK AO2 SLP107 T01720156 EHAM 221025Z 18015KT 130V220 9999 FEW045 24/13 Q1010 NOSIG CYKF 221000Z AUTO 00000KT 9SM OVC130 18/17 A2992 RMK SLP127 DENSITY ALT 1600FT CZBF 221000Z 18002KT 15SM FEW200 14/09 A2971 RMK CC1 CC TR WND ESTD SLP062 DENSITY ALT 400FT KBYG 220953Z AUTO 31009KT 10SM CLR 18/02 A3015 RMK AO2 SLP142 T01830022 KCNY 220953Z AUTO 00000KT 10SM CLR 18/17 A3012 RMK AO2 SLP139 T01830172 $ CXSP 221000Z AUTO 21002KT 11/11 RMK AO1 T01050114 KCOQ 221015Z AUTO 00000KT 1/4SM FG OVC001 16/15 A2984 RMK AO2 CXTH 221000Z AUTO 22004KT 12/11 RMK AO1 T01150111 VEPT 221000Z 10006KT 5000 HZ FEW018 SCT025 BKN100 34/27 Q0997 NOSIG KBYI 220953Z AUTO 19004KT 10SM CLR 14/07 A3010 RMK AO2 SLP150 T01390067 CXSR 221000Z AUTO 21008KT 11/07 RMK AO1 SLP135 T01130073 56002 VERC 221000Z 29002KT 1500 -TSRA SCT008 SCT015 FEW030CB OVC080 25/24 Q1004 NOSIG KCOS 220954Z 32008KT 10SM FEW130 SCT150 BKN210 19/13 A3019 RMK AO2 SLP115 T01890128 NZTU 221000Z 24004KT 30KM BKN090 04/02 Q1004 RMK ALT VATSIM USE ONLY CYLA 212100Z 10007KT 080V150 15SM SCT048 BKN230 13/02 A2942 RMK CU4CI1 LAST STFD OBS/NEXT 221200UTC SLP965 DENSITY ALT 500FT CYKJ 221000Z AUTO 22003KT 9SM CLR 08/06 A2994 RMK SLP150 KCOT 220953Z AUTO 15006KT 10SM CLR 26/22 A2993 RMK AO2 SLP125 T02560217 KCPK 221015Z AUTO 20004KT 7SM CLR 24/23 A2992 RMK AO2 T02350225 KCQB 221015Z AUTO 18003KT 10SM CLR 24/21 A2991 RMK AO2 T02440207 CYJT 221000Z 23005KT 15SM BKN012 OVC016 18/16 A2952 RMK SC6SC2 SLP997 DENSITY ALT 1000FT EGKK 221020Z 20007KT 150V220 9999 SCT017 17/13 Q1008 KCQC 220853Z AUTO 25011KT 10SM CLR 17/12 A3026 RMK AO2 SLP137 T01670117 58006 KCOU 220954Z AUTO 18004KT 10SM CLR 24/21 A2988 RMK AO2 SLP105 T02440211 EHBK 221025Z AUTO 19010KT 160V230 9999 NSC 23/13 Q1012 NOSIG KBYL 221015Z AUTO 00000KT 5SM CLR 22/22 A3000 RMK AO1 CYLC 211900Z 16009KT 15SM SCT040 BKN100 BKN400 11/04 A2947 RMK CU3AC2CI1 15.1/9.5/0.1/0 LAST STFD OBS/NEXT 241100Z SLP982 DENSITY ALT 300FT CYKL 221000Z AUTO 32005KT 9SM CLR 03/02 A2950 RMK SLP009 EGLC 221020Z AUTO 20011KT 150V230 9999 SCT027/// //////CB 19/12 Q1008 CYLD 221000Z 07006KT 15SM FEW065 SCT130 BKN220 12/07 A2996 RMK CU1AC4CC3 CU TR SLP150 KDFW 220953Z 18007KT 10SM FEW140 28/23 A2991 RMK AO2 SLP118 T02780228 CXTN 221000Z AUTO 33013KT RMK AO1 PK WND 33019/0923 51004 KCQF 221015Z AUTO 32006KT 10SM SCT019 BKN023 BKN031 25/25 A3001 RMK AO2 EGLF 221020Z 21011KT 9999 -SHRA SCT025 16/13 Q1008 CXTO 221000Z AUTO 21/14 RMK AO1 SLP119 T02140143 50000 CXTP 221000Z AUTO 23003KT 17/15 RMK AO1 SLP998 T01650154 57003 CYKP 221000Z AUTO /////KT 9SM CLR 09/05 A2994 RMK WND MISG SLP141 OSDI 221000Z 19011KT CAVOK 37/13 Q1010 EFTP 221020Z AUTO 29007KT 240V330 CAVOK 18/10 Q1020 CYKQ 212100Z 30010KT 15SM SCT027 SCT060 13/06 A2992 RMK CU3SC1 LAST STFD OBS/NEXT 231300 UTC SLP135 CYLH 221000Z AUTO 25004KT 9SM CLR 08/06 A2995 RMK SLP152 KCPR 220953Z AUTO 24010KT 10SM CLR 18/09 A3014 RMK AO2 SLP130 T01780094 NZWB 221000Z 15002KT 10KM SHRA BKN014 08/04 Q0997 RMK ALT NZNS VATSIM USE ONLY KCPS 220953Z AUTO 23006KT 10SM CLR 28/23 A2986 RMK AO2 SLP106 T02830228 KBYS 220955Z AUTO VRB02KT 10SM CLR 26/03 A2993 RMK AO2 SLP085 WND DATA ESTMD T02550025 $ CYLJ 220000Z 34003KT 15SM FEW025 SCT050TCU BKN120 17/15 A2985 RMK SC1TCU2AC3 LAST STFD OB/NXT221200UTC SLP117 DENSITY ALT 2300FT CYMA 221000Z 36005KT 20SM VCFG FEW015 FEW048 11/11 A2984 RMK SC1SC2 SC TR SLP119 DENSITY ALT 1700FT EFVA 221020Z AUTO 34010KT 320V020 9999 FEW037/// 18/08 Q1021 KCPT 221015Z AUTO 18006KT 10SM CLR 25/23 A2996 RMK AO2 CYLK 220000Z 00000KT 25SM SCT090 BKN120 24/04 A2973 RMK AC4AC2 26.3/15.0/TR LAST STFD OBS/NEXT 221500Z SLP076 DENSITY ALT 2000FT CZDB 221000Z AUTO 28003KT 16/15 RMK AO1 SLP052 T01630152 53007 KCPU 221015Z AUTO 00000KT 10SM CLR 18/10 A2991 RMK AO2 T01840102 ORMM 221000Z 14008KT CAVOK 49/10 Q0997 NOSIG CYLL 221000Z AUTO 27007KT 5SM BR CLR 11/11 A2997 RMK SLP156 EGLL 221020Z AUTO 19011KT 140V230 9999 SCT024/// SCT043/// //////CB 19/11 Q1008 EGMC 221020Z 19012KT 9999 FEW025 19/09 Q1008 EFTU 221020Z AUTO VRB04KT 9999 FEW040/// 19/08 Q1019 KCQM 221015Z AUTO 00000KT 4SM BR CLR 12/12 A2984 RMK AO2 VERP 220900Z 25008KT 6000 SCT020 BKN100 31/24 Q1001 NOSIG CXTV 221000Z AUTO 25003KT 04/03 RMK AO1 SLP133 T00410027 58010 KDHN 220953Z AUTO 20004KT 9SM CLR 23/23 A3004 RMK AO2 SLP168 T02280228 KDGW 220953Z AUTO 17003KT 10SM CLR 16/11 A3011 RMK AO2 SLP133 T01560111 KCRE 220953Z AUTO 24004KT 10SM CLR 26/24 A2999 RMK AO1 SLP158 T02560244 EGMD 221020Z 22013KT 9999 SCT019 19/14 Q1009 KCPW 221013Z AUTO 05004KT 10SM SCT046 SCT055 09/03 A3067 RMK AO2 KBZN 220956Z AUTO 17006KT 10SM CLR 11/04 A3019 RMK AO2 SLP186 T01110039 KCRG 220953Z AUTO 10SM CLR 23/22 A3002 RMK AO2 SLP167 T02330217 TSNO $ KBYY 221015Z AUTO 20004KT 10SM SCT023 SCT034 SCT040 25/25 A2995 RMK AO2 T02510246 CYKY 221000Z 31005KT 15SM FEW220 10/09 A2999 RMK CI1 SLP157 CZCP 221000Z AUTO 30016G24KT ////SM //// BKN006 OVC010 03/02 A2978 ORNI 221000Z 01009KT 8000 NSC 47/09 Q1000 NOSIG CYKZ 221000Z 34003KT 15SM OVC170 20/16 A2989 RMK AC8 SLP121 DENSITY ALT 1400FT CYMH 221009Z AUTO 00000KT 6SM BR BKN009 OVC120 12/12 A2947 RMK SLP982 DENSITY ALT 100FT NZWK 221000Z 27007KT 40KM BKN050 11/10 Q0994 RMK ALT NZTG VATSIM USE ONLY CZCR 221000Z AUTO 28009KT 14/08 RMK AO1 SLP065 T01370084 51018 KDIJ 220956Z AUTO 00000KT 10SM CLR 12/02 A3025 RMK AO2 SLP176 T01170017 CYMJ 220031Z 29019G25KT 15SM FEW080TCU FEW140 SCT260 27/08 A2985 RMK TCU2AC1CI1 LAST OBS/NEXT 231800 UTC SLP107 KDHT 220953Z AUTO 31010KT 10SM CLR 23/15 A3006 RMK AO2 SLP106 T02280150 KCQT 220947Z AUTO 00000KT 10SM CLR 20/17 A2990 RMK AO2 SLP123 T02000167 $ CYNA 221000Z AUTO 29009KT 9SM FEW095 OVC140 13/13 A2946 RMK SLP978 DENSITY ALT 200FT KDIK 220956Z AUTO 29005KT 10SM CLR 12/08 A2996 RMK AO2 SLP130 T01170083 CYLT 211800Z 02006KT 3/8SM FG VV003 01/01 A2965 RMK FG8 LAST OBS/NEXT 241200 UTC SLP045 CXWB 220900Z AUTO 06006KT 09/03 RMK AO1 SLP091 T00890027 53003 EFUT 221020Z AUTO 01011KT 350V050 9999 RA BKN022 OVC045 14/11 Q1018 CYLU 212100Z 12004KT 090V250 15SM FEW015 SCT026 BKN036 OVC063 11/07 A2949 RMK SC1SC3SC2SC2 LAST STFD OBS/NEXT 221200UTC SLP990 DENSITY ALT 300FT EGNC 211650Z 11013G24KT 070V150 9999 FEW017 SCT030 19/12 Q1004 NZWN 221000Z AUTO 20029KT 8000 BKN024/// OVC055/// 10/06 Q0999 BECMG 9999 EHDL 221025Z AUTO 19010KT 120V240 9999 SCT059 BKN071 BKN088 24/14 Q1011 BLU TXKF 220955Z 27014KT 9999 FEW015TCU BKN300 28/24 Q1019 RMK TCU DSNT S CYND 220100Z 29004KT 15SM FEW045 FEW120 BKN250 21/15 A2982 RMK SC1AC1CI4 SC TR LAST STFD OBS/NEXT 221100 UTC SLP098 DENSITY ALT 1100FT CXVM 220900Z AUTO 24002KT 11/10 RMK AO1 T01100095 CYMM 221000Z AUTO 10005KT 9SM CLR 13/12 A2986 RMK SLP120 DENSITY ALT 1300FT KCQW 221015Z AUTO 19003KT 10SM CLR 24/23 A2998 RMK AO2 NZWP 221000Z 25013KT 20KM BKN032 12/11 Q0995 RMK ALT NZAA VATSIM USE ONLY CXVN 221000Z AUTO 21002KT 20/16 RMK AO1 SLP110 T02040157 55003 CYNE 221000Z AUTO 09007KT 9SM FEW130 12/06 A2989 RMK SLP129 CYLW 221000Z AUTO 19005KT 180V240 9SM BKN100 OVC120 19/10 A3009 RMK TS/LTNG TEMPO UNAVBL SLP186 DENSITY ALT 1900FT KCQX 220952Z AUTO VRB04KT 10SM CLR 23/16 A2983 RMK AO2 SLP102 T02280161 CYMO 221000Z AUTO 22006KT 9SM BKN075 07/06 A2993 RMK SLP136 KCRP 220951Z 15003KT 10SM FEW015 FEW021 SCT250 24/24 A2993 RMK AO2 SLP135 T02390239 KCSG 220951Z AUTO 25004KT 10SM SCT007 23/22 A3000 RMK AO2 SLP154 T02330217 NZWR 221000Z 25013KT 20KM BKN032 12/11 Q0995 RMK ALT NZAA VATSIM USE ONLY KCRQ 220953Z AUTO 12003KT 10SM OVC011 20/18 A2990 RMK AO2 SLP124 T02000178 NZWS 221000Z 15017KT 30KM BKN090 12/02 Q0997 RMK ALT VATSIM USE ONLY EGNH 221020Z 14008KT 9999 SCT014 16/12 Q1006 EHEH 221025Z AUTO 19011G21KT 130V240 9999 BKN046 24/13 Q1011 BLU 20010KT 9999 SCT046 KEBA 212015Z AUTO 00000KT 10SM CLR 36/20 A3000 RMK AO2 T03600201 KCRS 220953Z AUTO 18006KT 10SM CLR 25/23 A2994 RMK AO2 SLP133 T02500233 $ NZWU 221000Z 33002KT 20KM BKN055 09/07 Q0997 RMK ALT NZPM VATSIM USE ONLY CZFA 220100Z 33007KT 30SM FEW055 SCT062 SCT075 BKN110 BKN160 19/09 A2977 RMK SC1SC2AC1AC1AC1 CLIMAT 21.5/8.4/0.0 LAST STFD OBS/NXT 221300Z SLP096 DENSITY ALT 3500FT CYOA 212300Z 22011KT 12SM FEW260 21/01 A2976 RMK CI1 LAST OB/NEXT 221100Z EGNJ 221020Z 20011KT 9999 BKN010 18/14 Q1007 KCTB 220956Z AUTO 00000KT 10SM CLR 09/06 A3014 RMK AO2 SLP184 T00890056 TSNO KDKB 221015Z AUTO 19015G22KT 10SM -RA SCT120 21/20 A2981 RMK AO2 LTG DSNT S AND W P0001 T02050201 CYMT 221000Z AUTO 28005KT 9SM CLR 04/02 A2991 RMK SLP139 CYMU 211900Z 28021G30KT 6SM BR VCFG OVC003 06/06 A2947 RMK ST8 VIS E 1/LAST STFD OBS/NEXT 24 1200Z SLP983 CYOC 212000Z 05004KT 030V130 15SM SCT013 BKN025 07/03 A2994 RMK ST4SC3 CLIMAT 6.9/3.0/1.2MM LAST STFD OBS/NXT 221300Z SLP155 CZEL 221000Z AUTO 04002KT 18/16 RMK AO1 SLP130 T01770158 55002 KCSM 220953Z AUTO 20009KT 10SM FEW110 26/17 A2995 RMK AO2 SLP111 T02610172 CZEM 212000Z 30012G19KT 15SM SCT045 11/05 A2991 RMK SC4 LAST STFD OBS/NEXT 231400 UTC SLP131 CXWM 221000Z AUTO 23006KT 09/06 RMK AO1 T00860061 CYOD 221000Z 21002KT 1/4SM FG VV001 12/12 A2996 RMK FG8 SLP154 CYNM 221000Z AUTO 27005KT 9SM FEW055 06/05 A2995 RMK SLP153 EGNM 221020Z 18005KT 150V220 9999 SCT004 BKN012 14/13 Q1006 KCRW 221009Z 00000KT 4SM BR FEW001 BKN055 22/21 A2995 RMK AO2 LTG DSNT N AND NE VLY FG T02170206 $ KEAN 221015Z AUTO 16006KT 10SM CLR 17/12 A3010 RMK AO2 T01690116 EHDV 221025Z AUTO 16019KT //// // NSC 17/16 Q1009 RE// EHFD 221025Z AUTO 11023KT 9999 NSC 18/15 Q1011 EGMW 220850Z 17018KT 9999 SCT021 17/15 Q1007 CXWN 221000Z AUTO 35002KT 17/15 RMK AO1 5017 SLP066 T01660150 50020 CXVW 221000Z AUTO 15006KT 11/10 RMK AO1 T01080098 KCRX 221015Z AUTO 00000KT 6SM BR CLR 24/23 A2997 RMK AO2 EGNO 211550Z 14016KT 110V170 9999 -SHRA FEW008 SCT031 BKN042 19/13 Q1002 CYMX 221000Z 05003KT 020V100 45SM BKN071 BKN280 16/14 A2989 RMK AC5CI1 SLP125 DENSITY ALT 500FT KEBG 221015Z AUTO 15003KT 10SM OVC016 26/24 A2993 RMK AO2 T02590235 KCSQ 221015Z AUTO 00000KT 10SM CLR 25/22 A2981 RMK AO2 KEAR 220956Z AUTO 34005KT 10SM CLR 24/21 A2987 RMK AO2 SLP089 T02440206 EGNR 221020Z 16006KT 110V220 9999 FEW018 17/12 Q1006 KCTJ 221015Z AUTO 00000KT 7SM CLR 22/21 A3006 RMK AO2 T02170212 CYPA 221000Z 36006KT 15SM OVC006 14/13 A2994 RMK ST8 SLP149 DENSITY ALT 1600FT CYOJ 221000Z AUTO 00000KT 9SM CLR 13/11 A2975 RMK SLP079 DENSITY ALT 1200FT KDKK 220953Z AUTO 18004KT 10SM CLR 17/17 A2991 RMK AO2 SLP125 T01720167 $ KCUB 220953Z AUTO 00000KT 10SM FEW075 24/22 A2999 RMK AO2 SLP153 T02440222 EGNS 221020Z 11004KT 9999 FEW017 17/11 Q1006 NOSIG EGPA 221020Z 12012KT 9999 FEW004 BKN006 15/14 Q1015 KEAT 220955Z AUTO 32009KT 10SM CLR 20/06 A3009 RMK AO2 SLP181 T02000061 EGPB 221020Z 09010KT 9999 FEW010 15/12 Q1017 EGNT 221020Z 08011KT 6000 -RA BKN004 15/15 Q1007 KEAU 220956Z AUTO 00000KT 10SM OVC005 19/18 A2980 RMK AO2 SLP086 T01890183 CYPC 212300Z 32018KT 1SM -SHRA BR OVC008 07/06 A2971 RMK RA4SC4 SLP062 ZUGY 221000Z 21004MPS 9999 FEW033 30/20 Q1014 NOSIG KCSV 220953Z AUTO 00000KT 7SM CLR 21/20 A3006 RMK AO2 SLP153 T02110200 EGPC 221020Z AUTO 10011KT 9999 OVC002/// 15/14 Q1014 CZFM 212300Z 35012G22KT 310V010 35SM BKN071 08/01 A2996 RMK AC5 9.1/4.5/6.0 LAST OBS/NEXT 221300Z SLP150 EGOM 220950Z AUTO 08016KT 6000 BR BKN002/// 14/14 Q1006 RERA CZEV 220900Z AUTO 26004KT 06/02 RMK AO1 SLP147 T00590024 58009 CYPD 221000Z AUTO 27010KT 9SM CLR 18/16 A2961 RMK SLP028 DENSITY ALT 1100FT EGNV 221020Z 09010KT 060V120 9999 FEW012 SCT024 19/15 Q1006 EGPD 221020Z AUTO 09011KT 9999 BKN007 15/13 Q1013 CZFN 212300Z 29024G39KT 20SM FEW012 BKN046 16/12 A2959 RMK SC1SC4 24.6/17.2/0 TCU DIST N/ LAST STFD OBS NEXT241500 UTC SLP027 DENSITY ALT 900FT CYPE 221000Z 20004KT 15SM BKN210 11/08 A2990 RMK CI7 SLP132 DENSITY ALT 1900FT EGPE 221020Z 10007KT 9999 FEW018 SCT035 19/13 Q1012 KDLF 220958Z 11009KT 10SM FEW200 27/22 A2993 RMK AO2A SLP118 T02670220 CYOO 221000Z AUTO 00000KT 9SM OVC180 18/15 A2988 RMK SLP119 DENSITY ALT 900FT EGNX 221020Z 21009KT 160V230 9999 BKN020 17/11 Q1007 EGPF 221020Z AUTO 06016KT 9999 -RA FEW013/// //////TCU 16/14 Q1009 KECG 220654Z AUTO 22008KT 10SM CLR 26/25 A2994 RMK AO2 SLP137 T02610250 CYPG 212200Z 09011G19KT 15SM FEW025 FEW100 BKN240 24/18 A2983 RMK CU2AC1CI3 DA2465FT LAST OBS/NEXT 221100 UTC SLP104 EGOP 220950Z AUTO 16011KT 9999 // FEW023/// SCT060/// 16/12 Q1005 EHGG 221025Z AUTO 14008KT 080V180 9999 FEW022 23/18 Q1011 NOSIG KDLH 221020Z 07005KT 2 1/2SM BR OVC005 15/15 A2984 RMK AO2 SFC VIS 6 CIG 002V008 T01500150 KCUH 221015Z AUTO 18005KT 10SM CLR 25/20 A2990 RMK AO2 T02540203 CXYH 221000Z AUTO 15/09 RMK AO1 SLP072 T01480094 53055 CYPH 221000Z AUTO 02010KT 9SM OVC005 07/07 A2966 RMK SLP046 EGPH 221020Z 05013KT 4000 RA OVC003 14/14 Q1010 KDKR 221010Z AUTO 00000KT 10SM CLR 24/23 A2999 RMK AO2 EGPI 220950Z AUTO 08013KT 040V110 9999 NCD 17/13 Q1007 KEBS 221015Z AUTO 12003KT 9SM BKN007 22/22 A2977 RMK AO2 KDMA 220958Z AUTO 13006KT 10SM CLR 25/21 A2998 RMK AO2 SLP104 T02460209 $ CZFS 220900Z AUTO 34021G27KT 15/12 RMK AO1 PK WND 34029/0848 SLP068 T01510118 53045 EGOS 220950Z AUTO 17005KT 9999 SCT013/// BKN021/// 15/11 Q1006 CYQA 221006Z AUTO VRB02KT 6SM BR OVC170 15/15 A2989 RMK SLP122 DENSITY ALT 1100FT KCVB 221015Z AUTO 09003KT 10SM CLR 25/21 A2999 RMK AO2 T02450209 EHFS 220955Z AUTO 20011KT 9999 NSC 20/14 Q1010 CYQB 221000Z 00000KT 30SM FEW030 FEW090 13/07 A2985 RMK CF1AC1 CF TR SLP111 EGPK 221020Z 07006KT 9999 -SHRA FEW020 SCT030 17/14 Q1008 KEDC 221015Z AUTO 20004KT 25/25 A2997 RMK AO2 KCUL 221015Z AUTO 19004KT 4SM BR CLR 24/24 A2989 RMK AO2 T02360236 KCVC 221015Z AUTO 00000KT 10SM CLR 23/22 A3000 RMK AO2 KDLL 221015Z AUTO 00000KT 1SM BR OVC003 19/18 A2980 RMK AO2 LTG DSNT S T01880181 CYPL 220200Z 07004KT 15SM SCT150 BKN230 18/08 A2992 RMK AC3CI2 LAST STFD OBS/NEXT 221100Z SLP141 DENSITY ALT 2000FT CXZC 221000Z AUTO 20001KT 07/06 RMK AO1 SLP134 T00720058 57001 EGPL 221020Z 08012KT CAVOK 19/13 Q1010 EGOV 220950Z AUTO 17005KT 9999 NCD 16/11 Q1005 VGEG 221000Z 21011KT 5000 SCT018 BKN100 30/27 Q0999 NOSIG CYQD 221000Z 08005KT 15SM SCT030 BKN070 BKN080 OVC200 17/09 A2988 RMK SC3AS3AC1CS1 SLP121 DENSITY ALT 1400FT KDLN 220953Z AUTO 15007KT 10SM CLR 10/M04 A3022 RMK AO2 SLP184 T01001044 EGPM 221020Z AUTO 10013KT 9999 BKN012/// 15/11 Q1018 KEDE 221005Z AUTO 00000KT 10SM CLR 27/24 A2995 RMK AO2 T02660240 EGPN 221020Z 07013KT 9999 VCSH FEW010 BKN018 15/14 Q1011 CYOW 221000Z 35006KT 15SM FEW090 SCT200 SCT240 17/15 A2988 RMK AC1CI3CC1 CC TR SLP120 DENSITY ALT 800FT KDKX 221015Z AUTO 00000KT 1 1/4SM BR 22/22 A2999 RMK A01 CYPO 221000Z AUTO 32004KT 9SM CLR 03/02 A2994 RMK TS/LTNG TEMPO UNAVBL SLP141 CYQF 221000Z 20006KT 12SM FEW078 SCT250 08/07 A3005 RMK AC2CI2 HZ SLP189 KECP 220953Z AUTO 03003KT 10SM SCT022 23/22 A3000 RMK AO2 SLP170 T02280217 KCVG 220952Z 20008KT 7SM SCT045 BKN070 OVC100 26/24 A2990 RMK AO2 LTG DSNT NW SLP112 T02560244 EGPO 221020Z 10013KT CAVOK 18/13 Q1011 KCTY 221015Z AUTO 00000KT 10SM SCT120 23/22 A3007 RMK AO2 LTG DSNT S T02280224 KDLP 221015Z AUTO 24008KT 10SM SCT024 SCT032 32/25 A3000 RMK A01 CYOY 221000Z AUTO 31004KT 9SM FEW077 FEW089 12/06 A2986 RMK SLP113 CYQG 221000Z 18004KT 12SM BKN100 OVC150 24/22 A2986 RMK AC6AS2 INTMT -RA SLP108 DENSITY ALT 1900FT KCTZ 221005Z AUTO 00000KT 10SM CLR 24/24 A2999 RMK AO2 T02400240 KCVH 221010Z AUTO 00000KT 10SM CLR 11/09 A2994 RMK AO1 KDMH 220954Z AUTO 28/23 A2987 RMK AO1 SLP114 T02830228 CYPQ 221000Z AUTO 00000KT 9SM OVC170 16/15 A2989 RMK SLP122 DENSITY ALT 800FT CYQH 221000Z 00000KT 20SM OVC210 08/05 A2984 RMK CI8 SLP116 EHFZ 221025Z AUTO 14018KT 9999 NSC 18/16 Q1009 CYQI 221000Z 31007KT 9SM FEW110 SCT250 14/14 A2976 RMK ACC1CI3 ACC TR SLP078 DENSITY ALT 300FT CYPR 221000Z AUTO 10007KT 9SM FEW023 SCT028 OVC041 14/14 A2984 RMK SLP105 KDLS 220953Z AUTO 16005KT 10SM CLR 19/10 A3008 RMK AO2 SLP182 T01940100 EHGR 221025Z AUTO 20010KT 150V230 9999 SCT043 BKN340 25/13 Q1011 BLU KDNA 221015Z AUTO 00000KT 10SM SCT110 22/19 A3009 RMK AO2 KEDJ 221010Z AUTO 35007KT 1 1/2SM BKN003 BKN010 OVC016 20/20 A2995 RMK AO1 KCWA 221015Z AUTO 14005KT 3SM BR OVC004 18/18 A2982 RMK AO2 KECS 221015Z AUTO 00000KT 10SM CLR 16/09 A3008 RMK AO2 CYRA 220000Z 16007KT 120V200 15SM FEW030 SCT070 24/10 A2963 RMK CU1AC2 FU ALQDS 24.0/16.4/0/0 LAST TSFD OBS/NEXT 221500 UTC SLP040 DENSITY ALT 2300FT KCUT 220953Z AUTO 00000KT 10SM SCT100 15/03 A3017 RMK AO2 SLP137 T01500033 EGQK 220950Z AUTO 09014KT 9999 BKN120/// 18/13 Q1012 CYRB 221000Z 12020KT 15SM -RA BKN044 OVC077 05/02 A2947 RMK SC7AC1 SLP986 CYQK 221000Z 12006KT 15SM FEW150 BKN250 16/15 A2980 RMK AC2CI4 SLP094 DENSITY ALT 1900FT KCWC 221015Z AUTO 15006KT 10SM CLR 26/20 A2993 RMK AO2 T02600203 KECU 221015Z AUTO 16006KT 24/24 A3005 RMK AO2 CYQL 221000Z AUTO 21007KT 9SM CLR 09/06 A3009 RMK SLP185 EGPU 220950Z AUTO 10016KT 9999 NCD 20/14 Q1008 KEED 220956Z AUTO 24007KT 10SM CLR 37/12 A2979 RMK AO2 SLP046 T03720117 $ EGQL 221016Z 07010KT 9999 FEW009 BKN020 14/13 Q1011 WHT CYQM 221000Z 25010KT 15SM FEW120 FEW250 15/13 A2971 RMK AC1CI1 CI TR SLP062 DENSITY ALT 600FT KDMN 220953Z AUTO 00000KT 10SM CLR 21/19 A3009 RMK AO2 SLP109 T02060194 KEDN 221015Z AUTO 00000KT 10SM CLR 21/21 A3002 RMK AO2 T02120212 KCVN 220956Z AUTO 25007KT 10SM CLR 21/15 A3008 RMK AO2 SLP133 T02060150 EGQM 220950Z AUTO 06009KT 7000 RA BKN009/// BKN050/// 15/14 Q1008 CYPW 220200Z 11003KT 080V180 20SM FEW025 BKN051 OVC070 17/14 A3015 RMK SC1SC5AS3 SC TR INTMT -RA LAST STFD OBS/NEXT221300UTC SLP210 DENSITY ALT 500FT KDMO 220953Z AUTO 22011KT 10SM CLR 28/23 A2988 RMK AO2 SLP105 T02780228 KCVO 221015Z 29003KT 10SM CLR 16/11 A3015 RMK AO1 KCWF 221015Z AUTO 00000KT 7SM CLR 25/25 A2997 RMK AO2 LTG DSNT SE T02500246 CYPX 221000Z AUTO 35009KT 9SM FEW250 07/06 A2966 RMK SLP046 CYPY 221000Z AUTO VRB02KT 9SM CLR 16/13 A2977 RMK SLP087 DENSITY ALT 1200FT KDLZ 221016Z AUTO 13004KT 10SM TS BKN030 BKN036 OVC065 22/22 A2988 RMK AO2 LTG DSNT ALQS CYQQ 221000Z 16006KT 15SM FEW009 BKN020 OVC032 15/15 A3012 RMK SF1SC5SC3 SLP200 KCWI 220716Z AUTO 11006KT 1SM +TSRA BR SCT009 BKN018 OVC036 21/20 A2989 RMK AO2 LTG DSNT ALQDS TSE15B16 P0083 CYQR 221000Z 26006KT 3/4SM BR BKN002 09/09 A2993 RMK SF5 SLP141 KCVS 220958Z AUTO 30003KT 10SM CLR 22/15 A3008 RMK AO2 SLP117 T02150153 $ CYRJ 221000Z 30007KT 40SM FEW060 07/03 A2989 RMK SC1 SC TR SLP125 EGQS 220950Z 09011KT 9999 FEW021 SCT028 BKN120 17/13 Q1012 BLU EHJA 221025Z AUTO 15017KT 9999 NSC 18/15 Q1009 CYSB 221000Z 04006KT 20SM BKN230 15/12 A2992 RMK CI7 SLP133 DENSITY ALT 1500FT CYQT 221018Z 00000KT 20SM SCT065 BKN077 OVC110 15/12 A2986 RMK SC4AC2AC2 SLP114 DENSITY ALT 1000FT KDNL 220953Z AUTO 17004KT 10SM CLR 23/21 A3001 RMK AO2 SLP156 T02330206 KEDU 221010Z AUTO 11004KT 10SM CLR 15/13 A2986 RMK AO1 OTBD 221000Z 09010KT CAVOK 41/24 Q0997 NOSIG CYRL 221000Z 08005KT 15SM FEW120 SCT240 14/08 A2984 RMK AC2CI2 SLP108 DENSITY ALT 1600FT EGSC 221020Z 20006KT 9999 SCT025TCU 19/11 Q1007 CYSC 221000Z AUTO 26004KT 9SM SCT080 15/14 A2985 RMK SLP110 DENSITY ALT 1000FT CYQU 221000Z 25003KT 25SM BKN110 12/08 A2995 RMK AC7 SLP147 DENSITY ALT 2400FT KEFD 220950Z 00000KT 10SM FEW020 SCT250 26/24 A2997 CXZV 221000Z AUTO 29005KT 10/05 RMK AO1 SLP047 T01040052 53012 CYQV 221012Z AUTO 31006KT 9SM -RA BKN019 BKN065 OVC080 14/14 A2986 RMK SLP116 DENSITY ALT 1900FT KDMW 221010Z AUTO 00000KT 5SM BR CLR 23/22 A2992 RMK AO2 KEEN 220956Z AUTO 00000KT 9SM CLR 16/15 A2988 RMK AO2 SLP130 T01560150 KCXE 221015Z AUTO 00000KT 10SM CLR 24/23 A2994 RMK AO1 T02350234 KCVW 221020Z AUTO 26004KT 10SM FEW040 SCT055 BKN075 25/23 A2996 RMK A01 KCWN 220958Z AUTO 19006KT 10SM SCT140 SCT180 BKN210 20/07 A3018 RMK AO2 SLP021 T02000070 $ KEDW 220958Z AUTO 23008KT 5SM HZ CLR 20/03 A2992 RMK AO2 SLP106 T01950034 CYQW 221000Z AUTO 29004KT 9SM CLR 11/11 A2996 RMK SLP158 KEEO 220953Z AUTO 00000KT 10SM CLR 14/12 A3028 RMK AO2 SLP160 T01390122 KCVX 221014Z AUTO 00000KT 10SM SCT070 SCT085 OVC100 21/19 A2989 RMK AO2 T02050186 EHHW 221025Z AUTO 14007KT 090V200 9999 ///////// 18/16 Q1011 CYSF 221000Z AUTO 06005KT 9SM OVC120 13/08 A2984 RMK SLP111 OTBH 220958Z 29004KT 9000 HZ CLR 45/08 A2947 RMK AO2A SLP980 T04510079 $ CYQX 221025Z 26006KT 4SM BR BKN002 BKN008 16/16 A2953 RMK SF6SF1 SC TR SLP002 DENSITY ALT 1300FT CZHY 221000Z AUTO 12004KT 15/12 RMK AO1 SLP043 T01460116 50002 CYQY 221000Z 23006KT 15SM FEW024 FEW240 17/16 A2958 RMK CU1CI2 CU TR SLP017 DENSITY ALT 900FT CYRQ 221000Z AUTO 35005KT 9SM CLR 14/09 A2988 RMK SLP119 CYQZ 221000Z AUTO 00000KT 9SM SCT120 BKN140 BKN160 OVC190 13/11 A3000 RMK SLP165 DENSITY ALT 1800FT EGSH 221020Z 21007KT 170V250 9999 FEW015 SCT026 17/13 Q1008 NOSIG KDPA 220952Z 19014KT 5SM -RA BR BKN110 22/22 A2981 RMK AO2 LTG DSNT SW PRESFR SLP088 P0011 T02170217 KDNS 221015Z AUTO 07006G13KT 2SM BR OVC003 23/23 A2982 RMK AO2 KEET 220953Z AUTO 20003KT 9SM CLR 23/23 A3000 RMK AO2 SLP150 T02330228 OSKL 220900Z 24005KT CAVOK 43/03 Q1006 CYSJ 221000Z 31004KT 15SM FEW240 16/13 A2974 RMK CI1 SLP074 DENSITY ALT 700FT KEFK 221015Z AUTO 00000KT 5SM BR SCT060 SCT075 14/14 A2989 RMK AO2 T01390137 ORSU 221000Z 18005KT CAVOK 44/01 Q1009 CYSK 212200Z 30024G31KT 10SM OVC005 06/05 A2965 RMK SF8 6.5/5.0/M/M LAST MANNED OB/NEXT 241200UTC SLP045 CYRT 221000Z 18002KT 15SM FEW250 11/03 A2983 RMK CI1 SLP105 EGTC 221020Z 20009KT 160V240 9999 FEW030 19/12 Q1007 KCWV 221015Z AUTO 00000KT 7SM CLR 22/22 A3002 RMK AO2 T02190215 KDNV 221015Z AUTO 14004KT 10SM CLR 22/22 A2984 RMK AO2 T02200216 CZKD 221000Z AUTO 09001KT 05/03 RMK AO1 SLP139 T00530032 51006 CYSM 221000Z 15003KT 12SM FEW100 SCT180 SCT250 14/11 A2972 RMK ACC2AC1CI1 CI TR FU SLP069 DENSITY ALT 1000FT CYRV 221000Z AUTO VRB02KT 9SM OVC085 15/12 A3009 RMK SLP192 DENSITY ALT 1500FT EHKD 221025Z AUTO 19013KT 150V220 9999 FEW057 BKN071 26/10 Q1009 BLU KEGE 220956Z AUTO 00000KT 10SM CLR 14/13 A3032 RMK AO2 SLP206 P0001 T01440133 CYSN 220100Z 32005KT 15SM SCT180 BKN250 23/16 A2991 RMK AC3CI4 LAST STFD OBS / NEXT 221100UTC SLP127 DENSITY ALT 1400FT EGTE 221020Z 19012KT 9999 SCT025 16/10 Q1005 CYTE 221000Z AUTO 07004KT 9SM OVC050 07/03 A2972 RMK SLP068 KCXO 220953Z AUTO 00000KT 10SM BKN120 23/22 A2996 RMK AO2 SLP142 T02330222 KCXP 221015Z AUTO 00000KT 10SM CLR 15/03 A3015 RMK AO2 CYSP 212100Z 28003KT 160V320 15SM FEW046 SCT090 BKN260 19/12 A2995 RMK SC1AC3CI3 LAST STFD OBS/NEXT 221200UTC SLP149 DENSITY ALT 1800FT CYTH 221000Z 00000KT 15SM SKC 05/03 A2993 RMK SLP145 KEGI 220956Z AUTO 00000KT 10SM FEW029 23/22 A3001 RMK AO2 SLP162 T02290222 $ EHJR 220955Z AUTO 19019G22KT //// ///////// 18/15 Q1009 W17/H9 OSLK 221000Z 24010KT 9999 SCT030 30/21 Q1009 KEHA 221008Z AUTO 34005KT 21/09 RMK AO1 /PK WND 07 000 T02110095 CYUA 221000Z AUTO 15010KT ////SM //// FEW046 BKN050 05/02 A2984 EGSS 221020Z AUTO 18010KT 9999 FEW025 18/12 Q1008 KEFT 221015Z AUTO 20013G24KT 10SM -VCTSRA OVC003 20/19 A2978 RMK AO2 LTG DSNT S AND SW P0001 EGTK 221020Z 20008KT 9999 SCT028 17/10 Q1007 EGUB 220950Z 17010KT 9999 SCT030 SCT250 17/11 Q1007 BLU CYUB 221000Z 29011KT 15SM VCSH BKN017 OVC025 06/03 A2989 RMK SC5SC3 CIG RAG SLP123 KDPL 221010Z AUTO 00000KT 7SM CLR 24/23 A2998 RMK AO2 KCXU 221015Z AUTO 00000KT 10SM SCT008 22/22 A3003 RMK AO1 T02220218 KEHC 221015Z AUTO 23010KT 9SM FEW031 FEW055 SCT070 28/24 A2997 RMK A01 CYTL 221000Z AUTO 26005KT 9SM CLR 08/08 A2995 RMK SLP151 KDOV 220958Z 17003KT 10SM SCT035 25/25 A2985 RMK AO2A SLP111 $ KCXW 221015Z AUTO 00000KT 5SM BR 25/24 A2992 RMK A01 KCXY 220956Z AUTO 26004KT 6SM BR CLR 23/21 A2990 RMK AO2 SLP124 T02280206 CYSY 212300Z 33019KT 1SM -RA BR OVC002 01/01 A2966 RMK FG4ST4 VIS VRB 1/2 TO 2 MILES. LAST OBS/NEXT 221300Z SLP053 VGHS 221000Z 13010KT 4000 HZ SCT012 BKN100 31/24 Q0998 TEMPO RA KDQH 221015Z AUTO 00000KT 5SM BR CLR 22/21 A3004 RMK AO2 CYTQ 211900Z 17010G16KT 130V200 12SM BKN022 13/02 A2941 RMK SC6 LAST STFD OBS NEXT/241200 UTC SLP961 DENSITY ALT 500FT CYTR 221000Z 00000KT 15SM BKN170 OVC200 17/15 A2988 RMK AC7CI1 SLP118 KCYS 220953Z AUTO 26005KT 10SM CLR 15/12 A3019 RMK AO2 SLP130 T01500117 KDRA 220955Z AUTO 09008KT 10SM CLR 26/00 A2996 RMK AO2 SLP086 T02610000 CYTS 221000Z 00000KT 15SM FEW060 FEW100 FEW220 05/04 A2997 RMK SC1AC1CI1 SC TR SLP157 EGVA 221025Z AUTO 17010G20KT 9999 -RA FEW010 SCT028 SCT037 14/11 A2974 RMK AO2 RAB15 SLP074 EHMA 221025Z AUTO 11012KT 9999 NSC 21/18 Q1011 EICK 221000Z 36013KT 9999 BKN018 15/10 Q1004 NOSIG KCZL 221015Z AUTO 00000KT 7SM CLR 24/23 A3000 RMK AO2 T02370230 CYUL 221000Z 02012KT 15SM SCT080 BKN240 18/11 A2988 RMK AC4CI1 SLP118 DENSITY ALT 500FT CYVC 221000Z 27002KT 15SM MIFG FEW095 BKN220 10/10 A2994 RMK AC2CI4 SLP148 EGUL 220958Z AUTO 22008KT 9999 CLR 17/14 A2975 RMK AO2 SLP077 T01720143 KEGV 221015Z AUTO 00000KT 10SM OVC020 18/15 A2984 RMK AO2 T01750151 CZMD 221000Z AUTO 00000KT 9SM CLR 07/06 A2994 RMK SLP149 EHKV 221025Z AUTO 18015KT 9999 NSC 19/15 Q1010 EGUN 221008Z AUTO 22005KT 9999 SCT023 19/15 A2975 RMK AO2 SLP077 KEHO 221005Z AUTO 18003KT 10SM CLR 23/23 A2999 RMK AO2 T02310231 EHMG 221025Z AUTO 14013KT 9999 NSC 20/15 Q1010 KEHR 220956Z AUTO 21004KT 8SM CLR 24/23 A2991 RMK AO2 SLP131 T02440233 CYTZ 221000Z AUTO 00000KT 9SM BKN160 OVC180 23/15 A2988 RMK SLP118 DENSITY ALT 1300FT KDRI 221015Z AUTO 00000KT 7SM CLR 24/23 A2999 RMK AO2 T02400231 CZMJ 221000Z AUTO 29002KT 09/07 RMK AO1 SLP146 T00860072 53008 CYUS 221000Z AUTO 12008KT ////SM //// NCD 06/04 A2966 CYWA 221000Z AUTO 00000KT 9SM BKN084 16/14 A2989 RMK SLP124 KEIK 221014Z AUTO 00000KT 10SM CLR 16/15 A3011 RMK AO2 T01570147 KCZT 221015Z AUTO 14004KT 10SM CLR 26/20 A2991 RMK AO2 CYUT 212200Z 35010G17KT 15SM FEW015 BKN220 BKN250 14/04 A2972 RMK SC1CC4CI2 14.2/7.8/0.0/NIL LAST STFD OBS/NXT 241300Z SLP067 DENSITY ALT 200FT EGWC 211250Z 16018G28KT 9999 FEW018 BKN022 19/13 Q1004 WHT EIDL 221000Z 07005KT 9999 BKN025 16/12 Q1007 CYVL 221000Z AUTO 30011KT 9SM OVC022 05/01 A2990 RMK SLP142 KDRM 221014Z AUTO 00000KT 10SM CLR 15/14 A2989 RMK AO2 T01510140 CYVM 221000Z AUTO 35004KT 310V040 9SM BKN070 OVC110 02/01 A2971 RMK SLP064 EGUW 220950Z AUTO 21008KT 9999 SCT017/// BKN110/// 17/12 Q1008 CYWE 221007Z AUTO VRB02KT 6SM BR FEW060 13/11 A2965 RMK SLP052 DENSITY ALT 1500FT KDRO 220953Z AUTO 05006KT 10SM CLR 14/13 A3024 RMK AO2 SLP154 T01440128 EHLW 221025Z AUTO 11004KT 010V150 9999 FEW320 24/16 Q1010 BLU EGVN 220950Z 19008KT 9999 FEW024TCU SCT028 18/09 Q1007 TEMPO 6000 SHRA KFAF 220958Z AUTO 21004KT 10SM CLR 25/23 A2987 RMK AO2 SLP118 T02510234 EGVO 220950Z 20011KT 9999 SCT025 SCT140 17/11 Q1007 BLU CYUX 221000Z AUTO 34008KT 9SM CLR 07/04 A2972 RMK SLP068 CYVO 221000Z 36002KT 15SM FEW080 SCT260 06/06 A2997 RMK AC2CI2 SLP157 KEHY 221015Z AUTO 29011KT 10SM CLR 15/07 A3026 RMK AO2 EGVP 220950Z 18007KT 9999 FEW017 SCT060 16/12 Q1007 BLU TEMPO SCT017 WHT CYWG 221000Z 34006KT 15SM BKN010 BKN045 15/15 A2973 RMK SC5SC2 SLP072 DENSITY ALT 1300FT CYUY 221000Z 05002KT 15SM FEW010 FEW170 FEW260 05/05 A2997 RMK CU1AC1CI1 CU TR SLP157 CYVP 221007Z 35008KT 12SM -SHRA FEW004 SCT009 BKN033 OVC045 07/06 A2951 RMK SF1SF2SC4SC1 CIG LWR NW-NE CVCTV CLD EMBD SLP995 KCZZ 220952Z AUTO 05004KT 17/11 A2994 RMK AO1 SLP102 T01670106 CYWH 220400Z 22002KT 15SM FEW035 BKN070 13/12 A3013 RMK SC1AC6 LAST STFD OBS/NEXT 221300 UTC SLP205 CYVQ 221000Z 29005KT 30SM FEW010 FEW028 BKN043 OVC110 07/07 A2997 RMK SC1SC1SC5AC1 SLP155 KEIR 221015Z AUTO 23008KT FEW032 29/24 A3000 RMK A01 CYVR 221000Z 04008KT 15SM -SHRA OVC028 16/14 A3015 RMK SC8 SLP211 KDTA 221015Z AUTO 06005KT 10SM CLR 20/10 A3010 RMK AO1 CYWJ 212300Z 13007KT 20SM FU FEW047TCU SCT120 23/11 A2954 RMK TCU2AC2 CB DVLP WNW 23.0/15.1/0/0 LAST STFD OBS/NXT 221300UTC SLP012 DENSITY ALT 2200FT KDRT 220953Z AUTO 09005KT 10SM CLR 27/22 A2993 RMK AO2 SLP115 T02720217 CZMT 220000Z 16016G31KT 15SM -DZ OVC005 14/13 A2984 RMK ST8 LAST STFD OBS/NEXT 221300 UTC SLP106 DENSITY ALT 100FT CYVT 220400Z 15003KT 15SM SCT030 BKN110 OVC200 15/13 A2989 RMK SC3AC3CI2 LAST STFD OBS/NEXT 221200 UTC SLP131 DENSITY ALT 1900FT CYWK 221014Z 27011G17KT 12SM -RA FEW026 BKN032 BKN100 07/03 A2956 RMK SC2SC3AC2 SLP023 CZMU 220900Z AUTO 25005KT 12/12 RMK AO1 T01190115 CYXC 221000Z 27005KT 25SM FEW100 14/05 A3014 RMK AC2 SLP193 DENSITY ALT 3500FT KDSM 220954Z 15003KT 10SM FEW018 FEW045 SCT120 BKN180 BKN250 28/23 A2977 RMK AO2 LTG DSNT N AND NE SLP070 CONS LTGICCC DSNT N-NE OCNL LTGIC DSNT SE AND SW-W CB DSNT N-NE AND SE AND SW-W MOV E T02780228 KFAM 220956Z AUTO 00000KT 10SM CLR 25/23 A2994 RMK AO2 SLP123 T02500228 EGXC 220950Z 20008KT 9999 SCT025 BKN180 18/12 Q1007 BLU CYVV 221000Z 00000KT 15SM BKN080 BKN120 BKN250 17/17 A2989 RMK AC5AC1CI1 SLP122 DENSITY ALT 1200FT EGXE 220950Z AUTO 10007KT 9999 RA SCT018/// BKN060/// 17/14 Q1005 CYXE 221000Z 32003KT 15SM FEW140 SCT250 10/09 A2994 RMK AC1CI3 SLP150 EIDW 221000Z 10009KT 070V130 9999 FEW020 SCT030 17/10 Q1006 NOSIG KFBG 220456Z 23002KT 10SM CLR 25/23 A2999 RMK A02A SLPNO T02480234 WND DATA ESTMD/ALTSG ESTMD CYXH 221000Z AUTO 21004KT 9SM CLR 11/09 A3005 RMK SLP176 KFAR 220953Z 13005KT 10SM SCT095 19/18 A2979 RMK AO2 LTG DSNT S RAE0859 SLP083 P0000 T01940183 KELA 221015Z AUTO 20004KT 10SM CLR 25/25 A2996 RMK AO2 T02470247 KDUA 221015Z AUTO 18004KT 10SM CLR 24/21 A2993 RMK AO2 CYXJ 221000Z 22011KT 15SM SCT210 14/07 A2989 RMK CI3 SLP124 DENSITY ALT 2800FT KFAT 220953Z 30008KT 10SM FEW150 OVC200 23/13 A2987 RMK AO2 SLP109 T02280128 KDUB 221015Z AUTO 29010KT 10SM CLR 08/M02 A3032 RMK AO2 CYYB 221000Z AUTO 08006KT 9SM OVC230 16/10 A2992 RMK SLP131 DENSITY ALT 1600FT KFBL 221014Z AUTO 20004KT 10SM BKN005 21/19 A2979 RMK AO2 LTG DSNT SE KDTL 221013Z AUTO 14004KT 7SM VCTSRA SCT011 BKN016 OVC023 18/17 A2985 RMK AO2 LTG DSNT E THRU SW KDUC 221015Z AUTO 10SM 25/21 A2993 RMK AO2 T02470207 KEKM 220052Z 00000KT 10SM CLR 27/22 A2994 RMK AO2 CZOL 220900Z AUTO 00000KT 09/09 RMK AO1 T00930091 CYYC 221000Z 20004KT 15SM FEW150 BKN240 11/05 A3009 RMK AC1CI5 AC TR FU SLP197 DENSITY ALT 3900FT CYXL 221000Z 09005KT 060V130 15SM FEW100 BKN240 16/11 A2984 RMK AC1CS6 SLP107 DENSITY ALT 1800FT CZPC 221000Z AUTO 34004KT 9SM CLR 12/06 A3012 RMK SLP185 DENSITY ALT 4200FT EGWU 220950Z 20004KT 9999 -SHRA SCT017TCU BKN250 15/14 Q1007 RESHRA KELD 220953Z AUTO 00000KT 10SM CLR 24/23 A2996 RMK AO2 SLP141 T02390228 $ KDSV 220954Z AUTO VRB03KT 10SM CLR 19/17 A2994 RMK AO2 SLP141 T01890167 EGYD 220950Z 20008KT 9999 SCT023 SCT250 17/11 Q1007 WHT BECMG SCT025 BLU CYYD 221023Z AUTO 18002KT 9SM -RA OVC085 11/10 A2993 RMK SLP141 KDTN 220953Z AUTO 19005KT 10SM CLR 27/24 A2995 RMK AO2 SLP138 T02670239 KEKN 221007Z AUTO 00000KT 6SM BR BKN003 18/17 A3003 RMK AO2 T01830172 TSNO EGYE 211250Z 16021KT 9999 SCT040 BKN250 ///// Q1006 BLU CYXN 212200Z 29011KT 15SM FEW090 FEW230 19/04 A2983 RMK AC1CI1 20.0/8.0/0.0MM/LAST OBS/NEXT 221400Z SLP102 DENSITY ALT 700FT CYYE 221000Z 09005KT 15SM FEW086 BKN230 15/14 A2975 RMK AC1CI4 SLP077 DENSITY ALT 1800FT KDTO 220953Z AUTO 17006KT 10SM CLR 25/22 A2992 RMK AO2 SLP121 T02500222 KEKO 220956Z AUTO 29003KT 10SM CLR 14/02 A3015 RMK AO2 SLP148 T01440022 CYYF 221000Z 34003KT 15SM BKN120 20/07 A3008 RMK AC7 SLP185 DENSITY ALT 1800FT KFAY 220953Z 22005KT 10SM SCT070 28/24 A2997 RMK AO2 SLP141 T02830244 KDUG 220956Z AUTO 12006KT 10SM SCT060 BKN075 21/19 A3009 RMK AO2 SLP129 T02060189 OTHH 221000Z 08008KT CAVOK 42/17 Q0997 NOSIG CYWY 212200Z 20004KT 15SM FEW050TCU 27/12 A2956 RMK TCU2 27.0/14.8/0/0 LAST OBS/NXT 241400Z SLP016 DENSITY ALT 2400FT CYXP 212200Z 00000KT 15SM FEW050 FEW080 FEW120 09/04 A2964 RMK CU1AC1AC1 CU TR 9.1/5.6/0.0 LAST STFD OBS/NEXT 221400Z SLP039 EGXP 220950Z AUTO 21009KT 9999 // FEW014/// 16/13 Q1006 KDUH 221015Z AUTO 00000KT 4SM RA SCT050 SCT085 BKN120 23/22 A2985 RMK AO2 T02250220 KEKQ 220956Z AUTO 03006KT 5SM BR CLR 22/21 A3000 RMK AO2 SLP163 T02170211 CYYG 221000Z 28010G15KT 15SM FEW010 FEW140 FEW210 16/15 A2965 RMK CF1AC1CI1 CF TR AC TR CI TR SLP041 DENSITY ALT 700FT KFCH 221015Z AUTO 32004KT 10SM OVC050 22/12 A2986 RMK A01 EHPG 221025Z AUTO 20015KT 130V260 9999 SCT034 BKN039 BKN044 18/15 Q1010 CYXQ 212200Z 28006KT 250V340 20SM SCT045TCU BKN064 OVC090 18/10 A2986 RMK TCU3SC3AC2 CLIMAT 18.9/13.7/0.4 MM/LAST STFD OBS/NXT 221600Z SLP126 DENSITY ALT 3100FT CYYH 221000Z 16007KT 15SM FEW050 FEW080 SCT210 08/05 A2968 RMK SC1AC1CI3 SC TR AC TR CONTRAILS SLP053 KFBR 221015Z AUTO 27008KT 10SM CLR 16/01 A3033 RMK AO2 T01580011 KFCI 220956Z AUTO 32004KT 10SM CLR 23/21 A2991 RMK AO2 SLP138 T02280211 CYXR 221000Z AUTO 34005KT 9SM FEW230 10/09 A2996 RMK SLP149 KDTS 220953Z AUTO VRB03KT 10SM SCT019 SCT026 29/24 A3000 RMK AO2 SLP156 T02940239 KDUJ 220953Z AUTO 00000KT M1/4SM FG VV002 20/19 A2997 RMK AO2 SLP132 T02000189 KEKS 221015Z AUTO 11004KT 10SM FEW044 FEW050 FEW060 10/M01 A3028 RMK A01 EGXS 220950Z AUTO 19007KT 9999 // FEW050/// BKN070/// 17/14 Q1006 CYYJ 221000Z 00000KT 20SM FEW020 BKN040 OVC055 16/12 A3013 RMK SC1SC5SC2 SLP205 CYXS 221000Z AUTO 00000KT 9SM FEW065 OVC078 13/11 A2999 RMK SLP164 DENSITY ALT 2400FT KELK 221015Z AUTO 19006KT 10SM CLR 25/18 A2995 RMK AO2 T02520180 EGXT 211350Z AUTO 17015G27KT 9999 OVC048/// 21/09 Q1006 CYXT 221000Z 14002KT 10SM -RA FEW016 OVC050 13/12 A2993 RMK SF1SC8 SF TR SLP138 EGXU 220950Z AUTO 18010KT 9999 // FEW006/// SCT029/// BKN050/// 16/15 Q1006 CYXU 221000Z 09005KT 10SM OVC110 20/18 A2990 RMK AC8 SLP121 DENSITY ALT 1800FT CYYL 221000Z AUTO VRB02KT 9SM CLR 08/07 A2994 RMK SLP149 KFCM 221025Z AUTO 00000KT 10SM BKN011 22/19 A2978 RMK AO2 T02170189 KELM 220953Z AUTO 29003KT 8SM CLR 18/18 A2993 RMK AO2 SLP128 T01830178 EGYM 220950Z AUTO 22011KT 9999 FEW130/// SCT200/// 17/12 Q1008 KELN 220953Z AUTO 28006KT 10SM CLR 17/09 A3013 RMK AO2 SLP191 T01720094 KDTW 220953Z 20003KT 10SM -RA SCT080 BKN100 OVC150 24/22 A2986 RMK AO2 RAB15 SLP106 P0000 T02440217 EGXV 220950Z AUTO 19008KT 9999 FEW020/// BKN070/// 17/15 Q1006 RERA CYYN 221000Z AUTO 27009KT 9SM CLR 11/10 A2999 RMK SLP153 DENSITY ALT 2700FT CYZE 221000Z AUTO 00000KT 9SM CLR 16/15 A2988 RMK SLP119 DENSITY ALT 800FT KEKX 221015Z AUTO 00000KT 7SM CLR 24/24 A2995 RMK AO2 T02370235 KELO 221013Z AUTO 00000KT 10SM CLR 11/10 A2984 RMK AO2 EGXW 220950Z 21010KT 9999 SCT016 17/13 Q1006 WHT BECMG SCT025 BLU EHQE 221025Z AUTO 19016KT 9999 NSC 20/14 Q1010 CYZF 221000Z 17004KT 12SM FEW050CB BKN120 BKN220 14/11 A2967 RMK CB1AC4CI2 FU SLP054 DENSITY ALT 1100FT CYXX 221000Z 27003KT 190V280 10SM BKN050 OVC100 17/15 A3014 RMK SC6AC2 SLP207 DENSITY ALT 300FT KELP 220951Z 15007KT 10SM BKN120 BKN200 23/18 A3007 RMK AO2 SLP105 T02280183 KEKY 220956Z AUTO 00000KT 6SM BR CLR 22/22 A3001 RMK AO2 SLP167 T02170217 CYZG 211900Z 03016KT 3/4SM BR OVC001 03/03 A2944 RMK FG4ST4 LAST STFD OBS/NEXT 241200 UTC SLP984 CYXY 221000Z 19009KT 15SM SCT060 SCT200 10/04 A2986 RMK SC3CI1 SLP127 DENSITY ALT 2400FT EGYP 220950Z 01018KT 9999 -RA OVC006 05/05 Q0995 YLO1 TEMPO 2000 RADZ SCT004 YLO2 CYXZ 220000Z 18004KT 150V240 15SM SCT100 16/12 A2991 RMK AC4 LAST OBS/NEXT 221100UTC SLP136 DENSITY ALT 1300FT EGXZ 220950Z AUTO 12009KT 9000 RA FEW006/// SCT014/// BKN060/// 16/15 Q1005 CYYQ 221000Z 24007KT 15SM SKC 10/07 A2993 RMK SLP139 CYZH 221000Z AUTO 23003KT 9SM SCT130 15/11 A2994 RMK SLP144 DENSITY ALT 2300FT CYYR 221000Z CCA 28006KT 15SM VCSH FEW038 BKN072 BKN130 09/06 A2947 RMK CF1AC5AC2 LTNG DTCTRS REP STRIKES 98 NM SE SLP980 KFCS 220958Z AUTO 35004KT 10SM OVC180 19/12 A3016 RMK AO2 SLP142 T01870119 $ CZPS 220900Z AUTO 26007KT 11/08 RMK AO1 T01070077 KFDK 221005Z AUTO 00000KT 2SM BR CLR 22/22 A2993 RMK AO2 KEMK 221015Z AUTO 22013KT 10SM SCT024 29/25 A2997 RMK A01 KDVK 221015Z AUTO 20005KT 10SM CLR 23/22 A2998 RMK AO2 CYYT 221000Z 27014KT 15SM BKN014 17/16 A2957 RMK SC6 SLP016 DENSITY ALT 1200FT KDVL 220956Z AUTO 27007KT 10SM CLR 18/16 A2983 RMK AO2 SLP108 T01780161 CYYU 221000Z 22002KT 15SM FEW040 FEW260 05/03 A2998 RMK CU1CI1 CU TR SLP157 KEMM 221015Z AUTO 35005KT 10SM 11/00 A3033 RMK AO2 KEND 220958Z AUTO 18009KT 10SM CLR 27/21 A2990 RMK AO2 SLP108 T02670208 $ KDVN 221007Z AUTO 18009KT 5SM TSRA BR FEW007 BKN034 OVC080 21/20 A2995 RMK AO2 LTG DSNT ALQDS PRESRR P0006 T02060200 $ EHRD 221025Z AUTO 19013KT 150V240 9999 FEW045 24/12 Q1010 NOSIG CYYW 221000Z AUTO VRB02KT 9SM BKN120 09/06 A2993 RMK SLP131 KDUX 221015Z AUTO 20008KT 10SM SCT120 22/14 A3002 RMK AO2 T02150143 KDVO 221015Z AUTO 00000KT 10SM CLR 13/11 A2991 RMK AO2 KEMP 220953Z AUTO 19009KT 10SM CLR 27/21 A2985 RMK AO2 SLP094 T02720211 KELY 220953Z AUTO 11003KT 10SM CLR 14/03 A3020 RMK AO2 SLP114 T01440028 KDVP 221029Z AUTO 16005KT 7SM CLR 20/16 A2979 RMK AO2 T02000163 CYYY 221000Z 28010G15KT 30SM FEW200 11/07 A2978 RMK CI1 CI TR SLP088 CYZP 221000Z AUTO 25015KT 9SM FEW026 SCT034 BKN043 14/12 A2980 RMK SLP093 KDWH 220953Z AUTO 22003KT 10SM CLR 25/24 A2996 RMK AO2 SLP141 T02500239 KELZ 220956Z AUTO 00000KT 10SM CLR 18/16 A2999 RMK AO2 SLP142 T01830161 CYYZ 221000Z VRB02KT 15SM FEW140 OVC170 21/15 A2989 RMK AC1AC7 SLP121 DENSITY ALT 1500FT KFDR 220953Z AUTO 11006KT 10SM SCT120 26/19 A2989 RMK AO2 SLP098 T02610189 CYZR 221000Z AUTO 15003KT 130V210 9SM OVC120 23/20 A2986 RMK SLP111 DENSITY ALT 1600FT KFFA 221005Z AUTO 00000KT 10SM CLR 26/23 A2993 RMK AO2 T02620230 KEMT 220248Z 20008KT 10SM CLR 25/16 A2988 EHSA 220955Z AUTO 18015G18KT 9999 ///////// 18/14 Q1010 W19/H9 CYZS 221000Z 04008KT 15SM BKN170 BKN210 04/03 A2980 RMK AC5CI1 CI TR SLP097 KDVT 220953Z 09005KT 10SM CLR 28/21 A2987 RMK AO2 SLP087 T02830211 CYZT 221000Z 13011G16KT 15SM BKN028 OVC042 13/12 A3002 RMK SC6SC2 SLP166 KFFC 220953Z AUTO 00000KT 6SM BR CLR 22/22 A3001 RMK AO2 SLP154 T02220217 KENL 221015Z AUTO 20006KT 10SM CLR 27/25 A2988 RMK AO2 T02650245 CYZU 220400Z 30008KT 15SM SCT050CB BKN100 OVC200 17/11 A2996 RMK CB3AC3CI2 LAST OBS/NEXT 221200Z SLP153 DENSITY ALT 3400FT EHSC 220955Z AUTO 21016G18KT 9999 ///////// 19/14 Q1010 W20/H8 KEMV 221015Z AUTO 00000KT 7SM CLR 23/22 A2993 RMK AO2 KEOD 220958Z AUTO 23005KT 9SM CLR 25/24 A2995 RMK AO2 SLP137 T02490238 CYZV 221000Z 26005KT 30SM FEW140 SCT260 10/05 A2966 RMK AC1CI3 AC TR SLP047 KFDW 221035Z AUTO 17004KT 10SM SCT065 SCT075 23/21 A3000 RMK AO1 KEOE 221015Z AUTO 18004KT 10SM CLR 22/21 A3002 RMK AO2 CYZW 220100Z 18004KT 100V200 20SM OVC055 17/06 A2986 RMK CU8 CLIMAT 18.2/6.7/0.0/LAST STFD OBS/NXT 221300 UTC SLP128 DENSITY ALT 3200FT CYZX 221000Z 25005KT 15SM FEW250 17/16 A2973 RMK CI1 WNDY HILL UNAVBL SLP069 KFDY 220953Z AUTO 15011KT 5SM -RA BR FEW065 BKN080 OVC100 23/21 A2987 RMK AO2 SLP104 P0012 T02280211 TSNO KFEP 221015Z AUTO 22016G21KT 10SM TSRA SCT007 SCT037 BKN110 20/20 A2984 RMK AO2 LTG DSNT S THRU W P0001 T01950195 CYZY 221000Z AUTO /////KT 9SM OVC065 14/10 A2996 RMK WND MISG SLP150 DENSITY ALT 2500FT KDYA 221015Z AUTO 00000KT 7SM A2999 RMK AO2 CZSJ 221000Z AUTO 07002KT 9SM CLR 10/07 A2992 RMK SLP138 KDYB 221015Z AUTO 00000KT 1/4SM FG OVC001 23/23 A3002 RMK AO1 KEOK 221015Z AUTO 05010KT 10SM BKN110 28/22 A2983 RMK AO2 KFET 221015Z AUTO 02007KT 1 3/4SM BR OVC002 26/25 A2981 RMK AO2 T02550251 KDWU 220935Z AUTO RMK AO1 LTG DSNT N CZTB 221000Z AUTO 08006KT 16/13 RMK AO1 SLP113 T01590128 53002 KFFL 221015Z AUTO 07017G24KT 6SM BR FEW004 BKN045 OVC070 22/21 A2986 RMK AO2 PWINO KFFM 221014Z AUTO 04011G23KT 1 1/2SM +RA SCT004 BKN008 OVC012 17/17 A2988 RMK AO2 VIS 1V2 1/2 P0002 LTG DSNT ALQDS KENV 220956Z AUTO 14003KT 10SM CLR 26/01 A3008 RMK AO2 SLP131 T02560006 CZSM 221000Z AUTO 11003KT 13/10 RMK AO1 SLP068 T01320098 56005 KENW 220953Z AUTO 27008KT 10SM FEW033 22/21 A2978 RMK AO2 RAE07 SLP081 P0001 T02170206 KFEW 220958Z AUTO 26008KT 10SM BKN240 M M RMK AO2 SLPNO PWINO PNO $ KFFO 221023Z 32007KT 4SM R23R/3500FT -TSRA BR SCT002 BKN030 OVC036 22/22 A2992 RMK AO2A LTG DSNT SW AND NE SCT V BKN SLP128 VHHH 221000Z 18009KT 140V220 9999 FEW028 32/23 Q1007 NOSIG PLCH 221000Z 11012KT 9999 FEW020 27/23 Q1009 CZSP 221000Z AUTO 25006KT 17/15 RMK AO1 SLP038 T01650154 53006 KEPH 220953Z AUTO 00000KT 10SM CLR 19/04 A3007 RMK AO2 SLP176 T01940039 ZUUU 221000Z 01003MPS 330V050 9999 FEW033 FEW033CB 30/25 Q1006 NOSIG KDXR 220953Z AUTO 00000KT 8SM CLR 19/18 A2991 RMK AO2 SLP124 T01940183 KH78 221018Z 23004KT 12SM SCT020 28/24 A3000 RMK SEAS 1-2 KEQA 221015Z AUTO 19007KT 10SM CLR 26/21 A2988 RMK AO2 KFFT 220953Z AUTO 24004KT 7SM CLR 26/22 A2993 RMK AO2 SLP124 T02560222 KDZB 221015Z AUTO 00000KT 10SM CLR 25/21 A2998 RMK AO2 T02460207 KFHB 221015Z AUTO 00000KT 10SM CLR 25/22 A3002 RMK AO1 CZST 220100Z 24002KT 15SM -RA OVC065 16/12 A2996 RMK SC8 LAST STFD OBS/NEXT221300Z SLP147 DENSITY ALT 100FT KDYL 220954Z AUTO 00000KT 10SM CLR 23/21 A2989 RMK AO2 SLP116 T02280211 FABL 221000Z 32006KT CAVOK 19/M12 Q1021 NOSIG FABM 220639Z 35002KT CAVOK 06/M06 Q1025 KFGN 221014Z AUTO 00000KT 7SM CLR 19/16 A2974 RMK AO2 EIKN 221000Z 01004KT 280V070 9999 BKN031 15/11 Q1007 NOSIG KDXX 221014Z AUTO 32003KT 10SM CLR 22/22 A2981 RMK AO2 KFFX 221012Z AUTO 08006KT 10SM OVC026 21/18 A2980 RMK AO2 T02060182 KFFZ 220247Z 06011KT 20SM SCT100 BKN150 32/19 A2984 PKMJ 212351Z 09010KT 15SM FEW015 SCT050 BKN300 30/25 A2985 KDYS 220958Z AUTO 00000KT 10SM CLR 25/16 A2995 RMK AO2 SLP088 T02490163 KDYT 221014Z AUTO 07007KT 10SM SCT018 16/14 A2983 RMK AO2 VIAG 220830Z 08007KT 6000 SCT025 BKN090 32/32 Q997 NOSIG CZUM 221000Z AUTO 29006KT 9SM CLR 06/05 A2951 RMK SLP006 EIME 221000Z 08007KT 9999 FEW020 SCT023 16/10 Q1005 KFGX 221015Z AUTO 21006KT 7SM CLR 24/23 A2994 RMK AO2 T02380228 KFIG 220954Z AUTO 33003KT 7SM OVC002 18/18 A2997 RMK AO2 SLP138 T01830183 EIKY 221000Z 36006KT 310V020 9999 BKN022 BKN040 15/11 Q1006 PKMR 220952Z 08007KT 10SM -SHRA SCT014TCU BKN045 OVC110 26/25 A2984 RMK SHRAB43 TCU ALQDS SLP105 T02620245 KFHR 220953Z AUTO 00000KT 10SM OVC055 13/12 A3014 RMK AO2 SLP208 T01330122 KERI 220951Z 17008KT 10SM CLR 21/17 A2990 RMK AO2 SLP121 T02060172 EHVK 221025Z AUTO 22009KT 120V260 9999 FEW340 24/13 Q1011 BLU KESC 220956Z AUTO 22005KT 10SM FEW095 21/18 A2983 RMK AO2 SLP115 T02060178 KFHU 220958Z AUTO 00000KT 10SM FEW100 20/18 A3013 RMK AO2 LTG DSNT S SLP130 T02000184 FACT 221000Z 17013KT 9999 FEW016 17/12 Q1020 NOSIG CZVL 221000Z AUTO 28004KT 9SM FEW100 13/11 A2998 RMK SLP157 DENSITY ALT 2400FT EHVL 221025Z AUTO 13013KT 9999 NCD 23/16 Q1010 BLU KGAD 220944Z AUTO 00000KT 2 1/2SM BR CLR 23/23 A2999 RMK AO2 VIS 1V5 FACV 220919Z 05002KT CAVOK 16/M02 Q1019 KFIN 220950Z 00000KT 10SM CLR 23/23 A3004 KESF 220953Z AUTO 00000KT 6SM BR CLR 23/23 A2997 RMK AO2 SLP146 T02280228 TSNO KGAF 221035Z AUTO 21008KT 10SM CLR 16/16 A2977 RMK AO2 VIAR 221000Z 06006KT 5000 BR SCT030 BKN090 32/32 Q1000 NOSIG KEQY 220953Z AUTO 22005KT 10SM CLR 23/21 A2998 RMK AO2 SLP147 T02280206 KGAG 220953Z AUTO 19009KT 10SM CLR 26/17 A2993 RMK AO2 SLP098 T02610167 KI16 221015Z AUTO 7SM CLR 20/20 A3007 RMK AO2 T02010195 KGAI 220956Z AUTO 30003KT 10SM CLR 23/22 A2992 RMK AO2 SLP148 T02280217 KFKA 221012Z AUTO 19004KT 1/2SM FG OVC001 20/20 A2981 RMK AO2 LTG DSNT SE T02010195 KFIT 220952Z AUTO 34004KT 10SM CLR 22/15 A2986 RMK AO2 SLP110 T02170150 KI19 221008Z AUTO 32005KT 7SM VCTS SCT022 BKN037 BKN075 24/23 A2994 RMK AO2 LTG DSNT ALQS T02350225 KETB 221015Z AUTO 00000KT 10SM OVC007 17/17 A2980 RMK AO2 FAEL 221000Z 17008KT 130V220 CAVOK 19/06 Q1019 KERV 221015Z AUTO 13005KT 10SM CLR 23/22 A3001 RMK AO2 T02330216 VICG 220930Z 16003KT 6000 FEW020 BKN090 34/25 Q1001 NOSIG KI23 221013Z AUTO 19004KT 7SM CLR 22/22 A2991 RMK AO1 KESN 220952Z 00000KT 10SM SCT070 26/24 A2989 EINN 221000Z 02008KT 360V060 9999 SCT021 BKN040 15/10 Q1005 NOSIG KGAO 221015Z AUTO 11004KT 10SM -TSRA BKN023 BKN041 OVC095 24/22 A2999 RMK AO2 LTG DSNT ALQS P0001 T02440217 FAEO 220852Z 27009KT CAVOK 16/M04 Q1025 VIBR 220600Z 18004KT 6000 FEW010 SCT030 BKN080 25/22 Q1008 EHWO 221025Z AUTO 20007KT 150V240 9999 OVC039 22/13 Q1011 BLU KERY 221014Z AUTO 00000KT 10SM SCT060 SCT080 SCT110 16/11 A2986 RMK AO2 T01600112 KGBG 221015Z AUTO 36015G18KT 10SM TS SCT010 BKN041 OVC047 21/20 A2995 RMK AO2 LTG DSNT ALQS T02070196 FADY 220923Z 28001KT CAVOK 16/M13 Q1021 KETH 221016Z AUTO 33016G22KT 10SM SCT016 SCT047 BKN080 21/19 A2988 RMK AO2 LTG DSNT N AND NW VIDD 221000Z 12011KT 4000 HZ SCT030 FEW035CB BKN100 34/26 Q0998 NOSIG KEST 220952Z AUTO 00000KT 6SM BR OVC005 21/21 A2980 RMK AO2 CIG 003V008 SLP084 T02110211 KGCC 220953Z AUTO 00000KT 10SM CLR 13/04 A3008 RMK AO2 SLP137 T01330039 KFKL 221015Z AUTO 00000KT M1/4SM OVC001 18/16 A2996 RMK AO1 KFLD 220953Z AUTO 00000KT 10SM OVC016 19/16 A2979 RMK AO2 SLP085 T01940156 KGCD 221015Z AUTO 00000KT 10SM CLR 15/04 A3021 RMK AO2 T01480037 KETN 221015Z AUTO 00000KT 10SM CLR 23/19 A2996 RMK AO2 T02320188 KFKN 221014Z AUTO 20006KT 10SM CLR 24/22 A2992 RMK AO2 KEUF 220958Z AUTO 00000KT CLR 22/21 A3000 RMK AO2 SLP155 T02220211 KEUG 220954Z AUTO 00000KT 10SM CLR 14/11 A3015 RMK AO2 SLP208 T01390111 KI35 221015Z AUTO 00000KT 1SM OVC002 21/21 A3004 RMK AO1 KFLG 220957Z AUTO 06007KT 10SM SCT070 BKN100 14/13 A3030 RMK AO2 SLP171 T01440133 FAGG 221000Z 27004KT 180V340 9999 FEW040 17/07 Q1020 KFKR 221015Z AUTO 00000KT 10SM VCTS SCT090 BKN120 24/23 A2988 RMK AO2 LTG DSNT E SE AND NW T02360227 KFKS 221015Z AUTO 00000KT 10SM SCT050 OVC060 21/19 A2983 RMK AO2 T02110187 KEVB 220047Z 00000KT 10SM SCT080 25/23 A3006 KGCK 220954Z AUTO 23005KT 10SM CLR 18/14 A2996 RMK AO2 SLP104 T01830144 KGDB 221011Z AUTO 03003KT 10SM CLR 21/20 A2977 RMK AO2 T02060196 VIDN 221000Z 09004KT 6000 SCT030 FEW040CB BKN070 29/25 Q1002 KFLL 220953Z 00000KT 10SM FEW030 SCT190 25/23 A3004 RMK SLP171 T02560233 KEUL 220956Z AUTO 26011KT 10SM CLR 19/05 A3006 RMK AO2 SLP156 T01940050 KGCM 221015Z AUTO 16004KT 10SM SCT110 23/21 A2993 RMK AO2 FAGM 220800Z 31005KT CAVOK 16/M08 Q1027 VIDP 221000Z 09008G18KT 3500 HZ SCT030 FEW040CB BKN100 32/26 Q0998 TEMPO 09010G20KT 1500 TSRA KFME 221009Z AUTO 00000KT 1 1/4SM SCT055 22/22 A2990 RMK AO1 KGCN 220954Z AUTO 00000KT 10SM FEW120 16/14 A3027 RMK AO2 SLP138 T01610139 TSNO KFLO 220953Z AUTO 21006KT 10SM CLR 24/24 A2999 RMK AO2 SLP154 T02440244 KFLP 221015Z 01004KT 10SM CLR 26/19 A2992 RMK AO1 KFMH 221015Z AUTO 32004KT 10SM CLR 21/16 A2985 RMK AO2 FZRANO KGDJ 221015Z AUTO 00000KT 10SM CLR 26/21 A2995 RMK AO2 T02610210 KFNB 211653Z AUTO 19010KT 10SM CLR 34/23 A2985 RMK AO2 SLP094 T03390233 CZZJ 221000Z AUTO 28002KT 10/07 RMK AO1 SLP175 T01020074 56002 KEWB 220953Z AUTO 00000KT 10SM CLR 18/16 A2983 RMK AO2 SLP101 T01780161 KEVM 221014Z AUTO 00000KT 10SM BKN009 OVC013 15/13 A2986 RMK AO2 T01500131 KGED 220954Z AUTO 00000KT 8SM SCT019 24/23 A2987 RMK AO2 SLP114 T02440228 KFMM 221015Z AUTO 29009KT 10SM CLR 17/15 A3008 RMK AO2 T01690152 KFMN 220953Z AUTO 23004KT 10SM CLR 19/15 A3015 RMK AO2 SLP139 T01890150 KFLY 221015Z AUTO 26004KT 10SM 18/10 A3023 RMK AO2 T01780095 KGEG 220953Z 16004KT 10SM SCT120 SCT200 16/04 A3013 RMK AO2 SLP189 T01610039 KGDP 220951Z AUTO 24010KT 10SM SCT120 18/16 A3017 RMK AO2 SLP140 T01830156 KGFA 220958Z AUTO 16004KT 10SM CLR 11/01 A3013 RMK AO2 SLP186 T01050011 $ KFOA 221015Z AUTO 19004KT 5SM BR CLR 25/24 A2988 RMK AO2 T02500240 FAHS 221000Z AUTO 36006KT //// // ////// 25/04 Q1019 KEWK 220956Z AUTO 21012KT 10SM CLR 27/20 A2988 RMK AO2 SLP094 T02720200 FAJB 221000Z AUTO 28003KT //// // ////// 21/M08 Q1024 KFNL 220956Z AUTO 12004KT 10SM CLR 17/14 A3013 RMK AO2 SLP139 T01720144 KEVU 221015Z AUTO 23009KT 10SM CLR 27/18 A2977 RMK AO2 KEVV 220954Z AUTO 21006KT 10SM CLR 27/23 A2990 RMK AO2 SLP120 T02670233 KFOD 221015Z AUTO 09007KT 2 1/2SM OVC003 22/21 A2980 RMK AO1 KGDV 220956Z AUTO 00000KT 10SM CLR 16/04 A3002 RMK AO2 SLP145 T01610039 $ DRRM 221000Z 28008KT CAVOK 26/21 Q1016 KEWN 220954Z 21005KT 10SM CLR 24/24 A2999 RMK AO2 SLP153 T02440239 VIGG 221000Z 28002KT 6000 FEW010 SCT030 FEW035CB 30/23 Q1005 KEVW 220953Z AUTO 32005KT 10SM CLR 13/05 A3031 RMK AO2 SLP160 T01330050 KFOE 220953Z AUTO 20010KT 10SM CLR 28/23 A2982 RMK AO2 SLP083 T02830228 KI63 221015Z AUTO 23009G17KT 10SM CLR 28/21 A2981 RMK AO2 LTG DSNT NW THRU NE T02790205 DRRN 221000Z 24004KT 160V280 9999 SCT016 24/23 Q1015 NOSIG KFMY 220953Z AUTO 15004KT 10SM CLR 25/24 A3004 RMK AO2 LTG DSNT S SLP173 T02500239 EISG 221000Z 36004KT 320V030 9999 BKN043 OVC055 15/12 Q1007 EKAH 221020Z AUTO 11010KT 070V140 9999NDV SCT015/// BKN034/// 19/15 Q1018 KEWR 220951Z 36007KT 10SM SCT090 OVC250 26/19 A2987 RMK AO2 SLP113 T02560194 KI67 221015Z AUTO 00000KT 7SM SCT110 23/21 A2990 RMK AO1 FAIR 220736Z 29005KT CAVOK 17/M01 Q1026 KI68 221015Z AUTO 23004KT 10SM SCT037 SCT049 BKN110 23/23 A2990 RMK AO2 KGFK 220953Z 00000KT 1/4SM R35L/1000V1600FT FG VV002 20/20 A2977 RMK AO2 SLP078 T02000200 KFOK 220953Z AUTO A2988 RMK AO2 SLPNO PWINO $ KFNT 220953Z 14004KT 10SM OVC080 23/20 A2984 RMK AO2 SLP099 T02330200 KI69 221015Z AUTO 23007KT 10SM CLR 25/23 A2991 RMK AO2 T02500229 KGEU 220247Z 36005KT 10SM BKN090 BKN150 BKN200 37/17 A2981 RMK LAST DRRT 221000Z 34008KT 9999 FEW030 28/22 Q1014 KGFL 221012Z AUTO 00000KT 9SM CLR 16/14 A2988 RMK AO2 T01610144 KGEV 221010Z AUTO 00000KT 10SM CLR 20/18 A3012 RMK AO2 T01960177 KEYE 220953Z AUTO 07003KT 10SM FEW033 BKN050 24/20 A2989 RMK AO2 LTG DSNT NE AND NW SLP113 T02390200 KGGE 221015Z AUTO 00000KT 10SM CLR 23/22 A3002 RMK AO2 VIGR 220930Z 09009KT 6000 FEW010 SCT020 FEW030CB BKN090 29/21 Q997 NOSIG KGGG 220953Z AUTO 19005KT 10SM CLR 26/24 A2994 RMK AO2 SLP130 T02560244 KGEY 220953Z AUTO 27008KT 10SM CLR 19/00 A3006 RMK AO2 SLP135 T01890000 $ KI75 221015Z AUTO 00000KT 10SM CLR 26/23 A2979 RMK AO2 T02560225 KGEZ 220953Z AUTO 34004KT 10SM BKN035 24/19 A2991 RMK AO2 LTG DSNT E SLP122 T02440194 KGGI 221015Z AUTO 06009G14KT 10SM BKN034 BKN045 23/20 A2986 RMK AO2 T02300200 EKBI 221020Z AUTO 08011KT 9999NDV FEW017/// 19/14 Q1016 FALA 221000Z 02009KT 310V060 CAVOK 20/M00 Q1024 NOSIG KFPK 221014Z AUTO 17005KT 10SM BKN041 BKN060 22/20 A2982 RMK AO2 T02160196 KFOT 221015Z AUTO 00000KT 10SM OVC009 14/12 A3005 RMK AO1 KGHB 221015Z AUTO 21011KT 10SM FEW032 FEW060 FEW075 29/25 A3000 RMK A01 KFQD 221005Z AUTO 00000KT 4SM BR CLR 22/22 A3001 RMK AO2 T02170217 FAKM 221000Z 33005KT CAVOK 21/M09 Q1020 FALE 221000Z 19011KT 9999 BKN024 22/14 Q1017 NOSIG FAKN 221000Z 35002KT CAVOK 25/M06 Q1020 NOSIG KEXX 221005Z AUTO 00000KT 5SM BR CLR 22/22 A2997 RMK AO2 T02220222 KEZF 221015Z AUTO 23003KT 10SM SCT049 BKN060 24/23 A2988 RMK AO2 T02400225 KGGP 221015Z AUTO 16007KT 10SM SCT034 SCT050 OVC065 22/21 A2984 RMK AO2 KGHG 221015Z AUTO 00000KT 10SM CLR 20/16 A2983 RMK AO2 KFOZ 221012Z AUTO 00000KT 7SM OVC007 17/16 A2983 RMK AO2 LTG DSNT W WAAA 221000Z 02006KT 9000 SCT019 28/23 Q1010 NOSIG KFPR 220953Z AUTO 00000KT 10SM CLR 23/22 A3005 RMK AO2 SLP175 T02330222 EKCH 221020Z 12011KT 9999 FEW036 SCT058 20/12 Q1018 NOSIG PKWA 221020Z AUTO 09011KT 10SM SCT020 SCT030 SCT035 29/24 A2985 RMK AO2 T02880244 KGIC 221015Z AUTO 00000KT 10SM CLR 11/04 A3018 RMK AO1 KEZM 221015Z AUTO 00000KT 10SM CLR 23/23 A3005 RMK AO2 T02300230 KEYW 220953Z AUTO 13008KT 10SM FEW021 29/25 A3004 RMK AO2 SLP170 T02890250 KGGW 220953Z AUTO 32006KT 10SM CLR 16/04 A3001 RMK AO2 SLP151 T01560044 KGIF 220953Z AUTO 19006KT 10SM CLR 24/23 A3006 RMK AO2 SLP176 T02440228 KFRG 220953Z AUTO 01003KT 10SM CLR 25/21 A2987 RMK AO2 SLP113 T02500206 WABB 220900Z 32004KT 9000 -RA FEW018 27/26 Q1009 KFRI 220958Z AUTO 21021KT 10SM CLR 40/18 A2980 RMK AO2 SLP073 KEZS 221015Z AUTO 10003KT 10SM OVC020 20/15 A2979 RMK AO2 T01950149 EKEB 221020Z AUTO 10008KT 060V130 9999NDV FEW019/// 20/15 Q1015 VIJO 220630Z 28003KT 6000 FEW020 SCT030 BKN090 Q999 NOSIG KFRM 220956Z AUTO 04003KT 10SM OVC004 21/21 A2981 RMK AO2 SLP090 T02110206 KFSD 220956Z 14004KT 10SM SCT250 22/20 A2979 RMK AO2 SLP076 T02220200 FAMM 221000Z 33007KT CAVOK 23/M02 Q1023 NOSIG VIJP 221000Z 09008KT 2500 DZ FEW030CB SCT030 BKN090 28/27 Q0998 TEMPO 1500 TSRA KGHW 221013Z AUTO 00000KT 10SM CLR 20/19 A2983 RMK AO2 LTG DSNT N KFSE 221013Z AUTO 31004KT 10SM CLR 17/16 A2980 RMK AO2 LTG DSNT S KHAE 221015Z AUTO 22009G18KT 10SM CLR 28/18 A2982 RMK AO2 LTG DSNT N AND NE FALW 221000Z AUTO 20008KT //// // ////// 16/10 Q1020 PMDY 220956Z AUTO 10007KT 9SM BKN120 26/24 A3011 RMK AO2 SLP197 T02610244 KHAF 221015Z AUTO 17004KT 7SM OVC010 13/11 A2992 RMK AO2 EIWF 221000Z 11014KT 070V140 9999 FEW018 SCT024 16/13 Q1004 R03/1///// KFSI 220255Z VRB04KT 10SM CLR 32/21 A2990 RMK AO2A SLPNO WND DATA/ALSTG ESTMD $ LAST URKK 221000Z 05006MPS 9999 FEW///CB 29/18 Q1012 R05R/CLRD70 TEMPO 2000 TSRA BKN006 BKN020CB RMK QFE756 KFRR 221015Z AUTO 19004KT 10SM OVC045 22/21 A2993 RMK AO1 KHAI 221015Z AUTO 17007KT 7SM BKN004 BKN008 OVC100 21/21 A2981 RMK AO2 T02130211 VIJU 220930Z 12006KT 6000 SCT025 FEW030TCU BKN090 31/26 Q1001 NOSIG VILD 221000Z 07007KT 5000 HZ SCT030 33/26 Q 1000 FAOB 221000Z AUTO 31001KT //// // ////// 18/10 Q1021 VIKO 220100Z 00000KT 6000 BKN030 BKN100 26/25 Q997 NOSIG KFSM 220953Z AUTO 10003KT 10SM CLR 26/24 A2991 RMK AO2 SLP123 T02560239 $ KHBE 221015Z AUTO 02003KT 10SM BKN023 BKN029 BKN050 25/20 A2992 RMK AO2 VILH 220730Z 25008KT 6000 SCT070 29/00 Q1015 TEMPO 27015G25KT KHAO 220953Z AUTO 00000KT 8SM SCT043 24/23 A2990 RMK AO2 LTG DSNT W-NE TSB08E23 SLP118 T02390233 KFSO 221015Z AUTO 00000KT 10SM CLR 16/16 A2987 RMK AO2 T01630163 KHBG 220953Z AUTO 00000KT 10SM CLR 22/22 A3001 RMK AO2 SLP159 T02220217 KFTG 221014Z AUTO 24007KT 10SM CLR 17/15 A3013 RMK AO2 VILK 221000Z 11008KT 5000 HZ SCT018 SCT025 BKN100 33/28 Q0998 NOSIG KHBI 221010Z AUTO 17003KT 10SM CLR 23/22 A3000 RMK AO2 T02340220 KGKJ 220953Z AUTO 00000KT 10SM CLR 19/18 A2995 RMK AO2 SLP130 T01890178 TSNO WADD 221000Z 09014KT 9999 FEW017 27/23 Q1012 NOSIG KGJT 220953Z AUTO 36006KT 10SM CLR 18/17 A3017 RMK AO2 SLP139 T01780172 KFST 220953Z AUTO 21006KT 10SM CLR 26/18 A3001 RMK AO2 SLP111 T02560178 KFTK 220958Z AUTO 21003KT 10SM CLR 25/23 A2993 RMK AO2 SLP129 T02450234 KGLD 220953Z AUTO 29009KT 10SM CLR 21/14 A2998 RMK AO2 SLP095 T02110139 KHCD 221014Z AUTO 16004KT 10SM CLR 21/20 A2978 RMK AO2 T02070200 KFSW 221015Z AUTO 05012G22KT 10SM SCT044 SCT050 BKN110 24/23 A2987 RMK AO2 P0001 KGLE 221015Z AUTO 14004KT 10SM CLR 24/21 A2995 RMK AO2 T02360210 KFTN 221015Z AUTO 14006KT 10SM CLR 27/20 A2992 RMK A01 FAPE 221000Z 25013KT CAVOK 19/08 Q1019 NOSIG KGLH 220953Z AUTO 17004KT 10SM CLR 23/22 A2995 RMK AO2 SLP146 T02330222 KHBR 220953Z AUTO 19011KT 10SM CLR 27/18 A2993 RMK AO2 SLP109 T02720183 WADL 221030Z 15008KT 9000 FEW016 25/22 Q1013 NOSIG FAOR 221000Z 31006KT 270V340 CAVOK 18/M05 Q1024 NOSIG DRZA 221000Z 24014KT CAVOK 32/21 Q1015 URMM 221000Z 11006MPS 9999 NSC 32/14 Q1012 R12/090070 NOSIG RMK QFE731/0975 KGKT 221015Z AUTO 00000KT 10SM CLR 21/19 A3001 RMK FBFT 221000Z VRB03KT CAVOK 24/00 Q1022 KFUL 220953Z AUTO 00000KT 8SM OVC011 21/19 A2990 RMK AO2 SLP122 T02110189 $ KHDC 221015Z AUTO 00000KT 10SM CLR 23/21 A2999 RMK AO2 LTG DSNT E AND S KHBV 221015Z AUTO 15005KT 10SM CLR 24/22 A2994 RMK AO2 T02350224 ZWSH 221000Z 11004MPS 080V160 9999 FEW040 30/10 Q1014 NOSIG KFVE 220953Z AUTO 31007KT 10SM CLR 11/09 A2978 RMK AO2 SLP080 T01110094 $ KFTW 220953Z 18005KT 10SM CLR 27/23 A2992 RMK AO2 SLP119 T02720228 KHDE 221015Z AUTO 01006KT 10SM CLR 24/15 A2988 RMK AO2 T02410145 FAPN 221000Z AUTO 15002KT //// // ////// 22/02 Q1023 KHCO 221014Z AUTO 21003KT 7SM CLR 17/17 A2975 RMK AO2 KGKY 220953Z AUTO 17006KT 10SM CLR 26/23 A2993 RMK AO2 SLP123 T02610228 KFTY 220953Z 18003KT 10SM CLR 24/23 A3000 RMK AO2 SLP146 T02390228 FAPP 221000Z 23003KT 8000 NSC 21/M00 Q1022 NOSIG KGLR 220953Z AUTO 00000KT 10SM FEW042 FEW050 OVC090 21/17 A2989 RMK AO2 SLP113 T02060167 FAPR 220657Z 28004KT CAVOK 14/M01 Q1024 KGLS 220952Z AUTO 22005KT 10SM FEW026 28/25 A2995 RMK AO2 SLP143 T02830250 KFWA 220954Z 20004KT 10SM -RA FEW006 BKN100 OVC150 22/20 A2986 RMK AO2 TSE33 SLP105 OCNL LTGIC DSNT SE P0004 T02170200 KGMJ 221015Z AUTO 17003KT 10SM CLR 25/22 A2993 RMK AO2 KGNA 220956Z AUTO 04007KT 19/12 A2980 RMK AO1 SLP084 T01940117 KGNB 221020Z AUTO 11003KT 10SM OVC011 11/11 A3041 RMK AO2 T01110105 KFWB 221015Z AUTO 23005KT 10SM CLR 23/22 A2996 RMK AO2 KFWC 221015Z AUTO 00000KT 5SM BR CLR 25/24 A2988 RMK AO1 T02460242 KGNC 221015Z AUTO 00000KT 10SM CLR 23/21 A3004 RMK AO2 T02250207 KHDN 221015Z AUTO 09006KT 10SM CLR 13/08 A3029 RMK AO1 KGLW 221010Z AUTO 00000KT 7SM CLR 24/24 A2996 RMK AO2 T02370237 KHDO 220951Z AUTO 10005KT 10SM CLR 26/22 A2996 RMK AO2 SLP127 T02560222 KHEF 220856Z AUTO 00000KT 10SM CLR 22/22 A2989 RMK AO2 SLP128 6//// T02220217 56007 PNO $ KGLY 221015Z AUTO 21008KT 10SM CLR 27/22 A2988 RMK AO2 ZYCC 221000Z 02001MPS 9999 FEW023 27/18 Q1008 NOSIG KHEI 220953Z AUTO 30003KT 10SM CLR 12/08 A3000 RMK AO2 SLP141 T01170083 DRZR 221000Z 28010KT 9999 FEW020 27/22 Q1015 FASB 220647Z 27001KT CAVOK 14/M04 Q1019 KGMU 220953Z AUTO 26003KT 10SM CLR 25/22 A3000 RMK AO2 SLP147 T02500217 KHFD 220953Z 00000KT 10SM CLR 21/15 A2986 RMK AO2 SLP112 T02060150 KFXE 220953Z 00000KT 10SM 23/22 A3005 RMK AO2 SLP177 T02330222 $ KFWN 221011Z AUTO 00000KT 5SM BR CLR 18/18 A2990 RMK AO2 T01830183 KHFF 220956Z AUTO 21003KT 10SM CLR 24/23 A2997 RMK AO2 SLP160 T02390228 $ KFVX 221015Z AUTO 00000KT 4SM BR CLR 22/21 A2991 RMK AO2 T02200207 KHEQ 221015Z AUTO 28007KT 10SM CLR 23/16 A2997 RMK AO2 KGNR 220956Z AUTO 00000KT 15/13 A2982 RMK AO1 SLP092 T01500133 FASI 221000Z AUTO 28005KT //// // ////// 17/M05 Q1027 KFWS 221015Z AUTO 17004KT 10SM CLR 25/21 A2995 RMK AO2 T02540214 KHFJ 221010Z AUTO 20005KT 10SM CLR 23/21 A2994 RMK AO2 DTKA 221000Z 28006KT 190V320 9999 BKN020 28/22 Q1015 NOSIG EKKA 221020Z AUTO 11009KT 080V140 9999NDV SCT022/// SCT030/// BKN200/// 20/15 Q1016 KGOK 220953Z AUTO 21008KT 10SM CLR 28/20 A2990 RMK AO2 SLP109 T02830200 KGNT 221015Z AUTO 00000KT 10SM CLR 13/10 A3024 RMK AO2 T01320097 FCBB 221000Z 24007KT 8000 SCT016 OVC026 24/19 Q1018 NOSIG KGPC 221015Z AUTO 05003KT 10SM SCT025 SCT075 BKN090 22/21 A2992 RMK AO2 KGNV 220953Z AUTO 00000KT 10SM CLR 23/22 A3006 RMK AO2 SLP176 T02280222 KGON 220956Z AUTO 00000KT 10SM CLR 21/17 A2984 RMK AO2 SLP106 T02110167 KFYE 221015Z AUTO 00000KT 10SM 25/24 A2995 RMK A01 FBKE 221000Z VRB04KT CAVOK 24/06 Q1022 KHEY 220958Z AUTO 00000KT 10SM CLR 22/22 A3001 RMK AO2 SLP162 T02190215 KFYG 220955Z AUTO 00000KT 10SM CLR 26/23 A2986 RMK AO2 KGPH 221015Z AUTO 00000KT 10SM CLR 28/21 A2982 RMK AO2 KFWZ 221015Z AUTO 10SM CLR 17/M06 A3033 RMK AO2 FATH 220953Z 31003KT CAVOK 25/05 Q1020 KGPI 220955Z AUTO 00000KT 10SM CLR 09/05 A3014 RMK AO2 SLP195 T00890050 KFYJ 221015Z AUTO 25003KT 10SM CLR 24/22 A2990 RMK AO2 T02410218 KGOV 221015Z AUTO 00000KT 10SM OVC070 19/18 A2987 RMK AO2 T01920175 KGPM 221015Z AUTO 18005KT 10SM CLR 27/21 A2994 RMK AO2 T02710213 KFYM 221015Z AUTO 00000KT 8SM CLR 24/23 A3000 RMK A01 WAHQ 221000Z 24005KT 7000 FEW017 29/23 Q1010 NOSIG KHHF 221015Z AUTO 00000KT 10SM CLR 23/17 A2995 RMK AO2 T02330167 KFXY 221015Z AUTO 01004KT 7SM OVC002 21/21 A2981 RMK AO2 KHFY 220930Z AUTO 34004KT 10SM SCT029 SCT034 SCT065 24/19 A2992 RMK AO2 T02410191 KFZG 221015Z AUTO 19003KT 10SM SCT070 23/23 A3005 RMK AO2 T02260226 KHHG 221015Z AUTO 17003KT 10SM CLR 21/20 A2985 RMK AO2 LTG DSNT S T02070200 WAHS 221000Z 11008KT 6000 SCT014 31/22 Q1009 NOSIG UTAA 221000Z 30007KT 9999 NSC 39/03 Q1009 NOSIG KHGR 220953Z AUTO 00000KT 7SM CLR 23/22 A2993 RMK AO2 SLP137 T02330217 KGRB 221017Z AUTO 29003KT 10SM BKN027 BKN060 19/18 A2980 RMK AO2 T01890178 KGPT 221027Z AUTO 00000KT 9SM FEW020 SCT095 25/24 A3000 RMK AO2 LTG DSNT SE TSB03E21 T02500239 $ KHIB 220953Z AUTO 00000KT 1/4SM FG VV002 15/15 A2983 RMK AO2 SLP097 T01500150 $ DTMB 221000Z 17005KT 110V210 6000 NSC 35/20 Q1015 KFYV 220953Z 00000KT 10SM CLR 22/22 A2996 RMK AO2 SLP127 T02220217 KGRD 220956Z AUTO 00000KT 10SM CLR 22/19 A3000 RMK AO2 SLP151 T02220194 KHIE 220952Z AUTO 00000KT 8SM CLR 13/11 A2987 RMK AO2 SLP112 T01330111 KGRF 220958Z AUTO 14003KT 10SM BKN047 OVC055 17/14 A3015 RMK AO2 SLP212 T01720138 $ KHIF 220958Z AUTO 11009KT 10SM CLR 22/08 A3010 RMK AO2 SLP125 T02150075 $ URRR 221000Z 11004MPS 050V190 CAVOK 31/10 Q1014 R04/CLRD70 TEMPO -TSRA SCT030CB RMK QFE754/1005 FAUP 221000Z 34005KT CAVOK 24/M10 Q1018 NOSIG KGPZ 220956Z AUTO 00000KT 9SM OVC006 18/17 A2984 RMK AO2 SLP100 T01780172 WAJJ 221000Z 00000KT 8000 SCT012 25/23 Q1009 NOSIG KGRI 221015Z AUTO 28005KT 10SM VCTS -RA FEW110 23/21 A2986 RMK AO2 LTG DSNT SE AND S RAB10 P0000 T02330211 KHHR 220953Z AUTO 00000KT 10SM OVC014 20/17 A2991 RMK AO2 SLP127 T02000172 UTAK 221000Z 20014KT CAVOK 38/06 Q1010 NOSIG KHII 221015Z AUTO 12006KT 10SM CLR 35/14 A2979 RMK AO2 VISM 220600Z 27002KT 5000 BR SCT030 BKN060 23/20 Q1012 UTAM 221000Z 01012G22KT CAVOK 37/M01 Q1006 NOSIG ZWWW 221000Z 36004MPS 320V040 CAVOK 34/04 Q1009 NOSIG KGSB 220958Z AUTO 22005KT 10SM CLR 25/25 A2995 RMK AO2 SLP144 T02500250 $ KGRK 220958Z AUTO 18008KT 10SM CLR 26/21 A2995 RMK AO2 SLP128 T02550212 KIAB 220958Z AUTO 22010KT 10SM CLR 27/21 A2988 RMK AO2 SLP102 T02680205 FAWB 221000Z AUTO 30005KT //// // ////// 22/M00 Q1022 FAUT 221000Z 15004KT CAVOK 17/06 Q1019 KIAD 220952Z 33006KT 10SM SCT200 BKN250 25/21 A2990 RMK AO2 SLP121 T02500206 KHHV 221015Z AUTO VRB05G12KT 10SM FEW038 FEW050 FEW065 29/24 A2998 RMK A01 KHHW 221015Z AUTO 21006KT 10SM CLR 26/23 A2993 RMK AO2 T02600225 KGRN 221015Z AUTO 23003KT 10SM BKN090 20/16 A3005 RMK AO2 T01970160 FBMN 221000Z 01006KT CAVOK 24/03 Q1022 KHIO 220953Z AUTO 00000KT 10SM CLR 17/13 A3014 RMK AO2 SLP204 T01670128 $ VISR 220930Z 25003KT 6000 SCT025 FEW030TCU 30/18 Q1010 NOSIG KFZY 220954Z AUTO 00000KT 10SM CLR 16/15 A2990 RMK AO2 SLP123 T01610150 KIAG 220953Z AUTO 00000KT 10SM CLR 21/17 A2990 RMK AO2 SLP119 T02110172 URSS 221000Z 28006MPS 9999 FEW034 28/21 Q1011 WS ALL RWY R06/090070 R02/090070 NOSIG RMK R02/27005G09MPS MT OBSC QFE757 ZYHB 221000Z 18004MPS CAVOK 28/19 Q1007 NOSIG KIAH 220953Z 00000KT 10SM FEW100 SCT250 25/24 A2996 RMK AO2 SLP143 T02500239 KGSH 221009Z AUTO 15007KT 10SM SCT004 BKN070 OVC085 22/21 A2982 RMK AO2 LTG DSNT W AND NW T02220206 KHJH 221015Z AUTO 22006KT 10SM CLR 26/17 A2979 RMK AO2 T02600168 DTNH 221000Z AUTO 09012KT 9999NDV NCD 32/24 Q1015 UTAT 221000Z 04008KT 360V090 CAVOK 39/09 Q1011 NOSIG KGRR 220953Z 13006KT 10SM BKN032 OVC041 22/19 A2981 RMK AO2 RAB21E31 PRESFR SLP089 P0000 T02170194 KHKA 220953Z AUTO 21003KT 10SM CLR 26/25 A2992 RMK AO2 SLP130 T02610250 UTAV 221000Z 02010KT CAVOK 38/06 Q1005 NOSIG KGTB 220958Z AUTO 25005KT 10SM BKN200 19/16 A2989 RMK AO2 SLP119 T01910162 $ FAWK 221000Z AUTO 31007KT //// // ////// ///// Q1024 EKOD 220950Z 10009KT 060V170 9999 SCT020 SCT050 BKN200 19/15 Q1016 FAVV 221000Z AUTO /////KT //// // ////// 21/M06 Q1023 KGTF 220953Z 07006KT 10SM CLR 14/03 A3014 RMK AO2 SLP175 T01440028 KHJO 220953Z AUTO 34005KT 10SM CLR 23/12 A2987 RMK AO2 SLP114 T02330122 KGSO 220954Z 22005KT 10SM FEW250 24/23 A2997 RMK AO2 SLP136 T02390233 KGSP 220953Z AUTO 23003KT 10SM CLR 24/22 A2999 RMK AO2 SLP138 T02390217 KGRY 221015Z AUTO 22011KT 10SM FEW023 FEW028 SCT038 28/24 A3000 RMK A01 WALL 221000Z 20005KT 9999 SCT018 28/25 Q1009 NOSIG UTDD 221000Z VRB02MPS 9999 NSC 37/11 Q1006 R09/CLRD// TEMPO 27008MPS RMK QFE687/0916 KHLB 221015Z AUTO VRB06G13KT 10SM FEW018 SCT028 BKN047 25/21 A2994 RMK A01 KHLC 220953Z AUTO 00000KT 10SM CLR 22/15 A2986 RMK AO2 SLP080 T02170150 KGUC 220956Z AUTO 20007KT 160V220 10SM FEW120 14/12 A3034 RMK AO2 SLP196 T01390117 VITX 220330Z 33009KT 6000 CLOUDY/CTHT SCT060 SCT090 24/05 Q1018 NOSIG RMK Y-APC W-AC KIBM 221015Z AUTO 29009KT 10SM CLR 17/14 A3010 RMK AO2 T01710143 KHLG 220953Z AUTO 16004KT 5SM BR OVC011 22/21 A2996 RMK AO2 SLP135 T02220211 URWA 221000Z 05002MPS CAVOK 34/11 Q1012 R27/010070 NOSIG RMK QFE761/1015 UTDK 221000Z 19004MPS 160V220 9999 NSC 39/07 Q1006 R01/09//70 RMK QFE697/0930 KGTR 221015Z 18003KT 10SM CLR 23/19 RMK AO1 UTDL 221000Z 25008MPS 9999 FEW230 36/09 Q1006 88CLRD70 NOSIG RMK QFE717/0956 KIDA 220953Z AUTO 00000KT 10SM CLR 13/07 A3014 RMK AO2 SLP163 T01280067 KHKS 220953Z AUTO 12003KT 10SM CLR 23/23 A2999 RMK AO2 SLP146 T02330228 WAMM 221030Z VRB02KT 9999 FEW021 27/23 Q1011 NOSIG KGTU 220150Z 15008KT 10SM FEW060 34/18 A2991 KICL 221015Z AUTO 01005KT 10SM CLR 24/22 A2980 RMK AO2 PWINO KGUL 221015Z AUTO 23012KT 10SM 29/24 A2999 RMK A01 KHME 220950Z 04014KT CAVOK 36/M05 Q1011 KHLN 220953Z AUTO 00000KT 10SM CLR 17/01 A3015 RMK AO2 SLP187 T01720011 KGVE 221015Z AUTO 22003KT 10SM CLR 21/21 A2991 RMK AO1 T02100206 KGUP 220953Z AUTO 00000KT 10SM BKN120 17/14 A3023 RMK AO2 SLP069 T01670139 KHKY 220953Z AUTO 22003KT 10SM CLR 23/23 A2999 RMK AO2 SLP130 T02330228 UTFA 220430Z 28003KT 220V320 9999 NSC 31/12 Q1008 R88/09//70 UTDT 221000Z 24003MPS 200V280 9999 NSC 38/10 Q1004 35CLRD70 RMK QFE714/0952 KICR 220953Z AUTO 24005KT 10SM CLR 20/18 A2991 RMK AO2 SLP105 T02000178 KIDI 221015Z AUTO 2 1/2SM BR OVC004 22/22 A2999 RMK A01 KHLR 220958Z AUTO 19006KT 10SM CLR 26/21 A2993 RMK AO2 SLP121 T02550210 KGUS 221023Z AUTO 14007KT 1 1/2SM R23/4000FT -RA BR VCTS SCT027 SCT110 22/22 A2982 RMK AO2 VIS 1 1/2V9 RAB14 TSB08E23 SLP094 KICT 220953Z 19009KT 10SM CLR 27/21 A2987 RMK AO2 SLP095 T02670206 KHNB 220956Z AUTO 21007KT 9SM CLR 26/24 A2991 RMK AO2 SLP121 T02610244 KGWB 221015Z AUTO 09004KT 7SM SCT024 SCT045 BKN100 21/20 A2986 RMK AO2 KGVL 220953Z AUTO 00000KT 10SM CLR 24/23 A3003 RMK AO2 SLP150 T02390228 UTFF 221000Z 33006KT 270V360 9999 NSC 36/06 Q1006 R99/CLRD70 KHND 220956Z AUTO 18008KT 10SM CLR 31/12 A2992 RMK AO2 SLPNO T03060122 KHMN 220958Z AUTO 17004KT 10SM CLR 21/15 A3009 RMK AO2 SLP116 T02090151 $ KHLX 221015Z AUTO 00000KT 1 1/4SM BR VV007 20/18 A3008 RMK AO2 T02000176 KGUY 220953Z AUTO 19006KT 10SM CLR 22/14 A2998 RMK AO2 SLP093 T02220139 KHMP 221015Z AUTO 26003KT 7SM CLR 22/21 A3002 RMK AO2 T02210210 KIDP 221015Z AUTO 00000KT 10SM CLR 25/22 A2990 RMK AO2 T02510219 WBGB 221000Z 36004KT 290V040 9999 FEW016 SCT150 BKN300 30/26 Q1008 KIFA 221015Z AUTO 19004KT 10SM CLR 22/21 A2979 RMK AO2 T02200213 KGXA 220955Z AUTO 17003KT 10SM CLR 19/01 A2997 RMK AO2 SLP075 WND DATA ESTMD T01880006 KHOB 221015Z AUTO 00000KT 10SM CLR 21/17 A3006 RMK AO2 KGVT 221015Z AUTO 16003KT 10SM CLR 26/23 A2994 RMK AO2 UTFN 221000Z 17006KT 130V210 9999 FEW050CB 36/09 Q1005 R28/CLRD70 NOSIG EKRK 221020Z AUTO 13016KT 9999NDV NCD 19/11 Q1018 EKSB 221020Z 09012KT 9999 SCT013 BKN040 19/16 Q1015 WAOO 220900Z 15005KT 9999 SCT020 30/24 Q1008 WBGG 221000Z 28002KT 8000 -TSRA FEW015CB SCT020 BKN150 28/24 Q1008 NOSIG KIEN 220952Z AUTO 00000KT 9SM CLR 17/16 A3003 RMK AO2 SLP131 T01720161 KHOE 221015Z AUTO 00000KT 10SM CLR 21/21 A3004 RMK AO2 EKRN 221020Z AUTO 08013KT 050V110 9999NDV NCD 20/13 Q1018 KGWO 220953Z AUTO 00000KT 9SM CLR 24/23 A2996 RMK AO2 SLP141 T02390233 KGXF 220958Z AUTO 00000KT 9SM CLR 31/17 A2982 RMK AO2 SLP083 T03110167 KHMZ 221015Z AUTO 00000KT 4SM BR OVC019 22/21 A2995 RMK AO2 T02150206 KGWR 221015Z AUTO 00000KT 10SM FEW039 SCT047 19/19 A2984 RMK A01 KHNR 221015Z AUTO 04010G16KT 5SM BR OVC004 24/24 A2982 RMK AO2 KIER 221015Z AUTO 00000KT 5SM BR CLR 22/22 A2996 RMK AO2 T02220222 DTTA 221000Z 16003KT 090V220 9999 FEW030 34/21 Q1014 NOSIG KGYB 221015Z AUTO 00000KT 10SM CLR 25/23 A2997 RMK AO2 T02450230 DTTB 221000Z 27005KT 190V360 9999 FEW020 35/21 Q1014 FBSK 221000Z VRB04KT CAVOK 21/01 Q1023 NOSIG DTTD 221000Z 21002KT CAVOK 38/09 Q1016 RMK SIROCCO WAPP 221000Z 36003KT 9999 BKN017 25/24 Q1011 NOSIG KGWW 221020Z AUTO 21004KT 10SM SCT090 24/24 A2997 RMK AO2 T02400240 KHON 220955Z AUTO 19006KT 10SM CLR 19/18 A2985 RMK AO2 SLP098 T01890183 EKSN 211350Z 14015KT 4500 BR SCT007 BKN015 16/15 Q1015 WBGR 221000Z 31005KT 260V020 9999 FEW016 BKN150 30/25 Q1008 DTTF 221000Z 24009KT 210V270 8000 FEW026 39/15 Q1013 SIROCCO NOSIG KIFP 221015Z AUTO 00000KT 10SM CLR 36/14 A2978 RMK AO2 KHOP 220958Z AUTO 22004KT 10SM CLR 25/24 A2995 RMK AO2 SLP137 T02540241 KGYH 220935Z AUTO 00000KT 10SM CLR 22/21 A2999 RMK AO2 WBGS 221000Z 29004KT 260V320 9999 FEW018 SCT150 BKN300 33/23 Q1008 DTTG 221000Z 08006KT 020V140 9999 FEW030 37/18 Q1015 NOSIG FBSP 221000Z 07003KT CAVOK 22/07 Q1022 EKSP 221020Z 11010KT 080V150 9999 SCT014 BKN048 BKN220 18/15 Q1015 KHNZ 221010Z AUTO 22006KT 10SM CLR 22/21 A2995 RMK AO2 T02200207 KGYI 221015Z AUTO 18006KT 10SM CLR 25/22 A2994 RMK AO2 T02480216 DTTJ 221000Z 33006KT 280V010 CAVOK 32/22 Q1014 NOSIG KHOT 220953Z AUTO 00000KT 7SM CLR 26/25 A2994 RMK AO2 SLP129 T02610250 DTTK 221000Z 00000KT 9999 FEW026 38/12 Q1014 SIROCCO KHOU 220953Z 00000KT 10SM FEW020 SCT250 27/24 A2995 RMK AO2 SLP145 T02670239 KGYL 221016Z AUTO 20004KT 10SM CLR 21/21 A2978 RMK AO2 T02100208 DTTL 221000Z 16009KT 110V200 9999 SCT020 28/25 Q1015 KIGM 220951Z AUTO 17005KT 10SM CLR 26/14 A3002 RMK AO2 SLP083 T02560144 WBGY 221000Z 35002KT 9999 FEW024 BKN300 32/28 Q1006 KHPN 220956Z 00000KT 10SM CLR 22/19 A2988 RMK SLP110 WAQQ 221000Z 15003KT 8000 SCT015 28/23 Q1009 DTTN 221000Z VRB04KT CAVOK 34/23 Q1014 KGXY 220956Z AUTO 31004KT 10SM CLR 17/15 A3011 RMK AO2 SLP144 T01670150 KHQG 221015Z AUTO 36004KT 10SM CLR 22/14 A3000 RMK AO2 T02160138 KGZH 221003Z AUTO 00000KT 4SM BR CLR 23/22 A3001 RMK AO2 T02280222 KIGQ 221015Z AUTO 21006KT 10SM VCTSRA SCT050 SCT065 OVC110 22/21 A2984 RMK AO2 LTG DSNT E P0003 T02200207 KGYR 220347Z 00000KT 10SM FEW090 SCT160 SCT250 34/19 A2980 RMK LAST KHQI 221015Z AUTO 10SM CLR 29/25 A2996 RMK A01 DTTR 221000Z 14008KT CAVOK 40/03 Q1016 KK88 221015Z AUTO 19008KT 10SM CLR 26/21 A2989 RMK AO1 T02580211 KIIB 221015Z AUTO 00000KT 10SM CLR 21/20 A2975 RMK AO2 T02050196 KGZL 221015Z AUTO 00000KT 10SM CLR 23/20 A2993 RMK AO2 KHQM 220953Z AUTO 15004KT 10SM OVC024 17/14 A3016 RMK AO2 SLP217 T01670144 KGZN 221000Z AUTO 16006KT 10SM CLR 23/18 A2998 RMK AO2 EKVD 221020Z 11010KT 070V140 9999 SCT015 SCT045 BKN160 19/15 Q1016 KIGX 220956Z AUTO 00000KT 10SM FEW080 23/22 A2996 RMK AO2 SLP139 T02330222 WARR 221000Z 11011KT 9999 FEW020 29/23 Q1010 NOSIG DTTX 221000Z 14004KT 080V200 9999 FEW020 32/21 Q1015 NOSIG KGYY 221005Z 21004KT 5SM RA SCT033 OVC060 23/22 A2984 RMK LTG DSNT SE TSE05 EKVG 221020Z AUTO 12018KT 9999NDV BKN008/// 12/11 Q1016 DTTZ 220900Z 12009KT 090V150 CAVOK 37/18 Q1014 NOSIG KHRI 220953Z AUTO 19005KT 10SM CLR 18/05 A3007 RMK AO2 SLP178 T01780050 KHSA 220055Z 00000KT 7SM CLR 24/23 A3002 KHRJ 221005Z AUTO 00000KT 10SM BKN100 24/24 A2997 RMK AO2 T02410241 KGZS 221015Z AUTO 00000KT 5SM BR CLR 22/22 A2998 RMK A01 EKVJ 211350Z 30009KT 260V340 9999 SCT017 BKN040 18/14 Q1015 KHSB 221015Z AUTO 19003KT 5SM BR SCT009 24/24 A2991 RMK AO2 T02440237 KHRL 220952Z AUTO 15007KT 10SM CLR 26/25 A2992 RMK AO2 SLP130 T02560250 KJAC 221015Z AUTO 00000KT 10SM CLR 06/02 A3030 RMK AO1 KHQU 221015Z AUTO 00000KT 10SM CLR 22/21 A3006 RMK AO2 T02150207 KIJD 220952Z AUTO 00000KT 10SM CLR 19/18 A2987 RMK AO2 SLP112 T01940178 $ KHSD 220845Z AUTO 19013KT 10SM CLR 28/20 A2991 RMK A01 KHSE 220951Z AUTO 24009KT 10SM CLR 25/23 A2998 RMK AO2 SLP151 T02500233 TSNO KHRO 220953Z AUTO 00000KT 10SM CLR 24/20 A2996 RMK AO2 SLP127 T02440200 ELLX 221020Z 18009KT 150V230 9999 FEW024 BKN055 21/16 Q1014 NOSIG KHSG 221010Z AUTO 29015KT 10SM CLR 21/M01 A3013 RMK AO2 T02101006 USSS 221000Z 15003MPS 9999 VCTS BKN037CB 22/17 Q1009 R08L/010060 TEMPO VRB18MPS 1200 TSRA SQ RMK QFE737/0983 KHQZ 221015Z AUTO 00000KT 10SM CLR 24/23 A2994 RMK AO1 T02360226 WBKK 221000Z 35002KT 9999 FEW014 SCT140 BKN270 29/26 Q1009 NOSIG KHSI 221010Z AUTO 35005KT 10SM VCTS CLR 24/19 A2987 RMK AO2 LTG DSNT N AND NE T02440194 WBKL 221000Z 00000KT 9999 FEW015 OVC280 29/25 Q1009 KL18 221015Z AUTO 00000KT 7SM OVC003 18/17 A2992 RMK AO2 KHRT 220956Z 29004KT 10SM SCT017 BKN023 26/26 A2999 RMK AO2A BKN V OVC SLP157 T02570257 $ KJAN 220954Z AUTO 17004KT 10SM CLR 23/22 A2999 RMK AO2 SLP150 T02280222 KHRX 221015Z AUTO 22005KT 10SM CLR 23/17 A3006 RMK AO2 T02310165 KIKG 221015Z AUTO 14003KT 10SM CLR 25/25 A2993 RMK AO2 T02510251 KIIY 221015Z AUTO 17003KT 10SM CLR 23/23 A3001 RMK AO2 KHSP 221010Z AUTO 27011KT 10SM CLR 20/16 A3011 RMK AO2 LTG DSNT NW WBKS 221000Z 07003KT 9999 FEW016 SCT140 OVC270 29/24 Q1009 KHTH 221015Z AUTO 22005KT 10SM CLR 21/M03 A3007 RMK A01 KJAQ 221015Z AUTO 00000KT 10SM CLR 22/11 A2992 RMK AO1 T02200110 WATT 221000Z 13009KT 8000 FEW020 SCT090 26/20 Q1013 NOSIG WBKT 221000Z VRB02KT 9999 FEW014 BKN140 BKN270 28/25 Q1010 KJAS 221015Z AUTO 00000KT 5SM BR 24/24 A2998 RMK AO2 T02410238 KJCA 221015Z AUTO 00000KT 7SM CLR 22/22 A3000 RMK AO2 KHUA 220958Z AUTO 00000KT 10SM CLR 24/23 A2998 RMK AO2 SLP144 T02410234 UUDD 221000Z 14002MPS 100V170 9999 -SHRA SCT026CB 17/12 Q1016 R32L/290095 R32R/010095 NOSIG KHST 220958Z AUTO 00000KT 10SM CLR 24/24 A3004 RMK AO2 SLP176 T02440244 KIKK 221013Z AUTO 31005KT 10SM -RA SCT011 BKN038 OVC060 22/22 A2989 RMK AO2 LTG DSNT NE P0002 WBKW 221000Z VRB02KT 9999 FEW017 BKN140 29/23 Q1009 KHTL 220953Z AUTO 09003KT 9SM BKN090 OVC110 20/18 A2986 RMK AO2 RAB0855E14 SLP104 P0000 T02000183 KJAU 221015Z AUTO 00000KT 2 1/2SM BR 22/22 A3005 RMK A01 KHSV 220953Z AUTO 00000KT 8SM CLR 25/24 A2998 RMK AO2 SLP142 T02500244 $ KILE 220956Z AUTO 18007KT 10SM CLR 26/22 A2996 RMK AO2 SLP140 T02610217 PNO $ KHUF 220953Z 20004KT 9SM CLR 26/23 A2987 RMK AO2 SLP108 T02610233 KJAX 220956Z 00000KT 10SM CLR 22/22 A3002 RMK AO2 SLP167 T02220222 KHTO 221015Z AUTO 00000KT 7SM CLR 21/20 A2986 RMK AO2 T02060203 KIJX 221015Z AUTO 22006KT 10SM CLR 27/22 A2982 RMK AO2 LTG DSNT N AND NW T02680215 KILG 220951Z 00000KT 10SM FEW070 26/23 A2987 RMK AO2 SLP115 T02610228 KL35 221015Z AUTO 00000KT 10SM CLR 10/00 A3025 RMK AO2 KJBR 220953Z AUTO 21003KT 10SM CLR 27/26 A2991 RMK AO2 SLP126 T02720256 KHTS 220951Z 00000KT 10SM CLR 23/22 A2993 RMK AO2 SLP126 T02330222 KIKT 221015Z AUTO 23010KT 160V260 10SM FEW022 28/24 A3000 RMK A01 UUEE 221000Z 36002MPS 310V070 CAVOK 18/11 Q1015 R24R/CLRD62 R24L/CLRD62 NOSIG KHUL 220953Z AUTO 00000KT 10SM CLR 12/11 A2977 RMK AO2 SLP080 T01170111 TSNO KHUM 212347Z 18005KT 7SM SKC 30/26 A2999 RMK LAST KILM 220953Z AUTO 22004KT 10SM CLR 25/25 A2999 RMK AO2 SLP156 T02500250 KIKV 221015Z AUTO 05006KT 10SM SCT006 BKN060 BKN120 24/23 A2980 RMK AO2 KJDD 221015Z AUTO 13006KT 10SM CLR 25/23 A2994 RMK AO2 KIKW 221014Z AUTO 09003KT 10SM -RA SCT048 SCT060 OVC075 22/19 A2985 RMK AO2 T02150192 KILN 221023Z AUTO 22006KT 6SM VCTS BR FEW039 23/23 A2990 RMK AO2 LTG DSNT N AND NW T02330233 KHVE 221015Z AUTO 00000KT 10SM CLR 18/13 A3016 RMK AO2 FCPP 221000Z 18006KT 7000 SCT013 OVC023 24/20 Q1018 NOSIG KHUT 220952Z AUTO 21009KT CLR 27/18 A2986 RMK AO2 SLP082 T02720183 $ KJCT 220951Z AUTO 18003KT 10SM CLR 26/21 A2999 RMK AO2 SLP115 T02560206 TSNO UTNN 221000Z 36012KT CAVOK 39/07 Q1011 R33/CLRD60 NOSIG EKYT 221020Z AUTO 12014KT 9999NDV FEW018/// BKN024/// BKN030/// 18/14 Q1018 KIML 220953Z AUTO 02004KT 10SM CLR 19/16 A2995 RMK AO2 SLP099 T01940161 KIND 221021Z 10003KT 10SM BKN029 BKN090 24/21 A2990 RMK AO2 T02390206 $ KHWD 220954Z 01004KT 10SM CLR 16/11 A2993 RMK AO2 SLP143 T01560106 KIMM 221015Z AUTO 00000KT 10SM CLR 24/24 A3006 RMK AO2 LTG DSNT SW KJDN 220948Z AUTO 28005KT 11/01 A3005 RMK AO1 SLP165 T01110006 KHVN 220953Z 36003KT 10SM CLR 21/18 A2986 RMK AO2 SLP111 T02110178 KJEF 220953Z AUTO 18005KT 10SM CLR 27/22 A2987 RMK AO2 SLP097 T02670222 KINF 221015Z AUTO 00000KT 7SM CLR 22/22 A3004 RMK AO2 LTG DSNT SW AND W ZYTL 221000Z 14001MPS 8000 SCT010 SCT020 27/23 Q1007 NOSIG KHVR 220953Z AUTO 23004KT 10SM CLR 11/04 A3009 RMK AO2 SLP177 T01060044 UTNU 221000Z 04008KT CAVOK 38/10 Q1010 R31/CLRD70 NOSIG KIMS 221013Z AUTO 00000KT 7SM CLR 25/23 A2993 RMK AO1 KINJ 221015Z AUTO 16006KT 10SM CLR 26/23 A2994 RMK AO2 T02600226 KHVS 221015Z AUTO 00000KT 5SM BR CLR 22/22 A2999 RMK AO2 KINK 220953Z AUTO 00000KT 10SM CLR 24/18 A2998 RMK AO2 SLP101 T02440178 KIMT 220954Z AUTO 12003KT 10SM FEW048 FEW120 18/16 A2982 RMK AO2 SLP092 T01830156 KIOB 221015Z AUTO 24003KT 10SM CLR 23/22 A2998 RMK AO2 KINL 220955Z AUTO 16003KT 7SM CLR 13/12 A2980 RMK AO2 SLP093 T01330122 KHXD 220935Z AUTO 00000KT 10SM FEW015 25/24 A3001 RMK AO2 KHWO 220953Z AUTO 00000KT 10SM CLR 24/23 A3006 RMK AO2 SLP179 T02390233 KJER 220953Z AUTO 16005KT 10SM CLR 18/03 A3011 RMK AO2 SLP154 T01780033 KHYA 220956Z 32003KT 10SM CLR 23/16 A2982 RMK AO2 SLP097 T02280156 KINS 220958Z AUTO 27005KT 10SM CLR 25/03 A2995 RMK AO2 SLP087 T02510031 $ KJFK 220951Z 02005KT 10SM FEW045 FEW080 BKN250 26/21 A2987 RMK AO2 SLP115 T02610211 KINT 220954Z AUTO 00000KT 10SM CLR 24/22 A2999 RMK AO2 SLP141 T02440217 ZYTX 221000Z VRB01MPS CAVOK 25/22 Q1007 NOSIG ENAL 221020Z 04007KT 9999 FEW004 BKN006 16/15 Q1019 KHWV 220956Z AUTO 00000KT 10SM CLR 23/22 A2987 RMK AO2 SLP114 T02330222 KINW 220956Z AUTO 33010G19KT 9SM -RA FEW055 OVC085 21/17 A3014 RMK AO2 RAB47 SLP125 P0001 T02060172 ENAN 221020Z 03007KT 9999 BKN011 11/09 Q1023 KHWY 221015Z AUTO 00000KT 4SM BR CLR 22/20 A2990 RMK AO2 T02200202 KJGG 221015Z AUTO 00000KT 10SM CLR 26/22 A2991 RMK AO1 KHYI 221015Z AUTO 21004KT 10SM CLR 24/22 A2998 RMK AO1 FDJR 221000Z AUTO 07005KT //// // ////// 22/M07 Q1019 KIPJ 221035Z AUTO 00000KT 7SM CLR 22/22 A2998 RMK AO2 T02210217 FDLB 221000Z AUTO 12004KT //// // ////// 24/04 Q1020 ENAT 220950Z 31003KT 280V340 9999 FEW033 BKN051 13/09 Q1024 RMK WIND 700FT VRB01KT KIPL 220953Z AUTO 12009KT 10SM CLR 29/21 A2974 RMK AO2 SLP070 T02940211 ENBL 221020Z VRB05KT CAVOK 23/12 Q1017 KHZD 221015Z AUTO 00000KT 7SM CLR 24/24 A2995 RMK A01 KIOW 221019Z AUTO 12007KT 10SM VCTS -RA FEW007 SCT017 OVC055 22/21 A2987 RMK AO2 LTG DSNT ALQDS TSE00 P0004 T02220206 KHZE 221015Z AUTO 20004KT 9SM CLR 12/11 A2995 RMK AO2 ENBN 221020Z 28006KT 230V310 CAVOK 21/11 Q1019 KJFX 221015Z AUTO 00000KT 4SM BR CLR 22/22 A3000 RMK AO2 PWINO ENBO 221020Z 05006KT 350V110 CAVOK 21/07 Q1021 NOSIG UTSA 221000Z 02020KT 9999 NSC 39/03 Q1006 R07/CLRD70 NOSIG KJFZ 221015Z AUTO 00000KT 10SM CLR 22/19 A3009 RMK AO2 T02200188 UTSB 221000Z 03018G28KT 6000 NSC 38/05 Q1006 R01/CLRD70 NOSIG WBSB 221000Z 34003KT 9000 FEW015 SCT140 BKN280 30/25 Q1009 NOSIG KHYR 221023Z AUTO 00000KT 10SM BKN006 17/16 A2982 RMK AO2 T01720161 ENBR 221020Z 22005KT 180V260 9999 FEW030 SCT060 BKN100 19/14 Q1018 NOSIG RMK WIND 1200FT 26004KT KHYS 220956Z AUTO 23009KT 10SM CLR 24/14 A2987 RMK AO2 SLP089 T02390139 ENBS 212050Z 00000KT 9999 BKN031 09/07 Q1022 KIPT 221004Z AUTO 00000KT 10SM BKN008 20/19 A2991 RMK AO2 T02000194 $ KHZL 221015Z AUTO 00000KT 2 1/2SM BR 18/16 A2997 RMK AO2 ENBV 211950Z 10006KT 9999 BKN039 10/08 Q1022 KHYW 221015Z AUTO 20003KT 5SM BR CLR 23/23 A3001 RMK AO2 KJHN 221015Z AUTO 29007KT 10SM CLR 19/14 A3000 RMK AO2 T01900142 ENCN 221020Z 07011KT 9999 SCT012 BKN053 17/15 Q1019 KHYX 221015Z AUTO 04007KT 10SM SCT020 SCT048 OVC085 20/18 A2985 RMK AO2 KM04 221015Z AUTO 00000KT 10SM CLR 25/24 A2994 RMK A01 UTSK 221000Z 27006KT 250V320 CAVOK 40/02 Q1004 R16/CLRD70 KHZR 221015Z AUTO 00000KT 7SM CLR 23/23 A2999 RMK AO2 T02300225 KM08 221015Z AUTO 00000KT 10SM CLR 24/23 A2995 RMK A01 KIRK 220955Z AUTO 22012G18KT 10SM FEW120 28/22 A2981 RMK AO2 LTG DSNT N AND NE SLP086 T02780217 KJHW 221015Z AUTO 18003KT 3SM CLR 17/15 A2996 RMK AO1 KHZX 221011Z AUTO 00000KT 10SM OVC004 17/17 A2985 RMK AO2 KHZY 220953Z AUTO 16004KT 10SM CLR 20/19 A2993 RMK AO2 SLP127 T02000189 TSNO UTSS 221000Z 07012KT 020V100 9999 NSC 36/01 Q1008 R09/CLRD70 NOSIG UTST 221000Z 29010KT CAVOK 38/06 Q1003 R88/CLRD70 NOSIG VLLB 221000Z 34002KT 4000 BR SCT017 SCT050 OVC070 26/24 Q1006 NOSIG ENDR 221020Z AUTO 26007KT 12/12 Q1019 KIRS 221014Z AUTO 17008KT 10SM -RA SCT013 SCT036 BKN110 21/21 A2982 RMK AO2 P0001 T02110208 KJKA 221015Z AUTO 00000KT 10SM CLR 25/25 A3000 RMK AO2 LTG DSNT W T02500250 FDMS 221000Z 08005KT CAVOK 25/01 Q1018 NOSIG ENFB 221020Z AUTO 06016KT 9999NDV SCT007/// BKN047/// 15/12 Q1019 W///S3 KM21 221015Z AUTO 00000KT 4SM BR CLR 23/23 A2993 RMK AO2 T02290229 ENDU 221020Z 01005KT 300V050 9999 FEW025 17/11 Q1021 NOSIG RMK WIND 1100FT 03004KT WIND 2200FT 10004KT KISM 220956Z AUTO 00000KT 10SM CLR 23/23 A3006 RMK AO2 SLP180 T02330228 FDMV 221000Z AUTO 06006KT //// // ////// M38/// Q1023 KISN 220952Z AUTO 35003KT 10SM CLR 13/08 A2995 RMK AO2 SLP132 T01330083 $ KISO 221005Z AUTO 22004KT 10SM CLR 25/23 A2998 RMK AO2 T02450230 FEFF 221000Z VRB02KT 9999 SCT026 31/24 Q1013 NOSIG KM25 221055Z AUTO 18004KT 10SM CLR 25/23 A2996 RMK AO2 PWINO KISP 220956Z 00000KT 10SM FEW060 BKN250 24/21 A2986 RMK AO2 SLP111 T02390211 LBBG 221000Z 17009KT CAVOK 31/11 Q1016 NOSIG KISQ 221015Z AUTO 00000KT 10SM BKN110 19/17 A2984 RMK AO2 T01870170 KITH 220956Z AUTO 00000KT 5SM BR CLR 17/17 A2994 RMK AO2 SLP132 T01720167 UTTT 221000Z 25008KT 220V290 CAVOK 37/11 Q1007 R08R/CLRD70 NOSIG KJKJ 221014Z AUTO 00000KT 10SM SCT120 19/17 A2981 RMK AO2 LTG DSNT E KM30 221015Z AUTO 19003KT 7SM CLR 25/24 A2993 RMK AO2 T02500240 VLLN 221000Z 02008KT 8000 SCT020 BKN100 28/25 Q1009 NOSIG KJKL 220953Z AUTO 00000KT 8SM CLR 24/22 A2999 RMK AO2 SLP136 T02390217 ENFL 221020Z AUTO 31009KT 9999NDV BKN120/// 19/14 Q1017 ENGC 221020Z 07014KT 4000 BR VV002 15/12 Q1019 W12/S3 ENEV 220950Z 34008KT CAVOK 16/12 Q1021 RMK WIND 1400FT 36005KT KISW 221008Z AUTO 00000KT 2 1/2SM BR OVC003 19/19 A2982 RMK AO2 T01890189 KM33 221015Z AUTO 00000KT 4SM BR CLR 24/23 A3000 RMK A01 KITR 220953Z AUTO 29008KT 10SM CLR 18/14 A3004 RMK AO2 SLP105 T01830144 FEFT 221000Z 28019KT 9999 BKN017 27/21 Q1013 UUMO 221000Z 16002MPS CAVOK 18/12 Q1015 R26/090060 NOSIG RMK QFE746/0995 KJLN 220953Z AUTO 20008KT 10SM CLR 27/22 A2991 RMK AO2 SLP115 T02720222 ENHD 221020Z 10006KT 9999 BKN041 19/14 Q1017 ENGM 221020Z 17009KT 9999 FEW044 21/09 Q1020 NOSIG ENHE 220950Z VRB02KT 9000 3000N BCFG FEW003 15/12 Q1018 W///S3 ENHF 221003Z 06010KT 9999 FEW017 BKN027 11/08 Q1024 RMK WIND 1254FT 09009KT FDPP 221000Z AUTO 32007KT //// // ////// 21/M03 Q1023 KIWA 221015Z AUTO 11004KT 10SM OVC110 28/21 A2989 RMK AO2 ENHK 211620Z 27009KT 5000 DZ VCFG SCT004 BKN007 10/09 Q1021 KIWD 220956Z AUTO 00000KT 7SM FEW002 OVC019 18/18 A2982 RMK AO2 SLP090 T01780178